ENHM 071220Z 18033KT 9999 FEW025 SCT040 07/02 Q0975 W08/S5 KIWI 071153Z AUTO 00000KT 10SM CLR M04/M06 A3012 RMK AO2 SLP200 T10441061 11011 21050 53010 KJMR 071218Z AUTO 26013G16KT 10SM OVC022 02/00 A2954 RMK AO2 KJMS 071156Z AUTO 28022G31KT 10SM SCT045 01/M05 A2963 RMK AO2 PK WND 30034/1130 SLP047 70001 T00111050 10033 20011 58002 KIXA 071215Z AUTO 03005KT 10SM CLR 02/M02 A3011 RMK AO2 PPIT 071156Z AUTO 12009KT 10SM CLR M04/M06 A2977 RMK AO2 SLP082 T10441056 11011 21044 50003 FZRANO UUOO 071200Z 27003MPS CAVOK M01/M09 Q1027 R30/090050 NOSIG RMK QFE757 KIXD 071153Z AUTO 24007KT 10SM CLR 03/M03 A3001 RMK AO2 SLP167 T00281028 10044 20022 55008 ENHV 071150Z 17016KT 3500 -SN DRSN VV022 M05/M08 Q0988 KM63 071158Z AUTO 01002KT 10SM CLR 01/M16 A3026 RMK AO2 SLP231 T00091156 10072 20000 56006 PPIZ 071156Z AUTO RMK AO2 PWINO PNO TSNO 5//// 6//// 7//// SLPNO $ KIYA 071215Z AUTO 00000KT 5SM BR CLR 01/01 A3032 RMK AO2 T00060006 ENKB 071220Z 04006KT 9999 FEW050 SCT095 04/01 Q0978 FDSK 071200Z 22003KT 9999 BKN035 30/19 Q1013 NOSIG KJNX 071220Z AUTO 05004KT 10SM DZ OVC075 03/00 A3007 RMK AO2 P0001 VLPS 071200Z 36016KT 5000 HZ SCT200 19/09 Q1018 NOSIG KIZA 071213Z AUTO 04003KT 10SM CLR 05/00 A3018 RMK AO2 ENLA 071220Z AUTO 20037KT 9999NDV FEW020/// 07/03 Q0980 W///S5 KJOT 071215Z AUTO 21009G15KT 10SM CLR 04/00 A2989 RMK AO2 T00381005 KJQF 071115Z AUTO 35007KT 10SM CLR 02/M05 A3012 RMK AO2 LBGO 071200Z AUTO 09006KT 050V110 9999 NCD 08/M01 Q1025 NOSIG KIZG 071154Z AUTO 19003KT 10SM BKN065 M02/M08 A3007 RMK AO2 SLP190 T10221083 10000 21050 50006 ENKR 071220Z 17010KT 9999 FEW019 BKN044 M08/M09 Q0991 RESG RMK WIND 775FT 18017KT ENLK 071150Z 11007KT 9999 FEW030 SCT040 04/M01 Q0984 KN03 071215Z AUTO 00000KT 10SM CLR M06/M07 A3010 RMK AO2 ENMH 061250Z 17011KT CAVOK M07/M09 Q1003 VLSK 071200Z 04006KT 2000 BR SCT020 SCT100 18/02 Q1022 NOSIG KLAA 071153Z AUTO 22005KT 10SM CLR M05/M06 A3018 RMK AO2 SLP228 T10501061 11017 21050 53015 TSNO FDUS 071200Z AUTO 11010KT //// // ////// 29/16 Q//// ENNA 071220Z 17016KT CAVOK M06/M10 Q0989 RMK WIND 1800FT 22011KT ENML 071220Z 07004KT 010V110 9999 FEW060 BKN110 04/02 Q0977 ENNE 071220Z 10008KT 9999 BKN020 05/01 Q0981 W///S5 KLAF 071154Z 21005KT 10SM CLR 02/M04 A3000 RMK AO2 SLP162 T00171039 10017 21011 58027 ENMS 071220Z VRB01KT 9999 BKN036 00/M01 Q0983 RMK WIND 412FT 31003KT ENOA 071150Z 19031KT 9999 SCT015 BKN040 07/04 Q0975 W///S6 KLBB 071153Z 27010KT 10SM CLR M01/M11 A3009 RMK AO2 SLP183 T10111106 10067 21017 58011 ENNK 061450Z 18003KT 9999 FEW050 BKN090 M02/M06 Q0989 KLAL 071150Z 33007KT 10SM OVC008 08/07 A3003 KJTC 071215Z AUTO 22007KT 10SM CLR M07/M12 A3040 RMK AO2 KLAM 071215Z AUTO 00000KT 10SM CLR M05/M09 A3028 RMK AO2 T10491094 KLAN 071153Z 19008KT 10SM OVC110 01/M03 A2993 RMK AO2 SLP144 T00111028 10017 20000 58026 $ KLBE 071145Z 00000KT 10SM SKC M06/M09 A3014 RMK FIRST KLBF 071153Z AUTO 30011KT 10SM OVC080 M01/M06 A3010 RMK AO2 SLP210 T10061056 10017 21044 53004 KJSO 071215Z AUTO 16004KT 10SM CLR 02/01 A3027 RMK AO2 T00200010 ENNO 061550Z VRB03KT 9999 FEW000 01/01 Q0998 LATI 071220Z VRB02KT CAVOK 15/01 Q1025 NOSIG KLAR 071153Z AUTO 28019KT 10SM CLR M04/M09 A3015 RMK AO2 PK WND 29031/1110 SLP221 T10441089 11011 21044 53004 VMMC 071200Z 34009KT CAVOK 12/01 Q1024 NOSIG KLAS 071156Z 25004KT 10SM CLR 07/M03 A3031 RMK AO2 SLP259 T00671033 10094 20056 56003 $ KJST 071154Z AUTO 22004KT 10SM CLR M02/M11 A3008 RMK AO2 SLP210 T10221106 11011 21028 55006 KLBL 071215Z 34007KT 10SM CLR M01/M07 A3014 RMK AO1 ENOL 071150Z 12010KT 9999 FEW035 BKN070 04/01 Q0980 NOSIG KJSV 071215Z AUTO 00000KT 10SM CLR M01/M02 A3019 RMK AO2 KLAW 071153Z AUTO 00000KT 10SM CLR M03/M06 A3017 RMK AO2 SLP222 T10331056 10011 21033 56010 TSNO KLAX 071153Z 04003KT 10SM CLR 16/M05 A3013 RMK AO2 SLP199 T01561050 10194 20122 58011 KLCG 071215Z AUTO 30015G20KT 10SM CLR 01/M04 A2995 RMK AO2 T00141040 KLCH 071216Z 00000KT 4SM BR BKN002 00/M01 A3031 RMK AO2 T00001006 KLCI 071215Z AUTO 23007KT 10SM CLR M02/M08 A3011 RMK AO1 KN38 071215Z AUTO 18005KT 10SM CLR M04/M08 A3007 RMK AO2 ENQA 071220Z AUTO 18030KT 9999NDV SCT022/// BKN025/// BKN110/// 07/04 Q0976 W05/S6 KLBT 071154Z AUTO 03013G23KT 10SM UP OVC060 03/01 A3003 RMK AO2 RAE45UPB45 SLP169 P0002 60015 70031 T00280006 10039 20028 56021 KLCK 071215Z AUTO 18003KT 10SM CLR M04/M06 A3010 RMK AO2 T10381060 ENQC 071220Z AUTO 17028KT 9999NDV BKN021/// 08/06 Q0975 W///S6 ENOV 071150Z VRB03KT 9999 -RA FEW029 BKN042 07/02 Q0977 RMK WIND 2175FT 14023KT KLBX 071205Z AUTO 00000KT 3SM BR CLR 02/01 A3030 RMK AO2 T00170006 KLCQ 071215Z AUTO 33006KT 10SM OVC032 04/03 A3005 RMK AO2 VLVT 071200Z 09004KT 4000 BR NSC 21/07 Q1019 NOSIG KLDJ 071215Z AUTO 00000KT 10SM CLR M03/M05 A3022 RMK AO2 T10291048 KKLS 071215Z AUTO 00000KT 10SM BKN028 OVC095 04/02 A3054 RMK AO1 ENRA 071220Z 08012KT 9999 FEW045 SCT055 02/M04 Q0985 KLEB 071153Z 17003KT 10SM CLR M06/M08 A3011 RMK AO2 SLP205 T10611083 10000 21061 50006 KJVL 071145Z 21011KT 10SM BKN075 BKN085 OVC110 04/M01 A2980 KLDM 071215Z AUTO 17007G14KT 10SM BKN090 BKN120 03/00 A2979 RMK AO2 T00260000 KLEE 071153Z 31009KT 10SM OVC009 07/06 A3002 RMK AO2 SLP166 70028 T00720056 10072 20067 53000 KJWG 071215Z AUTO 22011G19KT CLR 03/M02 A3012 RMK AO2 T00331025 PWINO ENQR 071220Z AUTO 16033KT 9999NDV BKN022/// 07/04 Q0972 W///S6 KN60 071152Z AUTO 30024G36KT 01/M03 A2973 RMK AO1 PK WND 30041/1059 SLP083 T00061028 10022 20006 55005 UUWW 071200Z 21004MPS 9999 BKN039 M00/M06 Q1020 R24/190047 NOSIG ENSB 071220Z 13018KT 9999 FEW020 M11/M17 Q1002 RMK WIND 1400FT 11017KT ENSD 071220Z VRB02KT 9999 -RA FEW001 SCT035 BKN043 04/04 Q0977 RMK WIND 1138FT VRB02KT UWGG 071200Z 26003MPS 230V300 9999 BKN030 M03/M09 Q1022 R36L/810045 NOSIG RMK QFE759 KJVW 071215Z AUTO 00000KT 10SM CLR M03/M05 A3029 RMK AO2 KJWN 071215Z AUTO 00000KT 10SM CLR M03/M04 A3022 RMK LCEN 071150Z 35014KT 9999 FEW025 14/01 Q1015 NOSIG ENSE 071220Z AUTO 19032KT 9999NDV -RA FEW019/// SCT026/// BKN032/// 07/03 Q0973 W///S5 ENRO 071220Z AUTO 15009KT 120V180 9999NDV OVC017/// 04/01 Q0983 ENSF 071220Z AUTO 20035KT 9999NDV BKN024/// 07/03 Q0972 W///S5 ENSG 071150Z VRB03KT 9999 FEW025 BKN035 05/01 Q0979 RMK WIND 3806FT 17023KT ENSH 071150Z 10008KT 060V140 9999 FEW012 SCT035 03/M00 Q0985 KLFI 071158Z AUTO 04008KT 10SM SCT100 02/M01 A3013 RMK AO2 SLP210 T00191012 10019 21023 55024 $ KJXI 071210Z AUTO 00000KT 7SM CLR M01/M01 A3026 RMK AO2 T10101015 KLGA 071151Z 23003KT 10SM FEW090 SCT250 02/M04 A3020 RMK AO2 SLP224 T00171044 10028 20006 55004 $ ENRS 071220Z 13010KT 9999 FEW020 03/00 Q0983 KLFK 071153Z AUTO 00000KT 7SM FEW002 M03/M03 A3029 RMK AO2 SLP257 I1000 I6001 T10281033 10011 21028 56014 KLGB 071153Z 29003KT 10SM CLR 12/M01 A3012 RMK AO2 SLP200 T01221006 10172 20111 58011 ENSK 071150Z 13012KT 9999 FEW020 03/M01 Q0985 KLGC 071215Z AUTO 00000KT 10SM CLR M02/M02 A3017 RMK AO2 T10191019 EPBC 071200Z 13009KT CAVOK 09/00 Q1010= ENSL 071220Z 19037KT 9999 SCT025 07/03 Q0976 W06/S5 ENTC 071220Z 20014KT 9999 FEW030 SCT045 M00/M04 Q0987 NOSIG RMK WIND 2600FT 17016KT KLGD 071215Z AUTO 00000KT 10SM OVC046 00/M03 A3050 RMK AO1 LBPD 071200Z AUTO 07004KT 340V150 9999 NCD 05/M02 Q1027 NOSIG KLEW 071215Z 00000KT 10SM CLR M02/M08 A3007 RMK AO1 KJXN 071156Z AUTO 20006KT 10SM SCT120 01/M04 A2995 RMK AO2 SLP152 T00111039 10011 20000 58024 TSNO KLEX 071154Z 18005KT 10SM CLR M02/M07 A3015 RMK AO2 SLP218 T10171067 10011 21022 55008 $ KJYG 071215Z AUTO 27019G24KT 10SM CLR 02/M02 A2974 RMK AO2 KJWY 071215Z AUTO 20005KT 10SM CLR 01/01 A3024 RMK AO2 T00070006 ENRY 071220Z 16014KT 130V190 9000 -RA BKN010 05/04 Q0989 ENSR 062350Z 13025KT 9999 -SN DRSN BKN055 M06/M10 Q0990 WIND 1119FT 15024KT KLHB 071215Z AUTO 00000KT 1/4SM FZFG OVC001 M03/M03 A3030 RMK AO2 T10281030 KLFT 071153Z 00000KT 10SM CLR 02/01 A3030 RMK AO2 SLP260 T00220006 10056 20022 58008 ENST 071220Z VRB07KT 9999 SCT050 05/M03 Q0982 RMK WIND 300FT 12015G25KT KJYL 071215Z AUTO 01007KT 10SM BKN043 OVC050 05/02 A3005 RMK AO2 T00480021 KJYM 071215Z AUTO 19005KT 10SM SCT120 M01/M04 A2994 RMK AO2 T10121037 UUYY 071200Z 26002MPS 9999 SCT013 M08/M12 Q1016 R19/42//45 NOSIG RMK QFE753/1004 EPCE 071200Z 16009KT 120V200 CAVOK 08/02 Q1004 RMK 084 066 1/1 = KJYO 071215Z AUTO 00000KT 10SM CLR M03/M03 A3020 RMK AO2 ENTO 071220Z 17013KT 5000 -RA BR BKN005 05/05 Q0988 KJZI 071215Z AUTO 34012KT 5SM RA OVC009 05/04 A2993 RMK AO2 KJYR 071215Z AUTO 32012KT 10SM CLR 00/M04 A3001 RMK AO2 EPDA 071200Z 16012KT 130V220 CAVOK 13/02 Q1002 RMK 130 049 0/0 = ENVA 071220Z 18017G27KT 9999 FEW040 SCT088 08/01 Q0980 NOSIG RMK WIND 670FT 18025G36KT FGBT 071200Z 22007KT 9999 FEW010 31/26 Q1012 KLGU 071224Z AUTO 00000KT 1/4SM FZFG VV003 M09/M09 A3051 RMK AO2 I1000 T10941094 KLIC 071155Z AUTO 33005KT 10SM CLR M08/M11 A3017 RMK AO2 SLP259 T10831106 10011 21094 51010 KLHM 071215Z AUTO 28003KT 10SM CLR 05/03 A3029 RMK AO1 ENVD 071150Z 18015KT 9000 -SN BKN010 M06/M08 Q0991 EPDE 071200Z 17014KT CAVOK 09/M01 Q1012 RMK 090 050 1/1= KJZP 071215Z AUTO 34006KT 10SM CLR 03/M20 A3017 RMK AO2 T00311204 KLHQ 071153Z AUTO 15003KT 10SM CLR M04/M07 A3011 RMK AO2 SLP206 I6000 T10391072 11033 21050 56014 EPBY 071200Z 17005KT 140V210 CAVOK 10/03 Q1007 ENVH 071220Z AUTO 20033KT 9999NDV SCT019/// 06/03 Q0983 W///S5 UWKD 071200Z 29006MPS 9999 BKN012 M03/M05 Q1019 R29/810050 TEMPO 2000 SN BKN005 RMK QFE753/1005 UWKE 071200Z 31005MPS 7000 SCT012 M03/M05 Q1018 R21/090070 NOSIG RMK OBST OBSC QFE746/0995 KLHW 071158Z AUTO 34009KT 10SM FEW010 SCT018 SCT023 BKN037 04/03 A3001 RMK AO2 RAE43DZB43E54 SLP166 P0002 60057 70095 T00420027 10048 20041 50004 $ KMAE 071153Z AUTO 10003KT 6SM BR CLR 06/04 A3031 RMK AO2 SLP264 T00560044 10089 20050 56009 KLHX 071153Z AUTO 04007KT 10SM CLR M01/M06 A3019 RMK AO2 SLP232 T10111056 10022 21033 51029 KMAF 071153Z 23009KT 10SM CLR 03/M09 A3016 RMK AO2 SLP196 T00331094 10061 20017 56015 KLJF 071212Z AUTO 28014G23KT 10SM OVC035 03/M01 A2964 RMK AO2 LBSF 071200Z VRB03KT CAVOK 04/M04 Q1025 NOSIG DXNG 071200Z 06010KT 020V100 3400 HZ NSC 30/M02 Q1018 NOSIG KLHZ 071215Z AUTO 01003KT 10SM OVC100 01/M02 A3011 RMK AO2 KMAI 071153Z AUTO 31004KT 10SM CLR 01/M02 A3017 RMK AO1 SLP216 T00111022 10039 20011 53006 VOCB 071200Z 05002KT 7000 FEW015 32/16 Q1013 NOSIG VOBL 071200Z 00000KT 9999 SCT012 32/16 Q1016 NOSIG KLIT 071153Z 25006KT 10SM FEW250 00/M04 A3025 RMK AO2 SLP246 T00001044 10028 21006 56005 KO22 071215Z AUTO 05003KT 10SM CLR 02/02 A3028 RMK AO1 KMAN 071215Z AUTO 00000KT 4SM BR CLR M02/M02 A3055 RMK A01 KMAO 071215Z AUTO 03014G20KT 10SM -RA SCT042 OVC065 03/01 A3001 RMK AO2 P0001 VOCI 071200Z 27012KT 5000 HZ NSC 31/21 Q1010 NOSIG KMBG 071152Z AUTO 29020G30KT 10SM CLR 03/M04 A2982 RMK AO2 PK WND 30030/1151 SLP105 T00331044 10044 20028 58006 $ UWKS 071200Z 29006MPS 9999 BKN020CB M05/M09 Q1020 R24/490545 NOSIG RMK QFE751 VNKT 071220Z 22007KT 7000 FEW020 SCT100 16/06 Q1019 NSOIG VOCL 071130Z 28011KT 6000 NSC 31/21 Q1010 NOSIG KMCB 071153Z AUTO 00000KT 10SM CLR M02/M03 A3028 RMK AO2 SLP254 T10221033 10056 21022 58002 KMBL 071215Z AUTO 16007KT 8SM BKN095 01/M02 A2978 RMK AO1 KMCC 071215Z AUTO 00000KT 10SM CLR 06/05 A3031 RMK AO2 KMCD 071216Z AUTO 14009G16KT 100V160 10SM OVC070 M01/M03 A2977 RMK AO2 T10121028 KMCE 071211Z AUTO 00000KT 2 1/2SM BR CLR 06/04 A3030 RMK AO2 T00560044 EPGD 071200Z 16005KT 120V200 CAVOK 08/02 Q1005 KMBO 071215Z AUTO 00000KT 10SM CLR M02/M02 A3027 RMK AO2 KMCF 071226Z AUTO 35013G18KT 10SM BKN016 OVC028 10/09 A3005 RMK AO2 DZB17E26 CIG 015V028 KMCI 071153Z 25009KT 10SM CLR 03/M03 A2999 RMK AO2 SLP158 T00331028 10044 20028 55001 KLKR 071215Z AUTO 01006KT 10SM BKN085 04/M07 A3007 RMK AO2 PWINO KMBS 071153Z 18008KT 9SM BKN110 02/M02 A2992 RMK AO2 SLP138 T00171022 10017 20000 56027 KLLJ 071155Z AUTO 00000KT 10SM CLR M11/M13 A3044 RMK AO2 SLP352 T11061133 11017 21111 51017 KMCJ 071155Z AUTO 00000KT 10SM CLR 06/03 A3026 RMK AO1 KMCK 071153Z AUTO 27008KT 10SM CLR M02/M06 A3012 RMK AO2 SLP221 T10171056 10028 21017 53010 LCLK 071200Z 35012KT 320V020 9999 FEW025 SCT050 15/M00 Q1015 NOSIG UWLW 071200Z 30006MPS 8000 NSC M02/M07 Q1021 R02/490045 NOSIG RMK QFE759 KLKU 071215Z AUTO 00000KT 10SM CLR M02/M06 A3015 RMK AO2 KLKV 071215Z 31004KT 10SM CLR M06/M08 A3051 RMK AO1 KMDD 071215Z AUTO 27004KT 10SM CLR 05/M10 A3016 RMK AO2 T00451098 KMCN 071153Z AUTO 28004KT 10SM CLR M02/M04 A3013 RMK AO2 SLP204 T10171039 10006 21017 55004 TSNO KMCO 071153Z 28014KT 10SM OVC008 07/06 A3001 RMK AO2 SLP162 60000 70056 T00720056 10100 20072 53012 $ KMDH 071152Z AUTO 19008KT 10SM CLR 01/M06 A3012 RMK AO2 SLP201 T00111061 10050 20011 58024 KLLQ 071153Z AUTO 27005KT 10SM CLR 02/M03 A3027 RMK AO2 SLP249 T00221033 10039 21006 55004 KMDJ 071215Z AUTO 01013KT 10SM 12/M02 A3029 RMK A01 KMEB 071152Z AUTO 04013KT 10SM UP OVC060 03/M01 A3006 RMK AO2 UPE06B44RAB06E44 SLP178 P0002 60005 70005 T00281011 10056 20028 56022 KLNC 071215Z AUTO 00000KT 4SM BR CLR M01/M03 A3025 RMK AO2 T10141027 KLND 071153Z AUTO 09003KT 10SM CLR M04/M11 A3024 RMK AO2 SLP264 T10441111 10011 21061 53018 KMCW 071153Z AUTO 27016KT 10SM CLR 00/M03 A2976 RMK AO2 SLP087 T00001033 10011 20000 58001 KLMO 071214Z AUTO 00000KT 10SM CLR 04/M13 A3016 RMK AO2 T00411131 KMCX 071215Z AUTO 20007KT 10SM CLR 02/M04 A2997 RMK AO2 T00151045 KO54 071215Z AUTO 00000KT 1/4SM OVC003 04/03 A3044 RMK AO1 KMDQ 071215Z AUTO 00000KT 10SM CLR M02/M05 A3023 RMK AO2 KMEH 071156Z AUTO 00000KT 10SM BKN027 M04/M06 A3047 RMK AO2 SLP346 I1000 I6001 T10391056 11006 21044 53013 KMEI 071158Z AUTO 00000KT 10SM R01/4500VP6000FT CLR M03/M04 A3028 RMK AO2 SLP253 T10331044 11011 21039 50004 KMDS 071210Z AUTO 29020G26KT 10SM OVC100 01/M02 A2982 RMK AO2 KLMT 071153Z AUTO 07003KT 10SM CLR 00/M01 A3049 RMK AO2 SLP326 T00001011 10022 21017 50008 KLNK 071154Z 30005KT 10SM CLR 02/M04 A3000 RMK AO2 SLP167 T00221039 10039 21033 53008 KMDT 071156Z 32005KT 6SM BR FEW015 M06/M07 A3019 RMK AO2 SLP228 T10561072 11011 21078 56002 $ LDDU 071200Z 14014KT 110V180 9999 FEW030 11/03 Q1024 NOSIG KLNL 071210Z AUTO 21005KT 5SM -SN OVC005 M01/M02 A2958 RMK AO2 T10151023 UWOO 071200Z 34005MPS 9999 SCT040 M05/M09 Q1015 R08/CLRD60 NOSIG RMK QFE751/1001 KMFD 071152Z 17006KT 10SM CLR M02/M06 A3005 RMK AO2 SLP189 T10221056 11011 21028 58021 KMEM 071154Z 00000KT 10SM CLR 00/M05 A3024 RMK AO2 SLP240 T00001050 10022 21006 55004 KMFE 071153Z AUTO 00000KT 10SM CLR 04/00 A3031 RMK AO2 SLP264 T00440000 10122 20039 56008 KMDW 071153Z 21010KT 10SM BKN170 04/M02 A2989 RMK AO2 SLP129 T00391022 10044 20017 56033 ENZV 071220Z 17015KT 9999 BKN014 07/05 Q0983 BECMG SCT014 BKN040 KLNN 071215Z AUTO 17004KT 10SM CLR 00/M05 A3005 RMK AO1 T10051054 LBWN 071200Z 20007KT 160V230 CAVOK 06/M04 Q1028 NOSIG UWOR 071200Z 35006MPS 9999 BKN024 OVC100 M05/M07 Q1012 R07/810157 NOSIG RMK QFE734/0979 KLNP 071215Z AUTO 00000KT 10SM CLR M01/M08 A3014 RMK AO2 KMDZ 071215Z AUTO 19007KT 7SM SCT009 OVC018 M01/M02 A2960 RMK AO2 T10121018 KMER 071215Z AUTO 00000KT M1/4SM VV000 04/04 A3030 RMK AO1 KMFI 071154Z AUTO 22008KT 9SM BKN070 OVC080 00/M03 A2963 RMK AO2 SLP049 60000 T00001033 10000 21011 58016 KLNR 071156Z AUTO 25007KT 10SM SCT090 OVC110 03/M02 A2976 RMK AO2 SLP078 T00281017 10033 20011 55016 EPIR 071200Z 15014KT CAVOK 09/03 Q1007 RMK 093 065 3/3 = KLNS 071153Z AUTO 00000KT 5SM BR CLR M06/M08 A3018 RMK AO2 SLP225 I1000 I6001 T10611078 11028 21067 56005 KO69 071215Z AUTO 00000KT 10SM CLR 05/05 A3031 RMK AO1 DXSK 071200Z 08008KT 4000 HZ NSC 33/M01 Q//// KLOL 071153Z AUTO 00000KT 10SM CLR M05/M07 A3051 RMK AO2 SLP349 T10501072 11017 21061 51010 KLPC 071215Z AUTO 09004KT 10SM CLR 05/00 A3018 RMK AO1 KMGC 071215Z AUTO 20009KT 10SM SCT120 02/M01 A2993 RMK AO2 KMEV 071215Z AUTO 12003KT 10SM CLR M04/M04 A3051 RMK AO2 KLOM 071215Z AUTO 00000KT 5SM M05/M06 A3018 RMK AO1 KMGE 071158Z 32005KT 10SM FEW250 01/M08 A3015 RMK AO2A SLP217 T00081077 10021 21016 53003 $ KMGG 071218Z AUTO 26011G17KT 10SM SCT030 OVC043 03/00 A2962 RMK AO2 T00340000 KMEZ 071215Z AUTO 00000KT 10SM CLR M02/M03 A3021 RMK AO2 LCPH 071200Z 28014KT 9999 FEW035 17/08 Q1015 KMFR 071153Z AUTO 17003KT 10SM CLR 05/03 A3048 RMK AO2 SLP324 T00500033 10100 20044 51008 KLOR 071153Z AUTO 35004KT 10SM CLR M01/M04 A3018 RMK AO2 SLP219 7//// T10061044 10017 21022 53002 $ KMGJ 071154Z AUTO 00000KT 7SM CLR M07/M08 A3017 RMK AO2 SLP220 I1000 I6000 T10721083 11044 21072 55005 TSNO KLOT 071215Z AUTO 21015KT 10SM CLR 03/M01 A2988 RMK AO2 T00291015 KLOU 071153Z 00000KT 10SM CLR M02/M05 A3015 RMK AO2 SLP213 T10171050 10006 21022 56013 EPKK 071200Z 07003KT 030V160 CAVOK 12/00 Q1009 EPLB 071200Z 18014KT CAVOK 08/M00 Q1014 KMGM 071153Z 28006KT 10SM CLR 01/M04 A3024 RMK AO2 SLP241 T00061044 10028 21017 53010 KMFV 071215Z AUTO 04006KT 10SM CLR M01/M04 A3015 RMK AO2 KMHE 071153Z AUTO 28014KT 10SM CLR 02/M03 A2991 RMK AO2 SLP140 T00221028 10044 20022 51003 KMGN 071214Z AUTO 19004KT 10SM OVC060 01/M02 A2978 RMK AO2 T00101025 FHAW 071150Z 15011KT 9999 FEW008 BKN150 27/24 Q1016 BLU KLOZ 071153Z AUTO 00000KT 10SM CLR M04/M07 A3019 RMK AO2 SLP231 I1000 I6000 T10441067 11017 21050 53002 KO86 071215Z AUTO 00000KT 3/4SM OVC002 00/00 A3046 RMK AO1 VOHS 071130Z VRB02KT 6000 FEW020 32/12 Q1014 NOSIG KLPR 071153Z AUTO 21006KT 10SM SCT060 M01/M06 A3005 RMK AO2 SLP184 T10111061 11006 21028 57023 TSNO KMGR 071215Z AUTO 34005KT 10SM CLR 03/00 A3012 RMK AO2 KMIA 071153Z 31011G24KT 10SM FEW020 BKN090 BKN250 12/07 A2999 RMK AO2 SLP155 60003 70045 T01220067 10156 20122 53005 $ LCRA 071150Z 19006KT 9999 FEW040 16/05 Q1015 NOSIG EPKS 071200Z 16008KT CAVOK 09/01 Q1006 RMK 091 058 4/4= KMHK 071152Z AUTO 00000KT 10SM CLR 02/M03 A3004 RMK AO2 SLP180 T00221028 10050 20017 53012 KLQK 071215Z AUTO 32005KT 10SM CLR M04/M06 A3009 RMK AO2 T10441065 KMIB 071218Z 31030G38KT 10SM OVC019 01/M02 A2967 RMK A02A SLP063 EPMB 071200Z 16012KT CAVOK 09/03 Q1007 RMK 085 066 2/2= EPLK 071200Z 17012KT CAVOK 10/01 Q1008 RMK 099 054 2/2= KMIC 071153Z AUTO 23009KT 10SM SCT035 BKN080 02/M02 A2961 RMK AO2 SLP034 60000 70001 T00221017 10022 21006 56012 TSNO KMHL 071235Z AUTO 22010G16KT 10SM CLR 05/00 A2997 RMK AO2 EPKT 071200Z 20017G27KT 160V220 CAVOK 11/M01 Q1009 KLRD 071156Z AUTO 00000KT 10SM CLR 05/M07 A3030 RMK AO2 SLP270 T00501067 10083 20033 56008 TSNO EPLL 071200Z 16011KT CAVOK 10/01 Q1009 VOHY 071130Z 11003KT 6000 FEW020 33/11 Q1014 NOSIG KMIE 071153Z 22008KT 10SM CLR 03/M05 A3003 RMK AO2 SLP174 T00281050 10039 20022 58019 KMGW 071153Z 00000KT 10SM CLR M04/M09 A3017 RMK AO2 SLP228 T10441089 11017 21056 53002 KLRF 071158Z AUTO 00000KT 10SM CLR M03/M06 A3023 RMK AO2 SLP242 T10331057 11014 21035 55006 KMGY 071153Z AUTO 18005KT 10SM CLR M01/M06 A3008 RMK AO2 SLP194 T10111061 10000 21022 56018 KMHR 070345Z 00000KT 10SM FEW200 11/08 A3032 EPMI 071200Z 15010KT CAVOK 10/02 Q1004 RMK 100 059 2/2 = KMHS 071156Z AUTO VRB03KT 10SM CLR 03/01 A3045 RMK AO2 SLP330 T00330006 10050 20011 53002 KP08 071215Z AUTO 08011G16KT 10SM CLR 13/M11 A3019 RMK AO2 KLRJ 071215Z AUTO 30009KT 10SM FEW120 01/M13 A2989 RMK AO2 LEAB 071200Z 29028KT 9999 BKN035 10/01 Q1020 NOSIG KMHT 071153Z 00000KT 9SM CLR M07/M09 A3014 RMK AO2 SLP225 T10671089 11022 21072 53003 KLSB 071215Z AUTO 15003KT 10SM CLR M06/M12 A3030 RMK AO2 KMHV 071200Z AUTO 32004KT 10SM CLR 04/M03 A3032 RMK A01 EPMM 071200Z 15010KT CAVOK 08/M01 Q1012 RMK 080 054 1/1 = KLSE 071153Z 20010KT 10SM CLR 01/M03 A2970 RMK AO2 SLP069 T00111028 10022 20000 56016 KLRO 071215Z AUTO 35009G16KT 5SM OVC008 04/03 A2994 RMK AO2 PWINO PNO KLSF 071158Z AUTO 30003KT 10SM CLR M03/M05 A3016 RMK AO2 SLP218 T10311051 10003 21037 53003 LEAG 071200Z AUTO VRB16G27KT CAVOK 16/09 Q1026 EPMO 071200Z 15008KT 100V190 CAVOK 09/01 Q1010 EPLY 071200Z 17012KT CAVOK 10/01 Q1008 RMK 104 052 3/3= UWSS 071200Z 31004MPS 9999 SCT020 M02/M06 Q1024 R30/010060 NOSIG RMK QFE754 LEBA 071200Z 30002KT 9999 FEW040 15/05 Q1026 KMIS 071215Z AUTO 02019KT 10SM CLR 11/M03 A3026 RMK A01 LEBB 071200Z 29010KT 250V340 9999 SCT050 SCT066 12/03 Q1018 NOSIG KNAK 071154Z AUTO 00000KT 10SM CLR M01/M03 A3019 RMK AO2 SLP224 T10111033 10011 21022 58006 LEAL 071200Z 29016KT 260V330 9999 FEW020 16/01 Q1019 NOSIG KMKC 071154Z 24008KT 10SM CLR 05/M03 A2999 RMK AO2 SLP158 T00501033 10067 20044 55006 KNBC 071225Z AUTO 33009KT 10SM OVC013 04/03 A3000 RMK AO2 RAE10 P0001 T00440028 KLRU 071215Z AUTO 34008KT 10SM CLR 02/M15 A3030 RMK AO2 T00151154 LEAM 071200Z 35012KT 310V050 CAVOK 20/M02 Q1018 KMIV 071154Z AUTO 26004KT 8SM CLR M06/M08 A3019 RMK AO2 SLP223 I1000 I6000 T10611078 11039 21061 58009 KMIW 071153Z AUTO 25013KT 10SM SCT120 01/M02 A2981 RMK AO2 SLP104 T00111022 10028 20011 55007 KMKE 071152Z 20008KT 10SM FEW110 OVC150 02/M02 A2980 RMK AO2 SLP098 T00221017 10022 20000 56036 LEBG 071200Z 24021G31KT 9999 FEW021 05/00 Q1018 KNBG 071155Z AUTO 00000KT 10SM CLR M01/M02 A3030 RMK AO2 SLP258 T10061017 10022 21006 51010 PWINO FZRANO $ KMKG 071155Z 18013KT 9SM OVC095 03/M01 A2986 RMK AO2 SLP118 T00281006 10033 20022 56032 $ KMJQ 071213Z AUTO 28019G28KT 10SM CLR 01/M04 A2976 RMK AO2 LEAS 071200Z 27016KT 240V300 9999 BKN042 SCT075 11/03 Q1018 NOSIG KNCA 071156Z AUTO 01018G24KT 9SM -RA OVC060 02/M01 A2999 RMK AO2 SLP156 P0007 60026 70028 T00221006 10044 20022 58031 KP28 071156Z AUTO 33005KT M01/M06 A3011 RMK AO1 SLP203 T10061056 10017 21033 53005 KLUA 071215Z AUTO 28003KT 10SM CLR M04/M05 A3016 RMK AO2 KMKJ 071215Z AUTO 00000KT 10SM CLR M04/M07 A3012 RMK AO2 T10451073 KMLB 071153Z 30013KT 10SM BKN008 BKN013 08/07 A2994 RMK AO2 SLP139 60005 70099 T00830067 10117 20083 53007 EPOK 071200Z 15007KT CAVOK 10/03 Q1005 RMK 096 063 1/1 = LEBL 071200Z 36011KT 330V040 9999 FEW040 12/05 Q1010 NOSIG KMKL 071153Z AUTO 00000KT 10SM CLR M05/M07 A3023 RMK AO2 SLP241 T10501067 11022 21056 55004 KMLC 071153Z AUTO 21008KT 10SM CLR 03/00 A3019 RMK AO2 SLP224 T00330000 10039 20000 56013 $ KLUD 071215Z AUTO 14004KT 10SM CLR 03/00 A3019 RMK AO2 T00261002 KLSV 071158Z AUTO 29005KT 10SM CLR 04/M01 A3034 RMK AO2 SLP273 T00371014 10080 20033 58002 $ KMKN 071215Z AUTO 20008KT 10SM CLR 02/00 A3020 RMK AO2 T00200000 KMLE 071215Z AUTO 30009KT 10SM CLR 04/M03 A2995 RMK AO2 T00411030 KMLF 071202Z AUTO 18006KT 1/2SM FZFG VV002 M19/M21 A3049 RMK AO2 T11941211 $ KMKO 071153Z AUTO 19008KT 10SM CLR 02/M01 A3018 RMK AO2 SLP222 T00171006 10033 20000 56016 KMJX 071215Z AUTO 00000KT 10SM CLR M07/M10 A3019 RMK AO1 KLUF 071158Z AUTO 00000KT 10SM CLR 07/M03 A3017 RMK AO2 SLP214 T00651034 10116 20065 57007 $ LECH 070200Z VRB02KT 8000 FEW062 09/06 Q1010 KMLI 071152Z 21012KT 10SM CLR 03/M02 A2983 RMK AO2 SLP108 T00331022 10039 20033 56025 UWUU 071200Z 29002MPS 250V320 9999 BKN009 M06/M07 Q1017 R14L/1///50 NOSIG RMK QBB270 QFE752/1003 LEDA 071200Z 27027KT 9999 FEW035 11/03 Q1013 NOSIG KMKS 071215Z AUTO 02013G18KT 10SM -RA OVC010 03/01 A2997 RMK AO2 P0001 KLTS 071158Z AUTO 07004KT 10SM CLR M05/M08 A3013 RMK AO2 SLP212 T10491077 10001 21058 56012 VOML 071200Z 32010KT 8000 NSC 30/21 Q1011 NOSIG KMLJ 071215Z AUTO 30004KT 10SM CLR 01/M03 A3012 RMK AO2 LEBT 071200Z AUTO 26018G31KT 220V330 9999 // NCD 15/M00 Q1016 KLUK 071153Z 00000KT 7SM CLR M04/M05 A3014 RMK AO2 SLP211 I1000 I6001 T10441050 11022 21044 56015 KMKT 071215Z 28017KT 10SM BKN065 03/M03 A2970 RMK AO1 KNBT 071156Z AUTO 01016G23KT -RA OVC060 A3001 RMK AO2 PK WND 01028/1058 SLP168 P0000 60000 55024 $ VOMM 071130Z 07008KT 5000 HZ SCT020 29/22 Q1011 NOSIG KLUL 071215Z AUTO 00000KT 10SM CLR M02/M02 A3029 RMK AO2 T10251025 KLUM 071215Z AUTO 22007KT 10SM CLR 00/M03 A2962 RMK AO2 T10031029 LECO 071200Z 23008KT 190V300 9999 FEW030TCU SCT040 11/08 Q1020 TEMPO 4000 SHRA SCT020TCU KMLP 071153Z AUTO VRB04KT 10SM CLR M07/M10 A3037 RMK AO2 SLP343 70003 T10671100 11061 21072 $ KMKY 071215Z AUTO 34007KT 10SM OVC060 12/06 A3003 RMK AO1 DXXX 071230Z 19010KT 160V220 4500 HZ FEW015 33/24 Q1013 NOSIG EPPO 071200Z 18008KT 140V210 CAVOK 09/02 Q1006 LEBZ 071200Z 30014KT 270V330 9999 BKN032 15/09 Q1026 KMMH 071215Z AUTO 00000KT 10SM CLR M03/M08 A3049 RMK AO2 KMMI 071215Z AUTO 00000KT 10SM CLR M06/M07 A3021 RMK EPPR 071200Z VRB04KT CAVOK 09/03 Q1006 RMK 086 069 0/0= KMLS 071153Z AUTO 31025G36KT 10SM CLR 01/M09 A3014 RMK AO2 PK WND 31037/1136 SLP224 T00111089 10028 20006 52017 KLVJ 071153Z AUTO 28003KT 5SM BR CLR 02/00 A3033 RMK AO2 SLP270 70001 T00170000 10072 20017 55008 KLWA 071215Z AUTO 18006KT 10SM BKN070 OVC100 02/M01 A2990 RMK AO2 T00221012 EPRA 071200Z 17014KT CAVOK 09/00 Q1011 KMLT 071153Z AUTO VRB04KT 10SM BKN047 OVC060 M01/M06 A2999 RMK AO2 SLP165 T10061056 11006 21028 53005 KMMK 071153Z AUTO 00000KT 4SM BR CLR M09/M11 A3020 RMK AO2 SLP228 I6000 T10891111 11072 21094 53003 TSNO KLVK 071153Z AUTO 09003KT 10SM CLR 06/03 A3029 RMK AO2 SLP257 T00560028 10094 20044 58009 KLWB 071215Z AUTO 00000KT 10SM CLR M04/M06 A3012 RMK AO2 T10411062 KLWC 071152Z AUTO 28008KT 10SM CLR 03/M03 A3001 RMK AO2 SLP166 T00331033 10044 20033 53001 KMLU 071153Z 00000KT 10SM CLR M01/M02 A3029 RMK AO2 SLP259 T10111017 10022 21011 56010 KMML 071156Z AUTO 29023KT 10SM CLR 02/M04 A2973 RMK AO2 PK WND 29030/1113 SLP080 7//// T00221044 10033 20017 50000 FZRANO KLVL 071215Z AUTO 00000KT 10SM CLR 01/M02 A3011 RMK AO1 T00061025 LECV 071200Z 29010KT 9999 SCT045 07/M04 Q1020 KLVM 071153Z AUTO 26017KT 10SM CLR M02/M09 A3033 RMK AO2 SLP299 T10171094 10011 21022 51016 KLWD 071153Z AUTO 25015KT 10SM CLR 02/M03 A2991 RMK AO2 SLP137 T00221028 10033 20017 55004 KLVN 071156Z AUTO 26013G21KT 10SM CLR 01/M02 A2964 RMK AO2 KP53 071156Z AUTO 20012G18KT M01/M03 A2966 RMK AO1 SLP052 60003 70005 T10061028 11006 21011 56022 KMNE 071215Z AUTO 00000KT 10SM CLR M01/M02 A3029 RMK AO2 T10111017 EPPW 071200Z 16012KT CAVOK 10/02 Q1006 RMK 097 060 5/5 = KLUX 071215Z AUTO 36003KT 10SM CLR 02/M06 A3008 RMK AO2 KMNH 071218Z AUTO 29009KT 10SM CLR M02/M16 A3019 RMK AO2 KMNI 071215Z AUTO 35011G17KT 10SM CLR 02/01 A2999 RMK AO2 KP58 071151Z AUTO VRB06KT 01/M03 A2992 RMK AO1 SLP142 T00061028 10006 20000 56026 KLVS 071153Z AUTO 35006KT 10SM CLR M01/M11 A3019 RMK AO2 SLP193 T10061106 10033 21017 56001 KP59 071151Z AUTO 24009G16KT 00/M01 A2959 RMK AO1 SLP031 P0001 60006 70015 T00001011 10006 21011 56016 $ KP60 071156Z AUTO 00000KT M14/M17 A3034 RMK AO1 SLP345 T11441167 11061 21150 53016 KMOB 071156Z 29005KT 10SM FEW150 M01/M04 A3028 RMK AO2 SLP254 T10111044 10039 21022 53013 KMMT 071158Z 36006KT 10SM OVC048 04/M02 A3005 RMK AO2A SLP180 60016 70016 T00411018 10065 20030 55012 $ UWWW 071200Z 31005MPS 6000 BKN009 OVC100 M02/M03 Q1020 R23/////40 NOSIG RMK QFE754/1005 KMMU 071145Z 00000KT 10SM SKC M07/M07 A3020 KMMV 071153Z AUTO 00000KT 10SM OVC014 08/05 A3050 RMK AO2 SLP328 T00780050 10083 20072 53005 KMOD 071221Z AUTO 11004KT 2 1/2SM BR CLR 05/04 A3029 RMK AO2 T00500039 KMNM 071215Z AUTO 21009KT 10SM FEW050 SCT060 BKN075 01/M01 A2968 RMK AO1 KLWM 071154Z 00000KT 9SM CLR M06/M07 A3018 RMK AO2 SLP220 T10561072 11022 21056 53002 EPSC 071200Z 15011KT CAVOK 11/03 Q1003 KMNN 071153Z AUTO 18007KT 9SM CLR M02/M07 A3006 RMK AO2 SLP191 T10221067 11006 21022 58022 TSNO KNFE 071156Z AUTO 02006KT 10SM CLR 05/M02 A3012 RMK AO2 SLP201 T00501017 10050 20028 56028 $ KNFG 071154Z AUTO 00000KT 10SM CLR 06/00 A3012 RMK AO2 SLP200 T00560000 10094 20039 58008 KNDZ 071056Z AUTO 35007KT 10SM CLR 02/M06 A3021 RMK AO2 SLP219 T00221056 $ LEGA 071200Z 36012KT 9999 FEW040 11/03 Q1025 KP68 071153Z AUTO 00000KT M17/M20 A3053 RMK AO1 SLP439 T11721200 11172 21172 53020 $ KLWS 071156Z AUTO 06004KT 10SM CLR 00/M03 A3054 RMK AO2 SLP353 T00001028 10044 21011 53012 KP69 071152Z AUTO 00000KT 01/M01 A3060 RMK AO1 SLP380 70003 T00111006 10022 20011 53010 KLWT 071154Z AUTO 31012KT 10SM CLR M02/M09 A3029 RMK AO2 SLP287 T10221094 11011 21033 52020 KLXL 071213Z AUTO 27014G22KT 10SM BKN019 OVC024 01/M01 A2957 RMK AO2 KNFL 071156Z AUTO 21004KT 10SM CLR M04/M05 A3050 RMK AO2 SLP281 T10391050 11011 21039 51006 FGSL 071200Z 27009KT 240V300 2800 HZ FEW012 31/24 Q1013 NOSIG KLWV 071153Z AUTO 16008KT 10SM CLR 01/M03 A3010 RMK AO2 SLP195 T00061033 10033 21011 58020 $ KMNV 071215Z AUTO 00000KT 10SM FEW042 FEW048 M04/M05 A3020 RMK A01 LEGE 071200Z 22004KT 190V290 9999 -DZ FEW006 BKN045 08/08 Q1010 KNEW 071153Z AUTO 36008KT 10SM CLR 08/M01 A3030 RMK AO2 SLP254 T00781006 10100 20072 51010 KLXN 071215Z AUTO 29008KT 10SM SCT085 M01/M04 A3008 RMK AO2 T10081042 EPSN 071200Z 18010KT CAVOK 11/02 Q1003RMK 110 055 3/3= KMOP 071214Z AUTO 17004KT 10SM CLR 01/M02 A2987 RMK AO2 T00091020 KLYH 071154Z 00000KT 10SM CLR M02/M06 A3014 RMK AO2 SLP214 T10171061 11011 21056 56011 KMNZ 071215Z AUTO 19010KT 10SM CLR 02/02 A3022 RMK AO2 T00150015 KMOR 071215Z AUTO 00000KT 10SM FEW029 M03/M06 A3016 RMK A01 EPRZ 071200Z 18017KT CAVOK 08/M01 Q1014 LDOS 071200Z 13007KT CAVOK 10/04 Q1019 KLXT 071153Z AUTO 24014KT 10SM CLR 04/M03 A2998 RMK AO2 SLP157 T00441033 10044 20033 56014 KMOT 071154Z AUTO 28027G39KT 9SM -SN OVC021 03/M04 A2968 RMK AO2 PK WND 29040/1137 SLP064 P0000 60000 70002 T00281039 10044 20022 55001 KMQB 071215Z AUTO 22013KT 10SM CLR 03/M01 A2993 RMK AO2 T00321013 LEHC 071200Z 28024G34KT 9999 SCT030 08/01 Q1013 LDPL 071200Z 13012G24KT 070V190 9999 FEW050 12/07 Q1017 NOSIG KLXV 071153Z AUTO VRB05KT 10SM CLR M07/M15 A3029 RMK AO2 SLP235 T10721150 11056 21089 56001 EPTM 071200Z 15010KT CAVOK 10/M00 Q1009 RMK 097 049 2/2= KNFW 071156Z 14004KT 10SM CLR 03/00 A3022 RMK AO2 T00330000 $ KMQE 071154Z AUTO 25010KT M04/M06 A3013 RMK AO1 SLP221 T10391061 11022 21039 55003 KMPO 071153Z AUTO 00000KT 10SM CLR M05/M10 A3009 RMK AO2 SLP215 T10501100 11028 21056 55007 KMOX 071213Z AUTO 28020G26KT 10SM CLR 02/M03 A2965 RMK AO2 KNGP 071156Z AUTO 07007KT 10SM CLR 10/07 A3030 RMK AO2 SLP259 T01000067 10128 20072 55014 KLXY 071215Z AUTO 16003KT 5SM BR CLR 00/M01 A3024 RMK AO2 T10011008 EPSY 071200Z 17010KT 140V200 CAVOK 09/01 Q1009 LEGR 071200Z 32013KT 280V360 8000 FEW040 13/04 Q1024 KMQI 071215Z AUTO 05016G20KT 10SM SCT034 BKN070 OVC090 07/03 A3005 RMK AO2 T00650028 KMQJ 071215Z AUTO 19005KT 10SM CLR 00/M05 A3004 RMK AO1 LEGT 071200Z 28017G27KT 250V340 9999 FEW035 10/M00 Q1021 LEIB 071200Z 29022G38KT 9999 FEW025 16/04 Q1014 NOSIG KNHK 071215Z 00000KT 10SM BKN080 OVC250 M01/M03 A3018 RMK AO2 T10111033 $ KMRB 071153Z AUTO 00000KT 9SM CLR M07/M08 A3017 RMK AO2 SLP223 T10671083 11033 21072 58002 TSNO KMRC 071215Z AUTO 00000KT 10SM CLR M04/M04 A3020 RMK KNGU 071159Z 05010KT 10SM FEW100 OVC180 04/M03 A3015 RMK AO2 SLP209 T00391033 10039 20006 56024 KMPV 071151Z AUTO 26005KT 10SM OVC055 00/M08 A3010 RMK AO2 SLP209 T00001083 10006 21006 51011 KP92 071153Z AUTO 35003KT 03/02 A3030 RMK AO1 SLP261 T00330017 10078 20033 51002 KLYV 071216Z AUTO 29018KT 10SM CLR 01/M03 A2983 RMK AO2 KNID 071156Z AUTO 00000KT 10SM CLR M01/M04 A3033 RMK AO2 SLP279 T10111044 10050 21011 55003 $ KMRF 071156Z AUTO 20004KT 10SM CLR M02/M14 A3028 RMK AO2 SLP249 T10221139 11011 21078 56008 FZRANO TSNO KMRH 071158Z AUTO 01020G27KT 6SM RA OVC055 03/01 A2999 RMK AO2 PK WND 02028/1146 SLP155 P0007 6//// 7//// I1000 I6/// T00330006 10061 20028 56022 TSNO $ KMPZ 071215Z AUTO 22012KT 10SM CLR 04/00 A2987 RMK AO2 T00371005 LDRI 071200Z 17015G29KT 140V220 9999 FEW017 SCT027 11/06 Q1018 KMQS 071215Z AUTO 31004KT 10SM CLR M02/M02 A3017 RMK AO2 KMRJ 071210Z AUTO 23012KT 10SM CLR 02/00 A2975 RMK AO2 LDSB 061300Z 04004KT CAVOK 10/00 Q1029 EPWA 071200Z 15013KT CAVOK 10/00 Q1010 NOSIG KLZU 071145Z 28004KT 10SM CLR M01/M06 A3012 RMK ATIS C RWY 25 JW KMRN 071215Z AUTO 00000KT 10SM CLR M04/M05 A3015 RMK AO2 T10381050 KNIP 071153Z 34017KT 8SM RA BKN010 OVC033 07/04 A3000 RMK AO2 SLP155 P0003 60027 70049 T00670044 10067 20061 56002 KMQY 071156Z AUTO 00000KT 7SM CLR M04/M05 A3023 RMK AO2 55001 T10441050 11022 21044 SLP252 KLZZ 071215Z AUTO 22003KT 5SM BR CLR 00/00 A3023 RMK AO2 T00021002 LFBA 071200Z AUTO 24010KT 210V270 9999 FEW024/// SCT029/// BKN034/// ///TCU 11/06 Q1014 KOAJ 071215Z AUTO 36014G18KT 7SM OVC060 02/M03 A3003 RMK AO1 P0004 KOAK 071153Z 00000KT 10SM CLR 09/06 A3028 RMK AO2 SLP252 T00890061 10128 20078 58014 KMRT 071213Z AUTO 23004KT 10SM CLR M03/M05 A3006 RMK AO2 T10331048 KNJK 071156Z AUTO 29005KT 10SM CLR 07/M08 A3020 RMK AO2 SLP243 T00671078 10117 20056 58006 $ KMSL 071153Z AUTO 25003KT 10SM CLR M03/M05 A3025 RMK AO2 SLP245 T10281050 10006 21033 56001 KMTC 071158Z AUTO 19005KT 10SM CLR M02/M04 A2999 RMK AO2 SLP166 T10221036 10011 21027 57022 LFBC 071200Z AUTO 27013KT 240V310 9999 FEW039/// ///TCU 12/05 Q1014 LFBD 071200Z AUTO 27013KT 9999 FEW032/// SCT047/// ///CB 12/05 Q1013 LFBE 071200Z AUTO 26013KT 9999 -RA FEW042/// SCT048/// BKN058/// ///TCU 10/06 Q1013 KMSN 071153Z 22010G18KT 10SM OVC085 03/M02 A2975 RMK AO2 SLP081 4/003 FIRST AUGMENTED OBS OF THE DAY T00281017 10028 20000 56029 KOBE 071215Z AUTO 29012G19KT 10SM OVC014 08/07 A3001 RMK AO2 KMSO 071153Z AUTO 00000KT 10SM CLR M06/M08 A3050 RMK AO2 SLP362 70001 T10561083 10022 21056 51015 $ KMSP 071153Z 24012KT 10SM BKN038 01/M02 A2963 RMK AO2 SLP042 4/005 60000 T00111022 10017 21006 56012 KMRY 071154Z 08005KT 10SM CLR 10/03 A3025 RMK AO2 SLP256 T01000033 10128 20094 56014 LDSP 071200Z 11015KT 070V160 9999 FEW040 13/07 Q1022 NOSIG VOTR 071130Z 09005KT 5000 HZ FEW016 31/19 Q1010 NOSIG LFBG 071200Z AUTO 25017KT 9999 FEW032 12/05 Q1012 LFAQ 071200Z AUTO 23018KT 9999 BKN028 BKN034 08/03 Q1002 LFBH 071200Z AUTO 26018KT 9999 FEW031 SCT038 11/06 Q1011 KMTH 071153Z AUTO 36009KT 10SM FEW013 BKN023 OVC030 16/13 A3000 RMK AO2 SLP160 60003 70065 T01560133 10172 20156 53009 LFBI 071200Z AUTO 24016KT 210V270 9999 FEW028/// 10/05 Q1009 LEJR 071230Z 33010KT 300V360 9999 FEW035 17/09 Q1027 KMSS 071153Z AUTO 24003KT 10SM OVC055 01/M04 A3013 RMK AO2 SLP208 70003 T00061044 10017 20006 53018 KMTJ 071153Z AUTO 18006KT 10SM CLR M09/M13 A3048 RMK AO2 SLP352 T10891128 11089 21122 55003 EPWR 071200Z 23007KT 190V270 CAVOK 10/02 Q1007 LFAT 071200Z AUTO 23019G29KT 200V260 9999 SCT023/// BKN032/// BKN043/// ///CB 09/05 Q1000 VOTV 071130Z 23005KT 5000 HZ FEW018 31/23 Q1009 NOSIG LELC 071200Z 31010G20KT 250V350 9999 FEW040 17/02 Q1020 NOSIG LFBL 071200Z AUTO 27010KT 240V300 9999 FEW016 BKN024 BKN030 07/03 Q1011 LFBM 071200Z AUTO 27018KT 9999 -RA FEW023/// SCT035/// BKN043/// ///CB 09/06 Q1015 KMSV 071215Z AUTO 00000KT 10SM CLR M08/M10 A3013 RMK AO1 KMTN 071145Z 00000KT 10SM SKC M03/M04 A3021 LFBO 071200Z AUTO 27018KT 9999 SCT024 SCT031 BKN056 10/05 Q1015 KMTO 071153Z AUTO 19008KT 10SM CLR 03/M04 A3001 RMK AO2 SLP167 T00281044 10044 20028 58031 KOCF 071150Z 33012G20KT 10SM OVC006 06/03 A3004 LFBP 071200Z AUTO 27015KT 9999 -RA FEW014/// BKN021/// BKN027/// ///TCU 08/06 Q1017 KMSY 071153Z 00000KT 10SM CLR 04/00 A3029 RMK AO2 SLP260 T00390000 10067 20028 50005 KMTP 071154Z AUTO 00000KT 01/M03 A3022 RMK AO1 SLP233 T00061028 10028 20006 53001 KOCH 071215Z AUTO 00000KT 9SM FEW002 M03/M05 A3028 RMK AO1 KMUI 071158Z AUTO 03001KT 10SM CLR M07/M07 A3018 RMK AO2 SLPNO T10711072 11045 21074 55002 $ LFCK 071200Z AUTO 30020KT 9999 BKN019 BKN024 BKN029 08/04 Q1014 LFBT 071200Z AUTO 25011KT 9999 -RA FEW029/// BKN039/// BKN050/// ///TCU 06/04 Q1017 KNKT 071154Z 02012KT 5SM -RA OVC060 03/M01 A3004 RMK AO2 SLP168 P0005 60012 70013 T00331011 10056 20033 55019 LELL 071200Z 03006KT 330V080 9999 -DZ FEW015 BKN030 11/07 Q1011 LFBU 071200Z AUTO 26016KT 9999 FEW027/// SCT032/// BKN046/// 11/04 Q1012 LEMD 071200Z 26019KT 9999 FEW050 10/M01 Q1020 NOSIG KMTV 071215Z AUTO 00000KT 10SM CLR M03/M06 A3014 RMK AO2 T10341060 LELN 071200Z 25016KT 9999 SCT018 BKN026 04/01 Q1019 KMVE 071214Z AUTO 31012G20KT 10SM CLR 02/M03 A2972 RMK AO2 KMTW 071156Z AUTO 19007KT 10SM BKN075 OVC110 02/M01 A2974 RMK AO2 SLP094 T00171011 10017 21006 56033 FZRANO LELO 071200Z 28023KT 9999 FEW035 08/01 Q1018 KNKX 071155Z 08008KT 10SM CLR 11/M03 A3011 RMK AO2 SLP192 T01111028 10128 20094 58009 KMUO 071213Z AUTO 00000KT 1/4SM R12/1800FT FZFG DZ VV001 M03/M03 A3052 RMK AO2 VIS 1/4V3 VIS M1/4 RWY30 VV V FEW $ LEMG 071200Z 29017G32KT 240V320 9999 FEW025 18/06 Q1024 NOSIG LFBY 071200Z AUTO 27016G31KT 230V310 9999 // ////// 11/06 Q1016 LEMH 071200Z 29011KT 250V330 9999 FEW035 SCT045 11/09 Q1011 LFBZ 071200Z AUTO 25011KT 210V290 9999 SCT028/// BKN034/// BKN050/// ///TCU 09/06 Q1017 KMVH 071215Z AUTO 31010G18KT 10SM CLR M04/M11 A3028 RMK AO2 KOCQ 071215Z AUTO 21005KT 10SM BKN095 OVC110 02/M01 A2968 RMK AO1 T00151006 EPZG 071200Z 17008KT CAVOK 09/02 Q1005 LFCR 071200Z AUTO 29013KT 270V330 9999 BKN018/// BKN023/// OVC030/// ///TCU 06/04 Q1012 KMWA 071215Z AUTO 20008KT 10SM CLR 02/M05 A3011 RMK AO2 KOEB 071215Z AUTO 19005KT 10SM BKN120 01/M03 A2994 RMK AO2 T00141028 KMUT 071215Z AUTO 21009KT 10SM CLR 04/M02 A2986 RMK AO2 KMVL 071154Z AUTO 22003KT 10SM OVC038 01/M07 A3010 RMK AO2 SLP202 T00111067 10017 20011 51013 KMWC 071215Z AUTO 20010KT 10SM BKN110 02/M02 A2978 RMK AO2 KNMM 071156Z AUTO 00000KT 10SM CLR M03/M06 A3027 RMK AO2 SLP265 T10331056 10011 21033 51004 $ KMVN 071215Z AUTO 21006KT 10SM CLR 01/M06 A3009 RMK AO1 KOCW 071215Z AUTO 00000KT 10SM RA OVC060 02/M01 A3008 RMK AO2 P0002 T00161010 KODO 071153Z AUTO 25007KT 10SM CLR 02/M09 A3017 RMK AO2 SLP201 T00221094 10056 20011 56012 $ LEMO 071200Z 30007KT 9999 FEW031 SCT039 16/09 Q1027 NOSIG KMWH 071152Z AUTO 35006KT 10SM CLR M03/M04 A3056 RMK AO2 SLP359 I6000 T10281039 11006 21028 53021 KMWK 071215Z AUTO 00000KT 10SM CLR 03/M06 A3011 RMK AO2 T00301060 KMWL 071153Z AUTO 13005KT 5SM BR CLR M02/M03 A3018 RMK AO2 SLP222 I6001 T10171028 10011 21017 58018 KMWM 071215Z AUTO 26020KT 10SM CLR 01/M03 A2975 RMK AO2 KMWN 071147Z 26066KT 0SM -SHSN FZFG VV000 M13/M13 RMK VRY LGT ICG 60005 70006 4/008 931004 11128 21136 KODX 071153Z AUTO 31014KT 10SM SCT110 03/M06 A3003 RMK AO2 SLP186 T00281056 10028 20000 51009 KOFF 071158Z 00000KT 10SM CLR M01/M03 A2994 RMK AO2A SLP152 4/002 T10071035 10030 21027 53003 $ KMXF 071158Z AUTO 00000KT 10SM CLR M01/M03 A3022 RMK AO2 SLP237 T10071035 10048 21011 53009 KMWO 071215Z AUTO 21003KT 10SM CLR M03/M04 A3012 RMK AO2 T10281045 KOEO 071215Z AUTO 22009KT 10SM OVC026 01/M01 A2961 RMK AO2 T00071011 KMVY 071153Z 21004KT 8SM CLR M04/M07 A3021 RMK AO2 SLP230 I1001 I6001 T10441067 10011 21072 55000 KNOG 071156Z AUTO 05004KT 10SM CLR 03/M01 A3031 RMK AO2 SLP246 T00281006 10061 20017 56015 TSNO $ LEPA 071200Z 32020KT 290V350 9999 FEW026 15/05 Q1012 NOSIG LFGA 071200Z AUTO 25004KT 160V280 9999 SCT048 BKN056 OVC066 08/03 Q1007 PTKK 071152Z 06009KT 15SM FEW014 SCT120 BKN280 28/24 A2987 RMK SLP116 70001 8/171 T02790236 10294 20278 51015 KNPA 071056Z AUTO 34005KT 10SM CLR 02/M03 A3022 RMK AO2 SLP233 T00221033 KOGA 071215Z AUTO 30012KT 10SM OVC070 01/M07 A3015 RMK AO2 T00101070 KMWT 071153Z AUTO 14003KT 10SM CLR M04/M06 A3020 RMK AO2 SLP236 T10391061 11011 21044 58013 KOGB 071153Z AUTO 02008KT 10SM OVC046 04/00 A3002 RMK AO2 SLP167 60025 70032 T00390000 10050 20033 56014 KOFK 071156Z AUTO 29013KT 10SM CLR 03/M04 A2996 RMK AO2 SLP159 T00281044 10044 20000 51010 KOGD 071153Z 17006KT 9SM CLR M04/M08 A3050 RMK AO2 SLP348 T10441078 11022 21056 53006 KMYF 071153Z AUTO 03004KT 10SM CLR 11/M02 A3012 RMK AO2 SLP196 T01061017 10139 20083 58010 TSNO KMXO 071215Z AUTO 23010G15KT 10SM FEW075 OVC110 02/M01 A2979 RMK AO2 KOFP 071154Z AUTO 34003KT 10SM CLR M01/M03 A3018 RMK AO2 SLP219 T10111033 11006 21028 56014 PTKR 071150Z 03005KT 15SM FEW017 FEW120 BKN300 26/24 A2989 RMK SLP123 70005 8/271 T02610237 10294 20261 52014 KNQA 071150Z 00000KT 10SM SKC M02/M03 A3024 LFGJ 071200Z AUTO 17011KT 150V210 9999 -RA FEW008/// BKN014/// OVC031/// ///TCU 07/06 Q1010 LDZA 071200Z 21013KT 170V230 CAVOK 12/M02 Q1017 NOSIG KMYL 071226Z AUTO 00000KT 1 1/4SM BR BKN001 M09/M11 A3046 RMK AO2 T10891106 LDZD 071200Z 13021KT 9999 FEW025 12/05 Q1019 TEMPO 15020G30KT KNOW 071215Z AUTO 10004KT 10SM SCT016 SCT095 05/03 A3052 RMK AO2 T00530029 LEPP 071200Z 31008KT 280V340 9999 FEW042 BKN050 08/M00 Q1017 ESCF 071220Z AUTO 20014KT 9999 NCD 09/06 Q0996 KMYP 071214Z AUTO CLR M11/M13 A3038 RMK AO2 PWINO KMZG 071215Z AUTO 06007KT 10SM CLR 14/04 A3028 RMK A01 KMZH 071215Z AUTO 21007KT 10SM OVC019 01/00 A2946 RMK AO2 KMYR 071145Z 03012KT 5SM RA BR BKN009 OVC022 04/00 A2999 KNQI 071156Z AUTO 34005KT 10SM CLR 00/M02 A3031 RMK AO2 SLP259 T00001017 10050 20000 55012 $ GABS 071200Z 08018KT 060V120 6000 NSC 32/M04 Q1019 NOSIG KNRB 071152Z AUTO 33008G17KT 8SM -RA OVC011 06/04 A3000 RMK AO2 RAE06B40 SLP158 P0001 60021 70055 T00560044 10067 20056 53006 $ KMYV 071153Z AUTO 08005KT 10SM CLR 09/06 A3029 RMK AO2 SLP262 T00890061 10111 20067 56005 $ ESDF 071220Z 20010KT 160V230 9999 FEW016 06/04 Q1000 FJDG 071155Z VRB05KT 1800 +SHRA FEW020 BKN050 OVC080 26/26 A2981 RMK SLP091 P0006 60006 8/87/ T02600258 10305 20260 53003 KMYZ 071215Z AUTO 29004KT 10SM CLR 02/M02 A3003 RMK AO2 LERI 071200Z 29011G22KT 260V360 9999 FEW030 16/01 Q1019 NOSIG WIBB 071200Z 00000KT 8000 -RA SCT015 25/24 Q1008 LESA 071200Z 28010KT 250V310 9999 BKN025 BKN035 06/04 Q1022 KOJA 071215Z AUTO 20004KT 10SM CLR 01/M03 A3011 RMK AO2 KOJC 071153Z AUTO 24009KT 10SM CLR 03/M03 A3000 RMK AO2 SLP163 T00281033 10039 20017 55011 LGAD 071220Z 00000KT CAVOK 15/M03 Q1026 KPAE 071153Z AUTO 11007KT 10SM OVC110 03/01 A3052 RMK AO2 SLP338 T00330006 10050 20033 50010 KNSE 071156Z AUTO 32006KT 10SM CLR 01/M04 A3023 RMK AO2 SLP227 T00111044 10050 20006 53011 $ KNQX 071227Z 33022G35KT 4SM -RA FEW010 BKN019 BKN040 14/13 A3006 RMK AO2 PK WND 35035/1222 RAB22 PRESRR P0000 T01440128 $ KPAH 071153Z 22006KT 10SM CLR 01/M06 A3017 RMK AO2 SLP218 T00111056 10044 21022 56010 $ FIMP 071200Z 10015KT 5000NW VCSH FEW006 FEW012TCU BKN013 BKN250 30/26 Q1009 KMZZ 071215Z AUTO 20007KT 10SM CLR 00/M07 A3001 RMK AO2 T00001072 KNSI 071157Z AUTO 03007KT CLR A3013 RMK AO2 SLPNO 56010 PWINO $ LERS 071200Z 30023G36KT 260V330 9999 FEW030 15/01 Q1011 FIMR 071200Z 09018KT 9999 BKN017 BKN250 30/26 Q1010 KNRS 071156Z AUTO 09009KT 10SM CLR 12/M05 A3012 RMK AO2 SLP197 7//// T01221050 10133 20094 58010 LERT 071200Z 32013KT 290V360 9999 FEW030 16/09 Q1027 NOSIG LFKB 071200Z 14012KT 9999 FEW032 BKN100 BKN180 14/11 Q1011 NOSIG KOKB 071152Z AUTO 04009KT 10SM CLR 09/M03 A3012 RMK AO2 SLP197 T00891028 10106 20067 58010 LFKC 071200Z 34005KT 300V030 9999 FEW060 BKN071 BKN096 17/08 Q1008 TEMPO 21012KT LGAL 071220Z 10008KT CAVOK 07/M03 Q1028 LFJL 071200Z AUTO 23014KT 9999 SCT023 BKN100 08/05 Q1006 KOKC 071152Z 19006KT 10SM FEW250 M01/M04 A3013 RMK AO2 SLP208 T10111039 10028 21017 56014 KNTD 071156Z AUTO 07016G22KT 10SM CLR 19/M04 A3014 RMK AO2 SLP209 T01891044 10200 20183 58010 $ KPAM 071158Z AUTO 36006KT 10SM CLR 05/M02 A3018 RMK AO2 SLP223 T00451021 10069 20043 53009 $ KPAN 071215Z AUTO 12004KT 10SM CLR 05/M14 A3032 RMK AO2 LESO 071200Z 22013G24KT 150V260 9999 SCT030 BKN044 10/06 Q1018 LFKF 071200Z AUTO 08007KT 050V110 9999 NCD 15/10 Q1011 KPAO 070447Z 00000KT 10SM SKC 13/08 A3033 RMK LAST KPBF 071153Z AUTO 22005KT 10SM CLR 00/M04 A3026 RMK AO2 SLP245 T00001044 10011 21022 55004 $ KPBG 071153Z AUTO 00000KT 10SM BKN041 OVC050 01/M05 A3012 RMK AO2 SLP202 T00111050 10017 20006 53016 KPBH 071215Z AUTO 20007KT 10SM OVC009 M01/M02 A2957 RMK AO2 T10131022 LFJR 071200Z AUTO 24015KT 220V280 9999 BKN031 BKN038 BKN047 11/04 Q1007 KPBI 071153Z 28013KT 10SM BKN015 OVC110 11/08 A2996 RMK AO2 SLP146 60005 70067 T01110083 10150 20111 53008 $ LFKJ 071209Z 18012KT 150V220 9999 SCT053 BKN086 18/07 Q1010 WIDD 070000Z 03013KT 9999 SCT014 28/25 Q1010 LEST 071200Z 25010KT 200V290 8000 -RA FEW015 SCT020 BKN030 09/06 Q1022 NOSIG LFLB 071200Z 16005KT 7000 RA FEW010 SCT023 BKN030 04/03 Q1013 NOSIG KOKK 071215Z AUTO 22009KT 10SM 02/M04 A2999 RMK AO1 LESU 071200Z VRB06KT 9999 FEW050 SCT068 09/M05 Q1010 LETL 071200Z AUTO 32027KT 9999 SCT040 05/M03 Q1017 LFLC 071200Z AUTO 27007KT 9999 SCT035 SCT042 OVC160 09/02 Q1010 LGBL 071220Z 10010KT 9999 FEW040 11/02 Q1027 PTPN 071150Z 06019KT 15SM BKN017TCU BKN130 OVC300 28/25 A2986 RMK TCU SE-SW LGAV 071220Z 02010KT 9999 SCT030 10/01 Q1027 NOSIG KOKM 071215Z AUTO RMK AO2 PWINO PNO TSNO KOLE 071215Z AUTO 22003KT 10SM CLR M04/M08 A3003 RMK AO2 LETO 071200Z 23011KT 200V260 9999 FEW050 10/01 Q1020 NOSIG KOLF 071153Z AUTO 30030G39KT 10SM CLR 01/M07 A3005 RMK AO2 PK WND 29041/1126 SLP194 T00111067 10017 20000 53024 KOLG 071215Z AUTO 18006KT 7SM OVC008 00/M01 A2950 RMK AO1 ESGG 071220Z 17012KT 9999 SCT040 07/04 Q0993 R21/19//95 KNUI 071153Z AUTO 00000KT 10SM CLR M01/M02 A3017 RMK AO2 SLP217 T10061022 11006 21022 58013 $ LFKS 071200Z AUTO 18010KT 9999 -RA FEW034 SCT056 OVC074 14/12 Q1011 KOMA 071152Z 29012KT 10SM FEW110 BKN160 BKN250 04/M03 A2993 RMK AO2 SLP140 4/001 T00391033 10044 21006 58003 ESGJ 071220Z 17008KT 9999 BKN007 05/04 Q0995 R19/29//70 WIEE 071200Z VRB02KT 7000 BKN017 27/26 Q1008 LEVC 071200Z 28022KT 9999 FEW030 16/M02 Q1017 NOSIG LFLL 071200Z 13014KT 9999 -RA FEW006 BKN020 OVC030 04/03 Q1012 NOSIG LFMC 071200Z AUTO 08003KT 9999 -RA ////// 12/10 Q1006 KNTU 071156Z 04011KT 10SM FEW100 OVC180 06/M02 A3012 RMK AO2 SLP200 T00611022 10061 20022 56025 KPDC 071215Z AUTO 21006KT 10SM CLR 02/M02 A2976 RMK AO2 T00221025 LEVD 071200Z 26018KT 9999 BKN020 05/01 Q1020 LFMD 071200Z AUTO 08009KT 040V120 2700 +RA BR BKN014/// OVC025/// ///CB 11/10 Q1007 KOLM 071154Z AUTO 10004KT 1/2SM FG VV002 03/03 A3052 RMK AO2 SLP337 70009 T00330028 10039 20017 51008 KPCM 071215Z AUTO 30008KT 10SM OVC011 09/07 A3007 RMK AO2 KOKV 071215Z AUTO 00000KT 10SM CLR M04/M07 A3017 RMK AO2 LFLN 071200Z AUTO 20004KT 170V240 9999 SCT030 BKN036 OVC150 08/05 Q1010 KPBX 071215Z AUTO 00000KT 10SM CLR 00/M05 A3016 RMK AO2 T00001050 LFLP 071200Z AUTO VRB01KT 6000 -SN BKN008/// OVC015/// ///TCU 01/M00 Q1012 LFMH 071200Z 12004KT 9999 FEW026 SCT040 BKN110 06/04 Q1011 NOSIG ESGP 071220Z 18017KT CAVOK 07/04 Q0992 R19/19//95 KNUQ 071156Z 00000KT 10SM CLR 09/06 A3028 RMK AO2 SLP257 T00890056 10133 20089 58013 KOKZ 071215Z AUTO 33003KT 10SM CLR 02/M03 A3010 RMK AO2 T00161032 KOMH 071215Z AUTO 00000KT 10SM CLR M02/M03 A3018 RMK AO2 PTSA 061855Z 05010KT 10SM BKN018 BKN300 28/22 A2979 LFMI 071200Z AUTO 31017KT 9999 -RA BKN017 BKN022 BKN027 10/07 Q1009 LFLS 071200Z AUTO 06005KT 8000 3400 -SN SCT019/// BKN025/// BKN030/// ///TCU 01/00 Q1012 ESGR 071220Z AUTO 19014KT 9999 NCD 09/03 Q0994 KOLS 071154Z AUTO 00000KT 10SM CLR 00/M12 A3020 RMK AO2 SLP199 T00001117 10056 21006 58007 KONA 071214Z AUTO 27004KT 10SM CLR 01/M02 A2969 RMK AO2 KPEA 071215Z AUTO 26012G15KT 10SM CLR 02/M02 A2987 RMK AO2 T00221017 LFMK 071200Z AUTO 28020KT 9999 BKN028 BKN037 OVC050 10/05 Q1013 KPDK 071153Z AUTO 00000KT 10SM CLR M03/M06 A3014 RMK AO2 SLP222 T10281056 10011 21033 55000 KOMK 071153Z AUTO 35003KT 10SM CLR M04/M07 A3057 RMK AO2 SLP369 I1000 I6000 T10441067 11028 21072 51022 $ LFLU 071200Z AUTO 04011KT 9000 -SNRA OVC038/// ///CB 05/04 Q1011 LFML 071200Z 30016KT 9999 -RA SCT015 SCT025 OVC056 09/08 Q1008 NOSIG ESIB 071220Z AUTO 18014KT 9999 FEW200/// 07/05 Q0992 KOLU 071215Z AUTO 30021G25KT 10SM CLR 02/M07 A2998 RMK AO2 RVRNO KOLV 071155Z AUTO 19003KT 9SM CLR M01/M02 A3025 RMK A01 P000 KOMN 071150Z 32012KT 3SM -RABR SCT008 BKN020 06/05 A2996 RMK FIRST LFLW 071200Z AUTO 29008KT 260V320 9999 FEW018 SCT045 BKN170 06/02 Q1011 LFMN 071200Z 09019KT 7000 -RA SCT018 FEW020TCU OVC025 12/09 Q1007 TEMPO 3000 SHRA PTRO 071150Z 04003KT 15SM FEW016 SCT120 BKN300 25/24 A2987 KNUW 071156Z 00000KT 10SM FEW120 BKN130 02/02 A3057 RMK AO2 SLP352 T00220017 10044 20022 50008 $ KPCW 071221Z AUTO 18008KT 10SM BKN060 02/M03 A3000 RMK AO2 BKN V SCT $ LFLX 071200Z AUTO 23018KT 9999 SCT028 BKN035 BKN041 10/05 Q1009 LFMO 071200Z AUTO 02020G33KT 6000 2400 -RA FEW040/// OVC052/// ///TCU 07/05 Q1010 LFLY 071200Z AUTO 12007KT 9999 -RA FEW007 SCT017 BKN036 06/05 Q1012 LFMP 071200Z AUTO 31024G38KT CAVOK 12/02 Q1010 KOLY 071215Z AUTO 18005KT 10SM CLR 01/M03 A3007 RMK AO2 KPCZ 071215Z AUTO 18007KT 10SM SCT100 BKN120 02/M01 A2968 RMK AO2 T00211010 KOLZ 071215Z AUTO 24011KT 10SM FEW140 00/M01 A2977 RMK AO2 LEVS 071200Z 28024G35KT 9999 FEW030 09/M01 Q1021 KOOA 071215Z AUTO 25012KT 10SM BKN110 02/M01 A2986 RMK AO2 T00171015 LFOA 071200Z AUTO 26015KT 9999 FEW031 SCT240 10/03 Q1009 LEVT 071200Z 22013KT 190V250 9999 BKN056 08/02 Q1017 LFOB 071200Z AUTO 25017KT 220V280 9999 SCT030 SCT035 09/02 Q1003 LFMT 071200Z 32013KT CAVOK 13/06 Q1010 NOSIG KPDT 071153Z AUTO 10004KT 10SM CLR M01/M03 A3050 RMK AO2 SLP333 T10061028 10033 21006 53010 LFMU 071200Z AUTO 31015KT 9999 BKN045 OVC052 12/04 Q1011 LGEL 071220Z 36004KT 9999 FEW025 SCT070 12/M00 Q1026 KONL 071215Z AUTO 29015G19KT 10SM BKN120 03/M04 A3000 RMK AO2 T00261041 LFOC 071200Z AUTO 25017KT 9999 SCT031 BKN039 10/03 Q1006 LFMV 071200Z AUTO 34014KT 9999 -RA SCT048/// OVC054/// ///CB 08/06 Q1009 KONM 071215Z AUTO 36008KT 10SM CLR M04/M11 A3033 RMK AO2 T10371109 ETAD 071217Z AUTO 23016G22KT 9999 FEW020 SCT040 07/03 A2964 RMK AO2 LFOE 071200Z AUTO 25015KT 9999 SCT037 09/03 Q1003 LEVX 071200Z 20004KT 110V280 9999 FEW018 SCT028 11/09 Q1023 NOSIG KPDX 071153Z 00000KT 10SM OVC018 07/05 A3051 RMK AO2 SLP331 T00720050 10072 20067 53009 KPEO 071153Z AUTO 00000KT 10SM CLR M03/M07 A3011 RMK AO2 SLP209 T10331072 10000 21033 58003 TSNO KONO 071153Z AUTO 28003KT 8SM CLR M03/M04 A3057 RMK AO2 SLP375 I1000 I6000 T10331044 10000 21033 53009 KNXF 071156Z AUTO 05011KT 10SM CLR 17/M06 A3011 RMK AO2 SLP281 T01721061 10189 20117 58009 $ RCKH 071200Z 02006KT 340V040 7000 FEW015 SCT050 15/08 Q1024 NOSIG RMK A3025 LFMY 071200Z AUTO 31014KT 280V340 9999 -RA BKN016/// BKN021/// BKN036/// ///TCU 08/06 Q1008 KONP 071215Z AUTO 09007KT 5SM BR OVC011 09/08 A3046 RMK AO2 LFOH 071200Z AUTO 22017KT 9999 BKN028 BKN037 08/03 Q1002 KPEQ 071215Z AUTO 20003KT 10SM CLR M02/M12 A3019 RMK AO2 T10161118 LEXJ 071200Z 28014KT 250V320 9999 FEW040 SCT079 12/02 Q1018 KPGA 071153Z AUTO 14004KT 10SM CLR M03/M06 A3044 RMK AO2 SLP322 T10331056 11011 21033 56004 TSNO LFOJ 071200Z AUTO 24020KT 9999 FEW036 SCT044 09/03 Q1006 LFPB 071200Z AUTO 26013KT 220V290 9999 BKN039 10/02 Q1004 LFOK 071200Z AUTO 22018KT 9999 FEW021 SCT028 09/04 Q1006 KONT 071153Z VRB04KT 10SM CLR 08/M02 A3015 RMK AO2 SLP203 T00781022 10144 20056 58011 KNYC 071151Z AUTO 28004KT 10SM CLR 02/M07 A3021 RMK AO2 SLP222 T00171067 10028 20006 55005 $ LFPC 071200Z AUTO 24019KT 9999 SCT029 BKN037 09/03 Q1004 KPGD 071153Z 33012KT 10SM -RA OVC070 09/08 A3005 RMK AO2 RAB13 SLP176 P0001 60001 70043 T00940083 10111 20094 53013 WIHH 071100Z 00000KT 4000 TS FEW017CB SCT016 26/25 Q1008 RMK CB AND RA TO E PTTP 071153Z 06006G16KT 15SM SCT018 OVC130 28/22 A2992 RMK SLP132 70009 8/17/ T02760216 10287 20275 52014 KOPF 071153Z 31020G25KT 10SM OVC095 12/08 A2998 RMK AO2 RAB02E26 SLP153 P0000 60003 70018 T01220083 10161 20122 53003 KPEX 071214Z AUTO 28020G29KT 10SM SCT075 SCT120 02/M02 A2963 RMK AO2 T00221022 KONX 071215Z AUTO 03011KT 10SM CLR 06/M02 A3010 RMK AO2 T00561017 VQPR 070730Z 16006KT 9999 SKC 19/M01 Q1028 NOSIG LFOP 071200Z AUTO 24016KT 9999 BKN031 09/03 Q1002 LFPG 071200Z 25017KT 9999 SCT030 10/02 Q1004 NOSIG KNXP 071156Z AUTO 29008KT 10SM CLR 08/M08 A3036 RMK AO2 SLP262 T00781083 10100 20056 58003 $ KNYG 071156Z AUTO 31005KT 10SM CLR M01/M04 A3020 RMK AO2 SLP228 T10111039 11006 21017 55012 KONZ 071215Z AUTO 20005KT 10SM CLR 00/M03 A2999 RMK AO2 KPEZ 071215Z AUTO 00000KT 10SM CLR M02/M04 A3031 RMK AO2 T10211039 LFQA 071200Z AUTO 24010KT 210V270 9999 BKN034 OVC044 09/03 Q1005 ETAR 071212Z AUTO 23010KT 9999 SCT015 08/07 A2966 RMK AO2 RAE1158 LFOT 071200Z AUTO 24012KT 9999 BKN028 BKN035 10/04 Q1007 LFQB 071200Z AUTO 23012KT 9999 BKN033 BKN044 OVC052 10/05 Q1007 KNYL 071157Z AUTO 36011KT 10SM CLR 15/M06 A3017 RMK AO2 SLP215 T01501061 10156 20133 56004 KOPL 071215Z AUTO 00000KT 1/2SM FZFG OVC003 M01/M01 A3030 RMK AO2 T10071008 LFPM 071200Z AUTO 23018KT 9999 FEW029 10/03 Q1005 LFOV 071200Z AUTO 24017KT 210V270 9999 SCT031 BKN040 10/03 Q1006 KPHD 071153Z AUTO 13004KT 10SM CLR M06/M08 A3012 RMK AO2 SLP208 T10561078 11033 21061 56016 LFPN 071200Z AUTO 24015KT 210V270 9999 SCT033 09/03 Q1004 ESKM 071220Z 15009KT 9999 OVC010 04/03 Q0991 KOPN 071215Z AUTO 35005KT 10SM CLR 00/M03 A3016 RMK AO2 LFPO 071200Z 24015KT 9999 FEW033 09/02 Q1005 TEMPO 24015G30KT ESKN 071220Z 15013KT 0900 R08/1500U R26/0800N FG VV002 02/02 Q0997 R26/290195 KPHF 071154Z 02005KT 10SM BKN100 01/M01 A3014 RMK AO2 SLP207 T00061011 10006 21028 56019 LFQG 071200Z AUTO 24011KT 210V270 9999 BKN031 BKN041 OVC049 09/04 Q1009 LEZG 071200Z 32021KT 9999 FEW040 11/00 Q1017 WIII 071230Z VRB02KT 5000 BR FEW016CB BKN022 27/26 Q1010 RERA R MK CB TO NW LGHI 071150Z 01010KT 9999 FEW020 08/M02 Q1025 KPIA 071154Z 20009KT 10SM CLR 02/M02 A2992 RMK AO2 SLP137 T00221022 10028 21011 56029 $ LFPT 071200Z AUTO 25014KT 9999 FEW031 10/03 Q1004 LFRB 071200Z 25016KT 9999 SCT028 SCT100 09/04 Q1004 NOSIG KORB 071213Z AUTO 16004KT 3SM -SN BKN003 OVC015 00/M01 A2937 RMK AO2 KPIB 071215Z AUTO 00000KT 10SM CLR M03/M06 A3028 RMK AO1 GAMB 071200Z 08014KT 8000 NSC 33/M03 Q1019 LEZL 071200Z 30009KT 250V340 9999 FEW035 SCT044 17/06 Q1027 NOSIG LFRC 071200Z AUTO 22018KT 9999 BKN018 BKN027 BKN037 07/05 Q1000 KPHL 071154Z 34004KT 10SM FEW200 M02/M06 A3020 RMK AO2 SLP226 T10221056 10006 21022 58007 KORC 071215Z AUTO 29016KT 10SM CLR 00/M02 A2986 RMK AO2 LFRD 071200Z AUTO 23017G30KT 9999 FEW031 10/03 Q1004 KORD 071151Z 21014KT 10SM SCT120 BKN170 03/M02 A2987 RMK AO2 SLP119 T00331022 10033 20011 56034 KPGV 071215Z AUTO 01007KT 7SM RA OVC060 02/00 A3011 RMK AO2 P0002 LFPV 071200Z AUTO 24013KT 200V270 9999 SCT032 BKN039 09/02 Q1004 KORE 071219Z AUTO 00000KT 3SM BR CLR M11/M13 A3015 RMK AO2 T11061128 KPIE 071153Z AUTO 32014G21KT 10SM SCT017 BKN024 OVC030 10/07 A3007 RMK AO2 RAB02E12 SLP181 P0000 60000 70010 T01000067 10106 20094 53013 KPHN 071217Z AUTO 18005KT 7SM CLR M01/M02 A2999 RMK AO2 KORF 071151Z AUTO 04011KT 10SM CLR 04/M03 A3012 RMK AO2 SLP199 T00391028 10039 20028 56023 TSNO RCMQ 071200Z 02007KT 9999 FEW010 08/01 Q1024 NOSIG RMK A3026 LFRG 071200Z AUTO 25015KT 210V270 9999 BKN030 09/03 Q1002 KPHP 071155Z AUTO 29021G28KT 10SM CLR 02/M06 A3002 RMK AO2 PK WND 30033/1122 SLP177 T00221056 10033 20006 51004 KORG 071215Z AUTO 00000KT 1/2SM FG OVC001 00/M01 A3032 RMK AO2 T10011010 LFRH 071200Z AUTO 26019KT 9999 SCT029 BKN110 BKN170 10/04 Q1006 LFQQ 071200Z AUTO 23014KT 9999 OVC029 08/03 Q1000 KPIH 071209Z AUTO 23007KT 10SM OVC029 M01/M03 A3048 RMK AO2 T10111033 KORH 071154Z 26008KT 10SM CLR M03/M08 A3013 RMK AO2 SLP217 T10331083 11028 21044 55001 $ LFRI 071200Z AUTO 25017KT 220V280 9999 FEW030 SCT039 10/05 Q1009 KOSA 071215Z AUTO 15003KT 7SM CLR 00/00 A3027 RMK AO1 T10051005 LFRJ 071200Z AUTO 26018KT 9999 ///TCU 09/04 Q1004 LFRK 071200Z AUTO 25019KT 9999 SCT034 09/03 Q1003 LFSB 071200Z 25014KT 9999 -RA FEW016 FEW018TCU BKN035 05/04 Q1008 TEMPO 27015G25KT KOQT 071153Z AUTO 00000KT 10SM CLR M02/M04 A3021 RMK AO2 SLP245 T10221044 10011 21028 53002 KPHT 071215Z AUTO 23004KT 10SM CLR M02/M08 A3020 RMK KOQU 062150Z 26008KT 15SM BKN150 01/M04 A3025 RMK LAST KORL 071153Z 31013G22KT 10SM OVC007 08/05 A3000 RMK AO2 SLP163 70047 T00780050 10106 20078 53009 ESMK 071220Z AUTO 19010KT 9999 NCD 08/04 Q0998 KPIL 071153Z AUTO 00000KT 10SM CLR 04/02 A3029 RMK AO2 SLP256 T00390022 10111 20039 55010 KOSC 071214Z AUTO 19009KT 10SM OVC090 00/M02 A2989 RMK AO2 T00021020 ETEB 071158Z AUTO 18004KT 9999 CLR 09/02 A2962 RMK AO2 SLP051 57009 LFRL 071200Z AUTO 24017KT 8000 -RA FEW015/// SCT026/// BKN037/// ///CB 07/04 Q1005 RCNN 071200Z 01013KT 9999 FEW012 11/04 Q1024 NOSIG RMK A3024 LFSD 071200Z AUTO 18005KT 9999 ///TCU 08/05 Q1009 LFRM 071200Z AUTO 23013KT 200V270 9999 BKN031 BKN040 11/03 Q1006 KPIM 071215Z AUTO 00000KT 10SM CLR M03/M04 A3016 RMK AO2 T10271041 LFRN 071200Z AUTO 24010KT 210V270 9999 FEW033 BKN041 BKN130 11/03 Q1006 LFRO 071200Z AUTO 23015KT 9999 SCT026 BKN045 BKN054 09/05 Q1003 KPHX 071151Z 00000KT 10SM CLR 09/M03 A3018 RMK AO2 SLP211 T00891028 10139 20089 55003 LGIO 071220Z /////KT CAVOK 11/M05 Q1024 LFSG 071200Z AUTO 21008KT 9999 FEW029 SCT042 BKN098 07/06 Q1007 KNZY 071152Z AUTO 00000KT 10SM CLR 07/03 A3011 RMK AO2 SLP194 T00720028 10133 20061 58010 $ LFRQ 071200Z AUTO 25015KT 9999 BKN025/// BKN032/// OVC038/// ///CB 09/05 Q1006 ESNG 071220Z AUTO VRB01KT 8000 NCD M17/M19 Q0990 KOSH 071153Z 22011G20KT 10SM OVC085 02/M02 A2971 RMK AO2 SLP074 T00221017 10028 21011 56029 LGIR 071220Z 31019KT 9999 FEW020 SCT030 11/00 Q1025 NOSIG ESMQ 071220Z 18015KT CAVOK 05/04 Q1000 KPIR 071153Z AUTO 29019G30KT 10SM BKN085 OVC110 02/M02 A2994 RMK AO2 PK WND 29030/1144 SLP148 T00221022 10033 20017 55000 PTYA 071154Z VRB05KT 12SM SCT016TCU SCT130 BKN300 25/24 A2990 RMK TCU W SLP127 60005 70005 8/271 T02540236 10311 20252 52020 LFSI 071200Z AUTO 22010KT 9999 FEW021 SCT027 BKN035 09/05 Q1006 LFRS 071200Z 25015G27KT 220V280 9999 SCT028 09/04 Q1008 NOSIG KORS 071215Z AUTO 00000KT 10SM CLR 04/03 A3052 RMK AO2 KQAJ 071156Z AUTO 31005KT M M M M A2983 RMK AO2 SLPNO $ LFRT 071200Z AUTO 26019KT 9999 FEW029 09/04 Q1004 KPIT 071151Z 00000KT 10SM FEW250 M04/M09 A3010 RMK AO2 SLP214 T10441094 11017 21061 56014 ESMS 071220Z 17013KT CAVOK 07/04 Q0998 R17/19//95 KPKB 071153Z 14004KT 9SM CLR M06/M08 A3019 RMK AO2 SLP232 T10611083 11033 21067 55003 LGKC 071220Z /////KT 9999 FEW020 10/03 Q1026 LFRU 071200Z AUTO 24015KT 190V260 9999 FEW027 SCT170 09/04 Q1003 LFSL 071200Z AUTO 28010KT 240V320 9999 BKN023/// BKN030/// BKN037/// ///TCU 10/04 Q1012 ESNK 071220Z AUTO 13009KT 9999 BKN013/// 04/03 Q0990 ESMT 071220Z 15013KT CAVOK 08/03 Q0995 KQAL 071156Z 26008KT 9999 BKN060 18/01 A2985 RMK AO2A SLP108 T01750006 10181 20109 55011 LHBC 071145Z 18010KT CAVOK 09/01 Q1021 LFRV 071200Z AUTO 26013KT 230V290 9999 SCT029 BKN048 BKN060 09/03 Q1006 ESNL 071220Z AUTO 13009KT 4800 -SN FEW005/// BKN006/// BKN010/// M01/M02 Q0988 KPKD 071213Z AUTO 29019KT 3SM -SN BR BKN013 OVC023 01/M01 A2948 RMK AO2 P0000 T00111006 LFSN 071200Z AUTO 24008KT 200V290 9999 FEW025 OVC110 09/04 Q1006 LGKF 071150Z 15005KT 9999 FEW020 SCT180 14/03 Q1026 ESOE 071220Z 19013KT CAVOK 09/06 Q0994 ESNN 071220Z 16008KT 9999 OVC012 04/03 Q0992 R16/79//44 KQBF 071155Z AUTO 07008G16KT 040V100 2SM HZ FEW028 30/M04 A3000 RMK AO2 SLP140 WND DATA ESTMD T03021044 10252 20228 58011 LFSO 071200Z AUTO 22011KT 9999 SCT022 SCT030 BKN130 07/05 Q1006 KS25 071215Z AUTO 31028G42KT 10SM -SN BKN024 BKN030 OVC035 00/M04 A2987 RMK AO2 ESNO 071220Z 18006KT 0350 R12/0650N FG VV003 02/02 Q0990 ESMX 071220Z 15010KT CAVOK 07/04 Q0997 KOTG 071215Z AUTO 28018KT 10SM CLR 00/M05 A2980 RMK AO1 KQBG 071155Z AUTO VRB01KT 6SM HZ CLR 36/18 A2984 RMK AO2 SLP099 WND DATA ESTMD T03600177 10274 20231 56032 LFTH 071200Z AUTO 22006KT CAVOK 13/11 Q1005 LFRZ 071200Z AUTO 26018KT CAVOK 10/05 Q1008 KOTH 071215Z 00000KT 3/4SM BKN002 09/09 A3044 RMK AO1 ESNQ 071220Z 00000KT CAVOK M15/M16 Q0987 GANR 071200Z 08006KT 9000 NSC 32/M08 Q1020 LFST 071200Z AUTO 25005KT 220V280 9999 RA BKN036 OVC042 07/05 Q1007 ESNS 071220Z 12006KT 2500 -SN SCT005 BKN014 OVC020 00/00 Q0991 ESPA 071220Z 13002KT 2500 -SN VV013 M06/M06 Q0993 KQAT 071156Z 20004KT 9999 FEW055 17/04 A2992 RMK AO2A SLP133 60009 70009 T01730038 10178 20094 56008 ESOK 071220Z AUTO 17012KT 9999 OVC015/// 05/04 Q0992 KOSU 071153Z 16003KT 10SM CLR M03/M06 A3008 RMK AO2 SLP195 T10331061 11017 21033 56019 LGKL 071220Z 20004KT 9999 FEW035 15/03 Q1026 KQBL 071156Z AUTO 00000KT 10SM CLR 02/M04 A3024 RMK AO2 SLP242 T00221043 10051 20021 53009 ESNU 071220Z 19012KT 7000 -RA OVC002 02/02 Q0991 R14/79//26 KOTM 071153Z AUTO 24015KT 10SM CLR 03/M02 A2986 RMK AO2 SLP117 T00281022 10039 20022 55014 ESNV 071220Z AUTO 09004KT 2400 -SN NCD M01/M01 Q0986 KQAX 070855Z AUTO 00000KT 9000 FEW039 BKN060 12/06 A2999 RMK AO2 SLP158 60015 T01150059 51015 ESPE 071220Z AUTO 00000KT 2800 -SN VV024/// M11/M13 Q0991 LGKO 071220Z 35016G26KT 9999 FEW025 09/M02 Q1021 LFSX 071200Z AUTO 22008KT 9999 -RA FEW008 SCT046 OVC052 06/05 Q1008 ESNX 071220Z AUTO 12003KT 2400NDV -SN VV006 M05/M06 Q0988 LGKP 071220Z 32032G45KT 9999 SCT025 11/02 Q1019 KQAY 071156Z AUTO 17005KT 9000 HZ CLR 24/M03 A2983 RMK AO2 SLP103 T02381028 10239 20157 LHBP 071200Z 18014KT 150V210 CAVOK 12/04 Q1017 NOSIG ETGG 071220Z 21017G27KT 9999 FEW020 BKN035 09/06 Q0994 BLU LGKR 071220Z 17009KT 9999 SCT035 14/06 Q1026 NOSIG ESNZ 071220Z 18010KT 9999 SCT028 04/01 Q0984 ETHA 071220Z AUTO 19009KT //// // ////// 13/M04 Q1002 /// VRMM 071200Z 03009KT 8000 SCT018TCU BKN270 30/23 Q1011 NOSIG WIMM 071200Z 31005KT 5000 HZ BKN017 29/25 Q1009 NOSIG KS39 071215Z AUTO 00000KT 10SM CLR M02/M02 A3047 RMK AO2 ETHB 071220Z 21012KT 9999 FEW020 BKN050 BKN250 09/06 Q0999 BLU LHDC 071145Z 18014KT CAVOK 09/00 Q1021 NOSIG ETHC 071220Z 20013KT 9999 BKN044 13/04 Q0999 BLU KPMD 071153Z AUTO 21004KT 10SM CLR 01/M04 A3033 RMK AO2 SLP267 T00061044 10067 20000 58007 LGKV 071220Z 12006KT 9999 FEW035 08/01 Q1028 LGLM 071150Z 04008KT 9999 FEW025 09/00 Q1028 KPKV 071215Z AUTO 06003KT 10SM CLR 03/01 A3031 RMK AO2 T00270014 LFTW 071200Z AUTO 01006KT CAVOK 10/06 Q1010 KOVE 071153Z AUTO 34006KT 10SM CLR 12/04 A3029 RMK AO2 SLP260 T01170044 10117 20078 58010 KPLN 071154Z AUTO 14005KT 8SM OVC070 M01/M04 A2979 RMK AO2 SLP097 70004 T10111039 11006 21028 56029 KOUN 071215Z AUTO 18007KT 10SM CLR 00/M01 A3015 RMK AO2 ETHE 071220Z AUTO 23011G21KT //// // ////// 09/04 Q0999 /// ESOW 071220Z 17011KT CAVOK 08/04 Q0996 ETHF 071220Z 19013KT 9999 -RA FEW028 BKN040 09/06 Q1002 BLU KQDG 071156Z AUTO 24008KT 6000 -SN BKN015 BKN017 BKN019 M03/M04 A3001 RMK AO2 SNE23SNB37 CIG 015V026 SLP165 70020 T10271037 11020 21033 50003 $ LGKZ 071150Z 14004KT CAVOK 09/M08 Q1026 ETGQ 071220Z AUTO 24007KT //// // ////// 10/05 Q1003 /// LGLR 071150Z 00000KT CAVOK 12/M05 Q1027 RMK FEW180 BLU KOWA 071215Z AUTO 24011KT 10SM CLR M01/M04 A2969 RMK AO2 KPNA 071215Z AUTO 31016KT 10SM CLR M05/M08 A3032 RMK AO2 LGMK 071150Z 35016KT 9999 FEW025 09/M01 Q1025 KOWB 071156Z 19006KT 7SM CLR M01/M04 A3017 RMK AO2 56012 T10051044 10027 21005 SLP218 KPNC 071153Z AUTO 20004KT 10SM CLR 01/M03 A3011 RMK AO2 SLP200 T00111033 10039 20000 56006 TSNO KOVL 071214Z AUTO 28022G28KT 10SM CLR 02/M02 A2968 RMK AO2 KPLU 071215Z AUTO 00000KT 10SM SCT085 M01/M00 A3052 RMK AO2 ETHL 071220Z VRB02KT 9999 VCFG BKN110 03/00 Q1004 BLU KOWD 071202Z 00000KT 10SM FEW003 M08/M10 A3017 RMK AO2 T10831100 ETIC 071158Z AUTO 00000KT 9999 CLR 06/01 A2964 RMK AO2 SLP055 57021 KPNE 071154Z AUTO 00000KT 8SM CLR M03/M06 A3021 RMK AO2 SLP229 I1000 I6001 T10331056 11006 21039 58008 TSNO ETHN 071220Z 27009KT 9999 FEW030 SCT120 BKN150 08/01 Q1003 BLU LFVP 071200Z 26008KT 9999 SCT026 BKN200 M02/M06 Q1021 NOSIG KPMP 071153Z 30016KT 10SM OVC100 11/08 A2996 RMK AO2 PK WND 30029/1125 SLP146 60008 70035 T01110078 10150 20111 53008 ETIH 071158Z AUTO VRB06KT 9999 CLR 09/00 A2965 RMK AO2 SLP051 57020 KQEI 071220Z AUTO 17002KT 9999 CLR M05/M19 A3011 RMK A02 TSNO PWAK 071203Z AUTO 07016KT 9999 SCT019 SCT027 25/22 A3010 RMK AO2 KOVS 071153Z AUTO 23005KT 10SM SCT120 03/M01 A2975 RMK AO2 SLP083 T00331006 10039 20011 58012 ETHS 071220Z 22014KT 9999 BKN050 SCT090 13/04 Q0998 BLU KPOB 071211Z AUTO 06007KT 10SM BKN060 03/M01 A3006 RMK AO2 RAE07DZB07E11 ESSA 071220Z 18014KT CAVOK 08/04 Q0997 R01L/19//95 R08/19//95 R01R/19//95 NOSIG KQFB 071220Z AUTO 27001KT 9999 CLR M01/M10 A3016 RMK A02 TSNO KOXB 071153Z AUTO 34005KT 10SM CLR M03/M04 A3018 RMK AO2 SLP220 I6000 T10281039 11017 21039 55012 TSNO LGMT 071220Z 36008KT 300V060 CAVOK 09/00 Q1027 ESSB 071220Z 18010KT CAVOK 07/04 Q0998 R12/19//74 KPOC 070447Z 00000KT 10SM CLR 13/M03 A3021 RMK LAST KQEL 071220Z AUTO 03002KT 9999 CLR M07/M17 A3019 RMK A02 TSNO KOXC 071150Z 31003KT 10SM SKC M03/M11 A3017 KPMU 071215Z AUTO 00000KT 10SM CLR M04/M05 A3027 RMK AO2 T10421047 ETIK 071158Z AUTO VRB01KT 9999 SCT130 10/03 A2962 RMK AO2 SLP038 T01010034 10101 20025 57005 KPNM 071214Z AUTO 25014G20KT 10SM OVC024 03/00 A2958 RMK AO2 KPMV 071215Z AUTO 30009KT 10SM CLR 02/M03 A2995 RMK AO2 T00181030 ESSD 071220Z AUTO 15010KT 9999 OVC009/// 05/04 Q0993 KPOE 071158Z AUTO 10001KT 10SM CLR 00/00 A3028 RMK AO2 SLP258 70002 T10051005 10039 21008 56016 KPOF 071153Z AUTO 20006KT 10SM CLR 01/M04 A3015 RMK AO2 SLP215 I6001 T00061044 10022 20000 58019 KOWP 071215Z AUTO 21006KT 10SM CLR 05/M01 A3013 RMK AO2 T00521007 KQFG 071155Z AUTO VRB05KT 9999 CLR 19/M03 A3008 RMK AO2 SLP187 T01911033 10196 20075 56012 KQEQ 071220Z AUTO 11002KT 9999 CLR M04/M11 A3002 RMK A02 TSNO RCSS 071200Z 08004KT CAVOK 10/00 Q1026 NOSIG RMK A3031 KQER 071220Z AUTO 19001KT 8000 /CLR M07/M18 A3008 RMK A02 TSNO KQES 071220Z AUTO 08001KT 9999 CLR M03/M06 A3020 RMK A02 TSNO KPNS 071153Z 33008KT 10SM CLR 02/M04 A3023 RMK AO2 SLP241 T00171039 10050 20011 53012 LGPA 071150Z AUTO 36016KT 320V020 //// // ////// 10/M00 Q1026 RERA KPPA 071215Z AUTO 30011KT 10SM CLR M01/M09 A3011 RMK AO2 T10141086 ESTA 071220Z 15014KT CAVOK 08/04 Q0996 KPNT 071215Z AUTO 20013KT 10SM CLR 04/00 A2992 RMK AO2 T00350000 ESSL 071220Z AUTO 18009KT 9999NDV NCD 08/04 Q0996 R29/29//39 KQEV 071220Z AUTO 31002KT 9999 CLR M05/M11 A3017 RMK A02 TSNO WIPP 071200Z 04005KT 9999 SCT013 28/25 Q1009 NOSIG FKKD 071200Z 22005KT 2500 HZ BKN016 FEW020CB 34/25 Q1011 NOSIG KQEW 071220Z AUTO 24004KT 9999 CLR M01/M16 A3013 RMK A02 TSNO RCTP 071200Z 12005KT 080V140 CAVOK 11/02 Q1026 NOSIG RMK A3030 KPPF 071152Z AUTO 25006KT 10SM CLR 02/M03 A3010 RMK AO2 SLP196 T00221028 10039 20000 55010 KQEX 071220Z AUTO 33002KT 9999 CLR 01/M15 A3016 RMK A02 TSNO LGNX 070950Z 01012G22KT 9999 SCT025 10/00 Q1027 KQEY 071220Z AUTO 09003KT 9999 CLR M03/M14 A3014 RMK A02 TSNO ESSP 071220Z 15009KT CAVOK 09/04 Q0997 KOXR 071151Z AUTO 01006KT 10SM CLR 15/M03 A3014 RMK AO2 SLP205 T01501028 10200 20122 56010 $ KOZA 071215Z AUTO 00000KT 10SM CLR M02/M07 A3024 RMK AO2 KQFT 071220Z AUTO 14001KT 9000 HZ CLR M05/M16 A3014 RMK A02 TSNO ESST 071220Z AUTO 16009KT 120V180 5000 BR OVC006/// 05/04 Q0991 KQFU 071220Z AUTO 08001KT 9999 CLR M05/M14 A3015 RMK A02 TSNO KPOU 071153Z 00000KT 9SM CLR M06/M08 A3018 RMK AO2 SLP219 T10561083 11033 21061 55005 FKKL 071200Z 02010KT 340V060 2300 DU NSC 29/03 Q1015 KQFV 071220Z AUTO 21001KT 1200 /CLR M07/M19 A3009 RMK A02 TSNO ESTL 071220Z AUTO 17011KT 9999NDV FEW055/// 08/04 Q0997 KPOV 071219Z AUTO 00000KT 10SM SCT050 M03/M08 A3007 RMK AO2 T10331081 KOXV 071215Z AUTO 25012KT 10SM OVC100 02/M02 A2985 RMK AO2 ESUD 071220Z AUTO 30001KT 2600 -PL OVC008/// M04/M06 Q0987 ESSV 071220Z 18016KT CAVOK 08/05 Q1000 R21/29//70 FKKN 071100Z 04008KT 5000 NSC 29/05 Q1019 KQFX 071220Z AUTO 14001KT 8000 HZ CLR M05/M14 A3016 RMK A02 TSNO KPPO 071215Z AUTO 21006KT 10SM BKN110 02/00 A2994 RMK AO2 T00210000 KPOY 071215Z AUTO 34017G26KT 10SM CLR M02/M11 A3024 RMK AO2 KPPQ 071215Z AUTO 20006KT 10SM CLR 04/M01 A2998 RMK AO2 T00401013 KPQI 071205Z AUTO 28014G20KT 9SM -SN FEW021 BKN038 OVC046 M02/M06 A2993 RMK AO2 P0000 FZRANO LFYR 071200Z AUTO 25009KT 180V280 9999 BKN032 BKN040 11/04 Q1008 FKKR 071200Z VRB03KT 0750 R09/0750 HZ NSC 31/05 Q1013 NOSIG KPRB 071153Z AUTO 00000KT 10SM CLR 04/03 A3028 RMK AO2 SLP252 T00390028 10100 20039 58007 TSNO KPQL 071153Z AUTO 00000KT 10SM CLR M02/M03 A3029 RMK AO2 SLP259 T10171028 10028 21017 53015 TSNO KPRC 071153Z AUTO 19004KT 10SM CLR M02/M08 A3033 RMK AO2 SLP248 T10221078 10022 21033 58005 KQGV 071155Z 31007G11KT 9000 HZ FEW050 23/00 A2985 RMK SLP104 57015 QNH1011 PA +538 KPQN 071214Z AUTO 30015G19KT 10SM CLR 02/M07 A2979 RMK AO2 KQHN 071155Z 26003KT 9999 CLR 20/M13 A3009 RMK SLP143 Q1019 DA4490 KQGX 071158Z 32006KT 9999 CLR 26/02 A3001 RMK AO2A SLP165 10261 20131 57018 WND DATA ESTMD $ KPRG 071215Z AUTO 21009KT 10SM CLR 03/M02 A3002 RMK AO2 T00251023 ESUP 071220Z AUTO 10003KT 9999 NCD M11/M12 Q0992 LGPZ 071220Z 04006KT 9999 FEW030 13/01 Q1026 KOZR 071158Z AUTO 31008KT 10SM CLR 02/M04 A3018 RMK AO2 SLP224 T00151042 10040 20012 53004 LGSA 071220Z 02007KT 9999 FEW020 BKN035 10/02 Q1026 KOZS 071215Z AUTO 21011KT 10SM CLR 04/M02 A3005 RMK AO2 VTBD 071200Z 08003KT 020V160 CAVOK 24/09 Q1016 NOSIG ESUT 071220Z AUTO 17009KT 9999 OVC019/// M02/M04 Q0983 REFZUP KPSC 071153Z AUTO 34003KT 10SM CLR M03/M04 A3057 RMK AO2 SLP356 T10331044 10011 21033 53022 KRAC 071153Z AUTO 21012G19KT 10SM FEW110 03/M02 A2983 RMK AO2 SLP108 T00331022 10033 20006 56032 KQHU 071155Z 08004KT 9000 BR FEW010 SCT030 BKN100 16/11 A2994 RMK SLP136 WND DATA/ALSTG/SLP ESTMD 70024 55008 ETML 071220Z AUTO 18014KT //// // ////// 08/05 Q0996 /// KPRN 070756Z AUTO 34004KT 10SM CLR 02/M06 A3019 RMK AO2 SLP225 T00171056 KOZW 071215Z AUTO 18007KT 10SM BKN110 00/M02 A2993 RMK AO2 T00021025 ETMN 071220Z 23016KT 9999 FEW020 BKN250 10/06 Q0996 BLU+ KPSF 071154Z AUTO 00000KT 10SM CLR M08/M10 A3010 RMK AO2 SLP208 T10781100 11022 21078 56004 KPRO 071215Z AUTO 10SM CLR 01/M02 A2987 RMK AO2 T00101022 LGRP 071220Z 29010KT CAVOK 12/M02 Q1019 NOSIG KQHY 071156Z AUTO 35005KT 10SM CLR 02/M05 A3024 RMK AO2 SLP242 T00191047 10048 20019 53010 KQL5 071155Z 05003KT 9000 HZ CLR 20/M03 A3005 RMK AO2A SLP174 T02021029 10162 20057 56014 ETNH 071220Z 23013KT 9999 -RADZ FEW015 BKN030 09/07 Q0995 BLU KQIR 071158Z 14012KT 9999 CLR 24/03 A2994 RMK AO2A SLP140 T02390027 10242 20136 57025 VTCC 071200Z 24004KT 9999 FEW040 22/11 Q1020 A3013 NOSIG KPRS 071215Z AUTO 00000KT 10SM CLR 01/M13 A3027 RMK AO2 T00141130 LGSK 071150Z 00000KT 9999 SCT018 BKN025 10/04 Q1027 KPSK 071215Z AUTO 34003KT 10SM CLR 00/M05 A3012 RMK AO2 T10011055 KPTB 071215Z AUTO 04003KT 10SM CLR 01/M01 A3014 RMK AO2 T00051013 KT20 071215Z AUTO 00000KT 10SM CLR 00/00 A3030 RMK AO2 T00000000 LIBC 071150Z 19022KT 9999 SCT010 13/08 Q1023 KRAL 071153Z AUTO 05005KT 10SM CLR 12/M05 A3017 RMK AO2 SLP205 T01171050 10167 20117 58006 LGSM 071220Z 01012KT 330V030 9999 FEW025 09/02 Q1023 ETNL 071220Z 19009KT 9999 FEW100 SCT170 BKN210 12/04 Q0998 BLU+ VTBO 071100Z 36010KT 6000 NSC 24/10 Q1014 LIBD 071220Z 18008KT 140V220 CAVOK 16/05 Q1020 KRBD 071153Z 20004KT 10SM CLR 03/00 A3021 RMK AO2 SLP232 T00330000 10044 20028 56013 KPSM 071158Z 25005KT 10SM FEW200 M04/M07 A3014 RMK AO2A SLP210 T10431067 11020 21047 52007 LHKE 071215Z 15012KT CAVOK 09/02 Q1019 NOSIG RMK BLU KPSN 071215Z AUTO 15003KT 2 1/2SM BR CLR 00/00 A3027 RMK AO2 T00040004 LIBF 071150Z 14004KT 9999 SCT030 15/02 Q1020 ETNN 071220Z 22007KT 9999 FEW025 BKN130 10/02 Q1002 BLU VTCH 071100Z 00000KT 9999 FEW025 26/12 Q1016 A3000 LGSO 071220Z AUTO 01012G22KT 330V050 //// // ////// 10/01 Q1025 RERA KPRX 071215Z 14004KT 6SM CLR 00/M04 A3024 RMK AO1 LGRX 071220Z VRB02KT CAVOK 15/M01 Q1026 KPSO 071215Z AUTO 00000KT 10SM CLR A3034 RMK AO2 LIBG 071150Z 17011KT 9999 SCT025 14/08 Q1022 KRAP 071152Z AUTO 32021G35KT 10SM FEW075 02/M11 A3007 RMK AO2 PK WND 32039/1121 SLP204 T00221111 10039 20017 51010 KPSP 071153Z VRB05KT 10SM CLR 16/M06 A3023 RMK AO2 SLP234 T01561056 10172 20111 58007 KRBG 071153Z AUTO 00000KT 10SM OVC003 09/09 A3046 RMK AO2 SLP316 70001 T00940089 10106 20094 50000 LGTG 071150Z 00000KT 9999 SCT025 10/01 Q1027 RMK FEW070 BLU KQKG 071155Z AUTO 34011G24KT 310V010 7SM VCTS CLR 26/14 A3008 RMK AO2 SLP106 WND DATA ESTMD T02580139 10216 20177 56033 $ LIBH 071155Z 15004KT CAVOK 14/11 Q1022 RMK SCT SCT200 QUK 1 QUL 1 SE VIS MAR 20 KM VIS MIN 9999 VTBS 071200Z 01005KT 330V050 CAVOK 22/08 Q1017 NOSIG LGSR 071220Z 34020KT 9999 FEW025 11/00 Q1025 VTCL 071100Z 05004KT 010V080 9999 FEW025 23/12 Q1018 A3006 INFO VTBU 071200Z 02008KT 2000 HZ NSC 24/07 Q1014 A2997 NOSIG LICA 071150Z 29009KT CAVOK 15/01 Q1023 KRCA 071158Z AUTO 32025G31KT 10SM CLR 01/M11 A3006 RMK AO2 PK WND 33034/00 UPB06E12 SLP204 P0000 60000 T00141109 10033 20014 52011 $ KRAS 071215Z AUTO 02003KT 10SM CLR 07/06 A3030 RMK AO2 T00710062 LICB 071150Z 20010KT 9999 BKN030 15/08 Q1024 ETNS 071220Z AUTO 22015KT 6000 // ////// 08/06 Q0995 /// KPTK 071153Z 18004KT 7SM SCT120 M01/M04 A2996 RMK AO2 SLP156 T10111039 10006 21017 58023 KPUB 071153Z AUTO 08011KT 10SM CLR 02/M07 A3019 RMK AO2 WSHFT 1127 SLP230 T00171072 10072 20017 53023 ETNT 071220Z 22016G28KT 9999 SCT023 BKN200 09/05 Q0995 BLU+ VTCN 071200Z 01001KT 9999 FEW025 BKN300 18/13 Q1019 A3009 LICC 071220Z 23005KT 200V260 9999 FEW030 BKN060 14/06 Q1023 KPUC 071153Z AUTO 00000KT 10SM CLR M13/M16 A3042 RMK AO2 SLP376 T11281156 11094 21128 58003 KRBL 071154Z AUTO 33005KT 10SM CLR 09/05 A3034 RMK AO2 SLP274 T00890050 10111 20083 56005 $ LICD 071150Z 20018KT CAVOK 17/10 Q1022 KRCE 071155Z AUTO 19009KT 9SM 00/M02 A3013 RMK AO2 VTCP 070800Z 36007KT 8000 NSC 27/10 Q1018 A3007 LIBN 071155Z 17015KT 9999 BKN030 14/06 Q1024 RMK BKN VIS MIN 9999 WIND THR14 18016KT WIND THR32 18011KT BLU KPTN 071215Z AUTO 00000KT 1 1/4SM CLR 02/00 A3029 RMK AO1 ETNW 071220Z AUTO 21014KT 9999 // ////// 09/06 Q0999 /// LICF 071155Z 21010KT 9999 BKN030 13/09 Q1022 RMK BKN SCT080 BKN200 QUK 2 QUL 1 SW VIS MAR 15 KM MON CIME INC NC VIS MIN 9999 KPSX 071153Z AUTO 04005KT 5SM BR CLR 01/00 A3030 RMK AO2 SLP261 70012 T00110000 10050 20011 56014 KRBO 071215Z AUTO 02003KT 10SM CLR 02/M01 A3031 RMK AO2 T00181006 LICG 071155Z /////KT 9999 FEW017 15/11 Q1019 LIBP 071150Z VRB01KT 9999 SCT040 BKN070 11/06 Q1017 LGSY 071150Z 03006KT 9999 SCT020 09/00 Q1026 BLU KT35 071215Z AUTO 23003KT 7SM CLR 01/00 A3028 RMK AO2 T00050000 LIBQ 070855Z 02006KT CAVOK 05/M13 Q1021 VTCT 071200Z 35005KT CAVOK 17/09 Q1020 A3014 LIBR 071215Z 18014KT 9999 SCT020 15/10 Q1023 NOSIG LICJ 071220Z 18021G35KT 9999 FEW025 17/07 Q1020 WS RWY20 APP +20KT FROM 600FT TO GROUND KPTS 071215Z AUTO 22009KT 10SM CLR 04/M01 A3008 RMK AO2 T00351006 LGTS 071220Z 30005KT 9999 FEW025 SCT040 11/02 Q1027 NOSIG KPUJ 071215Z AUTO 33010KT 10SM CLR 03/M03 A3015 RMK AO2 KPVB 071215Z AUTO 23008KT 10SM SCT075 SCT100 02/00 A2977 RMK AO1 T00161005 KPTT 071215Z AUTO 33010KT 10SM CLR 00/M04 A3011 RMK AO2 T10051045 LICL 071155Z 20012KT 9999 FEW019 SCT020 16/12 Q1023 RMK BKN BKN100 QUK 3 QUL 1 SW VIS MAR 15 KM VIS MIN 9999 KPVC 071156Z AUTO 24008KT 10SM CLR 01/M03 A3018 RMK AO2 SLP220 70001 T00061028 10017 20006 55004 FZRANO LIBV 071155Z 16023KT 9999 SCT018 11/06 Q1021 RMK BKN SCT200 VIS MIN 9999 WIND THR32 17021G32KT WIND THR14 16021KT BLU KPVD 071151Z 30003KT 10SM FEW100 M02/M06 A3018 RMK AO2 SLP219 4/002 T10171056 11011 21033 55009 $ KRDD 071153Z AUTO 35005KT 10SM CLR 12/05 A3035 RMK AO2 SLP274 T01170050 10117 20072 56003 KPTV 071156Z AUTO 00000KT 4SM BR CLR 04/03 A3032 RMK AO2 SLP284 T00390028 10072 20028 56007 ETOU 071158Z AUTO 26009KT 9999 -RA FEW014 SCT023 BKN030 OVC034 09/ A2964 RMK AO2 SLP042 P0001 60001 70001 10096 20046 52016 $ KRCM 071215Z AUTO 21014KT 10SM CLR 03/M02 A2999 RMK AO2 GCFV 071200Z 05012KT 9999 FEW015 21/17 Q1029 GCGM 071200Z 15003KT 100V240 9999 FEW030 20/15 Q1029 RMK R09/VRB02KT ARP/VRB02KT KRBW 071215Z AUTO 36007KT 10SM -RA SCT065 BKN070 BKN085 04/03 A3001 RMK AO2 KPTW 071154Z AUTO 00000KT 7SM CLR M07/M08 A3020 RMK AO2 SLP226 I1000 I6000 T10671078 11022 21067 56006 KPVE 071215Z AUTO 00000KT 10SM CLR M05/M06 A3022 RMK KPVF 071215Z AUTO 10005KT 10SM CLR 13/M04 A3029 RMK AO1 LIBY 071155Z 18009KT 9999 SCT030 12/07 Q1024 RMK BKN BKN090 QUK 2 QUL 1 S VIS MAR 20 KM VIS MIN 9999 KPVG 071215Z 04005KT 10SM CLR 02/M02 A3014 RMK AO1 KRDG 071154Z AUTO 33004KT 7SM CLR M06/M08 A3018 RMK AO2 SLP228 I6000 T10611078 11017 21067 56005 LICR 071150Z 15012KT 9999 SCT030 14/06 Q1024 KRCR 071215Z AUTO 20008KT 10SM CLR 02/M04 A2997 RMK AO2 GCHI 071200Z 04012KT 9999 FEW025 21/16 Q1029 LIEA 071220Z 19021KT 9999 FEW020 BKN030 17/10 Q1010 KPWA 071153Z AUTO 20017KT 10SM CLR 03/M03 A3012 RMK AO2 SLP204 T00281033 10050 20028 56017 KPVJ 071215Z AUTO 19003KT 10SM CLR M01/M02 A3016 RMK AO2 T10071017 LIEB 071155Z 18013KT 9999 FEW030 14/13 Q1013 RMK BKN SCT070 QUK 3 QUL 0 VIS MAR 20 KM MON LIB VIS MIN 9999 LICT 071155Z 17021G31KT 9999 SCT025 17/11 Q1020 KRDK 071215Z AUTO 30006KT 10SM SCT200 BKN220 BKN250 01/M02 A2994 RMK AO2 LIEC 071155Z 20009KT 9999 FEW018 17/14 Q1016 RMK BKN SCT100 QUK 2 QUL 0 VIS MAR 16 KM VIS MIN 9999 KPWC 071214Z AUTO 27007G15KT 244V304 10SM -RA BKN018 OVC023 01/M01 A2951 RMK AO2 LIED 071155Z 15009KT 9999 SCT018 BKN060 17/13 Q1014 RMK BKN VIS MIN 9999 WIND THR35 14010KT WIND THR17 13012KT BLU KRCV 071210Z AUTO 26011KT 10SM CLR M11/M16 A3031 RMK AO2 T11091157 KRDM 071156Z AUTO 14003KT 10SM CLR M01/M03 A3046 RMK AO2 SLP327 T10111028 10006 21022 53007 LIEE 071220Z 13012KT CAVOK 16/13 Q1014 KPUW 071153Z AUTO 05003KT 10SM CLR M01/M03 A3051 RMK AO2 SLP355 T10061028 10011 21011 53011 KRCX 071210Z AUTO 20008KT 7SM BKN008 OVC015 00/M01 A2961 RMK AO2 T10011011 KPWG 071156Z AUTO 00000KT 7SM CLR M02/M03 A3026 RMK AO2 SLP265 T10221028 10017 21022 56016 FZRANO LICZ 071155Z 25001KT 9999 SCT030 SCT060 15/07 Q1024 RMK BKN VIS MIN 9999 WIND THR28 07001KT A3025 BLU KRCZ 071215Z AUTO 36005KT 10SM OVC055 03/M02 A3007 RMK AO2 T00311016 KRDR 071158Z AUTO 29023G30KT 10SM FEW044 SCT080 02/M02 A2950 RMK AO2 PK WND 31031/37 SLP003 60012 70012 T00211024 10033 20013 50004 ETSA 071220Z 14008KT 9999 BKN110 BKN200 13/M01 Q1002 BLU KPWK 071152Z AUTO 20011KT 10SM CLR 04/M02 A2987 RMK AO2 SLP119 T00391017 10039 20000 56035 ETSB 071220Z AUTO 23013KT 9999 // ////// 06/04 Q1002 /// KRDU 071151Z 05008KT 10SM OVC120 03/M04 A3010 RMK AO2 SLP195 T00281039 10039 20028 58016 $ KPVU 071215Z AUTO 00000KT 4SM CLR M11/M13 A3052 RMK AO1 KPWM 071151Z 00000KT 10SM CLR M06/M07 A3012 RMK AO2 SLP201 T10561067 11017 21056 53007 KRFD 071154Z 21012KT 10SM BKN100 03/M02 A2985 RMK AO2 SLP115 T00281017 10033 20000 56027 KPVW 071215Z AUTO 30008KT 10SM CLR M05/M12 A3007 RMK AO2 T10501116 KPXE 071215Z AUTO 34007KT 10SM CLR 02/M04 A3015 RMK AO2 T00221037 LIEO 071220Z 09005KT 060V130 CAVOK 17/10 Q1011 KREO 071152Z AUTO 16003KT 02/M02 A3049 RMK AO1 SLP335 T00171022 10033 20006 53012 KT65 071215Z AUTO 00000KT 7SM CLR 04/M02 A3031 RMK AO2 T00401016 ETSH 071220Z 15012KT 9999 FEW130 BKN180 BKN230 09/03 Q1003 BLU KRFI 071215Z AUTO 00000KT 7SM CLR M02/M02 A3028 RMK AO2 T10251025 ETSI 071220Z AUTO 05005KT 0250 // ////// 09/05 Q1003 /// LHPA 071215Z 20021G33KT CAVOK 12/03 Q1013 NOSIG RMK BLU KPWT 071215Z AUTO 00000KT BKN100 00/00 A3056 RMK AO1 ETSL 071120Z VRB02KT 9999 FEW030 SCT120 BKN160 05/03 Q1003 BLU ETSN 071220Z 34003KT 9999 FEW018 BKN120 BKN230 07/03 Q1003 BLU LGZA 071150Z 15004KT CAVOK 15/05 Q1026 GCLA 071200Z 06006KT 010V080 9999 SCT030 22/14 Q1030 KRGK 071215Z AUTO 31003KT 10SM CLR 00/M03 A2964 RMK AO2 FLKK 071000Z 05004KT 9999 BKN030 FEW100 27/18 Q1020 KPYM 071225Z AUTO 00000KT 3/4SM BR CLR M07/M08 A3020 RMK AO2 T10721078 KT82 071215Z AUTO 00000KT 10SM CLR M06/M08 A3024 RMK AO2 T10561081 LHPP 071145Z 08004KT CAVOK 05/02 Q1019 FMCH 071200Z 20004KT 170V240 9999 FEW018CB BKN025 27/26 Q1008 TEMPO 2500 RA KRHI 071153Z AUTO 21009KT 8SM OVC006 M02/M03 A2959 RMK AO2 SLP040 60001 70001 T10171033 11017 21022 58021 LHPR 071145Z 20021G31KT CAVOK 13/03 Q1014 AGGH 071200Z 00000KT 9999 HZ FEW016 FEW017CB SCT030 BKN300 27/26 Q1009 KRIC 071154Z 00000KT 10SM FEW120 OVC180 00/M03 A3016 RMK AO2 SLP221 T00001028 10000 21022 55012 KPYX 071215Z AUTO 34007KT 10SM CLR 00/M05 A3011 RMK AO2 T00001051 KRHP 071215Z AUTO 00000KT 10SM CLR M06/M07 A3015 RMK AO2 T10641070 GCLP 071200Z 03018KT 9999 FEW020 22/15 Q1029 NOSIG KPZQ 071215Z AUTO 16008KT 7SM BKN055 OVC080 M01/M03 A2985 RMK AO2 T10121033 KQRH 071156Z AUTO 07007G16KT 9999 CLR 28/17 A2995 RMK AO2 SLP135 T02800169 10288 20267 KSAA 071215Z AUTO 26023G30KT 10SM CLR M05/M07 A3026 RMK AO2 KQSA 071158Z 11001KT 9000 HZ SCT180 15/M07 A3008 RMK AO2A SLP141 T01471073 10155 20090 56010 PNO $ KRIL 071153Z AUTO 00000KT 10SM CLR M12/M14 A3048 RMK AO2 SLP378 T11221139 11094 21122 53005 KSAC 071216Z AUTO 00000KT 3SM BR CLR 05/04 A3029 RMK AO2 T00500039 KSAD 071151Z AUTO 08004KT 10SM CLR M01/M10 A3028 RMK AO2 SLP243 T10061100 10056 21011 55001 KRHV 070550Z 00000KT 10SM SKC 10/08 A3034 RMK LAST FMEE 071200Z 11021KT 9999 FEW020TCU SCT036 30/25 Q1008 NOSIG KSAF 071153Z AUTO 31010KT 10SM CLR M03/M09 A3028 RMK AO2 SLP243 T10331094 11006 21033 56008 KQSF 071155Z AUTO 04003KT 9999 CLR 14/M11 A3018 RMK AO2 SLP241 T01371107 10115 20009 57007 $ KQQY 071155Z AUTO 00000KT 10SM CLR 26/20 A2999 RMK AO2 SLP131 WND DATA ESTMD T02580203 10274 20246 53018 $ KU16 071058Z AUTO 18005KT 10SM CLR M05/M07 A3049 RMK AO2 SLP934 T10501072 $ FMCZ 071206Z 30013KT 9999 SCT025 SCT170 30/24 Q1007 NOSIG KSBA 071153Z 00000KT 10SM CLR 07/02 A3014 RMK AO2 SLP206 T00670022 10100 20056 58008 KQTA 071156Z AUTO 28008G13KT 9999 FEW025 BKN050 12/07 A2991 RMK AO2 LTG DSNT NE SLP122 60015 70031 T01180065 10125 20093 56008 KRKD 071156Z AUTO 28004KT 10SM CLR M04/M06 A3010 RMK AO2 SLP195 70013 T10391056 10006 21039 53011 FZRANO KRIV 071158Z AUTO 34006KT 10SM CLR 06/M04 A3018 RMK AO2 SLP216 T00631036 10155 20046 57010 KSBD 070449Z 12003KT 10SM SKC 10/M03 A3020 LHSM 071145Z 19015G26KT CAVOK 13/03 Q1016 NOSIG ETWM 071220Z AUTO 22012KT 9999 // ////// 10/03 Q0997 /// KSAN 071151Z 00000KT 10SM CLR 13/M02 A3012 RMK AO2 SLP200 T01281022 10161 20122 58010 LHSN 071215Z 17014KT CAVOK 08/02 Q1018 NOSIG RMK BLU KRIW 071153Z AUTO 03008KT 10SM CLR M03/M11 A3025 RMK AO2 SLP254 T10281106 10028 21033 53015 $ KQSN 071155Z AUTO 28002KT 9999 CLR 14/M14 A3009 RMK AO2 SLP216 T01441140 10087 21011 57007 FMEP 071200Z AUTO 14009KT 110V190 9999 FEW052 30/25 Q1006 KQTI 071155Z 10001KT 9999 SCT055 16/06 A2992 RMK AO2A SLP133 60020 70020 T01610055 10170 20090 56006 KSAR 071215Z AUTO 20007KT 10SM CLR 02/M06 A3009 RMK AO2 T00241060 KSAT 071151Z 29005KT 10SM CLR 00/M03 A3029 RMK AO2 SLP248 T00001028 10056 21006 56017 KSAV 071153Z 32010KT 7SM -RA FEW010 OVC018 04/02 A3003 RMK AO2 SLP168 P0004 60050 70089 T00390022 10050 20039 53000 KSBM 071153Z AUTO 20009KT 10SM OVC095 02/M02 A2974 RMK AO2 SLP077 T00221017 10022 21011 56038 KSCD 071215Z AUTO 00000KT 10SM M03/M03 A3024 RMK AO2 T10291029 KRLD 071215Z AUTO 27003KT 10SM CLR M02/M02 A3059 RMK AO2 T10161020 LHUD 071145Z 15010KT CAVOK 09/02 Q1020 KSBN 071154Z 19009KT 10SM FEW120 02/M03 A2994 RMK AO2 SLP148 T00171028 10017 21006 56029 GBYD 071200Z 12010KT CAVOK 34/08 Q1014 KSAW 071228Z 20012KT 2SM -SN OVC007 M03/M03 A2962 LJCE 071200Z 23013KT CAVOK 13/02 Q1016 RMK BLU KSCF 071215Z AUTO 01008KT 10SM CLR 09/03 A3032 RMK A01 KSBO 071215Z AUTO 34006KT 10SM BKN046 04/M02 A3008 RMK AO2 KRKP 071153Z AUTO 03003KT 7SM CLR 07/04 A3031 RMK AO2 SLP264 T00670039 10111 20061 55014 KSBP 071156Z 17006KT 10SM CLR 16/M01 A3018 RMK AO2 SLP217 T01611011 10178 20133 58010 KSCH 070150Z 00000KT 10SM BKN070 01/M06 A3019 RMK LAST KSAZ 071213Z AUTO 27017G22KT 7SM -SN BKN012 OVC020 00/M01 A2953 RMK AO2 KRKR 071215Z AUTO 23005KT 10SM CLR M01/M03 A3019 RMK AO2 T10081034 LIMA 071150Z VRB03KT 4000 RA BR BKN012 04/03 Q1013 KRKS 071154Z AUTO 26017KT 10SM CLR M04/M09 A3035 RMK AO2 SLP312 T10391089 11022 21044 53005 KSBS 071216Z AUTO 00000KT 10SM BKN050 M11/M13 A3036 RMK AO1 T11091129 KSDA 071215Z AUTO 29005KT 10SM CLR 01/00 A2996 RMK AO2 KSDB 071148Z AUTO 07021G27KT 10SM CLR 09/M07 A3031 RMK AO2 PK WND 07029/1122 SLP237 T00941072 10094 20072 58007 $ KSCK 071155Z AUTO 10003KT 8SM CLR 05/04 A3029 RMK AO2 SLP255 T00500039 10094 20050 56010 LIMC 071220Z 34011KT 4000 RA BR SCT010 OVC030 04/04 Q1013 NOSIG KU42 071215Z AUTO 00000KT 10SM CLR M04/M07 A3051 RMK AO1 T10401070 LIME 071220Z 05004KT 8000 -RA BKN020 BKN040 07/06 Q1012 KRME 071153Z 12003KT 10SM CLR M06/M07 A3015 RMK AO2 SLP214 T10561072 11017 21067 50001 KQVF 071155Z AUTO 13007G15KT 080V150 10SM FEW055 31/22 A2993 RMK AO2 SLP133 WND DATA ESTMD T03070218 10326 20231 57030 PWINO $ LIMF 071220Z 36006KT 6000 RA FEW009 BKN015 05/03 Q1013 KSDF 071156Z 21005KT 10SM FEW250 03/M06 A3014 RMK AO2 SLP209 T00281061 10028 21006 56012 LIMG 071150Z 00000KT 4000 RABR FEW002 BKN025 09/08 Q1011 KRMG 071153Z AUTO 00000KT 10SM CLR M04/M06 A3019 RMK AO2 SLP224 T10391056 10006 21044 53005 $ KSBY 071154Z 03003KT 10SM CLR M03/M04 A3017 RMK AO2 SLP220 T10281044 11022 21039 55015 LIMH 071155Z /////KT 0100 -SN FZFG VV/// M10/M11 Q1006 RMK MON INVIS VAL INVIS VIS MIN 0100 KQTZ 071155Z 23003KT 9999 FEW035 18/06 A2992 RMK SLP133 WND DATA ESTMD ALSTG/SLP ESTMD 60005 70001 57008 KSCR 071215Z AUTO 34003KT 10SM SCT095 02/M05 A3008 RMK AO2 T00211049 LIMJ 071220Z 04005KT 350V100 3500 RA BKN007 OVC025 09/07 Q1011 WS R28 KSEA 071153Z 08005KT 10SM BKN110 04/01 A3052 RMK AO2 SLP345 T00390011 10056 20022 50014 FKYS 071200Z VRB03KT 4000 HZ BKN023 32/16 Q1016 NOSIG LIMK 071155Z 35010KT 0100 -RA FG VV001 00/00 Q1011 RMK VAL INVIS VIS MIN 0100 LIML 071220Z VRB02KT 2500 RA BR BKN004 BKN012 07/06 Q1013 NOSIG KSDL 071153Z 00000KT 10SM CLR 07/M03 A3019 RMK AO2 SLP213 T00721028 10139 20067 58005 KRNC 071215Z AUTO 00000KT 10SM CLR M04/M04 A3021 RMK KSDM 071153Z AUTO 00000KT 10SM CLR 09/M03 A3012 RMK AO2 SLP197 T00891033 10139 20072 58010 KRND 071158Z AUTO 33004KT 10SM CLR M02/M03 A3028 RMK AO2 SLP257 T10181033 10046 21026 57014 KRMN 071215Z AUTO 00000KT 10SM CLR M04/M05 A3022 RMK AO2 T10381052 KSEE 071215Z AUTO 00000KT 10SM CLR 04/00 A3015 RMK AO2 LIMP 071150Z 07007KT 3500 BR OVC020 09/07 Q1013 KSEG 071153Z AUTO 00000KT 8SM CLR M06/M08 A3019 RMK AO2 SLP227 I1000 I6000 T10561078 11028 21067 55004 KRNH 071215Z AUTO 22008KT 10SM OVC026 00/M02 A2960 RMK AO2 T00001025 LIMS 071155Z 13010KT 0800 R30/P1500 R12/1200 -RA FG BKN003 SCT015 05/05 Q1012 KROA 071154Z 00000KT 10SM OVC200 M03/M06 A3017 RMK AO2 SLP226 T10331061 11011 21044 56005 LIMT 071155Z 24020KT 0000 -RA FG VV/// 04/02 Q1009 RMK MON INVIS VAL INVIS VIS MIN 0000 KQVT 071155Z AUTO 9SM FEW019 SCT023 BKN045 BKN060 29/25 A2981 RMK AO2 SLP093 WND DATA ESTMD 60008 70004 T02930251 10309 20277 56017 KSFB 071153Z 29016KT 10SM OVC007 07/06 A3000 RMK AO2 SLP157 70041 T00670056 10089 20067 53008 LIMU 071155Z 35012KT 9999 -RA BKN020 08/04 Q1011 RMK OVC QUK 3 QUL 1 SE VIS MAR 10 KM VIS MIN 9999 KROC 071154Z 25003KT 10SM FEW080 SCT200 M03/M06 A3011 RMK AO2 SLP207 T10331061 10000 21033 58004 LIMV 061755Z /////KT 8000 2000N SCT007 BKN012 04/02 Q1025 RMK OVC MON N INVIS S LIB NC VAL FOSCHIA VIS MIN 2000N KRNM 071153Z AUTO 12004KT 10SM CLR 05/M03 A3014 RMK AO2 SLP198 T00501033 10172 20044 58010 $ KQWM 071155Z 31007KT 9999 FEW250 22/00 A2987 RMK SLP109 QNH1011 LIMW 071220Z AUTO 08008KT 050V110 9999 -RA BKN032/// 05/03 Q1011 VTPH 071200Z 35006KT 300V030 8000 NSC 23/08 Q1015 KSFF 071224Z AUTO 00000KT 4SM BR FEW006 M03/M04 A3055 RMK AO2 T10281039 KRNO 071155Z 34003KT 10SM FEW200 M01/M04 A3050 RMK AO2 SLP329 T10111044 10033 21022 53005 LIMY 071155Z 24007KT 0300 -SN FG VV/// M01/M02 Q1012 RMK VAL INVIS VIS MIN 0300 KRMY 071214Z AUTO 18006KT 10SM BKN100 01/M03 A2993 RMK AO2 T00051027 KSDY 071215Z 31029G36KT 10SM BKN038 OVC047 01/M08 A2996 RMK AO1 KRNP 071215Z AUTO 17006KT 10SM SCT090 BKN110 01/M03 A2992 RMK AO2 T00131034 KSEP 071215Z AUTO 19003KT 7SM CLR 00/M01 A3022 RMK AO2 T00001009 KROG 071157Z AUTO 21007KT 10SM CLR 02/M01 A3013 RMK AO2 SLP208 T00221011 10039 20017 56019 LIMZ 071150Z 29004KT 270V330 5000 2000S -RA BR SCT007 OVC010 03/02 Q1013 KQXH 071155Z AUTO 22023G29KT 150V250 9999 FEW024 SCT065 10/03 A3003 RMK AO2 PK WND 21029/1056 LTG DSNT N SLP178 70002 T01030025 10089 20067 56006 $ LIPA 062055Z 00000KT 9999 SCT050 04/02 Q1025 RMK SCT VIS MIN 9999 WIND THR05 10001KT WIND THR23 08001KT A3029 BLU GCRR 071200Z 06016KT 9999 FEW020 21/16 Q1030 KU68 071215Z AUTO 34018G26KT 10SM CLR 01/M11 A3027 RMK AO2 LIPB 071150Z 00000KT 4000 RA BR FEW010 BKN030 OVC040 05/04 Q1016 VTPM 071000Z 08007KT 050V120 CAVOK 25/10 Q1016 INFO J KRNT 071153Z AUTO 17003KT 9SM OVC110 03/01 A3054 RMK AO2 SLP345 T00330011 10044 20028 50015 $ KSET 071154Z AUTO 21005KT 10SM CLR 01/M04 A3004 RMK AO2 SLP172 T00111039 10033 21011 56028 LIPC 071155Z 13011KT 9999 SCT050 11/06 Q1015 FNBC 071200Z 26005KT 9999 SCT016 30/30 Q1014 VTPO 071000Z 05006KT 5000 HZ SKC 27/09 Q1016 KSFM 071215Z AUTO 00000KT 10SM CLR M05/M08 A3012 RMK AO1 KRPD 071215Z AUTO 19007KT 10SM SCT016 SCT024 BKN095 00/M02 A2959 RMK AO2 T10011025 KRNV 071215Z AUTO 20004KT 10SM CLR 01/00 A3027 RMK AO2 T00060000 VTPP 071200Z VRB03KT 6000 FEW035 SCT300 22/12 Q1018 LIPE 071220Z 12007KT 9999 BKN040 12/07 Q1013 LIPF 071155Z 12002KT 9999 -RA SCT025 BKN040 10/09 Q1014 KSGF 071152Z 18009KT 10SM CLR 00/M03 A3008 RMK AO2 SLP192 T00001033 10028 20000 56018 KSFO 071156Z 34003KT 10SM CLR 11/08 A3028 RMK AO2 SLP253 T01060083 10133 20089 58010 LIPH 071215Z 05006KT 2000 -RA BR BKN006 BKN015 07/06 Q1017 KSGH 071156Z AUTO 19008KT 10SM CLR 00/M04 A3009 RMK AO2 56020 T00001038 10016 21005 SLP197 FNBG 071200Z 28016KT 9999 FEW020 FEW025CB 32/26 Q1012 KSFQ 071215Z AUTO 05006KT 10SM CLR 02/M01 A3012 RMK AO2 T00151007 KSEZ 071215Z AUTO 05009KT 10SM CLR 06/M13 A3032 RMK AO2 KRPH 071215Z AUTO 15003KT 10SM CLR 02/M01 A3015 RMK AO2 T00191010 LIPI 061755Z 32002KT CAVOK 05/03 Q1026 RMK SCT SCT130 VIS MIN 9999 WIND THR06 29002KT WIND THR24 32002KT BLU KROS 071215Z AUTO 22006KT 10SM BKN023 BKN050 OVC070 01/M01 A2955 RMK AO2 T00121008 KSGJ 071158Z 33014G21KT 5SM -RA BR BKN007 BKN029 OVC055 06/05 A2999 RMK AO2 SLP155 P0000 60000 7//// T00610050 10067 20061 50003 KRPJ 071215Z AUTO 21011KT 10SM CLR 02/M01 A2985 RMK AO2 T00151010 FNCA 071200Z 21006KT 9999 FEW020 BKN100 31/25 Q1013 KQXT 071155Z 04005KT 9999 CLR 22/M10 A3008 RMK SLP177 WND DATA ESTMD ALTG/SLP ESTMD Q1017 57022 KRQB 071215Z AUTO 17004KT 7SM OVC100 00/M01 A2983 RMK AO2 T00041006 LIQC 071155Z ///04KT CAVOK 12/09 Q1021 RMK BKN BKN070 QUK 2 QUL 1 S VIS MAR 20 KM VIS MIN 9999 KSHD 071215Z AUTO 00000KT 10SM CLR M03/M05 A3016 RMK AO2 T10341051 KROW 071151Z AUTO 07007KT 10SM CLR 00/M11 A3016 RMK AO2 SLP195 T00001111 10017 21044 58006 KRQE 071153Z AUTO 00000KT 10SM CLR M09/M18 A3038 RMK AO2 SLP276 T10891178 11028 21089 56009 TSNO LIPO 071150Z 07015KT 9000 FEW030 BKN050 08/06 Q1014 RERA KROX 071215Z AUTO 28015G22KT 4SM -SN BKN032 OVC039 00/M03 A2939 RMK AO2 KSFY 071215Z AUTO 19007KT 10SM SCT110 03/M01 A2982 RMK AO2 T00261013 LIPQ 071220Z VRB02KT 9999 -RA FEW015 BKN025 BKN060 10/08 Q1017 KSFZ 071215Z AUTO 23004KT 10SM CLR M06/M07 A3015 RMK AO1 VTSB 071200Z 04014KT 5000 BR SCT018 BKN020 25/20 Q1013 A2992 LIPR 071215Z 10012KT 9999 BKN050 11/07 Q1015 KSGR 071209Z AUTO 00000KT 3SM BR CLR 02/01 A3030 RMK AO2 T00170006 VTSC 070900Z 07013KT 040V100 5000 SHRA FEW016 SCT020 OVC100 26/23 Q1011 A2985 RWY20 INFO I LIPS 071155Z 06004KT 2500 -RA BR SCT010 BKN020 07/07 Q1017 RMK OVC VIS MIN 2500 WIND THR26 06005KT WIND THR08 04008KT YLO LIRA 071220Z 15017G29KT 9999 SCT020 SCT030 13/08 Q1017 KSGS 071212Z AUTO 25011G18KT 10SM SCT075 03/M01 A2963 RMK AO2 T00251015 GCTS 071200Z 08021KT CAVOK 23/13 Q1028 NOSIG KSGT 071215Z 20008KT 10SM CLR 01/M04 A3025 RMK AO1 LIPU 071150Z 02006KT 2500 RA BR BKN015 08/07 Q1016 VTSE 071200Z 03010KT 350V080 6000 FEW024 SCT100 23/16 Q1013 A2992 KSGU 071215Z 00000KT 10SM CLR 01/M05 A3043 RMK AO1 KSHL 071215Z AUTO 28014KT 10SM SCT110 M00/M04 A2982 RMK AO2 VTSF 071200Z 03012KT 7000 SCT018 BKN022 BKN100 26/21 Q1012 A2991 KSHM 071158Z AUTO 34010KT 10SM CLR 01/M14 A3017 RMK AO2 SLP237 T00091144 10060 20009 53010 $ LIQN 071150Z 14009G21KT 9999 BKN040 12/04 Q1017 VTSG 071100Z 03009KT 9000 SCT020 BKN300 26/20 Q1011 A2986 LIRE 071155Z 13021KT 9999 -DZ FEW020 BKN030 14/11 Q1018 RMK OVC VIS MIN 9999 WIND THR13 14016G26KT WIND THR31 15020G31KT BLU KSHN 071227Z AUTO 00000KT 1SM BR OVC002 02/02 A3050 RMK AO2 T00170017 LIQO 071155Z 20032KT 0000 FG VV/// 10/10 Q1014 RMK VAL INVIS NC VIS MIN 0000 VTSH 070900Z 06010KT 6000 FEW018 SCT040 BKN110 25/24 Q1010 A2985 KRPX 071215Z AUTO 28010KT 10SM M01/M13 A3018 LIPX 071220Z 05010KT 9999 FEW020 BKN060 09/06 Q1014 WS R04 LIRF 071220Z 14019G29KT 9999 SCT020 SCT030 BKN045 13/09 Q1017 NOSIG KRQO 071215Z AUTO 20010KT 10SM CLR 00/M03 A3011 RMK AO2 KSIF 071215Z AUTO 00000KT 10SM CLR M02/M03 A3012 RMK AO2 T10211035 LIPY 071150Z 13006KT 9999 FEW050 12/06 Q1016 WMBA 071200Z 00000KT 9999 SCT030 SCT140 BKN260 26/25 Q1008 LIRH 071155Z 18003KT 6000 BKN030 06/03 Q1021 LIPZ 071220Z 04010KT 2500 -RA BR SCT015 BKN035 08/07 Q1016 BECMG RA VTSK 070900Z 06008KT 9999 SCT030 BKN100 OVC300 30/24 Q1012 A2983 LIRI 071150Z 23005KT CAVOK 13/06 Q1022 KSHR 071159Z 30017KT 15SM OVC090 01/M10 A3023 FMMI 0710300Z 08009KT 030V120 9999 BKN020 28/17 Q1014 NOSIG VTSM 071200Z 05013KT 5000 BR FEW020 26/20 Q1014 A2996 LIRK 071155Z AUTO 21015KT //// M01/M01 Q1017 KSIK 071215Z AUTO 20006KT 10SM CLR 01/M03 A3017 RMK AO2 PWINO LIRL 071155Z 16015KT 9999 SCT020 BKN030 13/10 Q1019 KSJC 071153Z AUTO 08003KT 10SM CLR 08/06 A3028 RMK AO2 SLP252 T00830056 10128 20078 58013 KRRL 071215Z AUTO 21003KT 3SM -SN OVC011 M01/M02 A2963 RMK AO2 T10081016 LIRM 071155Z 16009KT 9999 FEW020 BKN060 14/08 Q1021 KTAD 071154Z AUTO 27012KT 10SM CLR 02/M09 A3014 RMK AO2 SLP185 T00221089 10022 21022 50007 KSHV 071156Z 00000KT 7SM MIFG CLR M01/M02 A3027 RMK AO2 SLP252 T10061017 10044 21011 58008 VTSP 071200Z 07013KT 040V100 7000 FEW018 BKN100 BKN300 26/19 Q1012 A2991 NOSIG LIRN 071220Z 19007KT 160V230 9999 SCT030 BKN070 14/06 Q1021 NOSIG VTSR 071100Z 05012G23KT 360V100 8000 BKN025 25/17 Q1011 A2982 LIRP 071215Z 12010KT 9999 SCT020 BKN030 12/08 Q1013 NOSIG VTSS 071200Z 13006KT 7000 SCT018 SCT028 BKN100 25/24 Q1011 A2987 NOSIG LIRQ 071220Z 09008KT 9999 BKN035 12/07 Q1014 VTST 071200Z 02004KT 4000 BR FEW018 SCT025 BKN120 25/23 Q1010 RWY08 INFO M WMAU 071200Z 04016G27KT 9999 FEW024 SCT140 BKN270 28/23 Q//// QFF1010 LIRS 071155Z 14019G30KT 9999 FEW020 BKN040 15/11 Q1014 KSKA 071158Z AUTO 03005KT 10SM CLR M02/M02 A3050 RMK AO2 SLP354 T10221024 11009 21024 52019 PWINO $ VTUD 071200Z 05003KT 010V080 7000 NSC 19/03 Q1020 A3014 NOSIG LIRT 070855Z 26007KT 9999 SCT016 06/M05 Q1021 KRRT 071214Z AUTO 28014G19KT 10SM SCT015 BKN047 00/M02 A2938 RMK AO2 LIRU 071150Z 16010KT 9999 SCT040 14/07 Q1018 FMMT 071200Z 16008KT 9999 FEW017CB BKN230 32/25 Q1005 NOSIG KRSL 071153Z AUTO 31007KT 10SM CLR 03/M02 A3009 RMK AO2 SLP203 T00281017 10039 20006 53013 FNDU 070600Z 00000KT 9999 FEW010 BKN100 ///// Q1013 LIRV 071155Z 16017G28KT 9999 SCT016 BKN033 11/07 Q1017 FMNM 071200Z 32004KT 9999 -RA FEW017CB SCT100 BKN230 27/26 Q1005 NOSIG KTAN 071152Z AUTO 00000KT 7SM M06/M08 A3017 RMK AO2 SLP217 I1000 I6001 T10611078 10000 21061 55006 KSJN 071154Z AUTO 00000KT 10SM CLR M06/M10 A3040 RMK AO2 SLP287 T10611100 11011 21078 58001 TSNO KRSN 071215Z AUTO 00000KT 10SM CLR 00/M01 A3032 RMK AO2 T10011011 LIRX 071155Z 21030KT 3000 BR SCT002 BKN005 10/09 Q1011 RMK OVC VIS MIN 3000 VIS MAR 3 KM FMNN 071000Z 00000KT 4000 RA SCT007 BKN017 25/25 Q1009 KSKF 071158Z AUTO 33004KT 10SM CLR M02/M04 A3027 RMK AO2 SLP254 T10181036 10045 21020 56015 $ VTUI 071200Z 06008KT 9000 NSC 18/03 Q1021 A3015 NOSIG RWY23 INFO I KRSP 071154Z AUTO 10SM CLR M01/M11 RMK AO2 SLPNO T10061106 10006 21011 $ KSIY 071153Z AUTO 11003KT 10SM CLR 01/M01 A3050 RMK AO2 SLP346 T00061011 10044 20000 51010 TSNO LIRZ 071150Z 18011KT 140V200 9999 BKN050 13/05 Q1017 VTUK 071200Z 04006KT 8000 NSC 19/M00 Q1020 A3012 NOSIG INFO N RWY03 VTUL 071100Z 08006KT 7000 NSC 21/05 Q1020 A3012 KSJS 071215Z AUTO 22003KT 10SM CLR 00/M05 A3017 RMK AO2 T00001047 KSJT 071151Z 21007KT 10SM CLR 02/M07 A3018 RMK AO2 SLP222 T00221067 10033 21028 56021 $ KRST 071154Z 26011KT 10SM CLR M01/M04 A2968 RMK AO2 SLP068 T10111039 10000 21011 58003 KSLB 071215Z AUTO 29018KT 10SM CLR 00/M01 A2984 RMK AO2 KSLC 071153Z 11007KT 7SM FEW150 SCT200 M04/M07 A3050 RMK AO2 SLP351 T10441072 11017 21044 53003 KTCC 071153Z AUTO 26008KT 10SM CLR M04/M09 A3012 RMK AO2 SLP195 T10391089 10022 21050 55005 VTUO 070900Z 04013KT 280V060 7000 NSC 23/06 Q1019 A3009 INFO J RWY 04 KRSV 071215Z AUTO 21007KT 10SM CLR 02/M04 A3008 RMK AO2 T00211040 KRUE 071153Z AUTO 00000KT 7SM CLR M03/M04 A3021 RMK AO2 SLP229 T10331044 11011 21033 58009 KRSW 071153Z AUTO 32010G18KT 10SM OVC075 11/06 A3004 RMK AO2 SLP171 70038 T01110061 10128 20111 53015 KRTN 071153Z AUTO 01005KT 10SM CLR M04/M09 A3017 RMK AO2 SLP204 T10441094 11044 21072 55001 TSNO KSLE 071156Z AUTO 00000KT 10SM OVC012 08/06 A3048 RMK AO2 SLP324 T00830061 10094 20078 52008 $ KTBN 071158Z AUTO 20005KT 10SM CLR 03/M03 A3006 RMK AO2 SLP187 T00281033 10034 20024 57023 KSJX 071216Z AUTO 18007KT 10SM SCT049 OVC065 02/M01 A2974 RMK AO2 T00161008 GCXO 071200Z 14008KT 100V170 CAVOK 17/13 Q1031 NOSIG KRUG 071215Z AUTO 30026G36KT 10SM UP BKN016 BKN023 00/M01 A2960 RMK AO2 VVCR 071200Z 03025KT 9999 FEW015 22/14 Q1018 NOSIG KSLG 071215Z AUTO 20007KT 10SM CLR 01/M05 A3015 RMK AO1 KSLH 071215Z AUTO 15005KT 10SM OVC075 M01/M02 A2979 RMK AO2 T10101026 KTAZ 071215Z AUTO 20011KT 10SM CLR 02/M02 A3000 RMK AO2 VVCT 071200Z VRB02KT 8000 NSC 23/18 Q1012 NOSIG KSLI 071158Z AUTO 35004KT 10SM CLR 10/01 A3011 RMK AO2 SLP199 T01040008 10173 20095 57013 KTBR 071215Z AUTO 36007KT 10SM OVC046 07/M01 A3005 RMK AO2 T00661007 FNGI 070700Z 00000KT 8000 FEW004 BKN013 22/21 Q1019 VTUU 071200Z 04012KT 010V070 8000 NSC 20/06 Q1019 A3010 NOSIG KRTS 071215Z AUTO 00000KT 10SM CLR M03/M04 A3050 RMK AO2 LJLJ 071200Z VRB02KT 9999 BKN026 08/04 Q1016 NOSIG VTUV 071200Z 06008KT 8000 NSC 19/04 Q1020 A3012 INFO M RWY 36 KSLK 071151Z AUTO VRB04KT 10SM OVC016 M02/M05 A3004 RMK AO2 SLP193 60000 T10221050 11022 21028 53012 $ LJMB 071200Z 20009KT 140V250 9999 BKN036 10/03 Q1015 VTUW 071200Z 11006KT CAVOK 16/03 Q1021 A3017 INFO L RWY15 NOSIG VVDN 071200Z 29002KT 5000 BR FEW013 BKN050 17/11 Q1024 NOSIG LIVC 071155Z 19022KT 0000 FZFG VV000 M01/M01 Q1008 RMK MON INVIS VAL INVIS VIS MIN 0000 KTCL 071153Z AUTO 00000KT 10SM CLR M03/M05 A3027 RMK AO2 SLP249 T10281050 10022 21028 53003 LIVD 071155Z 09009KT 9999 FEW030 SCT035 04/M01 Q1013 RMK OVC BKN080 VIS MIN 9999 KTCM 071218Z AUTO 15002KT 1/2SM R16/4000FT FZFG FEW130 00/00 A3052 RMK AO2 VIS 2 1/2 RWY34 $ LIVE 071155Z /////KT 1000 -SN BR OVC008 M01/M01 Q1010 RMK OVC VIS MIN 1000 KSLN 071153Z 29004KT 10SM CLR 03/M03 A3008 RMK AO2 SLP191 T00281028 10056 20028 53013 KSME 071215Z AUTO 00000KT 10SM CLR M05/M05 A3022 RMK AO2 LIVF 070855Z 20011G27KT 9999 SCT025 SCT031 09/03 Q1017 KSMF 071153Z 07003KT 6SM BR CLR 03/02 A3029 RMK AO2 SLP255 T00330022 10089 20033 58005 KSKX 071215Z AUTO 02003KT 10SM CLR M14/M17 A3032 RMK AO1 KSLO 071215Z AUTO 20008KT 10SM CLR 03/M04 A3006 RMK AO2 T00321043 KTBX 071215Z AUTO 21024KT 10SM CLR M07/M11 A3030 RMK AO2 KTDF 071215Z AUTO 36003KT 10SM CLR 01/M05 A3013 RMK AO2 KRUQ 071215Z AUTO 01004KT 10SM CLR 01/M07 A3009 RMK AO2 T00061067 KSLR 071215Z AUTO 00000KT 10SM CLR 03/01 A3027 RMK AO2 T00250014 KTCS 071153Z AUTO 00000KT 10SM CLR M03/M14 A3031 RMK AO2 SLP250 T10281144 10011 21028 58001 TSNO KSNA 071153Z AUTO 00000KT 10SM CLR 10/01 A3011 RMK AO2 SLP196 T01000006 10156 20094 58012 TSNO KTEB 071151Z 00000KT 10SM CLR M03/M06 A3019 RMK AO2 SLP222 T10281061 10000 21039 55006 $ EVRA 071220Z 18013KT 150V220 CAVOK 06/03 Q1008 R18/290195 NOSIG KRUT 071215Z 26006KT 10SM CLR 00/M08 A3010 RMK AO1 KSNC 071215Z AUTO 00000KT 10SM CLR M02/M05 A3018 RMK AO2 LKCV 071200Z 15011KT 9999 SCT020 07/02 Q1008 NOSIG KSMN 071215Z AUTO 00000KT 10SM CLR M11/M12 A3047 RMK AO1 LIVO 071155Z 29010KT 9999 -RA BKN028 BKN032 06/03 Q1014 RMK OVC VIS MIN 9999 KSMO 071151Z AUTO 03004KT 10SM CLR 13/M03 A3013 RMK AO2 SLP203 T01281028 10200 20128 58009 $ KRWF 071153Z AUTO 28023G28KT 10SM CLR 02/M03 A2970 RMK AO2 PK WND 27029/1117 SLP068 T00221033 10039 20017 56002 LIVP 071155Z 15013KT 0000 -SN FZFG VV/// M04/M05 Q1010 RMK MON INVIS VAL INVIS VIS MIN 0000 KSMQ 071153Z AUTO 00000KT 10SM CLR M08/M09 A3018 RMK AO2 SLP224 I1000 I6000 T10781094 11056 21083 56006 LIVR 071155Z 14013KT 0200 -SN FZFG VV/// M02/M05 Q1012 RMK MON INVIS VIS MIN 0200 KRWI 071153Z AUTO 02007KT 10SM UP OVC070 02/M01 A3011 RMK AO2 RAE1054B39E49UPB1054 SLP197 P0001 60007 70007 T00221006 10039 20017 56018 KTDR 071156Z AUTO M 10SM CLR 04/M01 A3017 RMK AO2 SLP220 T00441006 10070 20043 53008 TSNO $ KRVS 071153Z 00000KT 10SM CLR M02/M03 A3015 RMK AO2 SLP216 T10171033 10011 21022 56014 KSMS 071215Z AUTO 01010G16KT 10SM SCT048 BKN070 OVC095 08/03 A3004 RMK AO2 KSOA 071215Z AUTO 00000KT 10SM CLR M05/M07 A3026 RMK AO2 TSNO LIVT 071155Z 10003KT 9999 OVC040 11/07 Q1017 RMK OVC QUK 1 QUL 0 VIS MAR 10 KM VIS MIN 9999 KSNK 071215Z AUTO 21007KT 10SM M03/M08 A3015 RMK AO2 T10261077 KRWL 071153Z AUTO 24023G29KT 10SM CLR M05/M09 A3026 RMK AO2 PK WND 25030/1132 SLP287 T10501094 11028 21056 53010 KSNL 071215Z AUTO 21006KT 10SM SCT095 01/00 A3016 RMK AO2 FNHU 071200Z 00000KT 9999 FEW012 25/23 Q1025 FMSD 071200Z 06014KT 9999 VCSH SCT020 BKN033 28/24 Q1007 KRXE 071216Z AUTO 00000KT 1/2SM FZFG VV003 M09/M09 A3047 RMK AO2 T10891094 KSMX 071151Z AUTO 17004KT 10SM CLR 07/03 A3018 RMK AO2 SLP221 T00720028 10128 20067 58008 KTDZ 071153Z AUTO 21008KT 10SM BKN065 01/M04 A3003 RMK AO2 SLP174 T00061039 10011 21033 56022 KSPA 071235Z AUTO 35005KT 10SM CLR 01/M07 A3009 RMK AO2 KSNS 071153Z AUTO 10006KT 10SM CLR 08/04 A3027 RMK AO2 SLP258 T00780039 10117 20078 56011 KSNT 071151Z AUTO 13006KT M09/M12 A3046 RMK AO1 SLP324 T10941122 11028 21106 52013 KSPB 071153Z AUTO 00000KT 10SM OVC018 06/04 A3051 RMK AO2 SLP330 T00560044 10056 20033 53008 KSPD 071156Z AUTO 03009KT M01/M05 A3017 RMK AO1 SLP206 T10061050 10044 21006 53025 KRWV 071210Z AUTO 25004KT 2 1/2SM BR CLR 00/00 A3032 RMK AO2 KTEW 071213Z AUTO 17006KT 10SM BKN110 01/M02 A2993 RMK AO2 T00051020 KTEX 071215Z AUTO 13007KT 10SM OVC100 M06/M11 A3042 RMK AO2 T10631107 KSPF 071215Z AUTO 30025G36KT UP FEW060 FEW110 00/M12 A3011 RMK AO2 KSNY 071153Z AUTO 30013KT 10SM BKN055 M04/M09 A3017 RMK AO2 SLP242 T10391089 10006 21067 53011 KSPG 071153Z 35011KT 10SM FEW080 SCT110 11/07 A3004 RMK AO2 SLP171 70013 T01060067 10117 20100 53010 KSOP 071215Z AUTO 36004KT 10SM FEW065 OVC100 03/M04 A3007 RMK AO1 KTFP 071215Z AUTO 05004KT 10SM CLR 03/02 A3030 RMK AO2 T00270020 KSPI 071152Z 19014KT 10SM CLR 04/M02 A2998 RMK AO2 SLP154 T00391022 10044 20011 56032 KTGI 071218Z AUTO 03005KT 10SM CLR 03/01 A3017 RMK AO1 KTHA 071215Z AUTO 00000KT 10SM CLR M05/M06 A3022 RMK KSPL 071215Z AUTO 06006KT 10SM 15/06 A3030 RMK AO1 KRYN 070245Z 25003KT 10SM CLR 115M06 A3021 RMK LAST KSOW 071215Z AUTO 00000KT 10SM -SN CLR M08/M11 A3039 RMK AO2 KSQE 071215Z AUTO 01013G18KT 10SM CLR 13/M00 A3029 RMK A01 KSQI 071215Z 22005KT 10SM BKN110 03/M02 A2982 RMK AO1 KSPR 071215Z AUTO 02014KT 10SM CLR 11/02 A3029 RMK A01 KSPS 071152Z AUTO 06005KT 10SM CLR M02/M04 A3016 RMK AO2 SLP217 T10221044 10017 21028 55011 $ MBGT 071200Z 16008KT 9999 FEW015 25/20 Q1015 FNMA 071200Z 24006KT 9999 BKN009 25/22 Q1017 EVVA 071220Z AUTO 17009KT 7000 NSC 06/04 Q1005 KSRB 071215Z AUTO 00000KT 10SM CLR M07/M07 A3019 RMK KRYT 071153Z AUTO 00000KT 10SM CLR M03/M08 A3015 RMK AO2 SLP227 T10331083 10006 21039 51002 $ KSQL 071215Z AUTO 00000KT 10SM CLR 09/06 A3029 RMK AO2 KSRC 071215Z 00000KT 10SM CLR M04/M05 A3023 RMK AO2 SLP303 PWINO FZRANO RVRNO KRZL 071215Z AUTO 19009KT 10SM CLR 01/M02 A2996 RMK AO2 FNKU 071200Z 26004KT 9999 FEW013 BKN100 25/20 Q1022 KRYV 071215Z AUTO 20012G19KT 10SM OVC090 03/M01 A2975 RMK AO2 T00251009 KSPW 071153Z AUTO 29022KT 10SM CLR 01/M04 A2981 RMK AO2 SLP106 T00061039 10017 21011 50005 KRYW 071215Z AUTO 23003KT 10SM CLR 02/00 A3026 RMK AO2 T00240000 KRZN 071210Z AUTO 22009KT 10SM BKN019 BKN023 OVC031 01/M01 A2955 RMK AO2 T00061015 KTIF 071215Z AUTO 29009KT 10SM BKN110 02/M04 A3008 RMK AO2 T00211036 KRYY 071147Z 25006KT 10SM SKC M02/M076 A3016 WMKA 071200Z 06004KT 8000 FEW030 BKN280 27/22 Q1010 LJPZ 071200Z 14010KT 120V190 9999 -RA FEW033 OVC055 12/07 Q1017 WMKB 071200Z 03012KT 9000 FEW024 SCT140 BKN280 28/22 Q1009 NOSIG KRZR 071215Z AUTO 00000KT 10SM FEW049 M04/M05 A3020 RMK A01 WMKC 071200Z 06017KT 030V100 9999 FEW010 SCT020 BKN220 27/21 Q1012 WMKD 071200Z 06006KT 7000 -RA FEW002 SCT024 BKN260 25/24 Q1011 NOSIG KRZT 071215Z AUTO 22004KT 10SM CLR M02/M05 A3012 RMK AO2 KTIK 071158Z AUTO 19009KT 10SM CLR 00/M02 A3012 RMK AO2 SLP213 T00031025 10028 20002 57015 $ WMKE 071100Z 03011KT 340V060 7000 FEW010 FEW016CB SCT020 BKN200 28/22 Q1010 KSSC 071158Z AUTO 02012G19KT 10SM BKN048 04/M01 A3000 RMK AO2 SLP162 60017 70018 T00381015 10050 20032 57018 $ GEML 071200Z 28016G32KT 240V330 9999 FEW020 20/14 Q1023 FNLU 071200Z 32006KT 9999 SCT020 BKN090 30/25 Q1012 KTHV 071153Z AUTO 00000KT 8SM CLR M07/M08 A3018 RMK AO2 SLP228 I1000 I6000 T10671083 11056 21083 58002 KW13 071215Z AUTO 00000KT 10SM CLR M04/M07 A3014 RMK AO1 T10441067 KSSF 071153Z AUTO 00000KT 10SM CLR 00/M03 A3028 RMK AO2 SLP257 T00001033 10078 21006 56013 $ FNMO 071200Z 28009KT 9999 FEW022 33/24 Q1014 WMKI 071200Z 08003KT 9999 FEW030 SCT140 BKN280 29/23 Q1009 KTIP 071215Z AUTO 23011KT 10SM CLR 04/M01 A2997 RMK AO2 T00351008 WMKJ 071200Z 03010KT 350V060 9999 FEW022 SCT140 BKN270 27/24 Q1010 KSRQ 071204Z 33009KT 10SM SCT027 BKN060 OVC090 11/07 A3005 RMK AO2 T01060072 WMKK 071200Z 06014KT 9999 FEW030 SCT140 BKN280 27/22 Q1009 NOSIG KSSI 071153Z AUTO 33014G19KT 6SM RA BR BKN010 BKN021 OVC048 04/04 A3000 RMK AO2 SLP160 P0011 60056 70092 T00440039 10056 20044 55000 KSRR 071215Z AUTO 28011G15KT 030V040 10SM 02/M14 A3027 RMK AO2 WMKL 071200Z 06010KT 9999 FEW025 SCT140 BKN270 27/23 Q1010 WMKM 071200Z 05008KT 010V080 9999 FEW028 SCT140 BKN280 27/24 Q1010 LKKB 071200Z 16004KT 100V220 9999 FEW014 BKN200 05/01 Q1007 NOSIG WMKN 071200Z 06011KT 9999 SCT022 OVC160 27/23 Q1012 KSTC 071153Z AUTO 27017G29KT 10SM BKN021 OVC026 02/M01 A2958 RMK AO2 PK WND 27029/1149 SLP036 60002 70004 T00221011 10028 20000 55008 KTKC 071214Z AUTO 28012G19KT 10SM CLR 02/M03 A2975 RMK AO2 T00201035 KW22 071215Z AUTO 00000KT 10SM CLR M04/M08 A3015 RMK AO2 WMKP 071200Z 03014KT 350V070 8000 FEW025 SCT140 BKN270 28/23 Q1009 NOSIG KTIW 071218Z AUTO 00000KT 4SM BR FEW002 03/03 A3052 RMK AO2 T00330033 KSTE 071215Z AUTO 20006KT 10SM SCT110 M01/M03 A2966 RMK AO2 T10151028 KUBE 071215Z AUTO 21009KT 10SM BKN014 BKN028 OVC036 M01/M02 A2956 RMK AO2 KTIX 071152Z 30015KT 7SM BKN010 07/06 A2996 RMK FIRST KUAO 071153Z AUTO 02004KT 10SM BKN007 OVC016 07/06 A3050 RMK AO2 SLP330 T00720061 10083 20072 53008 KSTF 071215Z AUTO 00000KT 10SM CLR M04/M05 A3026 RMK AO2 LLBG 071220Z 26008KT 9000 RA SCT020 13/09 Q1016 TEMPO 8000 SHRA FEW020TCU BKN020 RMK SCT070 KTKI 071153Z AUTO 16006KT 6SM BR CLR M02/M03 A3022 RMK AO2 SLP247 T10171033 10050 21017 58009 KSTJ 071153Z AUTO 23004KT 10SM CLR 02/M03 A2999 RMK AO2 SLP160 T00221028 10039 20011 55004 KSUA 071115Z AUTO 29018G22KT 10SM 11/06 A2996 RMK AO2 KW29 071227Z AUTO 00000KT 10SM M01/M02 A3020 RMK AO1 KSTK 071215Z AUTO 30006KT 10SM CLR M07/M10 A3020 RMK AO2 KSTL 071151Z 22012KT 10SM FEW150 SCT250 06/M04 A3004 RMK AO2 SLP177 T00561044 10067 20056 56028 $ KW31 071215Z AUTO 34005KT 10SM CLR 00/M04 A3012 RMK AO1 T10021037 KSUE 071215Z AUTO 19011KT 10SM BKN050 BKN075 OVC080 01/M02 A2972 RMK AO1 KSTP 071153Z AUTO 24008KT 10SM OVC038 02/M02 A2963 RMK AO2 SLP039 60000 T00171017 10017 21011 56016 KTLH 071153Z 00000KT 10SM FEW250 02/M01 A3013 RMK AO2 SLP201 T00221006 10072 20011 51003 VVNB 071200Z 21003KT 190V260 6000 NSC 18/07 Q1025 NOSIG KSTS 071220Z 32003KT 1 1/2SM BR CLR 06/06 A3027 RMK AO2 VIS 3/4V5 T00560056 KTMA 071210Z AUTO 34008KT 10SM CLR 03/M01 A3010 RMK AO2 T00311006 KTMB 071153Z 31012KT 10SM BKN095 OVC120 12/09 A3000 RMK AO2 SLP157 60002 70020 T01220094 10156 20122 53003 KSVC 071215Z AUTO 01009KT 10SM M03/M12 A3031 RMK AO2 KTKV 071215Z AUTO 00000KT 1 1/2SM -SN SCT004 BKN009 OVC043 M02/M03 A2959 RMK AO2 T10171028 LKKV 071200Z 14005KT 110V170 3500 BR BKN003 OVC004 02/01 Q1005 R29/190095 KSUN 071215Z AUTO 32009KT 10SM CLR M07/M10 A3046 RMK AO2 KTME 071215Z AUTO 00000KT 2SM BR CLR 01/00 A3030 RMK AO2 KW43 071215Z AUTO 32011G22KT 280V340 10SM SCT075 SCT100 00/M11 A3015 RMK AO2 KTKX 071215Z AUTO 21006KT 10SM BKN046 OVC055 M00/M04 A3019 RMK AO2 KUDG 071215Z AUTO 02009KT 10SM FEW042 SCT048 BKN065 03/M01 A3005 RMK AO1 KUCP 071156Z AUTO 00000KT 10SM CLR M06/M08 A3010 RMK AO2 SLP224 T10611083 11022 21061 56017 KSVH 071215Z AUTO 01005KT 10SM CLR 02/M06 A3009 RMK AO2 T00181062 KSUS 071154Z 22009G16KT 10SM CLR 06/M03 A3004 RMK AO2 SLP174 T00561033 10056 21017 56029 LKNA 071200Z 14010KT 110V180 9999 BKN016 05/02 Q1009 NOSIG RMK WHT WHT KSUT 071215Z AUTO 01014G24KT 7SM RA SCT009 BKN046 OVC065 03/02 A2994 RMK AO2 P0001 T00270019 KTNB 071215Z AUTO 28006KT 10SM CLR M02/M09 A3006 RMK AO2 T10161088 KTMK 071215Z AUTO 00000KT 10SM BKN022 OVC027 07/06 A3046 RMK AO2 KSUU 071158Z AUTO 06002KT 10SM CLR 05/04 A3027 RMK AO2 SLP257 T00480042 10094 20048 57008 $ KSVN 071223Z AUTO 31010KT 10SM SCT010 BKN017 OVC022 04/04 A2999 RMK AO2 RAE21DZB21E23 CIG 009V017 KSUW 071215Z AUTO 23006KT 10SM BKN018 OVC025 02/00 A2949 RMK AO2 T00151005 KSUX 071152Z 30014KT 10SM CLR 04/M04 A2990 RMK AO2 SLP135 T00391039 10061 21039 53009 KSWF 071145Z 00000KT 20SM SKC M04/M06 A3017 KUCY 071215Z AUTO 00000KT 10SM CLR M02/M04 A3019 RMK VVPB 071200Z 27004KT 8000 FEW015 BKN060 14/11 Q1024 NOSIG KTOA 070355Z 20005KT 20SM SKC 17/M01 A3016 FNSA 071100Z 00000KT CAVOK 31/20 Q1017 KTOB 071214Z AUTO 26009KT 10SM SCT095 M03/M04 A2967 RMK AO2 LKMT 071200Z 19018G29KT 160V220 9999 FEW040 10/00 Q1010 NOSIG KTOC 071215Z AUTO 00000KT 10SM CLR 02/M05 A3012 RMK AO2 T00211051 KW63 071215Z AUTO 35003KT 10SM CLR 01/M02 A3012 RMK AO1 KSWO 071153Z AUTO 22004KT 10SM CLR 00/M03 A3012 RMK AO2 SLP201 T00001033 10022 21011 55012 TSNO $ KTOI 071153Z AUTO 32006KT 10SM CLR 01/M04 A3021 RMK AO2 SLP230 T00111039 10011 21022 53004 $ KTPA 071153Z 31007KT 10SM BKN016 OVC024 09/07 A3007 RMK AO2 SLP181 CIG 014V018 70025 T00890067 10100 20089 53015 KUES 071145Z 20003KT 10SM SCT120 02/M02 A2981 LLET 071150Z 30005KT 260V350 CAVOK 16/M02 Q1020 RMK BKN070 KTOL 071152Z AUTO 22006KT 10SM SCT060 01/M04 A3001 RMK AO2 SLP170 T00061044 10006 21017 58022 TSNO KTNU 071215Z AUTO 25010KT 10SM BKN100 OVC120 01/M00 A2985 RMK AO2 LKPD 071200Z 14007KT 9999 FEW025 BKN200 07/01 Q1009 NOSIG RMK BLU BLU KSWW 071215Z AUTO 19016KT 10SM CLR 05/M08 A3015 RMK AO2 T00531085 VVPQ 071200Z 04008KT 9000 NSC 25/12 Q1013 NOSIG KTPF 071215Z AUTO 33005KT 10SM SCT017 OVC025 10/08 A3006 RMK AO2 KSYF 071215Z AUTO 33011G16KT 10SM CLR 00/M09 A3016 RMK AO2 T10041088 FNSO 071200Z 21008KT 9999 BKN018 FEW021TCU ///// Q1014 KTOP 071153Z AUTO 28008KT 10SM CLR 04/M04 A3002 RMK AO2 SLP168 T00441039 10056 20044 53006 KW75 071210Z AUTO 00000KT 10SM SCT110 01/M01 A3017 RMK AO2 KTPH 071156Z AUTO 35010KT 10SM CLR M03/M09 A3047 RMK AO2 SLP338 T10331094 11028 21083 53002 KTOR 071153Z AUTO 30008KT 10SM OVC048 M01/M06 A3020 RMK AO2 SLP246 T10061061 10011 21028 52016 KSYI 071215Z AUTO 10004KT 10SM CLR M04/M04 A3022 RMK LLHA 071150Z 17005KT 9999 FEW025 FEW030TCU SCT040 13/09 Q1015 RERA KSXS 071156Z AUTO 32005KT 10SM CLR 01/M04 A3019 RMK AO2 SLP228 T00141044 10039 20011 53003 KW78 071215Z AUTO 00000KT 10SM CLR 00/M05 A3012 RMK AO1 T00001053 KSXT 071156Z AUTO 14008KT 10SM -RA CLR 07/05 A3044 RMK AO2 SLP307 P0024 60039 70044 T00720050 10078 20061 50003 FNUB 071200Z 31010KT 9999 SCT025 BKN080 17/// Q1027 KTPL 071206Z AUTO 00000KT 5SM BR CLR M02/M03 A3027 RMK AO2 FZRANO TSNO $ KW81 071215Z AUTO 00000KT 10SM CLR M01/M02 A3014 RMK AO1 T10121023 FNSU 071200Z 27009KT 9999 FEW014 SCT060 31/// Q1015 KSYM 071210Z AUTO 15004KT 10SM BKN050 M03/M05 A3019 RMK AO2 KSYN 071215Z AUTO 25011G15KT 10SM SCT065 02/M02 A2965 RMK AO2 T00171023 KTQE 071154Z AUTO 31024G29KT 10SM CLR 03/M03 A2992 RMK AO2 PK WND 30031/1143 SLP136 T00331028 10039 21028 50000 KUGN 071155Z 20013KT 10SM CLR 03/M02 A2983 RMK AO2 SLP112 T00281017 10028 20000 56034 FNUE 071200Z 18005KT 9999 SCT032 29/// Q1018 FNUG 071200Z 24010KT 9999 SCT021 BKN080 27/21 Q1018 WMSA 071200Z 36006KT 300V060 7000 -RA FEW008 FEW016CB SCT025 OVC260 27/23 Q1010 KTQH 071215Z AUTO 00000KT 10SM CLR M02/M02 A3017 RMK AO2 KSYR 071154Z 00000KT 10SM FEW055 SCT200 M04/M06 A3013 RMK AO2 SLP205 T10441056 11006 21050 58001 $ LKPR 071200Z 11006KT 080V150 9999 SCT014 04/01 Q1007 NOSIG LLIB 071150Z 13006KT 6000 FEW010 SCT020 10/09 Q1015 RMK RERA KSZL 071158Z AUTO 24014KT 10SM CLR 03/M02 A2998 RMK AO2 SLP160 56018 GFLL 061900Z 28005KT 8000 HZ 27/25 Q1010 MBPV 071200Z 19005KT 9999 SCT015 24/22 Q1014 KW96 071215Z AUTO 00000KT 10SM CLR M01/M02 A3017 RMK AO1 T10101020 KTRI 071153Z 00000KT 10SM FEW070 M06/M07 A3016 RMK AO2 SLP215 T10561072 11028 21056 58006 MDAB 071200Z 00000KT 9999 SCT017 BKN070 22/21 Q1014 KSZT 071215Z AUTO 00000KT 10SM SCT003 M03/M03 A3053 RMK AO2 KTRK 071215Z AUTO 00000KT 10SM CLR M08/M09 A3050 RMK AO2 KW99 071215Z AUTO 00000KT 10SM CLR M06/M07 A3018 RMK AO2 T10571070 KTRL 071224Z AUTO 00000KT 2SM BR CLR 00/M01 A3026 RMK AO2 I1000 T00001006 KUIL 071153Z AUTO 08006KT 10SM -RA BKN065 OVC095 05/02 A3044 RMK AO2 RAB52 SLP311 P0000 60000 70003 T00500022 10050 20044 58006 KTRM 071152Z AUTO 36003KT 10SM CLR 04/M04 A3019 RMK AO2 SLP221 T00391039 10117 20033 58006 KVAD 071158Z AUTO 32008KT 10SM SCT190 04/00 A3007 RMK AO2 SLP186 70005 T00420001 10055 20042 55001 $ KUIN 071154Z AUTO 21012KT 10SM CLR 03/M02 A2994 RMK AO2 SLP143 T00281022 10039 20017 56025 KVAF 071215Z AUTO VRB06KT 360V070 10SM CLR 16/06 A3029 RMK A01 KTTA 071215Z AUTO 01007KT 10SM CLR 03/M04 A3007 RMK AO2 T00311036 LKTB 071200Z 13014KT 9999 FEW026 08/03 Q1010 NOSIG KTTD 071153Z AUTO 09009KT 10SM OVC022 07/03 A3051 RMK AO2 SLP330 T00720028 10089 20072 51011 KTTF 071215Z AUTO 20003KT 10SM CLR M01/M04 A2999 RMK AO2 T10101040 KUKF 071215Z AUTO 00000KT 10SM CLR M02/M06 A3016 RMK AO2 KTSP 071215Z AUTO 09007KT 10SM CLR 05/M05 A3033 RMK AO2 KVBG 071158Z AUTO 06005KT 9SM CLR 12/00 A3017 RMK AO2 SLP218 T01200004 10153 20075 56006 TSNO MDBH 071200Z 27004KT 9999 FEW014 FEW016 BKN090 21/20 Q1016 CB/SE FOOG 071200Z /////KT 9999 SCT011 31/27 Q1013 VVTS 071200Z VRB07KT 9999 FEW020 26/17 Q1012 NOSIG KUKI 071156Z AUTO 00000KT 10SM CLR 07/06 A3033 RMK AO2 SLP268 T00670056 10111 20061 56004 KVCB 071153Z AUTO 26003KT 10SM CLR 07/04 A3030 RMK AO2 SLP259 T00670044 10089 20067 56006 FOOL 071200Z 15007KT 120V180 9999 FEW012 30/24 Q1013 NOSIG KTTN 071153Z 00000KT 7SM CLR M05/M07 A3018 RMK AO2 SLP216 T10501072 11011 21056 58007 FOON 071200Z /////KT 9999 SCT016 30/23 Q1012 KVAY 071154Z AUTO 00000KT 5SM BR CLR M05/M06 A3019 RMK AO2 SLP225 I1000 I6001 T10501061 11028 21056 58006 KTTS 071158Z AUTO 31011G19KT 10SM OVC009 08/06 A2994 RMK AO2 PRESRR SLP143 60002 70063 53006 KVBS 071215Z AUTO 10008KT 10SM 09/06 A3030 RMK A01 KVBT 071215Z AUTO 22005KT 10SM CLR 02/M03 A3014 RMK AO1 KUKT 071215Z AUTO 00000KT 8SM CLR M08/M09 A3018 RMK AO1 KTVC 071153Z VRB06KT 10SM SCT080 BKN110 03/M02 A2977 RMK AO2 SLP087 FIRST AUGMENTED OBS OF THE DAY 4/011 70001 T00281017 10028 20000 58032 KTUL 071153Z 20008KT 10SM SCT250 04/M01 A3013 RMK AO2 SLP203 T00391006 10056 20033 56013 KULM 071214Z AUTO 29017KT 10SM SCT065 01/M03 A2971 RMK AO2 KVBW 071215Z AUTO 00000KT 10SM CLR M05/M06 A3015 RMK AO2 T10511062 KTVF 071215Z AUTO 28016G20KT 3SM BKN006 OVC012 01/M01 A2948 RMK AO1 KVDF 071215Z AUTO 31008KT 10SM OVC013 10/07 A3007 RMK AO2 KTUP 071153Z AUTO 00000KT 10SM CLR M02/M04 A3025 RMK AO2 SLP244 I1001 I6001 T10221044 10000 21022 56005 $ RJAA 071200Z 11005KT 9999 FEW030 SCT120 02/M04 Q1019 NOSIG KTVI 071215Z AUTO 34005KT 10SM CLR 02/00 A3012 RMK AO2 KVDI 071215Z AUTO 34006KT 10SM OVC037 04/00 A3007 RMK AO2 KTUS 071153Z 15008KT 10SM CLR 06/M11 A3020 RMK AO2 SLP205 T00611111 10133 20056 58004 KVCT 071151Z AUTO 28005KT 8SM CLR 00/M01 A3031 RMK AO2 SLP263 T00001006 10033 21006 56012 KTVK 071210Z AUTO RMK AO2 PWINO KTVL 071153Z AUTO 00000KT 10SM CLR M05/M07 A3048 RMK AO2 SLP324 T10501067 11028 21056 53003 KVCV 071215Z AUTO 00000KT 10SM 01/M07 A3032 RMK AO2 RJAF 070700Z 34012KT 9999 FEW040 01/M09 Q1014 KTWF 071153Z AUTO 20011KT 10SM CLR 01/M04 A3048 RMK AO2 SLP321 T00111039 10033 20011 51012 MDCY 071200Z 00000KT 9999 SCT018 21/20 Q1016 RJAH 071200Z 06005KT 9999 FEW060 M02/M09 Q1019 KTVR 071153Z AUTO 00000KT 10SM CLR M02/M03 A3029 RMK AO2 SLP264 T10171028 10028 21017 56006 KUNI 071210Z AUTO 00000KT 10SM BKN070 M05/M06 A3016 RMK AO2 T10501059 RJBB 071200Z 04011KT 9999 FEW030 04/M04 Q1020 NOSIG KX60 071215Z AUTO 29011KT 10SM OVC018 07/04 A3008 RMK AO1 TSNO RJBD 071000Z 34009KT 9999 FEW030 05/M07 Q1018 KVEL 071153Z AUTO 32003KT 9SM CLR M12/M15 A3043 RMK AO2 SLP370 T11221150 11111 21144 58003 SABE 071200Z 36015KT 9999 FEW025 BKN200 26/21 Q1014 RJBE 071200Z 05009KT 9999 FEW025 04/M03 Q1020 KTWM 071214Z AUTO 22003KT 4SM HZ BKN013 OVC021 01/M02 A2945 RMK AO2 KUNO 071153Z AUTO 21007KT 8SM CLR 02/M08 A3012 RMK AO2 SLP202 T00221078 10039 20006 58026 KTVY 071215Z AUTO 17006KT 10SM CLR M06/M08 A3052 RMK AO2 SAAR 071200Z 02009KT 9999 FEW025 29/25 Q1011 KVER 071215Z AUTO 00000KT 10SM 05/M03 A2998 RMK AO2 T00531032 RJCB 071100Z 17005KT 150V220 9999 -SHSN FEW010 BKN040 M06/M08 Q1008 KVES 071215Z AUTO 23005KT 10SM CLR 00/M03 A3004 RMK AO2 RJCC 071200Z VRB02KT 8000 -SHSN FEW015 SCT040 BKN060 M05/M05 Q1013 EYKA 071220Z 18010KT 150V210 CAVOK 07/M00 Q1011 R08/290095 KTXK 071153Z 20005KT 9SM CLR 01/M01 A3026 RMK AO2 SLP249 T00111006 10044 20011 56006 KUNU 071215Z AUTO 20012KT 10SM OVC090 02/M01 A2975 RMK AO2 T00201012 RJAW 071200Z 02004KT 9999 FEW030 BKN100 19/12 Q1017 RMK 1CU030 7AC100 A3003 KUNV 071153Z 00000KT 10SM SKC M05/M08 A3012 RJCH 071100Z 29014KT 260V320 8000 -SHSN FEW015 SCT020 BKN030 M01/M07 Q1013 RJCK 071100Z 24005KT 9999 FEW030 BKN050 M05/M14 Q1009 RJBT 070900Z 30003KT 280V340 9999 VCSH FEW015 BKN060 01/M03 Q1019 RJDC 071200Z 22007KT 9999 FEW020 SCT040 BKN050 06/01 Q1019 RJCM 071100Z 23006KT 9999 -SHSN FEW020 BKN040 BKN070 M05/M11 Q1008 LLOV 071150Z 28015KT 9999 BKN050 12/M01 Q1018 RJCN 070900Z 31002KT 9999 FEW040 SCT060 BKN080 M11/M15 Q1009 SACO 071200Z 02006KT 9999 FEW020 SCT200 24/22 Q1012 SADF 071200Z 36009KT CAVOK 26/20 Q1013 RJCO 070735Z 18007KT 1000 R14/P1800 -SHSN FEW006 BKN008 BKN015 M04/M06 Q1011 RMK 2ST006 5ST008 6ST015 A2986 KUOX 071155Z AUTO 00000KT 10SM CLR M04/M06 A3026 RMK AO2 PWINO PNO KTYQ 071215Z AUTO 21008KT 10SM CLR 01/M05 A3003 RMK AO2 T00101046 KTYR 071153Z 19005KT CLR 01/M01 A3025 RMK AO2 SLP244 I6001 T00061011 10033 21011 56017 $ FQCH 071200Z 11006KT 9999 FEW015 32/18 Q1016 RJCT 062120Z 17001KT 9999 FEW030 M19/M22 Q1012 RMK 1CU030 A2988 RJEB 070700Z 13008KT 3000 -SHSN FEW005 BKN020 M07/M10 Q1007 FQBR 071200Z 09012KT 9999 FEW020 31/24 Q1009 KTYS 071153Z 00000KT 10SM FEW250 M03/M06 A3018 RMK AO2 SLP226 T10281061 10011 21028 55000 RJEC 071147Z 27008KT 220V300 4900 -SHSN FEW008 SCT015 BKN025 M05/M08 Q1009 RMK 1ST008 4ST015 5CU025 A2980 KVGT 071153Z 31004KT 10SM CLR 07/M04 A3034 RMK AO2 SLP291 T00721039 10106 20067 56002 RJCW 070900Z 31023KT 0800 R08/0800VP1800D BLSN SHSN VV009 M06/M08 Q1006 KVIH 071153Z AUTO 21011KT 10SM CLR 02/M03 A3004 RMK AO2 SLP177 T00171033 10028 20011 56024 $ KTZR 071215Z 19003KT 10SM SKC M04/M06 A3009 RJDT 071100Z 27004KT 240V300 9999 FEW025 BKN040 03/M01 Q1019 MDJB 071200Z 00000KT 8000 -RA FEW016CB SCT016 20/20 Q1016 CB/ SE LLSD 071150Z 26017KT 9999 FEW025TCU FEW025 BKN035 14/10 Q1015 RJFF 071200Z 18003KT 9999 FEW040 SCT050 BKN060 06/01 Q1019 RJFG 070900Z 32009KT 9999 FEW030 07/02 Q1017 KVJI 071215Z AUTO 00000KT 10SM CLR M04/M07 A3013 RMK AO2 T10391073 KVIS 071156Z AUTO 07003KT 2SM BR CLR 06/05 A3032 RMK AO2 SLP276 T00560050 10089 20044 58007 RJFK 071200Z 34004KT 9999 FEW040 01/M03 Q1018 KUTA 071215Z AUTO 17003KT 10SM CLR 00/M02 A3027 RMK AO2 TSNO KY19 071215Z AUTO 31025G33KT 9SM -SN BKN039 OVC049 00/M03 A2978 RMK AO2 RJFM 071200Z 26008KT 9999 FEW030 05/M04 Q1018 KWAL 071154Z AUTO 35005KT 10SM CLR M01/M04 A3018 RMK AO2 SLP218 T10061044 10000 21039 55013 RJFO 071200Z 25005KT 9999 FEW030 01/M01 Q1019 KY23 071215Z AUTO 20007KT 10SM BKN023 SCT029 OVC100 00/M02 A2959 RMK AO2 T10031023 RJGG 071200Z 33017KT CAVOK 04/M04 Q1019 NOSIG SAEZ 071200Z 02008KT 340V060 CAVOK 26/20 Q1013 RJFR 071200Z 20007KT 9999 -SHRA FEW020 BKN040 BKN050 05/02 Q1019 RJFS 071200Z 30007KT 9999 FEW050 04/M03 Q1019 RJFT 071200Z 05004KT 9999 SCT060 02/M04 Q1019 RJFU 071200Z 02004KT 330V040 9999 FEW030 SCT035 BKN050 06/M01 Q1020 EYPA 071220Z 17012KT 130V190 CAVOK 07/02 Q1007 R19/1///95 KVLD 071153Z VRB03KT 10SM CLR 04/01 A3009 RMK AO2 SLP199 70003 T00440006 10061 20044 55001 KUTS 071153Z AUTO 00000KT 8SM CLR 02/00 A3028 RMK AO2 SLP253 T00170000 10033 20006 58012 KUVA 071215Z AUTO 08003KT 10SM CLR M01/M04 A3030 RMK AO2 T10091044 KVKS 071215Z AUTO 00000KT 10SM FEW034 BKN043 M02/M03 A3030 RMK A01 KVLL 071215Z AUTO 20003KT 10SM CLR 00/M03 A2999 RMK AO2 T00001035 GGOV 071200Z 06008KT 020V090 7000 NSC 31/09 Q1014 NOSIG KVKY 071215Z AUTO 02023G31KT 10SM CLR 12/M03 A3026 RMK A01 KWDG 071055Z AUTO 00000KT 10SM CLR M01/M02 A3010 RMK AO2 MDLR 071200Z 00000KT 9999 SCT016 21/21 Q1015 KY50 071156Z AUTO 20005KT 10SM BKN100 02/M01 A2970 RMK AO2 TSNO 56021 T00161005 10016 21011 SLP064 KY49 071215Z AUTO 28012G17KT 4SM -SN OVC009 00/00 A2945 RMK AO2 T00001005 LMML 071215Z 20014KT 160V230 9999 SCT022 16/10 Q1024 NOSIG KUUU 071153Z AUTO 00000KT 10SM CLR 00/M04 A3019 RMK AO2 SLP222 T00001044 10017 21006 55003 KVNC 071215Z AUTO 34009G21KT 10SM BKN026 OVC075 12/07 A3007 RMK AO2 KY51 071215Z AUTO 23010KT 10SM CLR 01/M02 A2970 RMK AO1 T00061016 SBAF 071200Z 19002KT 9999 FEW020 31/23 Q1017 RJKA 071000Z 01003KT 9999 -SHRA FEW020 SCT025 BKN050 10/08 Q1018 KWDR 071215Z AUTO 00000KT 10SM CLR 00/M07 A3016 RMK AO1 KVOA 071215Z AUTO 35012G17KT 10SM FEW038 11/M03 A3023 RMK A01 EYSA 071220Z 18013KT CAVOK 06/01 Q1009 R14L/290195 R14R/290195 BLU NOSIG SBAN 071200Z 10005KT 9999 FEW030 25/19 Q1023 SBBE 071200Z 08008KT 9999 SCT020 SCT100 27/25 Q1013 KY63 071218Z AUTO 32019G25KT 7SM BKN038 BKN050 01/M02 A2963 RMK AO2 T00121024 SBBH 071200Z 06007KT 9999 SCT030 27/18 Q1021 SBBI 071200Z 03005KT 6000 -DZ BKN005 BKN008 20/19 Q1022 SBAR 071200Z 11009KT 9999 SCT018 SCT070 29/22 Q1016 SBCA 071200Z 04016KT CAVOK 26/19 Q1020 SBAT 071200Z 23002KT 9999 FEW030 ///// Q1015 SBCB 071200Z 00000KT 9999 FEW015 28/28 Q1017 SBCC 071200Z 27003KT 9999 FEW040 26/22 Q1017 KY70 071214Z AUTO 17010KT 10SM OVC100 01/M02 A2988 RMK AO2 T00081021 KVOK 071158Z AUTO 20009KT 10SM FEW130 02/02 A2967 RMK AO2 SLP059 70002 T00220019 10024 20000 57020 MDPC 071200Z 13006KT 9999 BKN018 25/22 Q1016 KVPC 071153Z AUTO 00000KT 10SM CLR M03/M06 A3019 RMK AO2 SLP223 T10331056 11011 21039 53001 KUXL 071215Z AUTO 3/4SM BR VV005 01/00 A3032 RMK AO2 VIS 1/2V5 T00050003 SBCF 071200Z 02010KT 9999 FEW025 25/17 Q1021 SBCG 071200Z 03006KT 360V060 9999 FEW030 BKN100 25/20 Q1018 KUYF 071215Z AUTO 22009KT 10SM CLR M02/M04 A3007 RMK AO2 SBCH 071200Z 04010KT CAVOK 26/20 Q1018 SBBQ 071200Z 36006KT 9999 BKN018 24/18 Q1024 KVNY 071151Z AUTO 36014KT 10SM CLR 17/M07 A3014 RMK AO2 SLP201 T01721067 10183 20172 58006 SBBR 071200Z 03007KT 9999 FEW030 26/18 Q1022 SBCJ 071200Z 05005KT 9999 BKN006 24/22 Q1018 KUZA 071154Z AUTO 03007KT 10SM CLR 04/M07 A3008 RMK AO2 SLP190 T00391072 10056 20033 56013 SBBU 071200Z 06009KT CAVOK 27/23 Q1019 SBCM 071200Z 08004KT 9999 SCT012 BKN030 24/21 Q1018 FPST 071200Z 16004KT 9999 TS FEW020CB SCT110 31/26 Q1014 NOSIG SBBV 071200Z 07010KT 9999 FEW030 BKN070 25/19 Q1014 SAME 071200Z 14004KT 9999 OVC040 23/19 Q1011 SBCO 071200Z 14012KT 9999 FEW020 26/22 Q1016 SBCP 071200Z 15003KT 9999 FEW020 30/24 Q1016 MDPP 071200Z 00000KT CAVOK 20/19 Q1015 NOSIG SBCR 071200Z 12004KT 9999 FEW013 SCT100 27/24 Q1015 KVPS 071155Z 35009KT 340V080 10SM CLR 02/M05 A3020 RMK AO2A SLP234 T00211055 10052 20019 53006 $ SBCT 071222Z 08006KT 5000 -DZ OVC005 21/19 Q1022 FQMA 071200Z 09008KT 9999 SCT020 32/17 Q1011 NOSIG KVRB 071213Z 29013KT 10SM BKN013 09/07 A2997 RMK AO2 T00890067 SBDN 071200Z 06006KT FEW045 28/21 Q1017 RJNG 070246Z 29020KT 9999 FEW030 09/M12 Q1016 RMK 1CU030 A3001 MAX WIND 26KT SBCY 071200Z 20003KT CAVOK 26/22 Q1016 SBEG 071224Z 10011KT 2500 RA SCT007 BKN014 24/22 Q1015 KWHP 062353Z 02008G22KT 10SM SKC 24/M09 A3017 SBCZ 071215Z 26002KT 9000 -RA FEW006 BKN100 23/23 Q1014 KVQQ 071150Z 31011G16KT 7SM -RA FEW001 OVC008 05/04 A3002 KVPZ 071156Z AUTO 20009KT SCT120 02/M02 A2994 RMK AO2 SLP145 T00221017 10022 20000 56030 TSNO $ RJOA 071200Z VRB01KT 9999 FEW025 00/M06 Q1018 RJNK 071200Z 16004KT 9999 FEW025 SCT045 M00/M03 Q1021 RJOB 071200Z 04002KT 9999 FEW020 01/M04 Q1019 EYVI 071220Z 18012KT CAVOK 06/M00 Q1013 R20/0///95 NOSIG RJOC 071100Z 16004KT 9999 FEW025 M00/M02 Q1020 KVQT 071215Z AUTO 01013KT 10SM FEW036 12/03 A3030 RMK A01 SAOC 071200Z 36005KT 9999 FEW030 25/22 Q1008 RJOE 070420Z 34012G22KT 9999 FEW030 09/M07 Q1017 RMK 1CU030 A3003 MDSD 071200Z 04004KT 8000 VCSH SCT016 BKN070 22/21 Q1015 RERA RJOF 062141Z VRB02KT 9999 FEW025 SCT040 M00/M03 Q1019 RMK 1CU025 3CU040 A3010 KVSF 071154Z AUTO 00000KT 8SM CLR M07/M08 A3013 RMK AO2 SLP211 I1000 I6000 T10671078 11022 21067 50003 KWJF 071156Z 27006KT 10SM CLR M01/M04 A3033 RMK AO2 SLP278 T10061044 10044 21006 58007 RJOH 071200Z 19005KT 9999 FEW050 M01/M03 Q1020 SBFI 071200Z 07004KT CAVOK 28/23 Q1015 RJOI 071155Z 31006KT 9999 FEW025 FEW045 03/M01 A3012 RMK SLP199 T00331011 10083 20033 53003 SBES 071200Z 15005KT 9999 SCT015 29/23 Q1016 RJNS 071200Z 28009KT 9999 FEW020 03/M08 Q1017 SANT 071200Z 00000KT CAVOK 25/23 Q1010 RJOK 071100Z 35007KT 9999 VCSH FEW030 BKN050 BKN080 06/M06 Q1018 RJNT 071200Z 20003KT 9999 FEW020 SCT040 M00/M02 Q1021 KVTA 071154Z AUTO 00000KT 8SM CLR M06/M08 A3010 RMK AO2 SLP203 I1000 I6000 T10611083 11039 21061 56016 SBFL 071200Z 27002KT 9999 FEW020 BKN030 24/22 Q1018 RJOM 071200Z 13009KT 9999 FEW030 03/M04 Q1019 SBFN 071200Z 15011KT 9999 SCT019 BKN070 28/24 Q1015 RJNW 071000Z 36003KT 9999 FEW025 M03/M04 Q1019 LOAN 071200Z 21019G31KT 45KM FEW040CU SCT100AC BKN300CI RMK BKN RJOO 071100Z 35009KT 9999 FEW025 03/M05 Q1020 RJOP 070015Z 35010KT 280V050 9999 -SHRASN FEW008 BKN030 BKN060 04/M00 Q1019 RMK 1ST008 5CU030 7SC060 A3010 RJNY 070720Z 25011KT 240V300 9999 FEW025 10/M11 Q1014 RMK 1CU025 A2995 FQNP 071200Z 20008KT 9999 BKN020 BKN/// 29/22 Q1011 RJOR 071200Z 14008KT 9999 FEW025 M00/M02 Q1020 RJOS 070855Z 32005KT 9999 FEW020 05/M04 Q1019 RMK 1CU020 A3011 SBFS 062000Z /////KT 9999 FEW025 BKN080 ///// Q//// KVTI 071215Z AUTO 25006KT 10SM CLR 02/M02 A2980 RMK AO2 T00201016 RJOT 071200Z 15006KT 9999 FEW025 M01/M03 Q1019 SAOU 070655Z 36010KT 9999 FEW040 27/20 Q1010 REVCTS VYMD 071130Z 25002KT 6000 NSC 28/18 Q1012 MDST 071200Z 00000KT 9999 BKN018 20/20 Q1018 NOSIG SBGL 071200Z 21002KT 9999 FEW020 SCT100 28/23 Q1016 SBGM 071200Z 33002KT 9999 SCT030 24/23 Q1014 FQPB 071200Z 31003KT 9999 BKN020 FEW025CB SCT100 31/24 Q1008 RMK CB TO SE/S/SW/W/N/NE LOAV 071200Z VRB02KT 35KM SCT100AC BKN300CI 10/01 RMK BKN RJOW 071000Z 14004KT 9999 FEW040 BKN050 04/M01 Q1019 KWLD 071154Z AUTO 22004KT 10SM CLR 00/M03 A3010 RMK AO2 SLP201 T00001033 10022 20000 55006 KVTN 071152Z AUTO 30017G28KT 10SM SCT120 03/M06 A3004 RMK AO2 PK WND 30028/1149 SLP189 T00281056 10044 20022 51006 SBGO 071200Z 15003KT 9999 FEW030 27/20 Q1019 RJOY 071000Z 03006KT 9999 FEW030 04/M06 Q1020 RJOZ 071132Z 15004KT 9999 -SHRA FEW015 BKN030 04/02 Q1019 RMK 2CU015 7CU030 A3011 SBFZ 071200Z 12016KT 9999 BKN020 FEW030TCU 28/22 Q1014 KVTP 071211Z AUTO 10SM CLR M06/M13 A3025 RMK AO2 KXBP 071215Z AUTO 19005KT 10SM CLR 03/01 A3021 RMK AO2 T00310011 SBGR 071200Z 06003KT 5000 BR BKN011 23/21 Q1022 KVUJ 071215Z AUTO 02005KT 10SM CLR 03/M06 A3012 RMK AO2 T00321056 SARC 071200Z 05005KT 9999 FEW010 28/25 Q1013 KWMC 071156Z AUTO 06010KT 10SM CLR M02/M05 A3053 RMK AO2 SLP351 T10221050 11011 21033 53011 SBGW 071100Z 17002KT 4000 BR SCT008 BKN100 23/20 Q1019 SARE 071200Z 05008KT CAVOK 28/24 Q1012 SARF 071200Z 02009KT CAVOK 28/25 Q1013 KVUO 071153Z AUTO 00000KT 10SM OVC018 07/05 A3051 RMK AO2 SLP330 T00670050 10072 20061 51009 SBIH 071200Z 00000KT 9999 FEW009 29/25 Q1014 KVVG 071215Z AUTO 30009G15KT 10SM 07/07 A2993 RMK A01 SARI 071200Z 05004KT CAVOK 26/23 Q1017 RJSA 071219Z 22015KT 0900 R24/P1800N SHSN FEW003 BKN005 BKN015 M04/M06 Q1015 RMK 1ST003 6ST005 7CU015 A2999 SASA 071200Z 09005KT 9999 SCT010 SCT100 22/20 Q1015 SBHT 071200Z 09003KT 9999 BKN013 OVC070 25/25 Q1014 RKJB 071200Z 06002KT 9999 SCT040 M00/M02 Q1022 NOSIG SBIL 071100Z 22002KT 9999 -RA SCT020 FEW025TCU SCT050 27/24 Q1016 RJSC 071000Z VRB01KT 9999 FEW030 M03/M07 Q1019 SARL 071200Z 09009KT 9999 FEW020 SCT200 27/23 Q1014 FQQL 070500Z 28004KT 9999 FEW020 SCT/// 23/23 Q1012 SBJF 071200Z 12002KT 9999 SCT012 BKN090 26/20 Q1022 RJSF 071000Z 33011KT 9999 FEW030 M02/M08 Q1018 SBIP 071150Z 05007KT 9999 SCT030 BKN060 28/21 Q1018 SARP 071200Z 05005KT CAVOK 26/23 Q1014 RJSI 071000Z 19004KT 9999 -SHSN FEW020 SCT030 BKN040 M02/M09 Q1018 SARS 062341Z 07007KT 9999 BKN025 28/26 Q1011 RETS SASJ 071200Z 00000KT 9999 BKN030 23/22 Q1014 SCBA 071206Z VRB01KT 9999 4000NE MIFG FEW010 SCT030 08/06 Q1013 RJSK 071200Z 29011KT 9999 -SHSN FEW010 BKN040 BKN050 M02/M04 Q1018 RKJK 071158Z AUTO 23002KT 10SM CLR M01/M04 A3017 RMK AO2 SLP222 T10131036 10031 21013 55000 VISNO RWY18 CHINO RWY18 $ RJTC 070145Z 01015G26KT 9999 FEW020 05/M08 Q1014 RMK 1CU020 A2996 HAAB 070900Z 13010KT 9999 FEW030 24/05 Q1028 RJTE 061729Z 01015G26KT 350V050 9999 -RA BKN020 BKN040 05/00 Q1010 RMK 6SC020 7SC040 A2984 RJSN 071200Z 18005KT 9999 FEW020 SCT040 M01/M04 Q1021 KVVV 071213Z AUTO 28017G22KT 10SM CLR 02/M04 A2970 RMK AO2 RJTF 070700Z 36006KT 320V060 9999 FEW045 SCT100 08/M10 Q1016 RJSO 071151Z 25005KT 200V310 3200 -SHSN FEW006 SCT012 BKN020 M02/M04 Q1014 RMK 2ST006 4ST012 7CU020 A2996 SBKG 071100Z 11009KT 090V150 9999 BKN018 23/20 Q1018 SBJP 071200Z 13010KT 9999 SCT030 29/19 Q1016 SCAP 071200Z AUTO 27006KT //// // NSC 10/09 Q1022 SBIZ 071200Z 08004KT 9999 BKN020 29/26 Q1014 SBJR 071200Z 21001KT 9999 FEW025 SCT070 29/24 Q1016 RJTI 070700Z VRB06KT 9999 FEW030 SCT090 08/M12 Q1016 RJSR 071000Z 24010KT 5000 R11/1300VP1800U -SHSN FEW003 SCT010 BKN020 M03/M03 Q1017 SCAR 071200Z 29005KT 9999 BKN036 23/17 Q1011 RJSS 071200Z VRB01KT 9999 FEW020 M02/M08 Q1020 RJTK 070840Z 05004KT 9999 FEW020 BKN070 BKN100 07/M10 Q1017 RMK 1CU020 5AC070 5AC100 A3004 SBLB 071200Z 02022KT 9999 FEW010 ///// Q1017 W///S3 SCAT 071200Z 16007KT 9999 OVC022 19/13 Q1016 RJTL 070805Z 05010KT 010V100 9999 FEW030 05/M04 Q1016 RMK 1CU030 A3002 SBJU 071100Z 04002KT CAVOK 28/23 Q1019 SBJV 071200Z 17004KT 7000 -RA OVC007 24/23 Q1018 KVWU 071211Z AUTO 24012G16KT 10SM BKN017 OVC023 01/00 A2940 RMK AO2 RJTO 070700Z 06007KT 9999 FEW035 BKN100 BKN/// 07/M05 Q1015 SCCF 071200Z 10014KT CAVOK 15/M03 Q1026 RJSY 071200Z 28007KT 240V320 9999 FEW010 SCT030 BKN050 02/M07 Q1020 SBKP 071200Z 12008KT CAVOK 24/21 Q1020 SCCH 071200Z 22005KT CAVOK 15/09 Q1013 SATR 061425Z 02008KT 1000 RA SCT020 FEW040CB BKN045 26/24 Q1016 RJTR 061848Z AUTO 36005KT 8SM SCT008 OVC055 00/M01 A2987 RMK AO2 SCCI 071200Z 27008KT CAVOK 12/07 Q1006 NOSIG SBMA 071200Z 36004KT 9999 FEW013 27/25 Q1014 SCDA 071200Z 12005KT CAVOK 22/17 Q1012 RJTT 071200Z 09012KT 9999 FEW030 SCT060 BKN080 06/M01 Q1019 BECMG 05012KT SAVC 071200Z 27001KT 9999 FEW025 16/13 Q1013 SBME 071200Z 16004KT 9999 SCT030 32/25 Q1016 SBLO 071200Z 10007KT 9999 FEW030 26/22 Q1019 SBMG 071200Z 04009KT 9999 FEW025 28/21 Q1018 RJTY 071158Z AUTO 01007KT 10SM OVC060 02/M07 A3013 RMK AO2 SLP215 T00211067 10070 20015 52017 SBLS 071200Z 07005KT 9999 SCT030 26/18 Q1021 SBMK 071200Z 06007KT 9999 FEW027 26/18 Q1020 KVYS 071215Z AUTO 22014KT 10SM CLR M32/M36 A2988 RMK AO2 T13181359 KWRB 071158Z AUTO 32005KT 10SM CLR M01/M04 A3013 RMK AO2 SLP208 T10091044 10022 21009 55001 FQTT 071200Z 24004KT 190V350 9999 SCT020 35/23 Q1010 SAWE 071200Z 00000KT CAVOK 13/09 Q1005 SBMN 071200Z 10010KT 8000 -RA BKN010 BKN080 24/23 Q1014 RERA SBNF 071200Z 12005KT 9999 SCT015 BKN030 25/22 Q1018 SBMO 071200Z 08007KT 9999 SCT020 28/23 Q1016 SCCY 071200Z 17003KT 9999 VCFG NSC 10/08 Q1013 SAWG 071200Z 23004KT 180V270 CAVOK 14/05 Q1006 SAWH 071200Z 23004KT 9999 FEW010 BKN200 10/08 Q1004 SBMQ 071200Z 34008KT 9999 BKN012 BKN100 28/25 Q1014 LOIH 071100Z 21013KT 35KM FEW050SC BKN150AC 14/00 Q1003 RMK OVC KXIH 071220Z AUTO 08007KT 10SM CLR 10/04 A3029 RMK A01 SBMS 071200Z 15008KT 9999 FEW025 31/20 Q1014 KWRI 071158Z AUTO 03003KT 10SM CLR M06/M06 A3016 RMK AO2 SLP215 T10651065 11026 21067 55006 SCFA 071200Z 19007KT 9999 FEW030 SCT180 21/15 Q1012 NOSIG SBMT 071100Z 09005KT 7000 SCT012 22/19 Q1021 SCEL 071200Z VRB02KT CAVOK 16/12 Q1014 NOSIG SAVV 070100Z 05005KT 8000 BKN003 OVC050 18/17 Q1016 KWRL 071153Z AUTO 17005KT 10SM BKN085 M04/M08 A3028 RMK AO2 SLP293 T10391083 11006 21050 53021 FQVL 061800Z 19011KT 9999 BKN020 25/19 Q1012 SBOI 062000Z 11004KT 5000 -RA BKN018 BKN090 25/25 Q1012 SBPA 071200Z 11013KT 9999 FEW020 25/21 Q1016 SBNT 071200Z 15012KT 9999 BKN025 29/21 Q1014 SBPB 071200Z 09015KT 9999 SCT017 31/25 Q1013 SBPC 071200Z 11006KT CAVOK 22/21 Q1024 RKPC 071200Z 32012KT 9999 BKN040 05/M05 Q1022 NOSIG SCFM 071200Z 02006KT CAVOK 13/08 Q1006 SCGE 071200Z 18007KT CAVOK 15/13 Q1014 SBPF 071000Z 08018KT CAVOK 20/17 Q1018 RKNY 071200Z AUTO 22009KT 3000 NCD 01/M16 Q1017 SAZA 070915Z 25008G25KT 7000 +TSRA SCT050CB OVC035 22/20 Q1012 RMK CB OBS TO OVER DA SBPJ 071200Z 00000KT CAVOK 31/25 Q1015 SAZB 070615Z 02023KT 9999 -RA FEW045CB BKN050 19/18 Q1009 SBPK 071200Z 06014KT 9999 BKN025 27/20 Q1017 LPBJ 071200Z 33011KT 9999 FEW020 14/09 Q1027 RKPK 071200Z 35001KT 9999 FEW050 02/M07 Q1019 NOSIG SCFT 071200Z AUTO VRB01KT CAVOK 10/09 Q1016 MGCB 071200Z 23006KT 3000 -DZ BR SCT006 OVC012 12/11 QFE 875.0 KWST 071153Z AUTO 00000KT 9SM CLR M06/M06 A3021 RMK AO2 SLP229 I1000 I6001 T10561061 10022 21061 55002 $ SBPL 071200Z 16014KT 9999 BKN025 25/20 Q1018 SBPP 071200Z 36006KT CAVOK 26/21 Q1017 SBPR 071200Z 07008KT 9999 FEW020 SCT100 27/19 Q1022 LPAZ 071200Z 23007KT 9999 BKN006 BKN015 16/14 Q1031 SBPS 071200Z 09007KT 9999 FEW020 29/22 Q1017 SBRB 071200Z 11003KT 9999 FEW007 BKN100 26/23 Q1014 SCIC 071200Z 36004KT CAVOK 16/12 Q1012 SAZM 071200Z 14005KT 2000 TSRA SCT012 OVC040 FEW045CB 21/20 Q1016 SBPV 071200Z 19001KT 9999 SCT005 BKN090 25/24 Q1013 KXLL 071215Z AUTO 00000KT 10SM CLR M05/M06 A3019 RMK AO2 SAZN 071200Z 00000KT 9999 SCT020 BKN040 18/18 Q1014 SCIE 071200Z 36002KT 9999 SCT005 14/13 Q1014 SBRF 071200Z 12010KT 9999 SCT023 28/21 Q1015 SCGZ 061800Z 25009KT 9999 FEW060 SCT066 BKN083 20/06 Q1014 SAZR 062330Z 05005KT 9999 BKN033 FEW040TCU BKN100 27/22 Q1012 KWVI 071153Z AUTO 00000KT 10SM CLR 09/06 A3027 RMK AO2 SLP249 T00890056 10128 20083 56011 SBRJ 071200Z 14004KT 9999 FEW020 SCT100 30/25 Q1016 SAZS 071200Z 00000KT CAVOK 12/06 Q1016 SAZT 070545Z 07009KT 3000 TSRA BKN004 OVC015 FEW035CB 20/19 Q1014 LPCS 071200Z 30006KT 9999 FEW030 15/06 Q1026 KXNA 071153Z 21008KT 10SM CLR 02/M01 A3013 RMK AO2 SLP205 T00221011 10039 20022 56018 SBSC 071200Z 20002KT 9999 FEW020 29/22 Q1016 FSIA 071200Z 34006KT 9999 BKN015 30/25 Q1009 NOSIG SBQV 071200Z 09006KT 9999 SCT030 23/17 Q1022 KWVL 071156Z AUTO 00000KT 10SM SCT049 BKN070 M06/M07 A3004 RMK AO2 SLP213 70001 T10611072 11033 21061 51012 FZRANO KWWD 071215Z AUTO 00000KT 10SM CLR M03/M05 A3021 RMK AO1 RKSG 071158Z AUTO 00000KT 10SM CLR M03/M07 A3016 RMK AO2 SLP218 T10261070 10031 21028 53000 $ SBSG 071200Z 20010KT 160V230 9999 SCT023 28/22 Q1014 SCIP 071200Z 10007KT 9999 FEW020 22/19 Q1019 NOSIG SBRP 071200Z 11005KT CAVOK 26/21 Q1018 SCIR 071200Z 16016KT 9999 FEW023 17/08 Q1018 RKSI 071200Z 23003KT 9999 FEW040 M01/M08 Q1021 NOSIG SBTA 071200Z VRB02KT 5000 2000E BR SCT010 SCT100 24/21 Q1020 KXMR 071213Z AUTO 30019G23KT 10SM OVC010 08/07 A2993 RMK AO2 $ SBSJ 071200Z 36002KT 4000 BR BKN013 SCT020 24/21 Q1021 SBTC 071200Z 11006KT 9999 SCT020 30/24 Q1017 SBSL 071200Z 06010KT 9999 SCT017 29/23 Q1013 SBSM 071200Z 10009KT 9999 SCT009 24/21 Q1016 RKSM 071200Z 20001KT 9999 SKC M04/M10 A3016 RMK SLP214 SBTE 071200Z 23003KT 9999 FEW016 30/25 Q1014 SBSN 071200Z 08004KT 9999 SCT015 BKN100 26/24 Q1014 SBTF 071200Z 12005KT 9999 FEW006 OVC090 25/25 Q1013 SCJO 071200Z 00000KT CAVOK 12/11 Q1015 RKSO 071158Z 08002KT 7SM CLR M05/M10 A3015 RMK AO2A SLP214 T10541100 10029 21054 55000 $ SBSP 071200Z 08002KT CAVOK 23/19 Q1022 SBSR 071200Z 06006KT CAVOK 28/19 Q1019 SBUA 062100Z 06004KT 9999 SCT023 FEW027TCU 32/23 Q1007 RKSS 071200Z 35002KT 9999 FEW040 M04/M12 Q1021 NOSIG KWWR 071215Z AUTO 26007KT 10SM CLR M01/M08 A3013 RMK AO2 MGES 071200Z 05010KT 9999 OVC010 15/14 QFE 912.2 MTN T.D. CUB/CL SBST 071200Z 06002KT 9999 BKN017 BKN050 26/23 Q1017 RETS HBBA 071000Z 18014KT 9999 FEW020 SCT100 27/21 Q1016 NOSIG LPFL 071200Z 24007KT 180V350 9999 VCSH SCT019 BKN035 17/11 Q1028 SBSV 071200Z 11010KT 9999 FEW020 30/21 Q1017 RKTN 071200Z 10001KT CAVOK M01/M12 Q1019 NOSIG SBUF 071200Z 11009KT 9999 BKN016 28/22 Q1017 RKTP 061500Z 00000KT 9999 SKC M08/M11 A3030 SBUG 071200Z 05009KT 9999 FEW030 25/22 Q1014 LPFR 071200Z 30012KT 9999 SCT035 17/09 Q1028 SBTT 071200Z 13002KT 7000 -DZ SCT007 BKN080 ///// Q1013 SBUL 071200Z 04006KT CAVOK 27/19 Q1021 RKTU 071200Z 28001KT CAVOK M05/M12 Q1021 NOSIG VYYY 071200Z 10004KT 7000 R21/2000N SCT110 28/18 Q1014 NOSIG SBVH 071200Z 24002KT 4000 BR SCT002 BKN070 23/23 Q1018 SBUR 071200Z 36008KT CAVOK 28/20 Q1020 SCMK 061600Z 18003KT CAVOK 23/08 Q1015 MGGT 071200Z 36018KT 9999 SCT015 14/10 Q1027 A3033 KXPY 071215Z AUTO 02007KT 10SM CLR 07/03 A3029 RMK A01 YABA 071200Z AUTO 09013KT 9999 // OVC014 20/17 Q1021 LPHR 071200Z 27015KT 9999 FEW012 BKN033 16/14 Q1030 KXSA 071215Z AUTO 00000KT 10SM CLR M01/M02 A3019 RMK AO2 T10101016 SBVT 071200Z 04012KT 9999 SCT025 30/22 Q1017 MGHT 071200Z 00000KT 9999 OVC015 10/08 QFE 820.2 WSAP 071200Z 04014KT 8000 FEW015 BKN270 28/24 Q1010 KYIP 071153Z AUTO 20008KT 10SM CLR 01/M04 A3000 RMK AO2 SLP161 T00061039 10017 21006 58023 TSNO SCNT 071200Z 09004KT CAVOK 14/06 Q1007 MHAM 070000Z 36014KT 9999 FEW032 30/25 SCON 071200Z AUTO 24006KT 220V280 8000 SKC 15/13 Q1015 LPLA 071200Z /////KT 9999 FEW016 BKN021 16/13 Q1029 MHCA 071200Z 00000KT 9999 SCT028 BKN080 20/17 LQBK 071200Z 33004KT CAVOK 08/04 Q1018 NOSIG KYKM 071153Z AUTO 26006KT 10SM CLR 01/M05 A3056 RMK AO2 SLP355 T00061050 10028 21011 51023 $ KYKN 071215Z AUTO 28019G26KT 10SM CLR 03/M04 A2993 RMK AO1 SCPQ 071200Z 14004KT 110V180 CAVOK 14/10 Q1015 MHCH 071200Z 03010KT 9999 FE0W30 26/19 HZ SBYS 071200Z 12004KT CAVOK 26/20 Q1019 LPMA 071200Z 20006KT 150V220 9999 FEW016 19/12 Q1032 SCRD 071200Z 30004KT 9999 OVC015 15/13 Q1015 SCQP 071200Z VRB02KT 9999 OVC004 12/11 Q1014 KXVG 071217Z AUTO 25008KT 3SM -SN SCT010 BKN014 OVC028 01/00 A2945 RMK AO2 SCRM 071200Z 32012KT 0100 FG OVC001 02/01 Q0996 MGMM 071200Z 00000KT 9999 SCT012 BKN090 18/18 Q1024 A3024 SCSE 071200Z 10004KT 9999 BKN025 17/13 Q1015 LOWG 071220Z 16006KT 9999 FEW040 SCT170 BKN240 10/02 Q1012 NOSIG KYNG 071151Z 14004KT 10SM CLR M05/M08 A3007 RMK AO2 SLP198 T10501078 11011 21056 58020 LOWI 071220Z 06014KT 020V100 9999 FEW060 SCT080 BKN300 12/M00 Q1007 NOSIG SCTB 071200Z VRB01KT CAVOK 15/13 Q1015 MGMT 071200Z 05024KT CAVOK 27/15 QFE 1009.2 LOWK 071220Z 11003KT 040V190 9999 FEW035 SCT070 BKN270 08/03 Q1014 R10L/19//95 NOSIG SEAM 071100Z 00000KT 9999 FEW010 BKN016 13/12 Q1027 LOWL 071220Z 10010KT CAVOK 07/02 Q1006 NOSIG SCTE 071205Z VRB03KT 5000 BR FU FEW004 12/12 Q1015 NOSIG SCSN 071200Z VRB02KT 6000 OVC014 16/13 Q1014 SECA 071100Z 07004KT 9999 FEW040 25/14 Q1015 LOWS 071220Z 14013G23KT CAVOK 14/M01 Q1004 NOSIG MGPB 071200Z 30006KT 9999 -DZ SCT016 BKN090 20/19 Q1021 A3015 LPPD 071200Z 26009KT 6000 1500NW -DZ FEW002 BKN005 14/14 Q1030 SCTN 071228Z 20006KT 9999 0800S BCFG FEW001 SCT004 14/12 Q1015 LOWW 071220Z 17014KT 9999 FEW030 BKN250 15/02 Q1008 NOSIG LOWZ 071200Z 02004KT 40KM SCT080AC OVC120AC 02/02 Q1007 RMK OVC LOXT 071150Z 22004KT 170V300 25KM FEW160AC BKN300CI 08/03 Q1009 RMK BKN SCVD 071200Z AUTO 00000KT CAVOK 12/11 Q1014 SECO 071200Z 36002KT 3000 BR SCT006 BKN070 23/23 Q1014 LOXZ 071220Z 20005KT 40KM FEW050SC BKN200AS 09/M00 Q1011 TEMPO 20012G25KT RMK FOEHNWALL SW/BKN LPPR 071200Z 26005KT 220V300 9999 FEW022 BKN035 13/07 Q1024 LPPS 071200Z 28008KT 240V320 9999 FEW015 18/13 Q1032 SECU 071200Z 01002KT 9999 SCT040 BKN100 15/11 Q1026 LPPT 071200Z 29007KT 260V330 9999 FEW022 SCT034 15/08 Q1026 SCVM 071200Z 07002KT 7000 BKN023 15/12 Q1015 YBAF 071230Z AUTO 18005KT 9999 // NCD 22/16 Q1015 MGQZ 071200Z 36014KT 9999 BKN010 09/09 QFE 773.1 YBAS 071200Z AUTO 13008KT 9999 // NCD 30/09 Q1015 MGSJ 071200Z 00000KT CAVOK 18/17 Q1012 A2988 MGRT 071200Z 00000KT CAVOK 21/18 Q1014 A2994 FEW200 VOL. STA. MARIA Y SANTIAGUITO EN ACTIVIDAD YBBN 071200Z 18007KT CAVOK 23/17 Q1015 NOSIG LRBC 071200Z 16019KT 9999 FEW020 04/01 Q1024 YBCG 071230Z AUTO 20007KT 9999 // NCD 22/17 Q1015 YBCK 071230Z AUTO 13011KT //// // ////// 23/21 Q1013 YAMB 071230Z AUTO 17004KT 9999 // NCD 21/18 Q1015 LRAR 071200Z 17013KT CAVOK 10/01 Q1020 MHLC 071200Z 25004KT 1000N RA FEW002 SCT020 OVC070 21/20 Q1020 A3012 NOSIG LRBM 071200Z AUTO 13007KT 9999 FEW013/// SCT210/// 08/M02 Q1022 MHLE 071200Z 0710KT 60000 BKN018 13/11 6 KMS E CL D/C UNL PCPN TDS YBCS 071200Z 14004KT 9999 SCT016 SCT096 29/25 Q1008 NOSIG SEGS 071200Z 12010KT 9999 FEW005 SCT010 28/24 Q1010 RMK A2984 LRBS 071200Z 19005KT 100V230 CAVOK 07/M04 Q1026 NOSIG YBCV 071230Z AUTO 13004KT //// // SCT115 23/21 Q1014 LRCK 071200Z 17008KT 140V200 9999 FEW030 05/M01 Q1028 NOSIG SEGU 071200Z METAR 06003KT 9999 FEW016 BKN033 BKN100 26/24 Q1009 NOSIG RMK A2980 MGTU 071200Z 00000KT CAVOK 20/19 BKN200 LRCL 071200Z 11009KT CAVOK 05/M02 Q1022 MHLM 071200Z 02010KT 9999 SCT020 OVC080 20/20 Q1020 A3012 NOSIG YBDV 071230Z AUTO 13010KT //// // ////// 32/14 Q1012 LRCT 071200Z 12004KT 9999 FEW200 04/M02 Q1024 BLU BLU SEJD 071225Z 26001KT 1000 BCFG FEW001 BKN100 23/23 Q1016 LRCV 071200Z 10006KT 060V140 CAVOK 06/M03 Q1025 LQMO 071200Z VRB02KT 6000 NSC 10/00 Q1022 ROAH 071200Z 32015KT 9999 FEW042 SCT060 13/04 Q1021 BGBW 071050Z 33001KT 9999 SCT090 BKN120 OVC140 M06/M13 Q0988 YBGD 071200Z AUTO 17003KT 9999 // NCD 31/08 Q1013 SFAL 071150Z 33015KT 9999 FEW005 13/10 Q1015 GMAD 071200Z 22003KT 140V290 CAVOK 25/M01 Q1027 NOSIG MHNO 071200Z 36014KT 99999 SCT035 SCT090 18/15 Q1021 HZ GMAG 071200Z 28004KT CAVOK 25/03 Q1027 NOSIG FTTA 071100Z 06006KT 8000 NSC 34/03 Q1014 FTTC 071100Z 04004KT CAVOK 28/M01 Q1016 FTTD 071000Z 36008KT 1200 HZ NSC 28/02 Q1017 HDAM 070900Z 09013KT 9999 FEW023 29/20 Q1018 YBHI 071230Z AUTO 18009KT 9999 // NCD 29/03 Q1016 KZPH 071235Z AUTO 31006KT 10SM OVC011 07/06 A3006 RMK AO2 LTG DSNT NE T00700055 MGZA 071200Z 00000KT 9999 FEW020 19/16 QFE 993.2 SEMC 071200Z 12003KT 1000 BR OVC003 19/19 Q1018 FTTJ 071100Z 06013KT 020V080 3500 HZ NSC 28/M02 Q1018 NOSIG YBHM 071216Z AUTO 16025KT 4500 // BKN004 BKN007 OVC011 26/26 Q1009 MHPL 071200Z 00000KT 9999 SCT026TCU 23/22 Q1014 TCU TDS HZ GMAT 071200Z 36005KT CAVOK 23/06 Q1028 NOSIG YARG 071030Z AUTO 01005KT 9999 // NCD 33/19 Q1008 LRIA 071200Z 16012KT CAVOK 06/M03 Q1024 BGGH 071150Z 06008KT 9999 FEW035 BKN200 M09/M11 Q0992 SELT 071200Z 18013KT 9999 FEW010 BKN023 12/12 Q1030 FVBU 071200Z 19010KT 6000 -TSRA FEW040CB SCT045 BKN090 20/17 Q1019 BECMG 9999 RODN 071158Z AUTO 28009KT 10SM SCT047 13/04 A3017 RMK AO2 SLP225 T01290035 10158 20128 52011 YCBA 071230Z AUTO 10005KT 9999 // NCD 27/10 Q1015 YCBB 071230Z AUTO 15006KT //// // ////// 19/12 Q1018 SEMT 071200Z 17005KT 9999 OVC026 25/24 Q1009 RMK A2981 WSSL 071200Z 03013KT 8000 FEW018 BKN270 28/23 Q1009 RMK 1130Z Q1009 LQSA 071200Z VRB01KT 2500 R12/1400N BR FEW005 03/03 Q1021 NOSIG SENL 071200Z 19005KT 4000 -RA BR BKN010 OVC070 23/23 Q1013 YBKE 071230Z AUTO 10006KT //// // ////// 29/11 Q1014 MHSC 071158Z AUTO 36019G23KT 9999 OVC027 19/16 A3012 RMK AO2 PK WND 34027/42 SLP172 T01890160 10192 20187 53008 $ MHRO 071200Z 34015G25KT 6000 VCSH SCT015TCU OVC070 23/19 Q1018 A3006 BECMG -RA YCAR 071230Z AUTO 22010KT 9999 // NCD 27/22 Q1010 WSSS 071200Z 04012KT 360V070 7000 FEW016 SCT150 BKN260 28/23 Q1010 NOSIG YCAS 071230Z AUTO 21004KT //// // ////// 21/17 Q1016 FVFA 061500Z 30006KT 9999 FEW050CB 30/15 Q1015 NOSIG MHTE 071200Z 28008KT 1000 DZ BKN020 OVC080 19/19 Q1020 1 KMS TDS PCPN YCBP 071230Z AUTO 14009KT //// // ////// 32/01 Q1016 MHTG 071200Z 02004KT 8000 FEW010 BKN022 17/17 Q1021 A3015 BECMG 9999 NSW GMFF 071200Z 28018KT 9999 SCT030 SCT100 19/06 Q1030 NOSIG YBMA 071230Z AUTO 17011KT 9999 // BKN098 OVC115 33/15 Q1010 YBKT 071230Z AUTO 36006KT //// // ////// 28/25 Q1008 MHSR 071200Z 34006KT 80000 SCT006 OVC020 15/15 8KMS TDS CL HZ YBLN 071230Z AUTO 18010KT //// // ////// 25/16 Q1016 GMFK 071200Z 17005KT 100V250 9999 FEW026 SCT080 18/M02 Q1029 NOSIG GMFM 071200Z 28012KT 9999 SCT020 BKN100 17/07 Q1030 NOSIG BGJN 071150Z AUTO 24007KT 200V270 9999NDV BKN190/// M12/M18 Q0994 GMFO 071200Z 25029KT 9999 FEW020 SCT100 19/08 Q1023 NOSIG YBNA 071230Z AUTO 17009KT 9999 // SCT036 SCT043 BKN050 23/17 Q1016 MHTR 071200Z 34020KT 50000 VCSH FEW008 SCT018 OVC070 23/22 5 KMS TDS PCPN YBMK 071200Z AUTO 17011KT 9999 // SCT006 BKN011 OVC018 26/25 Q1009 SERB 071200Z 00000KT 9999 FEW010 BKN030 11/10 Q1030 FVHA 071200Z VRB05KT 9999 SCT040 28/16 Q1020 NOSIG YCEE 071230Z AUTO 17008KT //// // ////// 18/17 Q1021 SEQM 071200Z 13002KT 9999 FEW030 SCT300 09/07 Q1025 NOSIG RMK A3028 YCDO 071230Z AUTO 25002KT //// // ////// 21/13 Q1016 BGKK 071150Z AUTO 08008KT 9999NDV FEW050/// M03/M12 Q0995 YCCY 071230Z AUTO 18011KT //// // ////// 35/14 Q1008 ROIG 071100Z 35007KT 9999 SCT039 BKN050 13/05 Q1023 LQTZ 071200Z 09003KT 060V140 9999 SCT055 10/05 Q1018 SESA 071200Z 22006KT 9999 FEW010 SCT016 BKN090 27/24 Q1009 YCDU 071200Z AUTO 17012KT 9999 // SCT014 18/15 Q1021 GLRB 061830Z 21008KT 7000 SKC 28/23 Q1011 RMK HZVC SESD 071200Z 00000KT 3000 BR BKN007 OVC013 22/22 Q1011 SERO 071200Z 12002KT 9999 FEW020 OVC040 25/24 Q1009 SESG 071100Z 00000KT 9999 FEW035 SCT100 16/M01 Q1014 YBOK 071230Z AUTO 07011KT 9999 // NCD 21/17 Q1016 YCFL 071230Z AUTO 34009KT //// // ////// 30/26 Q1008 SESM 071205Z 11002KT 9999 0500SE BR SCT003 BKN030 OVC100 20/19 Q1018 A3006 YAYE 071200Z AUTO 13007KT 9999 // NCD 30/02 Q1015 LROD 071200Z 20015KT CAVOK 10/01 Q1021 YCFS 071230Z AUTO 24009KT 9999 // NCD 21/17 Q1017 SGAS 071230Z 03006KT 330V060 CAVOK 29/25 Q1013 SEST 071200Z 12001KT 9999 SCT016 24/23 Q1007 RMK A2974 HEBA 071100Z 29017KT 9999 SCT020 SCT022 13/05 Q1021 NOSIG FVKB 061400Z 00000KT 9999 FEW030CB 32/24 Q1011 YBPN 071230Z AUTO 15011KT 9999 // SCT100 26/24 Q1009 LSGC 071220Z 22005KT 2000 SN VV007 00/00 Q1008 R/SNOCLO SETN 071200Z 06004KT 040V100 2000 RA FEW002 BKN016 OVC070 24/24 Q1009 A2981 LROP 071200Z 23006KT CAVOK 08/M01 Q1026 R26L/09//95 NOSIG LSGG 071220Z 18011KT 9999 -RA FEW010 OVC035 04/03 Q1011 RERA NOSIG YCHK 071230Z AUTO 14003KT 9999 // NCD 33/09 Q1012 YAYT 071100Z 29004KT CAVOK 21/M11 Q1013 HEAR 071100Z 28015KT 9999 FEW025 BKN090 15/04 Q1018 NOSIG SETU 071200Z 00000KT 9999 OVC020 11/11 Q1032 HECA 071200Z 28016KT 9999 BKN025 BKN030 16/05 Q1020 NOSIG HEAT 071100Z 36020KT CAVOK 16/04 Q1024 NOSIG HEBL 071100Z 35017KT CAVOK 18/01 Q1022 NOSIG HEAX 071100Z 30020KT 9999 BKN020 13/05 Q1020 NOSIG MHYR 071200Z 09002KT 9999 BKN020 OVC070 17/17 BR YBRK 071201Z 11010KT 9999 FEW015 BKN035 26/22 Q1012 LSGS 071220Z 22007KT 9999 SCT065 OVC130 12/M03 Q1007 YBRM 071230Z AUTO 26007KT 9999 // NCD 30/26 Q1009 YCIN 071230Z AUTO 19004KT //// // NCD 28/19 Q1007 GMMB 071200Z AUTO 27007KT 210V320 9999NDV NCD 21/11 Q1031 GMMC 071200Z 32012KT 9999 NSC 19/14 Q1029 FWCL 071200Z 27011KT 9999 SCT035 30/17 Q1015 NOSIG YBSG 071230Z AUTO 00000KT //// // ////// 27/25 Q1009 GMME 071200Z 25011KT 220V280 6000 BKN023 SCT100 19/11 Q1029 NOSIG GMMH 071200Z 02012KT CAVOK 24/05 Q1023 NOSIG GMMI 071200Z 36006KT 8000 NSC 22/08 Q1028 NOSIG LRSB 071200Z 25006KT 220V300 CAVOK 08/M02 Q1022 LTAC 071150Z 05010KT 9999 FEW040 01/M09 Q1021 NOSIG SGEN 071230Z 08005KT CAVOK 25/24 Q1014 GMML 071200Z 08010KT CAVOK 25/01 Q1028 NOSIG KZZV 071153Z AUTO 00000KT 10SM CLR M05/M08 A3012 RMK AO2 SLP206 T10501083 11022 21056 56014 YBRY 071200Z AUTO 11007KT 9999 // NCD 33/05 Q1014 YBTH 071230Z AUTO 15004KT 9999 // NCD 17/13 Q1020 ROMY 071100Z 34012KT 9999 BKN040 13/03 Q1023 LTAF 071150Z 04013KT CAVOK 15/M04 Q1014 NOSIG GMMN 071200Z 31009KT 260V340 9999 SCT016 SCT200 19/11 Q1030 NOSIG GMMO 071130Z 29006KT 250V320 9999 SCT016 SCT200 18/12 Q1031 NOSIG LTAG 071150Z 02023KT CAVOK 13/M02 Q1014 NOSIG SGES 071230Z 03011KT CAVOK 27/24 Q1015 LTAI 071150Z 34017KT CAVOK 13/M06 Q1017 NOSIG YBSU 071200Z AUTO 16012KT 9999 // BKN026 25/20 Q1014 LTAJ 071150Z 29011KT 9999 SCT035 BKN080 08/M01 Q1011 NOSIG LTBA 071150Z 06008KT 030V160 9999 SCT033 08/M05 Q1029 NOSIG YBTL 071200Z 00000KT 9999 SCT014 SCT018 28/26 Q1008 YBUD 071230Z AUTO 15007KT 9999 // NCD 23/20 Q1014 YCKN 071230Z AUTO 29001KT 9999 // OVC094 27/25 Q1008 LTAL 071050Z 01007KT 9999 BKN025 M02/M09 Q1023 LRTC 071200Z AUTO 16010KT 9999 FEW036/// 06/M03 Q1028 LRSM 071200Z AUTO 14008KT 9999 NCD 09/M01 Q1021 LTAN 071150Z 35013KT 9999 SCT040 BKN100 M00/M04 Q1021 RESN NOSIG LTBF 071150Z 01015KT CAVOK 08/M01 Q1027 NOSIG GMMW 071200Z 33016KT 9999 FEW020 SCT080 17/11 Q1024 NOSIG LTAP 071150Z 02013KT 9999 SCT040 03/M07 Q1022 NOSIG GMMX 071200Z 32003KT 280V350 CAVOK 20/05 Q1029 NOSIG BGSF 071150Z AUTO 06006KT 9999NDV SCT200/// M26/M29 Q0996 LTBH 071150Z 01009KT 340V050 CAVOK 07/M00 Q1028 LTBI 070305Z 29009KT 9000 -SN BKN021 M03/M04 Q1023 NOSIG RMK RWY09 29013KT GMMZ 071200Z 28010KT 250V310 CAVOK 21/M07 Q1028 NOSIG LTAR 071150Z 35017KT 1500 R01////// R19/P1500D -SN BLSN SCT010 BKN030 OVC080 M07/M07 Q1016 LTAS 061450Z 02006KT 330V040 6000 -RA FEW012 BKN025 BKN080 03/01 Q1024 LTCA 071150Z 28006KT 7000 SCT010 BKN030 OVC080 02/M02 Q1013 RERASN NOSIG LTBJ 071150Z 01015KT 350V050 CAVOK 09/M03 Q1023 NOSIG LTAT 071150Z 27016KT 9999 BKN035 BKN100 04/M05 Q1013 NOSIG LTCB 071150Z 24015KT 8000 -SHRA SCT006 BKN025 04/01 Q1025 LTAU 071150Z 36006KT 9999 FEW018 BKN027 BKN080 M02/M06 Q1020 NOSIG LTCC 071150Z 34007KT 9999 BKN040 BKN100 06/03 Q1011 NOSIG LRSV 071200Z 14011KT CAVOK 03/M00 Q1021 LRTM 071200Z 11003KT 040V160 CAVOK 07/M02 Q1023 LTCD 071150Z 29015KT 9999 BKN040 BKN090 00/M06 Q1014 NOSIG LTAW 061350Z 07012G24KT 320V120 9999 -RA FEW025 BKN034 BKN080 05/M01 Q1010 YDBY 071230Z AUTO 32009KT //// // ////// 32/26 Q1008 LTCE 071150Z 25004KT 190V270 1200 R26L/P1500D R08R/P1500U R26R/P1500U R08L/P1500D SN BKN020 OVC070 M04/M05 Q1011 REBLSN BECMG TL1220 0400 BLSN BIBD 071200Z 06016KT 9999 FEW028 02/// Q0985 RMK BA 41 LTBO 071050Z 08018KT 9999 SCT037 02/M06 Q1022 LTCF 071150Z 07007KT 010V090 9999 BKN030 OVC070 00/M01 Q1011 LTCG 071150Z 17003KT 9999 -SHRA SCT015 BKN026 07/03 Q1022 TEMPO 25012KT LTAY 071150Z 07015KT 9999 SCT035 SCT100 04/M04 Q1020 LTAZ 071150Z 02014KT 9999 BKN030 BKN090 00/M06 Q1021 LTBQ 071150Z 11005KT 060V190 9999 BKN032 07/M01 Q1029 NOSIG LRTR 071200Z 12008KT CAVOK 11/02 Q1020 NOSIG LTBR 071150Z 11004KT 080V170 9999 SCT035 SCT100 06/M03 Q1027 NOSIG LTCI 071150Z VRB02KT 8000 SCT030 BKN070 03/M02 Q1009 RERASN TEMPO 2000 BR LSMA 071150Z AUTO 06017KT 9999NDV SCT110 08/01 Q1005 RMK LTBS 071150Z 03014KT CAVOK 13/M04 Q1018 NOSIG LTCJ 071150Z VRB01KT 9000 -RA BKN030 OVC080 06/05 Q1011 LTDA 071150Z 29020KT 9999 SCT035 BKN100 13/M01 Q1013 YCMM 071230Z AUTO 18010KT //// // ////// 17/15 Q1021 LTCK 071221Z 00000KT 0700 R29/0800U R11/0800U SN FZFG SCT004 BKN020 OVC060 M01/M01 Q1010 RESN RMK RWY11 VRB01KT BIAR 071200Z 04010KT 9999 OVC032 01/M03 Q0987 R01/390241 RMK RWY SANDED LTCL 071150Z 03008KT 9999 -RA BKN035 OVC090 06/03 Q1012 LTBU 071150Z 17004KT 090V220 9999 SCT035 07/M04 Q1028 LTCM 070950Z 34015G25KT 9999 SCT030 BKN090 05/M02 Q1028 LSMD 071150Z AUTO 31011KT 9999NDV FEW017 07/04 Q1006 RMK LSME 071150Z AUTO 00000KT 9999NDV SCT043 06/04 Q1006 RMK BGTL 071158Z AUTO 12010KT 9999 FEW016 M26/M29 A2954 RMK AO2 SLP997 T12591286 11238 21287 51002 LTCN 071150Z 33014KT 9999 SCT035 BKN100 10/M03 Q1012 LTCO 071150Z 14004KT 0550 R16/0750N R34/0700N SN FZFG VV009 M01/M02 Q1010 RESN HEGN 071100Z 33011KT CAVOK 19/02 Q1019 NOSIG LTBY 071150Z 36010KT 320V030 9999 SCT030 03/M05 Q1023 LTCP 071150Z 35014KT 9999 SCT035 BKN090 08/M01 Q1011 LTBZ 070650Z 02016KT 9999 BKN030 M02/M05 Q1022 YCMT 071230Z AUTO 13005KT //// // ////// 25/23 Q1012 YCNK 071230Z AUTO 23003KT //// // ////// 16/15 Q1018 LTCR 071150Z 28003KT 220V350 9999 SCT040 BKN100 10/04 Q1011 LTCS 071150Z 03011KT 9999 FEW015 SCT030 BKN080 05/03 Q1012 LTCT 071150Z 13004KT 6000 SCT035 BKN060 04/M01 Q1012 YCNM 071230Z AUTO 13008KT //// // ////// 24/13 Q1015 YCOE 071230Z AUTO 27005KT //// // ////// 28/23 Q1010 LTCU 071224Z 12006KT 9999 SCT020 BKN033 OVC090 01/M00 Q1012 RMK RWY30 12005KT LSMM 071150Z AUTO 27010KT 240V320 9999NDV NCD 08/01 Q1005 RMK LTCV 071150Z 09008KT 8000 FEW015 BKN035 OVC090 06/04 Q1011 YBWP 071230Z AUTO 27002KT 9999 // NCD 29/24 Q1009 LSMP 071150Z AUTO 26011KT 220V320 9999NDV -RA SCT026 BKN032 OVC036 05/04 Q1008 RMK RORS 071000Z 34020KT 9999 SCT039 BKN047 13/04 Q1022 LSMS 071150Z 13005KT 060V200 9999 SCT090 BKN130 12/M03 Q1006 YCOM 071230Z AUTO 25005KT 9999 // NCD 13/12 Q1022 YBWW 071200Z AUTO 09016KT 9999 // NCD 21/17 Q1016 LTFC 071150Z 07014KT 9999 BKN035 04/M05 Q1020 LTFD 071150Z 07017KT 9999 FEW035 08/M01 Q1027 YBWX 071230Z AUTO 27009KT //// // ////// 28/25 Q1009 YCNY 071230Z AUTO 00000KT //// // ////// 27/21 Q1008 LTFE 071150Z 04012KT 010V070 CAVOK 11/M03 Q1021 NOSIG LTFG 071150Z 04015KT CAVOK 14/M04 Q1016 LTFH 071150Z 30022KT 9999 -RA BKN030 OVC080 05/M01 Q1026 NOSIG BIEG 071200Z 01015KT 9999 SCT025 BKN035 M01/M02 Q0985 R04/750195 RMK RWY SANDED RPLB 071200Z 06008KT 9999 FEW020 BKN080 26/18 Q1013 NOSIG RMK A2991 LTFJ 071150Z 04010KT 360V080 9999 SCT042 07/M02 Q1028 NOSIG GMTA 071200Z 32017KT 9999 FEW020 SCT100 20/14 Q1024 NOSIG RPLC 071200Z 02005KT 9999 SCT020 BKN090 24/20 Q1016 NOSIG RMK A3002 ROTM 071155Z 28009KT 9999 SCT047 13/04 A3017 RMK SLP225 T01290035 10158 20128 52011 RPLI 071200Z 02004KT 9999 SCT019 BKN100 22/15 Q1016 RERA RMK A3000 FWKI 071200Z 16010KT 9999 FEW035CB BKN040 28/17 Q1016 NOSIG RPLL 071200Z 11006KT 080V150 9999 FEW023 SCT100 25/19 Q1015 NOSIG RMK A2997 RPMD 071200Z 35005KT 320V060 9999 FEW016 BKN090 BKN290 27/23 Q1012 RERA RMK A2988 GMTN 071200Z 27015KT 7000 BKN026 17/12 Q1026 NOSIG HEMA 071100Z 02011KT CAVOK 19/02 Q1018 NOSIG GMTT 071200Z 34011KT 6000 FEW010 SCT016 BKN026 15/11 Q1028 NOSIG GMUT 062130Z 24011KT 5000 FEW010 SCT016 17/14 Q1024 NOSIG HEMM 071100Z 34020KT 9999 BKN020 14/05 Q1024 NOSIG BIHN 062200Z 02013KT 9999 SCT030 OVC050 02/// Q0984 R18/790330 HELX 071100Z 32006KT CAVOK 17/06 Q1021 NOSIG RPMZ 071200Z 00000KT 9999 FEW017 28/23 Q1012 RMK A2988 NCAI 071200Z AUTO 06004KT //// ///// 26/25 Q1011 FVWN 061500Z 00000KT 9999 TS FEW070CB SCT080 30/18 Q1017 MKJP 071200Z 03003KT 9999 FEW024 24/20 Q1015 MKJS 071200Z 17006KT 9999 FEW022 23/19 Q1015 YCUN 071230Z AUTO 07006KT //// // ////// 29/06 Q1016 BIIS 071200Z 03020G33KT 010V050 9999 FEW018 BKN025 02/M03 Q0986 R88/82//95 RMK ARNARNES 90GR 18KT LUBL 071200Z AUTO 17016KT 9999 NCD 04/M02 Q1024 YCWA 071200Z AUTO 12005KT 9999 // NCD 31/06 Q1015 GOGG 071200Z 06006KT 8000 NSC 31/07 Q1016 BIKF 071200Z 07017KT CAVOK 01/M05 Q0980 R11/290068 GOGK 071200Z 08006KT CAVOK 36/07 Q1015 HEPS 071100Z 26018KT 9999 SCT025 SCT030 12/09 Q1019 OSIG GOGS 071200Z 04008KT 340V100 9000 NSC 31/09 Q1014 YCWR 071230Z AUTO 07005KT //// // ////// 23/13 Q1017 HESC 071100Z 27018KT 9999 FEW020 06/M03 Q1021 NOSIG HESG 071100Z 33014KT CAVOK 16/02 Q1022 NOSIG HESH 071100Z 32004KT 9999 FEW025 19/02 Q1017 NOSIG YDPO 071230Z AUTO 31008KT 9999 // SCT013 BKN036 20/17 Q1018 HESN 071100Z 36011KT CAVOK 17/00 Q1021 NOSIG LSZA 071220Z VRB01KT 4000 RA BR FEW004 SCT022 BKN035 03/02 Q1014 NOSIG LSZB 071220Z 26015KT 9999 -RA FEW022 SCT025 BKN040 05/03 Q1008 NOSIG RPVD 070900Z 04008KT 9999 FEW015 30/24 Q1009 RMK A2980 LSZC 071220Z AUTO 22007KT 170V270 9999 FEW120 09/02 Q1007 LSZG 071220Z 23012KT 9999 -RA FEW018 OVC042 06/05 Q1008 NOSIG LSZH 071220Z 28013KT 9999 FEW016 BKN018 BKN220 07/03 Q1007 NOSIG HETR 071200Z 31025KT 6000 SCT025 18/04 Q1019 RPVM 071200Z 01013KT 9999 FEW020 28/25 Q1013 RMK A2991 LSZL 071150Z AUTO 12003KT 080V140 7000NDV -RASN FEW006 BKN008 OVC012 03/02 Q1015 RMK RPVP 071000Z 09010KT 9999 FEW017CB SCT019 BKN080 28/24 Q1011 RMK A2985 CB WSW LSZR 071220Z 28012KT 9999 FEW030 08/03 Q1004 NOSIG RMK F LSZS 071220Z 00000KT 1500 SN SCT010 OVC025 00/M01 Q1008 R/SNOCLO MMAA 071145Z 00000KT 7SM FEW300 24/22 A2989 RMK SLP126 57006 907 8/002 HZY FXMM 071100Z 28006KT 9999 FEW040 29/06 Q1022 NOSIG CAHR 071200Z AUTO 19012G18KT M02/M04 RMK AO1 SOG 23 6013 PK WND 19021/1138 SLP158 T10151041 BIRK 071200Z 08016KT CAVOK 02/M07 Q0980 R13/390161 GOOD 071200Z 10006KT CAVOK 36/07 Q1015 MMAN 070540Z 03002KT 10SM SKC 08/M09 A3041 RMK SLP/// 5//// 9// YFBS 071230Z AUTO 20003KT //// // ////// 21/08 Q1016 MMAS 071159Z RTD 03006KT 8SM BKN180 06/M05 A3036 RMK SLP/// 5//// 9// 8/008 MMCB 070042Z 00000KT 7SM BKN200 27/02 A3010 RMK 8/002 HZY LUKK 071200Z 18012KT 9999 FEW029 05/M02 Q1027 R08/CLRD95 NOSIG GOOK 071200Z 08012KT CAVOK 35/03 Q1016 FYGB 071200Z AUTO 15004KT //// // ////// 36/06 Q1022 YFDF 071230Z AUTO 13008KT 9999 // NCD 33/08 Q1013 MMCE 071147Z 36016KT 7SM FEW010 SCT030 21/15 A3019 RMK SLP224 5//// 928 8/800 CBBC 071200Z AUTO 12008KT 9SM -RA BKN028 OVC033 04/03 A3030 RMK PCPN 1.0MM PAST HR SLP263 FYGF 071200Z AUTO 20004KT //// // ////// 32/10 Q1021 YEML 071200Z AUTO 14010KT 9999 // BKN006 OVC023 24/24 Q1013 MMBT 070040Z 23008KT 8SM FEW030 30/24 A2994 RMK 8/100 HZY MMCL 071205Z RTD 00000KT 10SM BKN230 17/13 A2994 RMK SLP124 940 8/002 RTS MMCM 071153Z 00000KT 5SM SCT010 BKN020 BKN100 18/17 A3018 RMK SLP221 5//// 949 8/890 RTS MMCN 070145Z 29005KT 10SM FEW120 OVC200 19/07 A2998 RMK 8/037 HZY MMCP 071146Z 34012KT 7SM FEW050 20/14 A3017 RMK SLP216 5//// 925 8/500 GOOY 071230Z 04006KT 7000 NSC 34/02 Q1015 NOSIG MMCS 070340Z 00000KT 10SM SCT250 05/M08 A3034 RMK 8/008 MMCT 062142Z 36015KT 8SM OVC020 22/18 A3015 RMK 8/5// MSGTX MMMD MMCU 071140Z 00000KT 10SM SCT200 M01/M18 A3029 RMK SLP246 5//// 991 8/008 RTS MMCV 070140Z 06006KT 10SM SCT220 16/M02 A3037 RMK 8/008 MMDO 070246Z 04006KT 10SM BKN200 09/M20 A3041 RMK SLP256 52017 940 8/004 MMCZ 071145Z 31020KT 6SM FEW015 SCT100 18/14 A3012 RMK SLP191 55020 913 8/550 FZAA 071200Z 20010KT 9999 BKN020 31/23 Q1014 NOSIG BIVM 071200Z 09017KT 9999 FEW025 SCT055 03/M03 Q0978 MMEP 070046Z 02004KT 10SM BKN120 OVC250 24/07 A3005 RMK 8/037 BINOVC GOSM 071200Z 14006KT 8000 NSC 33/09 Q1018 GOSP 071200Z 04006KT CAVOK 33/00 Q1017 GOSS 071200Z 12008KT 080V780 CAVOK 33/02 Q1116 GOTK 071200Z 10010KT 6000 NSC 34/11 Q1015 MMGL 071149Z 00000KT 6SM SCT300 11/M04 A3026 RMK SLP155 57002 953 8/001 HZY MMGM 070140Z 00000KT 5SM BKN150 22/09 A2998 RMK 8/070 FYKM 071200Z 33004KT 9999 SCT035TCU 35/19 Q1015 MMIA 071153Z 36010KT 8SM SKC 20/07 A3002 RMK SLP/// 5//// 9// RTS YERN 071230Z AUTO 12009KT //// // ////// 30/03 Q1018 GOTT 071200Z 06020KT 6000 DSRA NSC 35/M00 Q1015 MMHO 071147Z 00000KT 10SM BKN200 09/01 A3007 RMK SLP175 57004 962 8/008 HZY NCRG 071200Z 08005KT 9999 FEW015 27/24 Q1011 NCPY 071100Z AUTO 09005KT //// //// 29/26 Q1007 FYML 071200Z AUTO 32003KT //// // ////// 37/02 Q1020 YESP 071230Z AUTO 09011KT 9999 // NCD 21/15 Q1021 MMIO 070140Z RTD 36008KT 10SM SKC 09/01 A3045 RMK CI FYLZ 071200Z AUTO 20025KT //// // ////// 29/17 Q1012 FYOA 070700Z 25009KT CAVOK 26/14 Q1019 YFLI 071230Z AUTO 00000KT 9999 // NCD 18/17 Q1018 MNBL 071200Z 35004KT 7000 VCRA OVC016 23/21 Q1015 RA 4/C YGDH 071230Z AUTO 15011KT //// // ////// 22/13 Q1016 FYOO 071200Z AUTO 35006KT //// // ////// 35/14 Q1017 MNCH 071200Z 00000KT CAVOK 20/19 Q1012 MMMA 070240Z 00000KT 8SM SKC 12/08 A3040 RMK SLP/// 5//// 9// MMLM 070440Z 31008KT 10SM BKN220 17/12 A3004 RMK 8/008 MMMD 071150Z 33004KT 7SM FEW015 BKN070 18/10 A3017 RMK SLP194 57008 952 8/570 FYOW 071200Z AUTO 12003KT //// // ////// 34/05 Q1019 MMLO 071142Z 13004KT 8SM BKN200 06/M03 A3037 RMK SLP199 57007 914 8/008 MMLP 070543Z 02010KT 10SM SCT040 BKN200 20/09 A3007 RMK SLP183 52003 963 8/508 YGEL 071230Z AUTO 17008KT 9999 // NCD 26/16 Q1013 MMLT 070211Z RTD 34010KT 8SM OVC240 22/M02 A3004 RMK 8/007 MMML 070840Z 31006KT 10SM SKC 08/M04 A3021 RMK SLP230 52003 990 MMMM 071147Z 00000KT 6SM SKC 06/M01 A3030 RMK SLP169 57015 908 MMMT 070043Z 36010KT 7SM BKN030 OVC070 20/20 A3021 RMK 8/6// INTMT RA MMNL 070143Z 00000KT 10SM SKC 14/M08 A3036 YGFN 071200Z AUTO 20002KT 9999 // SCT034 20/16 Q1016 MMMV 062240Z 09010KT 10SM SKC 20/00 A3030 RMK HZY SKBG 071200Z VRB02KT 9999 SCT010 21/17 A2999 FYRN 071200Z 27007KT 9999 SCT040 33/17 Q1017 MMMX 071147Z 06005KT 10SM SCT250 03/M04 A3041 NOSIG RMK SLP193 57007 914 8/006 HZY MMMY 071143Z 30006KT 15SM SKC 04/M09 A3029 RMK SLP269 56012 927 SKAR 071200Z 03003KT 9999 SCT025 SCT090 17/16 A3004 MMMZ 071141Z 02003KT 10SM BKN230 15/14 A2990 RMK SLP120 57003 980 8/002 MMPA 070140Z 03006KT 6SM SKC 20/15 A3035 RMK HZY ISOL AC MMPB 071156Z 02006KT 12SM SCT230 01/M11 A3036 RMK 8/002 RTS SKCC 071200Z 28003KT 3000 BCFG SCT012 SCT090 24/21 A2995 RMK AD OPR IMC FYRU 071200Z AUTO 22004KT //// // ////// 32/17 Q1019 MMPE 061513Z 35011KT 10SM SKC 11/M08 A3024 RMK 8/000 HZY SKBO 071200Z 04006KT 9999 BKN020 11/09 A3034 SKCG 071200Z 04007KT 9999 BKN014 27/24 A2983 RMK AD OPER IMC MMPG 070040Z 00000KT 10SM SKC 16/02 A3036 SKBQ 071200Z 03004KT 8000 NSC 25/23 A2983 RMK HZ SKCL 071200Z 00000KT 9999 FEW040 SCT150 21/19 A2996 MMPN 070042Z 00000KT 8SM BKN280 22/13 A3017 RMK 8/001 HZY AC MMOX 071204Z RTD 02005KT 8SM SKC 09/05 A3035 RMK SLP203 5//// 915 ISOL SC MMPQ 070047Z 00000KT 1/2SM DZ FG OVC010 18/18 A3023 RMK 8/7// MSGTX MMMD MMPR 071043Z 35005KT 12SM OVC270 19/16 A2990 RMK 8/007 BINOVC MMPS 070140Z 32007KT 7SM SKC 27/20 A3003 RMK CI YHBA 071230Z AUTO 15009KT 9999 // SCT046 BKN056 25/20 Q1013 SKEJ 071200Z 17003KT 9999 FEW018 SCT080 26/23 A2982 YFRT 071230Z AUTO 13016KT //// // ////// 19/14 Q1022 BKPR 071230Z 16008KT CAVOK 09/M03 Q1023 NOSIG RMK 17010095 MMQT 070445Z 07011KT 7SM SKC 07/01 A3048 FYWB 071200Z 30008KT 9999 FEW030 SCT090 24/16 Q1016 MMSD 070151Z 30012KT 12SM OVC220 20/13 A3001 RMK 8/007 AC-BINOVC FYWE 071200Z 16005KT 9999 FEW050 SCT090 32/05 Q1024 MNJG 071200Z 36008KT 5000 HZ BKN016 18/16 Q1014 YGLA 071230Z AUTO 14009KT 9999 // SCT028 SCT120 26/20 Q1013 YGLB 071230Z AUTO 00000KT //// // ////// 15/14 Q1020 FYWH 071200Z 14009G22KT 9999 FEW045 30/03 Q1024 NOSIG TAPA 071200Z 11008KT NSC 26/20 Q1017 NOSIG GQNI 071200Z 08018KT 4000 BLSA NSC 31/M01 Q1022 MMSL 070246Z 29003KT 8SM SCT140 OVC220 22/13 A3004 RMK 8/037 MMTC 071143Z 10004KT 6SM BKN120 07/M07 A//// RMK SLP235 5//// 987 8/001 YHAY 071230Z AUTO 09004KT //// // ////// 26/10 Q1016 MMRX 070145Z 34003KT 8SM SKC 13/M09 A3036 RMK HZY FU GQNN 071230Z 11015KT 5000 BLSA NSC 32/M06 Q1017 NOSIG MMTG 071141Z 30014KT 6SM FEW070 FEW300 16/13 A3016 RMK SLP193 5//// 908 8/032 HZY RTS MMSP 071040Z 00000KT 4SM SKC 00/M02 A3038 RMK HZY MMTJ 071143Z 00000KT 8SM SKC 12/M08 A3014 RMK SLP211 58009 987 GQPA 070900Z 08006KT 8000 NSC 21/M03 Q1022 MNJU 071200Z 09010KT 9999 FEW020 23/19 Q1013 MMTM 071206Z RTD 31003KT 5SM SKC 11/06 A3031 RMK SLP266 5//// 910 HZY RTS YFTZ 071230Z AUTO 00000KT //// // ////// 30/17 Q1008 FYWW 071200Z 13004KT 9999 FEW030 32/06 Q1023 MMTO 071140Z 00000KT 5SM SCT200 01/M01 A3041 RMK SLP164 57002 912 8/002 HZY MMTP 071148Z 00000KT 7SM SKC 24/18 A2991 RMK SLP112 52008 964 YGLS 071200Z AUTO 13009KT //// // ////// 31/M03 Q1016 MMVA 071141Z 00000KT 5SM SCT010 BKN015 OVC070 19/19 A3024 RMK SLP237 5//// 927 8/57/ BR SKIB 071200Z 27007KT 9999 FEW030 SCT100 BKN200 22/17 A3006 FZQA 061300Z 08004KT 9999 FEW020 FEW030CB SCT100 25/21 Q1016 NOSIG MMUN 071145Z 28003KT 7SM FEW015 15/15 A3012 RMK SLP201 53003 904 8/500 K04V 071215Z AUTO 21003KT 10SM CLR M13/M16 A3031 RMK AO2 K06D 071215Z AUTO 31023G32KT 10SM OVC019 00/M02 A2955 RMK AO2 K04W 071212Z AUTO 22009KT 10SM OVC017 02/00 A2952 RMK AO2 MNMG 071200Z 00000KT 9999 FEW020 21/18 Q1013 A2991 1AC070 NOSIG GQPP 071200Z 07012KT 8000 NSC 26/09 Q1020 NOSIG K05U 071215Z AUTO 00000KT 10SM CLR M17/M19 A3056 RMK A01 SKIP 071200Z 00000KT 9999 VCSH FEW009 BKN016 10/10 A3042 RMK VCSH/E GQQP 071000Z 07014KT 8000 NSC 22/06 Q1020 NOSIG GQPZ 071200Z 08016KT 7000 BLSA NSC 27/M03 Q1025 MMVR 071142Z 36008KT 7SM SKC 18/14 A3027 RMK SLP226 5//// 918 HZY RTS K08D 071215Z AUTO 32030G38KT 2 1/2SM +UP BKN002 OVC017 M02/M01 A2977 RMK AO2 VIS 1 1/2V5 LWOH 071230Z 19004KT 160V220 CAVOK 06/M03 Q1023 SLCA 071200Z 00000KT 9999 SCT005 20/20 Q1017 SLCB 071200Z 00000KT 8000 FEW020 SCT080 BKN200 17/14 Q1028 SKLC 071200Z 35005KT 6000 SCT012 BKN100 26/25 A2985 RMK HZ LXGB 071150Z 29018G28KT 9999 FEW035 BKN250 16/09 Q1026 NOSIG MNPC 062300Z 05010KT 7000 FEW018 SCT100 29/24 Q1012 HZ NFFN 071200Z 08004KT 9999 FEW030 27/26 Q1010 NOSIG YHID 071230Z AUTO 23003KT 9999 // NCD 27/24 Q1009 SKMD 071200Z 00000KT 8000 SCT030 20/17 A3013 RMK HZ MMZC 071140Z 00000KT 10SM SKC 01/M11 A3037 SLCO 071200Z 00000KT 6000 SCT003 BKN070 25/24 Q1013 SLCP 071200Z 00000KT 9999 BKN005 BKN070 24/23 Q1017 MMZH 070245Z 07003KT 6SM BKN250 26/22 A2992 RMK SLP123 52013 900 8/002 HZY SKLT 071200Z 00000KT 9999 BKN012 BKN080 25/24 A2989 RMK AD OPR IMC MMZO 070251Z 03005KT 10SM BKN210 26/23 A2987 RMK SLP/// 5//// 9// 8/004 S SKMR 071200Z 00000KT 6000 BKN016 25/24 A2983 RMK HZ K11R 071215Z AUTO 00000KT 5SM BR CLR M01/M01 A3028 RMK AO2 T10061006 FZWA 071100Z 36010KT 9000 -TSRA SCT016 FEW020CB OVC120 24/21 Q1016 NOSIG YGTE 071200Z AUTO 01002KT 9999 // NCD 27/20 Q1008 YGTH 071200Z AUTO 12005KT 9999 // NCD 23/13 Q1016 K12N 071154Z AUTO 00000KT M07/M08 A3017 RMK AO1 SLP231 T10671083 11044 21067 55006 SKMZ 071200Z 13004KT 8000 NSC 19/09 A3028 RMK HZ YHLC 071230Z AUTO 21001KT //// // ////// 29/13 Q1011 MNRS 071200Z 12004KT CAVOK 24/20 Q1013 SLET 071200Z 32014KT 9999 BKN008 BKN020 25/23 Q1014 TBPB 071200Z 08019KT 9999 SCT014 BKN036 27/22 Q1017 NOSIG SKPC 071200Z 06006KT CAVOK 26/21 A2979 LWSK 071200Z 14005KT 110V190 CAVOK 09/M05 Q1025 NOSIG YGTN 071230Z AUTO 26004KT 9999 // OVC099 29/23 Q1009 SKNV 071200Z 00000KT 6000 BKN110 27/21 A2986 RMK HZ SKPE 071200Z 12006KT 9999 FEW017 SCT200 19/15 A3004 LYBE 071200Z 14011KT CAVOK 13/M01 Q1020 NOSIG MPBO 071200Z 28006KT 9999 FEW016 BKN090 Q1016 SKPS 071200Z 00000KT 2000 BCFG OVC010 17/17 A3014 RMK AD BLW MNM MET MPDA 071200Z 00000KT(E) CAVOK 27/15 Q1007 LYBT 071200Z 10008KT 050V140 CAVOK 13/M00 Q1020 NOSIG SKPV 071200Z VRB02KT 9999 FEW017 26/21 A//// SKRG 071200Z 00000KT 4000 HZ BKN010 15/13 A3028 RMK AD OPER IMC SKRH 071200Z 07010KT 9999 OVC020 27/22 A2987 K14Y 071224Z AUTO 26016G25KT 7SM OVC016 00/M01 A2958 RMK AO2 SKSA 071200Z 28003KT 8000 OVC050 24/23 A2995 RMK HZ NFNA 071200Z 00000KT 9999 SCT025 28/27 Q1010 SLJE 071200Z 00000KT 9999 OVC008 24/23 Q1017 K18A 071215Z AUTO 31004KT 10SM CLR M02/M05 A3012 RMK AO2 T10251048 SKSM 071200Z 000000KT 9999 NSC 24/21 A2980 SLJO 071200Z 00000KT 9999 FEW008 BKN080 25/24 Q1013 SKSP 071200Z 05011KT 9999 FEW016 BKN080 26/23 A2995 NFNS 070300Z 36005KT 40KM FEW025TCU SCT110 35/25 Q1007 SKUC 071200Z 00000KT 9999 SCT025 25/24 A2992 K19A 071215Z AUTO 32004KT 10SM CLR M01/M06 A3012 RMK AO2 TDCF 071200Z 13005KT 9999 SCT019 27/19 Q1016 SKUI 071200Z 01006KT 3000 BR OVC007 25/24 A2984 RMK AD OPR IMC NGFU 071200Z 35010KT 9999 VCSH FEW019CB SCT310 29/24 Q1008 K0E0 071215Z AUTO 02004KT 10SM CLR M04/M10 A3029 RMK AO2 T10371104 K21D 071214Z AUTO 22007KT 10SM SCT030 SCT035 SCT070 00/M01 A2962 RMK AO2 SLMG 071200Z 00000KT 9999 FEW007 BKN200 25/24 Q1014 SLLP 071200Z 08005KT 050V130 4000E -RA VCFG FEW004 SCT015 BKN070 08/06 Q1040 K20U 071215Z AUTO 30034G46KT 10SM BKN043 OVC050 00/M09 A2999 RMK AO2 K20V 071217Z AUTO 14003KT 10SM SCT046 M20/M23 A3035 RMK AO2 K0F2 071215Z AUTO 00000KT 7SM CLR 00/00 A3018 RMK AO2 T00001005 SKVP 071200Z 04008KT 8000 NSC 25/21 A2990 RMK HZ K0CO 071220Z AUTO 31036G47KT 5SM HZ OVC038 M13/M18 A3019 RMK AO2 SKVV 071200Z 00000KT 9999 FEW023 BKN090 25/20 A2993 K22N 071215Z AUTO 00000KT 7SM CLR M08/M09 A3019 RMK AO2 HKEL 071200Z 27010KT 9999 FEW021CB SCT022 BKN110 24/10 Q1023 YHUG 071230Z AUTO 10011KT //// // ////// 31/18 Q1009 NFTF 071200Z 05005KT 9999 FEW018 27/25 Q1010 SLOR 071200Z VRB02KT 9999 FEW015 10/07 Q1036 K24J 071215Z AUTO 28003KT 10SM 05/03 A3009 RMK AO1 NFTL 071200Z 34005KT 9999 FEW017 28/26 Q1010 SLPO 061700Z 06008KT 9999 BKN020 SCT200 15/07 Q1041 SLPS 071200Z 07005KT 9999 SCT015 BKN200 28/25 Q1014 SLRB 071200Z 00000KT 9999 NSC 27/24 Q1017 NFTV 071200Z 03004KT 9999 FEW018 28/25 Q1010 LYKV 071200Z 16006KT 120V200 CAVOK 10/M00 Q1021 NOSIG MPMG 071200Z 00000KT(E) 9999 FEW018 24/20 Q1013 NOSIG K0J4 071158Z AUTO 32003KT 10SM CLR M01/M04 A3022 RMK AO2 SLP233 T10061044 10033 21006 53006 SLRI 071200Z 03006KT 9999 FEW015 SCT080 BKN200 25/23 Q1015 K1A5 071215Z AUTO 00000KT 10SM CLR M07/M09 A3013 RMK AO2 T10751090 SLSA 071200Z 26006KT 9999 SCT008 BKN080 25/25 Q1013 K1A6 071215Z AUTO 00000KT 10SM CLR M05/M05 A3021 RMK AO2 T10501055 SLSB 062300Z 08004KT 9999 FEW020 SCT200 27/25 Q1010 K1A9 071215Z AUTO 32003KT 10SM CLR 02/M06 A3022 RMK AO2 T00171057 SLRQ 071200Z 00000KT 4000 SCT004 OVC008 25/25 Q1014 SLSI 071200Z 00000KT 9999 SCT070 23/21 Q1016 LYNI 071200Z VRB05KT CAVOK 12/M04 Q1023 NOSIG K1B7 071106Z 34006KT 10SM SKC 08/05 A3028 SLRY 071200Z 00000KT 8000 -RA BKN004 BKN012 OVC080 24/23 Q1015 SMJP 071200Z 07008KT 8000 FEW010 SCT015 25/23 Q1015 NOSIG SLTJ 071200Z 00000KT 9999 FEW030 SCT200 20/17 Q1021 MPPA 071200Z 02008KT CAVOK 21/17 Q1013 SLSU 071200Z 00000KT 9999 FEW007 SCT070 12/12 Q1032 K28J 071155Z AUTO 31009G19KT 10SM OVC007 05/05 A3002 RMK AO2 TSNO HKJK 071200Z 07007KT 9999 SCT029 29/13 Q1018 NOSIG LYPG 071200Z VRB03KT CAVOK 12/M02 Q1025 NOSIG SLTR 071200Z 28005KT 9999 SCT008 BKN080 26/25 Q1014 HKKI 071200Z 23015KT 9999 FEW030CB 30/19 Q1016 ZBAA 071200Z 31004MPS 280V350 CAVOK 05/M17 Q1017 NOSIG LZIB 071200Z 17018KT 9999 FEW031 12/04 Q1011 NOSIG SLVM 061900Z 36010G25KT 7000 VCSH SCT023 FEW025CB BKN070 35/22 Q1010 K1F0 071135Z AUTO 00000KT 10SM CLR 00/M01 A3019 RMK AO2 SLVR 071200Z 34007KT 8000 -RA BKN006 BKN020 OVC070 24/23 Q1015 HKML 071200Z 08016KT 9999 FEW024 31/23 Q1009 HKMO 071200Z 07012KT 9999 FEW025 32/22 Q1009 NOSIG GUCY 061900Z 27008KT 5000 HZ NSC 28/24 Q1011 NOSIG SLYA 071200Z 00000KT 9999 NSC 27/23 Q1012 YJLC 071230Z AUTO 00000KT //// // ////// 33/15 Q1007 NGTA 070600Z 01013KT 9999 -SHRA BKN010CB OVC040 29/26 Q100 RESH TDPD 071200Z 13005KT 9999 BKN018 27/22 Q1018 K1H2 071215Z AUTO 18008KT 10SM CLR 03/M04 A3006 RMK AO2 T00301039 CERM 071200Z AUTO 30005KT M08/M11 RMK AO1 SOG 37 3041 SLP146 T10811109 50008 K33V 071216Z AUTO 26019G23KT 10SM CLR M05/M11 A3026 RMK AO2 HKNW 071200Z 11012KT 9999 BKN030 28/12 Q1019 MPTO 071200Z 00000KT 9999 FEW020 20/18 Q1012 NOSIG NGTT 071200Z 05014KT 9999 -DZ SCT015CB BKN040 OVC100 27/26 Q101 0 REDZ K1J0 071158Z AUTO 29003KT 10SM CLR 01/M02 A3020 RMK AO2 SLP214 T00111022 10039 20011 53008 YIVO 071230Z AUTO 10006KT //// // ////// 29/11 Q1015 LYTV 071200Z 15005KT 100V210 CAVOK 13/01 Q1025 NOSIG LZKZ 071200Z 20013KT 9999 BKN049 06/M01 Q1019 NOSIG K0S9 071215Z AUTO 00000KT 1 1/2SM BR OVC002 01/01 A3054 RMK AO2 K1K1 071215Z AUTO 27004KT 10SM CLR 00/M04 A3008 RMK AO2 T00031043 LYUZ 071200Z 21010KT 190V250 CAVOK 08/M03 Q1020 R10/////// LYVR 071200Z 14021G31KT CAVOK 13/M01 Q1020 NOSIG K1L0 071215Z AUTO 00000KT 10SM CLR 03/M01 A3031 RMK AO2 T00331007 GVAC 071200Z 05013KT 99999 FEW015 BKN090 25/19 Q1018 NOSIG K36U 071215Z AUTO 15003KT 5SM BR CLR M14/M15 A3046 RMK AO2 SOCA 071200Z AUTO VRB02KT 9999 BKN018/// BKN024/// OVC035/// 26/24 Q1014 GVBA 071200Z 07013KT CAVOK 25/20 Q1017 NOSIG K2C8 071215Z AUTO 31017G23KT 10SM OVC024 02/00 A2948 RMK AO2 K40B 071219Z AUTO VRB06G18KT M07/M12 A2995 RMK AO1 SLP168 T10661119 11016 21066 51043 60002 70008 ZBHH 071200Z 04003MPS 6000 NSC M09/M15 Q1016 NOSIG K1M4 071156Z AUTO 00000KT 10SM CLR M04/M06 A3024 RMK AO2 SLP266 T10441056 11017 21044 53001 K0V4 071215Z AUTO 00000KT 10SM CLR M01/M03 A3013 RMK AO1 T10151028 K2D5 071215Z AUTO 29022G29KT 10SM CLR 02/M04 A2969 RMK AO2 K40J 071215Z AUTO 29005KT 10SM CLR 04/00 A3012 RMK AO2 T00360002 YKII 071230Z AUTO 21011KT 9999 // SCT009 OVC023 18/17 Q1020 LZPP 071200Z 14016KT 110V170 9999 SCT034 08/02 Q1012 HLLM 071150Z 22004KT 7000 FEW025 SCT140 20/04 Q1025 K0VG 071215Z AUTO 00000KT 10SM CLR M06/M06 A3020 RMK AO2 YLBD 071230Z AUTO 26004KT 9999 // OVC105 30/27 Q1009 K42J 071215Z AUTO 32014G18KT 10SM OVC008 05/04 A3004 RMK AO1 TSNO MSAC 061250Z 07007KT CAVOK 24/15 Q1011 A2985 K1P1 071215Z AUTO 00000KT 10SM SCT075 M06/M07 A3010 RMK AO2 T10631069 TFFF 071200Z AUTO 08011KT 9999 BKN030 BKN036 BKN054 27/21 Q1017 K2G4 071225Z AUTO 21003KT 10SM CLR M03/M10 A3010 RMK AO1 K2DP 071156Z AUTO 03014G21KT 10SM -RA FEW031 SCT049 OVC080 06/02 A3004 RMK AO2 SLPNO T00560024 10056 20048 57031 $ K2G9 071215Z AUTO 18005KT 10SM CLR M05/M10 A3012 RMK AO2 LZSL 071200Z 12009KT 080V160 9999 OVC030 04/M01 Q1017 TFFR 071200Z AUTO 11005KT 9999 FEW037 25/21 Q1018 MRLB 071200Z 07005KT CAVOK 24/16 A2982 NOSIG K2I0 071215Z AUTO 23007KT 10SM CLR 01/M05 A3018 RMK AO2 T00051047 YLEC 071230Z AUTO 21011KT //// // ////// 29/07 Q1016 K1R7 071215Z AUTO 00000KT 10SM CLR M01/M01 A3029 RMK AO2 LZTT 071200Z 25012KT 9999 BKN030 05/M01 Q1015 WS R27 NOSIG MRLM 071200Z 26004KT 9999 SCT015 BKN100 21/20 A2995 YKMP 071230Z AUTO 27004KT //// // ////// 17/15 Q1017 SMZO 0712000Z 06005KT 9999 FEW012 FEWTCU015 SCT025 26/24 Q1014 NOSIG K46D 071215Z AUTO 29023G33KT 10SM BKN026 OVC031 01/M02 A2964 RMK AO2 K1S5 071215Z AUTO 00000KT 10SM CLR M03/M04 A3057 RMK AO2 T10331042 K2J9 071215Z AUTO 34005KT 10SM CLR 00/M02 A3016 RMK AO1 YLEO 071230Z AUTO 11009KT 9999 // NCD 31/00 Q1017 MROC 071200Z 10014G24KT 9999 FEW035 19/13 A3002 NOSIG K46U 071200Z AUTO 24005KT 10SM OVC026 01/M03 A3045 RMK A01 AYMO 070200Z 32008KT 9999 BKN018 BKN140 28/25 Q1009 K49A 071215Z AUTO 02004KT 10SM CLR A3018 RMK AO2 YKOW 071200Z AUTO 32001KT //// // BKN072 OVC080 29/26 Q1008 K3D2 071215Z AUTO 20006KT 10SM SCT036 OVC050 01/M01 A2970 RMK AO2 T00121010 YLHI 071230Z AUTO 28003KT 9999 // SCT022 SCT038 OVC054 21/19 Q1013 K1V4 071154Z AUTO M01/M07 A3007 RMK AO1 SLP194 T10061067 10000 21011 53013 K1V6 071215Z AUTO 19008KT 10SM CLR 03/M08 A3018 RMK AO2 SPCL 071200Z /////KT 8000 BKN008 OVC070 24/23 Q1014 RMK PP000 K3AU 071215Z AUTO 26005KT 10SM CLR 00/M03 A3008 RMK AO2 YLHR 071230Z AUTO 00000KT //// // NCD 27/25 Q1009 LZZI 071200Z 18009KT 120V230 9999 FEW034 08/M00 Q1013 YKSC 071230Z AUTO 16013KT 9999 // BKN027 18/13 Q1022 MRPV 071200Z 10014G24KT 9999 FEW030 18/13 A3006 NOSIG YMBA 071230Z AUTO 16005KT //// // ////// 27/23 Q1012 YLIS 071230Z AUTO 00000KT 9999 // ////// 18/17 Q1016 ZBSJ 071200Z 21002MPS 5000 FU NSC 02/M17 Q1018 NOSIG OAHR 071155Z 18018KT CAVOK 20/M12 Q1017 RMK SKC VIS MIN 9999 BLU YMBD 071230Z AUTO 20014KT 9999 // OVC017 18/14 Q//// YKRY 071200Z AUTO 12008KT //// // ////// 20/17 Q1016 ZBTJ 071200Z 21002MPS 6000 NSC 03/M17 Q1017 NOSIG AYPY 071200Z 00000KT 9999 FEW040 OVC280 29/24 Q1009 OAKB 071150Z 06007KT CAVOK 13/M09 Q1020 NOSIG RMK BLU BLU YMAV 071218Z AUTO 20010KT 9999 // BKN012 19/17 Q1020 YLLE 071200Z AUTO 09005KT //// // ////// 30/17 Q1013 YMAY 071200Z AUTO 35003KT 9999 // NCD 24/16 Q1016 GVNP 071200Z 05015KT CAVOK 28/11 Q1017 NOSIG OBBI 071200Z 15012KT CAVOK 24/03 Q1013 NOSIG K54J 071215Z AUTO 31006KT 10SM CLR 00/M03 A3021 RMK AO2 T10011035 SPGM 071200Z 21002KT 5000 -RA BR BKN015 OVC070 22/22 Q1017 RMK BIRD HAZARD RWY 19 PP010 YMCO 071230Z AUTO 33005KT //// // ////// 19/16 Q1018 NIUE 062000Z 07012KT 9999 BKN018 29/25 Q1012 YMDG 071230Z AUTO 13005KT //// // NCD 21/15 Q1019 SPHI 071200Z 18008KT 9999 SCT043 23/22 Q1009 RMK PP000 SPHO 071200Z VRB01KT 9999 SCT035 OVC080 16/12 Q1029 RMK PP000 MSLP 071150Z 01006KT CAVOK 25/15 Q1011 A2986 K4A6 071215Z AUTO 00000KT 10SM SCT046 M04/M04 A3024 RMK AO2 YMEK 071200Z AUTO 13006KT 9999 // NCD 33/02 Q1015 K3J7 071215Z AUTO 00000KT 10SM CLR 00/M03 A3008 RMK AO2 K4A7 071215Z AUTO 34003KT 10SM CLR 00/M05 A3014 RMK AO2 T00001048 SPJC 071200Z 17006KT 9999 SCT020 SCT170 24/21 Q1010 NOSIG RMK PP000 K1YT 071158Z AUTO 05005KT 10SM CLR M01/M03 A3053 RMK AO2 PK WND 190165/22 SLPNO T10081033 10034 21014 52023 $ K4A9 071215Z AUTO 00000KT 10SM CLR M05/M07 A3022 RMK AO2 YMEN 071204Z AUTO 23009KT //// // BKN010 19/17 Q1019 SPHY 071200Z 36004KT 7000 -DZ BCFG SCT013 BKN050 OVC070 08/07 Q1035 RMK TMAX 13.4 06/02 BIRD HAZARD RWY03/21 PPTRZ K3K3 071215Z AUTO 26005KT 10SM CLR 00/M03 A3018 RMK AO2 YMER 071230Z AUTO 00000KT 9999 // NCD 17/15 Q1018 SPJI 062100Z 00000KT 9999 BKN030 29/24 Q1018 RMK T.MAX 29.4 PP000 OAMS 071150Z 06009KT 9999 BKN250 19/02 Q1014 BLU+ BLU+ SPJL 071200Z 34003KT 9999 FEW010 OVC080 08/07 Q1040 RMK PP000 SPJR 071230Z 03005KT 9999 SCT033 BKN046 16/11 Q1029 YMHB 071200Z 15007KT 9999 FEW013 BKN017 19/16 Q1018 ZBYN 071200Z 22002MPS CAVOK M00/M20 Q1019 NOSIG K2V5 071215Z AUTO 32012KT 10SM CLR M01/M08 A3017 RMK AO2 T10121080 YMIA 071230Z AUTO 00000KT 9999 // NCD 25/07 Q1015 YLRE 071230Z AUTO 14009KT 9999 // NCD 25/22 Q1011 SPME 071200Z 15003KT 9999 FEW017 SCT023 25/23 Q1009 RMK BIRD HAZARD RWY 32/14 PP000 SPLO 062100Z 11011KT 9999 BKN070 26/21 Q1009 RMK TMAX 28.0 PP000 GVSV 071200Z 06024KT 9999 FEW018 SCT066 BKN090 25/19 Q1019 NOSIG K4BM 071216Z AUTO 31009G22KT 240V010 10SM CLR M06/M18 A3026 RMK AO2 K3LF 071215Z AUTO 19009KT 10SM CLR 01/M03 A3002 RMK AO2 T00061035 K2W6 071227Z AUTO 00000KT 10SM CLR M01/M03 A3020 RMK AO1 K3N8 071215Z AUTO 29020G25KT 1 1/2SM -SN 00/00 A2952 RMK AO2 T00001004 YMIN 071230Z AUTO 16014KT //// // ////// 17/14 Q1021 SPMS 071200Z 00000KT 9999 FEW012 BKN090 24/23 Q1015 RMK BIRD HAZARD RWY 09/27 PP000 YNAR 071230Z AUTO 00000KT //// // ////// 22/15 Q1016 YLST 071230Z AUTO 11004KT 9999 // NCD 29/06 Q1017 YLTN 071230Z AUTO 11010KT //// // ////// 30/02 Q1019 MSSM 061250Z 01001KT CAVOK 22/17 Q1012 A2988 DAAD 071200Z 00000KT 8000 SCT030 BKN100 11/02 Q1021 YNBR 071230Z AUTO 15010KT 9999 // NCD 24/12 Q1015 DAAE 071200Z 24010KT 9999 FEW023 SCT090 BKN233 19/06 Q1016 DAAG 071200Z 28024G34KT 1200 R23/P2000D R09/1100VP2000U RA FEW026 FEM030CB BKN046 14/12 Q1018 MSSS 070450Z 34003KT CAVOK 19/17 Q1018 A3007 DAAJ 071200Z 00000KT CAVOK 19/05 Q1025 MUCC 071150Z 22008KT 9000 FEW020 22/21 Q1014 DABB 071200Z 22013KT 9999 FEW030 SCT100 20/09 Q1014 DABC 071200Z 23016KT 9999 SCT040 BKN200 15/02 Q1018 K4I3 071216Z AUTO 17004KT 10SM CLR M03/M06 A3007 RMK AO2 MUCF 071150Z 33005KT 290V360 7000 BKN018 21/19 Q1016 K2WX 071156Z AUTO 29029G38KT 01/M09 A2995 RMK AO1 PK WND 29038/1153 SLP163 T00061094 10033 21006 51007 YMLT 071230Z AUTO 35008KT 9999 // BKN033 17/14 Q1018 DAAP 071200Z 36010KT CAVOK 22/M01 Q1023 K4I7 071215Z AUTO 20004KT 10SM CLR 01/M08 A3004 RMK AO2 K3R7 071216Z AUTO 00000KT 1/4SM FG OVC001 01/01 A3032 RMK AO2 YMML 071200Z 19006KT 9999 FEW011 19/16 Q1020 FM1200 20008KT 9999 BKN012 YMNE 071200Z AUTO 13004KT 9999 // NCD 30/06 Q1017 MUCL 071153Z 33010KT 8000 BKN018 OVC060 20/18 Q1016 DAAS 071200Z 24020KT 8000 -RA BKN026 SCT100 09/03 Q1020 DAAT 071200Z 30010KT 270V330 CAVOK 20/M08 Q1026 MUCM 071151Z 21004KT 8000 FEW020 18/17 Q1016 DAAV 071200Z 27008KT 9999 FEW026CB SCT080 BKN200 19/10 Q1015 TGPY 071200Z 09017KT 9999 FEW021 26/22 Q1015 NOSIG DAAY 071200Z 27022KT 3000 DRSA FEW030 BKN100 14/02 Q1028 K5A6 071215Z AUTO 00000KT 10SM CLR M04/M04 A3026 RMK AO2 T10401045 AZUH 070950Z 24006KT 9999 FEW035CB SCT040 OVC090 08/03 Q1010 SPQT 071200Z 23005KT 9999 BKN013 OVC100 24/23 Q1013 NOSIG RMK BIRD HAZARD PP000 K65S 071215Z AUTO 00000KT 10SM OVC025 M03/M04 A3052 RMK AO2 SPQU 071200Z VRB03KT 9999 BKN100 15/12 Q1025 NOSIG RMK PP000 DABS 071200Z 24004KT 9999 FEW040 SCT230 17/00 Q1020 MUCU 071150Z 03004KT 9000 SCT018 21/20 Q1015 DABT 071200Z 21019KT 9999 SCT026 BKN200 15/00 Q1018 YMOG 071230Z AUTO 10004KT //// // ////// 33/05 Q1015 K3T5 071215Z AUTO 00000KT 7SM CLR 00/M01 A3028 RMK AO2 T10041010 K66R 071215Z AUTO 00000KT 1 1/2SM BR BKN003 00/M01 A3029 RMK AO2 VIS 1/2V5 T10041006 SPRU 071200Z 11007KT 8000 SCT012 22/20 Q1009 RMK BR PP000 K5C1 071215Z AUTO 00000KT 10SM CLR M03/M05 A3027 RMK AO1 SPSO 071200Z 22010KT CAVOK 22/20 Q1010 RMK BIRD HAZARD RWY 22/04 PP000 YMOR 071230Z AUTO 16008KT 9999 // NCD 25/14 Q1014 DAEF 071200Z 00000KT CAVOK 19/03 Q1025 SPST 071200Z 00000KT 2000 BR BKN010 OVC050 23/22 Q1013 RMK BIRD HAZARD RWY 17/35 PP000 SPTN 071200Z 03003KT 9999 BKN120 21/15 Q1013 RMK PP000 DAEN 071200Z 36008KT CAVOK 18/M02 Q1025 DAFH 071200Z 27020KT CAVOK 17/02 Q1024 MUHA 071155Z 23006KT 200V300 8000 -RA BKN018 OVC050 18/16 Q1017 SPTU 071200Z 00000KT 5000 BR BKN005 24/23 Q1014 RMK BIRD HAZARD RWY01/19 PP000 K4M9 071215Z AUTO 18008KT 10SM CLR 00/M03 A3016 RMK AO2 MUGM 071156Z 34006KT 9999 FEW030 SCT080 22/20 A3000 RMK SLP159 T02220200 10239 20222 53010 MTPP 071200Z 12008KT 9000 FEW020 24/20 Q1015 A2998 MUHG 071207Z 14004KT 2000 MIFG FEW020 BKN100 19/18 Q1015 K4O4 071215Z AUTO 11004KT 10SM CLR M01/M02 A3025 RMK AO2 YMRY 071230Z AUTO 00000KT 9999 // NCD 17/16 Q1018 YMTG 071230Z AUTO 17008KT 9999 // NCD 15/13 Q1021 YMTI 071230Z AUTO 36006KT //// // ////// 29/24 Q1008 K4MR 071158Z AUTO 27014KT 10SM CLR 02/M08 A3014 RMK AO2 SLP195 T00241081 10060 20023 55002 $ K5H4 071215Z AUTO 30025G33KT 10SM OVC021 00/M02 A2966 RMK AO2 P0033 PWINO PNO SPZA 071230Z 00000KT CAVOK 22/19 Q1013 SPYL 062100Z 20015KT CAVOK 31/21 Q1008 RMK BIRD HAZARD RWY 17/35 TMAX 33.3 PP000 DBBB 071100Z 21009KT 2500 HZ SCT010 31/27 Q1013 NOSIG K6A1 071215Z AUTO 30005KT 10SM 03/M03 A3014 RMK AO2 T00301028 K6A2 071215Z AUTO 34003KT 10SM CLR 00/M06 A3014 RMK AO2 SPZO 071230Z 00000KT 9999 FEW036 SCT050 13/08 Q1034 UAAA 071200Z 02001MPS 3000 FU FEW100 SCT200 04/M03 Q1013 R88/CLRD65 NOSIG K6B0 071215Z AUTO 00000KT 10SM BKN065 M02/M07 A3012 RMK AO2 T10171068 UAAH 071200Z 09006MPS CAVOK M05/M07 Q1012 R05/720140 NOSIG RMK QFE722/0963 YMYB 071230Z AUTO 17006KT 9999 // NCD 22/20 Q1014 UACC 071200Z 20009MPS CAVOK M01/M04 Q1004 R22/8/0065 NOSIG RMK QFE722/0963 K4V0 071215Z AUTO 11003KT 10SM CLR M17/M19 A3044 RMK AO2 T11691189 DAOB 071200Z 24028KT 9999 SCT023 BKN093 14/05 Q1020 TJBQ 071150Z 00000KT 10SM SKC 20/18 A3003 RMK RWY08- ATIS F DAOF 071200Z 21004KT CAVOK 23/M00 Q1029 YNRC 071230Z AUTO 17013KT //// // ////// 17/13 Q1020 UACK 071130Z 19002MPS CAVOK M04/M05 Q1001 R20/492526 NOSIG RMK QFE728/0970 DAOI 071100Z 22020KT 9999 -RA SCT030 FEW033CB 15/14 Q1019 K79J 071156Z AUTO 34004KT 10SM CLR 02/M05 A3021 RMK AO2 SLP228 T00221050 10050 20022 53005 UADD 071200Z 26003MPS 9999 NSC 13/M10 Q1011 R13/0///65 NOSIG RMK QFE702/0936 K5M9 071215Z AUTO 21005KT 10SM CLR 00/M05 A3016 RMK AO2 T00001053 DAOL 071200Z 27024G34KT 8000 SCT026 BKN080 18/09 Q1022 UACP 071130Z 06006MPS 9999 DRSN SCT007 OVC020CB M03/M03 Q1005 R05/4/4035 NOSIG RMK QFE742/0989 DAON 071200Z 24017KT 9999 BKN026 SCT100 21/06 Q1023 DAOO 071200Z 26024G34KT 9999 FEW013 SCT020 BKN030 18/13 Q1022 DAOR 071200Z 24003KT CAVOK 20/M14 Q1028 YPAD 071200Z 14013KT 9999 FEW025 19/13 Q1019 FM1200 MOD TURB BLW 3000FT K82C 071215Z AUTO 00000KT 10SM SCT110 02/M01 A2967 RMK AO2 T00221012 YPAG 071230Z AUTO 15015KT 9999 // NCD 23/16 Q1018 DAOV 071200Z 28028KT 6000 BKN030 SCT100 17/06 Q1022 DAOY 071100Z 27018KT 7000 DRDU FEW030 SCT100 14/01 Q1025 YNSM 071230Z AUTO 08008KT //// // ////// 30/08 Q1019 OEAB 071200Z 20014KT 9999 FEW020 20/12 Q1024 NOSIG MUSC 071151Z 29006KT 8000 SCT020 BKN050 20/18 Q1016 OEAH 071200Z 18018KT 5000 BLDU SKC 26/M04 Q1012 NOSIG OEBA 071200Z 22010KT 9999 SCT030 22/13 Q1019 NOSIG YPCC 071230Z AUTO 09011KT 9999 // NCD 29/24 Q1008 YOLD 071230Z AUTO 15011KT 9999 // NCD 32/03 Q1016 YNTN 071230Z AUTO 34007KT 9999 // NCD 29/25 Q1007 YPBO 071230Z AUTO 11005KT 9999 // NCD 31/09 Q1012 K82V 071215Z AUTO 34008KT 10SM CLR M06/M09 A3019 RMK AO2 OEAO 071200Z 19008KT CAVOK 19/01 Q1016 OEBH 071200Z 24010KT CAVOK 28/11 Q1016 NOSIG OEAR 071200Z 25004KT CAVOK 28/10 Q1014 MWCB 071200Z 00000KT CAVOK 24/21 Q1015 K6I2 071210Z AUTO 17005KT 10SM CLR 00/M06 A3018 RMK AO2 YPEA 071200Z AUTO 18010KT //// // NCD 32/08 Q1014 YPED 071200Z AUTO 12007KT 9999 // NCD 21/14 Q1019 K5R8 071215Z AUTO 00000KT 10SM BKN001 M01/M01 A3030 RMK AO2 T10131013 YOLW 071230Z AUTO 27011KT //// // ////// 28/24 Q1009 YPDN 071200Z 29002KT CAVOK 27/26 Q1009 NOSIG DAUA 071200Z 35005KT CAVOK 21/01 Q1027 DAUB 071200Z 12015KT 9999 SCT033 BKN100 17/M00 Q1023 TJIG 071145Z 09005KT 7SM VIS SE 4 VCSH SE SCT020 BKN060 23/21 A3007 RMK RWY09 IN USE ATIS B DATM 071200Z 04010KT CAVOK 25/M03 Q1024 OEDF 071200Z 15017KT 7000 NSC 25/02 Q1012 NOSIG DAUE 071200Z 24008KT CAVOK 18/01 Q1028 UAII 071200Z 03001MPS CAVOK 16/M03 Q1012 R10/0///70 NOSIG RMK QFE723/0965 MWCR 071200Z 00000KT 9999 FEW018 BKN035 23/22 Q1016 NOSIG DAUG 071200Z 26022KT 4000 DRSA NSC 19/M00 Q1024 DAUH 071200Z 21008KT CAVOK 18/M03 Q1025 YOOD 071230Z AUTO 08009KT //// // ////// 32/12 Q1014 DAUI 071200Z 03012KT CAVOK 22/M02 Q1026 YNWN 071200Z AUTO 12006KT 9999 // NCD 31/07 Q1014 OEDM 071200Z 24014KT 9999 SCT040 25/06 Q1014 DAUK 071200Z 21016KT 9999 FEW046 BKN233 19/01 Q1024 DAUL 071200Z 24024KT 8000 FEW033 SCT080 19/00 Q1022 DAUO 071200Z 21008KT 9999 FEW040 SCT200 19/M02 Q1024 OEDR 071200Z 14017KT CAVOK 23/05 Q1011 NOSIG MUVR 071153Z 22005KT 7000 -RA BKN012 OVC050 17/17 Q1016 UBBB 071200Z 34031G45KT 9999 BKN012 OVC022 06/03 Q1018 R88/CLRD// NOSIG YOOM 071200Z AUTO 12004KT //// // ////// 31/14 Q1013 UAKD 071200Z 17007MPS 7000 OVC100 00/M02 Q1006 R22/95//45 NOSIG RMK QFE721/0962 K5T9 071215Z AUTO 07005KT 10SM CLR M00/M05 A3027 RMK A01 DAUT 071200Z 00000KT CAVOK 20/M08 Q1028 DAUU 071200Z 23010KT CAVOK 20/M02 Q1025 ZGGG 071200Z 34004MPS CAVOK 15/M03 Q1025 NOSIG UBBG 071200Z 10006KT 1500 -DZ BR OVC002 06/05 Q1016 R30/190065 NOSIG K6L4 071215Z AUTO 00000KT 10SM CLR M01/M05 A3015 RMK AO2 ZGHA 071200Z 17002MPS 8000 NSC 10/M01 Q1025 NOSIG DAUZ 071200Z 14009KT 090V170 CAVOK 18/M00 Q1024 UAKK 071200Z 18013MPS 5000 DRSN NSC M01/M05 Q1006 R23/550742 NOSIG RMK QFE708/0944 TIST 071153Z 12016G21KT 10SM FEW021 SCT032 SCT044 27/22 A3004 RMK AO2 SLP171 70036 T02670217 10267 20261 51014 UBBL 071200Z 00000KT 6000 -RA OVC020 07/06 Q1020 R33/290158 RMK MT OBSC UBBN 071230Z 16002KT 5000 BR BKN040 OVC090 05/M01 Q1010 R14R/CLRD// NOSIG RMK MT OBSC QFE683 TISX 071153Z 12011G17KT 10SM FEW020 SCT035 27/22 A3006 RMK AO2 SLP176 T02670217 10267 20261 52015 K5SM 071215Z AUTO 00000KT 10SM CLR M08/M10 RMK AO2 UBBQ 071200Z 12002KT 8000 -RA OVC016 05/04 Q1017 R16/1965// NOSIG RMK MT OBSC YPGV 071200Z AUTO 00000KT 9999 // OVC105 28/25 Q1009 YORG 071230Z AUTO 12004KT 9999 // NCD 15/12 Q1021 OEGN 071200Z 19012KT 9999 SCT030 31/23 Q1014 TEMPO 9000 K7BM 071216Z AUTO 31010G30KT 270V360 10SM CLR 00/M13 A3022 RMK AO2 UBBY 071100Z 14008KT 9999 OVC050 06/03 Q1019 R33/////// NOSIG RMK MT OP OEGS 071200Z 33010KT CAVOK 23/09 Q1013 OEGT 071200Z 24026KT 3000 BLSA SCT040 11/00 Q1014 NOSIG OEHL 071200Z 25012KT CAVOK 19/M03 Q1015 NOSIG UBEE 071200Z 16007KT 7000 BKN006 OVC020 07/06 Q1018 R30/190065 NOSIG YPKA 071230Z AUTO 26014KT 9999 // NCD 31/24 Q1009 YPKG 071230Z AUTO 12008KT 9999 // NCD 27/M00 Q1019 TJMZ 062150Z 04009KT 10SM SCT040 28/18 A3003 RMK LAST TJNR 071153Z AUTO 14007KT 9SM BKN042 24/22 A3006 RMK AO2 SLP180 60004 70012 T02390222 10239 20217 53016 $ YPJT 071230Z AUTO 18009KT 9999 // NCD 30/10 Q1015 ZHCC 071200Z 27003MPS CAVOK 07/M13 Q1022 NOSIG ZGKL 071200Z 12002MPS CAVOK 11/02 Q1026 NOSIG OEJN 071200Z 28014KT 9999 FEW040 25/15 Q1015 NOSIG UAOO 071200Z 30004MPS CAVOK 12/03 Q1008 R23/CLRD70 NOSIG RMK QFE744/0993 YPKS 071230Z AUTO 07009KT //// // ////// 22/13 Q1017 OEKJ 071200Z 22011KT CAVOK 29/00 Q1015 YPKU 071200Z AUTO 36007KT 9999 // NCD 29/24 Q1008 OEKK 071100Z 27011KT CAVOK 22/14 Q1013 NOSIG YPLM 071200Z AUTO 27009KT 9999 // NCD 31/14 Q1009 OEKM 071200Z 22016KT CAVOK 20/11 Q1023 NOSIG K6R3 071215Z AUTO 00000KT 5SM BR CLR M01/M01 A3030 RMK AO2 T10071007 K6R6 071153Z AUTO 35005KT 01/M11 A3020 RMK AO1 SLP217 T00111106 10067 21017 56009 TJPS 070850Z 03007KT 10SM SKC 23/19 A2998 OEMA 071200Z 28010KT CAVOK 25/M08 Q1015 NOSIG K8A0 071215Z AUTO 00000KT 10SM CLR M01/M02 A3020 RMK AO2 K96D 071215Z AUTO 30016G26KT 10SM CLR 02/02 A2949 RMK AO2 YPMQ 071230Z AUTO 23001KT 9999 // NCD 18/17 Q1017 SUAA 071200Z 01015KT 9999 FEW033 OVC200 23/20 Q1015 OEMK 071200Z 33005KT CAVOK 30/18 Q1014 ZGNN 071200Z 00000MPS CAVOK 12/06 Q1026 NOSIG SUAG 061300Z 04004KT 9999 FEW030 32/20 Q1015 OENG 071200Z 09008KT CAVOK 30/02 Q1016 NOSIG UARR 071200Z 33006MPS 9999 BKN007 OVC016 M05/M06 Q1020 R04/CLRD70 TEMPO BKN007 RMK QFE761/1015 TJSJ 071156Z 15006KT 7SM -RA FEW032 BKN080 22/21 A3005 RMK AO2 RAB18 SLP174 P0001 60001 70042 T02170211 10228 20217 53014 UASK 071200Z 14002MPS 9999 BKN160 01/M04 Q1015 R30/810250 NOSIG RMK QFE736/0981 YPPD 071230Z AUTO 28005KT 9999 // NCD 30/22 Q1008 YPPF 071230Z AUTO 15006KT 9999 // NCD 19/13 Q1019 UATE 071200Z 35009MPS 9999 OVC011 02/M02 Q1021 R30/0///70 NOSIG RMK QFE764/1019 K7L2 071215Z AUTO 29020G28KT 10SM BKN050 02/M04 A2980 RMK AO2 YPPH 071200Z 19015KT CAVOK 32/09 Q1014 NOSIG UATG 071200Z 32008MPS 5000 BR BKN120 01/M01 Q1019 R32/CLRD70 NOSIG RMK QFE767/1022 UASP 071200Z 14005MPS CAVOK M03/M06 Q1008 R21/12//60 NOSIG RMK QFE745/0994 SUCA 071200Z 02012KT CAVOK 26/19 Q1012 UASS 071030Z 17006MPS CAVOK M01/M05 Q1016 R08/75//42 NOSIG RMK QFE741/0989 OEPA 071200Z 33008KT CAVOK 23/11 Q1011 NOSIG ZGOW 071200Z 01002MPS CAVOK 11/05 Q1025 NOSIG ZHHH 071200Z 16002MPS 120V190 8000 NSC 11/M03 Q1025 NOSIG K8D3 071156Z AUTO 30024G34KT 03/M04 A2967 RMK AO1 PK WND 31043/1057 SLP060 7//// T00281039 10044 20028 51006 $ UATT 071200Z 01005MPS 9999 OVC016 M01/M03 Q1012 R31/0///60 NOSIG RMK QFE739/0985 K7N0 071215Z AUTO 10SM CLR 07/00 A3030 RMK AO1 CMGB 071215Z AUTO 34003KT M03/M05 RMK AO1 SOG 00 3035 SLP207 T10341047 CMFM 071200Z AUTO 32010G17KT M18/M22 RMK AO1 SOG 74 3031 PK WND 26023/1116 SLP166 T11791221 50009 UAUU 071200Z 01010MPS 9000 -SN BKN009 OVC040 M03/M05 Q1007 R33/390136 TEMPO 36013MPS 2000 BR BKN002 RMK QFE740/0987 OERF 071200Z 31011KT CAVOK 18/00 Q1013 SUDU 071200Z 03008KT 9999 BKN013 24/20 Q1015 OERK 071200Z 24010KT 9000 SKC 27/04 Q1013 NOSIG OESH 071200Z 06004KT CAVOK 29/M12 Q1015 NOSIG OERR 071200Z 28018KT 9999 SCT040 17/05 Q1013 NOSIG OETB 071200Z 36003KT CAVOK 16/M01 Q1014 NOSIG OESK 071200Z 27020KT 9999 SCT030 15/M01 Q1015 NOSIG YPTN 071200Z AUTO 00000KT 9999 // NCD 27/23 Q1008 UCFM 071200Z 00000MPS CAVOK 14/M03 Q1012 R08/CLRD70 NOSIG UCFO 071200Z 33002MPS 6000 NSC 11/01 Q1015 R12/CLRD70 NOSIG OETF 071200Z 27022KT 9999 FEW030 23/08 Q1019 NOSIG ZGSZ 071200Z 09001MPS CAVOK 13/02 Q1025 NOSIG TKPK 071200Z 09005KT 9999 FEW020 26/21 Q1018 TKPN 071200Z 11011KT 9999 FEW022 26/20 Q1017 K7R3 071047Z 35007KT 10SM SKC 08/02 A3030 OETR 071200Z 26022KT 5000 BLSA OVC030 08/04 Q1013 K9A5 071215Z AUTO 00000KT 10SM CLR M02/M05 A3022 RMK AO2 T10231055 SVAC 071200Z 00000KT 9999 FEW017 SCT070 24/21 Q1015 YREN 071230Z AUTO 21013KT //// // ////// 24/11 Q1017 OEWD 071200Z 12006KT CAVOK 29/09 Q1013 NOSIG YPWR 071230Z AUTO 15018KT 9999 // NCD 29/02 Q1017 OEWJ 071200Z 29019KT 9999 BKN040 21/13 Q1017 NOSIG YPXM 071230Z AUTO 00000KT 9999 // SCT013 25/24 Q1011 SVBC 071200Z /////KT 9999 FEW013 24/24 Q1015 SVBI 071200Z /////KT 9999 SCT020 BKN080 26/// Q1014 SVCB 062000Z 07005KT 9999 BKN013 32/19 Q//// SVBM 071200Z 09005KT 9999 SCT016 23/20 Q1016 MYGF 071200Z 29010KT 8000 -SHRA FEW010 BKN050 OVC070 16/13 A2987 HTAR 070900Z 00000KT 9999 BKN031 FEW032CB 26/19 Q1019 K9D7 071155Z AUTO 29021G28KT 10SM BKN027 OVC060 00/M01 A2958 RMK AO2 SUME 061500Z 09004KT 9999 FEW030 33/21 Q1015 OEYN 071200Z 27014KT CAVOK 25/08 Q1013 NOSIG K7W4 071215Z AUTO 00000KT 10SM CLR M02/M04 A3017 RMK AO1 T10161043 SVCR 071200Z 09015KT 9000 +HZ FEW013 25/25 Q1013 K7W6 071215Z AUTO 01012G17KT 10SM -RA OVC075 05/03 A3002 RMK AO2 T00470025 SULS 071200Z 05015KT 9999 SCT016 BKN200 24/18 Q1016 SVCU 071200Z /////KT CAVOK 25/21 Q1015 HTDA 071000Z 32008KT 9999 SCT029 BKN090 30/25 Q1011 NOSIG HTBU 071100Z 08008KT 9999 FEW024 FEW026CB BKN280 28/20 Q1017 K9F2 071100Z 36006KT 7SM SKC 07/03 A3028 SVCZ 061300Z /////KT 9999 BKN016 26/19 Q1008 SUMU 071200Z 02011G21KT 9999 FEW026 BKN200 25/18 Q1015 NOSIG HTDO 071100Z 00000KT 9999 BKN024 FEW026CB 27/19 Q1017 NOSIG YSBK 071230Z AUTO 17003KT 9999 // NCD 20/16 Q1018 YSCB 071230Z AUTO 07009KT 9999 // SCT064 17/15 Q1020 TLPC 071200Z 09008KT 9999 SCT024 27/22 Q1017 NOSIG SVFM 061800Z /////KT 9999 SCT040 ///// Q1017 SVGD 071200Z 05002KT 9999 SCT017 25/21 Q//// YRMD 071230Z AUTO 15009KT //// // ////// 32/15 Q1008 TLPL 071300Z 11022KT 9999 FEW024 27/22 Q1018 NOSIG YSCN 071200Z AUTO 00000KT 9999 // SCT040 18/16 Q1019 YSCO 071230Z AUTO 17008KT //// // ////// 18/14 Q1018 YSCR 071230Z AUTO 10008KT //// // ////// 30/02 Q1018 SVGU 071100Z /////KT 9999 SCT017 25/19 Q1013 MZBZ 071200Z 31010KT 9999 FEW012 BKN047 19/18 A3016 Q1021 NOSIG YSDU 071230Z AUTO 06008KT 9999 // NCD 21/14 Q1017 HRYR 071230Z 33017KT 9999 BKN025 BKN100 26/14 Q1018 NOSIG SVJC 062200Z 04021KT 9999 FEW010 30/21 Q1009 YROM 071230Z AUTO 01003KT 9999 // NCD 23/20 Q1015 YSGE 071230Z AUTO 34004KT //// // ////// 25/19 Q1014 SVJM 071200Z /////KT CAVOK 23/22 Q1015 SUSO 071200Z 05010KT CAVOK 27/19 Q1013 MYNN 071200Z 27013G24KT 9000 -SHRA SCT010 BKN012 24/21 A2991 K9L2 071156Z AUTO 00000KT 10SM CLR 00/M06 A3031 RMK AO2 SLP271 T00001061 10061 20000 58005 FZRANO $ TNCA 071200Z 09016KT 9000 FEW017 27/23 Q1013 A2992 NOSIG HTIR 071100Z 00000KT 9999 BKN023 FEW024CB 26/18 Q1020 TNCB 071155Z 10016KT 9999 SCT018 26/23 Q1014 HTKA 071100Z 00000KT 9999 FEW022 FEW023CB BKN080 24/21 Q1020 TNCC 071200Z 13015KT 8000 FEW018 27/23 Q1014 NOSIG DFFD 071100Z 09019KT 1400 R04/1100 DU NSC 30/M01 Q1020 NOSIG YSHK 071230Z AUTO 18015KT //// // ////// 27/17 Q1010 ZJHK 071200Z 05002MPS CAVOK 12/M01 Q1025 NOSIG SVMC 071200Z /////KT 9999 FEW013 25/24 Q1013 HTKJ 071000Z 35006KT 9999 SCT038 FEW039CB 32/17 Q1015 NOSIG HSSS 071230Z 01015KT CAVOK Q1016 SVMD 071200Z 05005KT 9999 FEW040 15/08 Q1021 TNCM 071200Z 11008KT 080V140 9999 FEW020 27/22 Q1018 A3006 NOSIG RMK HZ ALQDS K8W2 071215Z AUTO 00000KT 10SM CLR M07/M08 A3015 RMK AO1 T10671078 SVMG 071200Z /////KT 9999 FEW010 28/26 Q1013 NOSIG SVMI 071200Z 00000KT 9999 FEW016 25/22 Q1015 NOSIG YSHW 071230Z AUTO 18003KT 9999 // NCD 18/16 Q1019 SVMN 071200Z 00000KT 9999 BKN013 27/// Q1011 UEEE 071200Z 33001MPS 0300 0250NE R23L/0800D FG NSC M44/M48 Q1014 R23L/490150 NOSIG RMK QFE752 HTMG 071100Z 00000KT 9999 FEW028 BKN110 30/22 Q1013 SVMT 071200Z 02005KT 9999 SCT013 24/24 Q1015 OIAA 071200Z 18010KT 9999 FEW035CB BKN100 21/11 Q1011 K9MN 071213Z AUTO 24011G16KT 10SM CLR 01/M02 A2968 RMK AO1 T00101018 YTAR 071230Z AUTO 20014KT //// // ////// 26/09 Q1018 YRTI 071230Z AUTO 16017KT //// // ////// 24/19 Q1015 OIAG 071100Z 13014KT 9999 BKN040 22/M03 Q1014 OIAH 071200Z 00000KT 9999 FEW035CB SCT040 BKN100 16/M05 Q1015 SVPA 071100Z /////KT 9999 FEW013 26/26 Q1011 OIAI 071100Z 08012KT 9999 FEW035CB SCT040 BKN090 16/04 Q1013 OIBA 071200Z 24004KT CAVOK 23/11 Q1015 OIBB 071200Z 15014KT 9999 BKN040 22/01 Q1013 A2992 DGAA 071200Z 24006KT 180V300 3000 HZ SCT015 32/22 Q1013 NOSIG HTMT 071100Z 27005KT 9999 SCT024 FEW025CB 31/26 Q1009 HTMU 071000Z 32010KT 9999 FEW024 FEW026CB 28/19 Q1018 OIAM 071200Z 12014KT 9999 FEW035TCU SCT040 21/02 Q1012 HTMW 071100Z 36012KT 9999 -RA SCT019 FEW020CB BKN090 24/18 Q1017 NOSIG OIBJ 071200Z 21014KT CAVOK 17/08 Q1016 OIBK 071200Z 25006KT CAVOK 22/07 Q1015 OIBL 071200Z 24012KT CAVOK 23/08 Q1015 OICC 071200Z 15017KT 9999 FEW035CB SCT040 OVC090 11/M02 Q1012 A2991 TEMPO 5000 RA OIAW 071200Z 12014KT 1000 -RA DU FEW035CB SCT040 BKN090 20/05 Q1011 YSMH 071200Z AUTO 12009KT 9999 // SCT020 SCT030 SCT037 26/23 Q1011 YSMI 071230Z AUTO 00000KT //// // ////// 16/15 Q1018 OIBP 071200Z 20008KT CAVOK 23/10 Q1014 A2996 OIBQ 071200Z 14012KT 9999 FEW040 BKN090 20/12 Q1012 OICI 071200Z 15010KT 8000 FEW035CB SCT040 OVC080 07/00 Q1014 A2996 OICJ 071050Z 17016KT 9999 FEW035CB SCT040 BKN090 09/M03 Q1015 OIBS 071200Z 21008KT CAVOK 23/10 Q1016 OICK 071200Z 25004KT 9999 FEW040TCU SCT040 13/M02 Q1013 YTEE 071230Z AUTO 17012KT 9999 // NCD 32/17 Q1010 YSNF 071230Z AUTO 24007KT 9999 // BKN035 23/21 Q1007 OIBV 071100Z 21008KT CAVOK 22/08 Q1015 YTEF 071230Z AUTO 14003KT //// // ////// 34/04 Q1011 SVSA 071200Z /////KT 6000 VCFG BKN017 24/21 Q1014 OICS 071200Z 19012KT 6000 -SHRA SCT030CB SCT040 OVC070 08/01 Q1011 YTEM 071230Z AUTO 19003KT //// // ////// 19/13 Q1017 SVSE 061800Z 07010KT 9999 SCT013 30/10 Q//// CPBT 071100Z AUTO 28017KT M01/M10 RMK AO1 PK WND 28023/1010 T10121096 UDSG 071200Z VRB01MPS 5000 BR OVC026 01/M01 Q1011 R02/19//60 NOSIG YSOL 071230Z AUTO 07004KT 9999 // NCD 31/04 Q1014 YSNW 071200Z AUTO 24004KT 9999 // NCD 17/17 Q1018 CPEH 071100Z AUTO 29006KT M03/M10 RMK AO1 T10271099 YTGM 071230Z AUTO 05004KT //// // ////// 28/17 Q1013 OIFK 071100Z 06006KT 9999 FEW040 BKN100 18/M07 Q1014 HTTB 071100Z 00000KT 9999 SCT026 FEW027CB 29/20 Q1019 OIFM 071200Z 27018KT 7000 FEW035CB SCT040 BKN100 10/04 Q1014 A2996 HTSO 071100Z 30010KT 9999 BKN024 FEW026CB SCT080 28/19 Q1017 OIGG 071200Z 02006KT 3000 -RA BKN008 FEW015CB OVC070 09/08 Q1018 YTIB 071230Z AUTO 00000KT //// // ////// 30/12 Q1014 SVVA 071200Z /////KT 9999 FEW023 25/22 Q1016 OIFS 071200Z 01004KT 9999 FEW030 SCT035 BKN080 05/01 Q1017 CPFI 071200Z AUTO 27012KT M01/M09 RMK AO1 PK WND 28017/1104 T10101094 OIGK 071052Z 20008KT 9999 SCT020 OVC070 05/M01 Q1012 K9V9 071215Z AUTO 29018G25KT 10SM SCT070 SCT100 SCT120 02/M02 A2995 RMK AO2 T00171022 HTSU 071100Z 32006KT 9999 FEW022 BKN090 24/15 Q1024 SVVG 071200Z 00000KT 9999 FEW017 22/22 Q1008 YSRI 071230Z AUTO 00000KT 9999 // OVC050 21/19 Q1018 DFOO 071100Z 04016KT 2000 DU NSC 29/M04 Q1019 OIHH 071200Z 09002KT 9999 FEW035CB SCT040 10/M03 Q1012 SVVL 071200Z 00000KT 9999 BKN023 23/15 Q//// YSRN 071230Z AUTO 28002KT 9999 // NCD 16/14 Q1018 OIHM 071100Z 17018KT 9999 FEW035CB SCT040 09/M01 Q1013 OIIE 071200Z 18006KT 9999 FEW030CB SCT035 BKN100 BKN200 16/M05 Q1011 SVVP 061300Z 09015KT 9999 BKN013 27/22 Q//// OIII 071200Z 00000KT 9999 SCT040 BKN100 15/M04 Q1012 A2989 NOSIG OIIK 071200Z 13004KT 9999 SCT040 BKN100 13/00 Q1012 PAAD 071215Z AUTO 09017KT 8SM FEW013 SCT040 SCT110 M25/M28 A3023 RMK AO2 YSTH 071230Z AUTO 35004KT 9999 // NCD 18/18 Q1017 OIIP 071200Z 18008KT 9999 FEW035CB FEW040 SCT100 15/M05 Q1011 OJAI 071100Z 24018KT 3000 -RA BKN025 BKN035 06/05 Q1016 NOSIG OIIS 071100Z 19002KT 9999 FEW035 BKN100 15/M05 Q1015 PABA 071156Z AUTO 08014KT 4SM BR CLR M23/M25 A3026 RMK AO2 SLP245 60000 T12281250 11206 21228 51010 FZRANO OIKB 071200Z 20012KT CAVOK 23/15 Q1015 A2998 NOSIG PAAK 071216Z 28016G21KT FEW046 OVC055 01/M07 A2967 RMK AO1 OJAM 071200Z 27009KT 3000 RA SCT025 BKN030 06/04 Q1015 NOSIG YSSY 071200Z 17004KT CAVOK 23/19 Q1018 NOSIG ZJSY 071200Z 34003MPS 300V030 CAVOK 16/09 Q1023 NOSIG PABE 071153Z 09011KT 10SM CLR M03/M08 A2979 RMK AO2 SLP090 70002 T10331078 10000 21033 58001 OJAQ 071200Z 30014KT 9999 SCT030 SCT035 17/00 Q1019 NOSIG PAAQ 071153Z AUTO 35009KT 10SM CLR M02/M09 A2994 RMK AO2 SLP143 T10171089 10006 21017 50001 TSNO PABI 071153Z AUTO 11012KT 10SM CLR M09/M13 A2998 RMK AO2 SLP187 T10891133 11061 21094 51004 TSNO $ CPIR 071100Z AUTO 27015KT M03/M11 RMK AO1 PK WND 27017/1013 T10271114 OIKK 071200Z 27010KT 9999 FEW045 22/M12 Q1016 A3003 YSTW 071230Z AUTO 13008KT 9999 // NCD 20/12 Q1017 PACD 071153Z 25004KT 10SM CLR M03/M04 A2957 RMK AO2 SLP016 T10281044 10017 21033 55002 $ OIKO 071050Z 18004KT CAVOK 24/14 Q1016 OIKQ 071200Z 22014KT CAVOK 23/14 Q1016 PABR 071157Z 09021KT 3/4SM R07/5000VP6000FT BLSN BKN003 OVC060 M26/M28 A3019 RMK AO2 T12561278 HTZA 071100Z 35011KT 9999 FEW022 BKN080 31/22 Q1010 NOSIG OIMB 071200Z 23008KT CAVOK 21/M25 Q1015 PABT 071153Z 00000KT 10SM CLR M19/M21 A3007 RMK AO2 SLP207 4/024 T11891211 11117 21194 51007 OIMC 071100Z 00000KT CAVOK 25/M02 Q1012 YTMO 071230Z AUTO 17010KT //// // ////// 31/18 Q1011 PABV 071206Z AUTO 16003KT 10SM BKN110 M04/M06 A2995 RMK AO2 SLP152 T10441061 11028 21056 51007 FZRANO OIMD 071100Z 36006KT 9999 FEW035 18/M10 Q1011 PACM 071156Z AUTO 18015KT 8SM FEW013 M02/M02 A2973 RMK AO2 FZRANO TSNO 53010 60000 T10161016 11011 21027 SLP063 $ YTNG 071230Z AUTO 11009KT 9999 // OVC066 24/20 Q1014 PADE 071153Z AUTO 13019KT 9SM -SN OVC060 M02/M06 A2976 RMK AO2 PK WND 13026/1114 SLP077 P0000 60000 70001 T10221056 11022 21094 51012 TSNO $ YSWG 071230Z AUTO 00000KT 9999 // NCD 23/14 Q1016 PADG 070150Z 06009KT 2SM -SN OVC018 M12/M14 A2960 UDYZ 071200Z 26002MPS 2300 BR BKN033CB 04/M00 Q1011 R09/000070 NOSIG YTNK 071200Z AUTO 08005KT 9999 // BKN100 BKN120 31/13 Q1011 OINB 071100Z 31010KT 9999 BKN022 BKN090 13/09 Q1015 PADK 071216Z 30008KT 10SM OVC050 M01/M09 A2974 RMK AO1 PAEC 062346Z 00000KT 1SM -SN BR OVC006 M04/M06 A2978 RMK NOSPECI PADL 071156Z AUTO 01015KT 10SM CLR M02/M03 A2975 RMK AO2 SLP081 70001 T10171033 11017 21028 58010 FZRANO OIMM 071200Z 10004KT CAVOK 22/M11 Q1012 A2991 PACV 071153Z 00000KT 10SM FEW045 FEW060 M01/M02 A2998 RMK AO2 SLP152 60001 70052 T10111017 10022 21011 58030 $ PADM 071156Z AUTO 08012KT CLR M02/M04 RMK AO2 PWINO TSNO 5//// T10221044 10011 21016 SLPNO $ PAED 071158Z AUTO 00000KT 10SM OVC100 M04/M06 A2994 RMK AO2 SLP136 T10451056 11022 21055 58001 VISNO RWY24 CHINO RWY24 $ OINE 071200Z 23010KT 7000 SCT020 OVC090 12/09 Q1014 OIMN 071200Z 33002KT 9999 FEW050 BKN080 12/01 Q1013 UERP 071200Z 07003MPS CAVOK M32/M36 Q1007 NOSIG RMK QFE711 OING 071200Z 27014KT 5000 BR OVC015 10/08 Q1017 PAEG 071153Z AUTO 12008G15KT 100V160 10SM CLR M09/M14 A3008 RMK AO2 SLP203 T10941139 11072 21100 51008 TSNO $ UERR 071200Z 05004MPS 9999 -SN BKN007 OVC100 M27/M29 Q1006 R25/390330 NOSIG RMK QFE724 OIMQ 071100Z 12008KT 9999 FEW035 19/M15 Q1014 PADQ 071153Z 04020G31KT 10SM SCT034 BKN048 OVC055 03/M01 A2967 RMK AO2 PK WND 06033/1127 SLP049 T00331006 10033 20022 58023 PACZ 071216Z AUTO 16022KT 8SM BKN004 00/00 A2966 RMK AO2 PK WND 17026/1157 SLP054 PAEH 071155Z AUTO 10023G28KT 050V140 10SM FEW180 FEW220 01/M03 A2969 RMK AO2 PK WND 12028/1143 SLP062 70002 T00131033 10031 20002 58006 PAEI 071158Z AUTO 12002KT 10SM CLR M22/M25 A3000 RMK AO2 SLP177 T12211250 11178 21224 52012 $ OIMS 061600Z 00000KT 9999 FEW035 10/M05 Q1017 NSFA 071200Z 00000KT 9999 FEW025 SCT290 28/24 Q1009 PAFA 071153Z 00000KT 10SM FEW090 FEW180 M21/M23 A3002 RMK AO2 SLP179 T12111228 11178 21222 51013 $ OIMT 070800Z 26002KT 9999 FEW035 16/M11 Q1015 OINK 071100Z 24010KT 9999 FEW035 SCT100 14/10 Q1013 PAFB 071223Z AUTO 00000KT 1 5/8SM R25R/4000FT BR CLR M21/M23 A3002 RMK AO2 VIS 1 5/8V8 $ PAEL 070152Z 00000KT 15SM FEW013 OVC170 02/02 A3013 RMK SEA 0 SWELL 3 SW NOSPECI LAST PADU 071156Z AUTO 35004KT 10SM OVC044 02/M02 A2960 RMK AO2 SLP028 70013 T00171017 10033 20017 53009 FZRANO PAEM 071135Z AUTO 16016G19KT 10SM OVC004 00/M01 A2973 RMK VIA PHONE OINN 071200Z 33004KT 1500 DZ OVC006 11/10 Q1016 PAEN 071153Z AUTO 02013KT 10SM FEW100 M02/M04 A2992 RMK AO2 SLP133 T10221044 11011 21028 58004 TSNO PAFE 071216Z AUTO 08010G18KT 8SM OVC017 02/00 A3005 RMK AO1 OINR 071200Z 33010KT 0800 +DZ OVC005 10/09 Q1017 PAGA 071158Z AUTO 11007KT 10SM BKN012 OVC025 M08/M09 A2997 RMK AO2 SLP157 60000 T10781094 11072 21083 51014 FZRANO PAFM 071216Z AUTO 11011G19KT 10SM BKN037 OVC045 M09/M12 A3006 RMK AO1 OINZ 071200Z 30006KT 9999 BKN027 OVC090 12/09 Q1016 PAGH 071157Z AUTO 11015G21KT 10SM FEW045 M09/M12 A3001 RMK AO2 PK WND 11026/1106 SLP195 T10891117 11083 21089 51020 FZRANO SYCJ 071200Z 06004KT 9999 SCT017 26/24 Q1014 NOSIG PAFR 071213Z AUTO 00000KT 10SM BKN110 M04/M06 A2993 RMK AO1 PAFS 071156Z AUTO 05006KT 10SM OVC007 M10/M13 A2996 RMK AO2 TSNO 51004 60000 7//// T11001133 11088 21111 SNB36E49 P0000 SLP162 $ PAGK 071153Z AUTO 32004KT 10SM CLR M17/M19 A3000 RMK AO2 SLP216 T11721189 11100 21172 57005 TSNO PAGL 071216Z AUTO 13014KT 1 3/4SM OVC013 M03/M06 A2982 RMK AO1 PAHC 071156Z AUTO 07003KT 10SM CLR M07/M07 A2986 RMK AO2 TSNO 50007 T10661072 11027 21077 SLP117 $ YTRE 071200Z AUTO 30003KT 9999 // NCD 19/17 Q1017 PAGM 071136Z AUTO 03018KT M OVC007 M14/M16 A2970 RMK VIA PHONE PAGN 071156Z AUTO 05006KT 7SM -RA FEW010 BKN016 OVC028 02/01 A3006 RMK AO2 TSNO 58029 60000 70005 T00220005 10027 20022 OVC V BKN UPB17E27RAB27 P0000 PRESFR SLP183 $ PAGS 071216Z AUTO 34006KT 10SM BKN080 OVC090 01/M02 A3006 RMK AO1 PAHL 071216Z AUTO 08009KT 10SM OVC016 M09/M12 A2998 RMK AO1 PAHN 071154Z AUTO 29012KT 10SM SCT018 M01/M03 A3017 RMK AO2 SLP218 T10111033 10006 21011 58022 TSNO PAHO 071153Z AUTO 03004KT 10SM CLR M03/M03 A2984 RMK SLP105 I1000 I6001 T10281028 11006 21039 58013 TSNO VIA AUTODIAL PAIG 071206Z AUTO 04019G24KT 10SM FEW026 02/M01 A2975 RMK AO2 SLP087 T00171011 10017 20000 58007 FZRANO $ PAGY 071226Z AUTO 06003KT 10SM FEW021 SCT029 SCT034 01/M02 A3018 RMK AO2 T00061017 TSNO PAHP 071216Z AUTO 15013KT 9SM BKN060 M02/M04 A2969 RMK AO1 OISA 071052Z 24023KT 9999 FEW040 17/M06 Q1015 NTAA 071200Z VRB03KT 9999 FEW023 27/24 Q1010 NOSIG PAIK 071201Z AUTO 08010G17KT 10SM CLR M07/M11 A2994 RMK AO2 SLP182 60000 T10721106 11067 21083 51009 FZRANO PAIL 071153Z AUTO 36009KT 10SM BKN049 OVC060 00/M04 A2981 RMK AO2 SLP099 6//// 7//// T00001044 10000 21017 56010 TSNO PNO $ PAJC 071224Z AUTO 03015G20KT 10SM SCT026 BKN035 OVC100 04/M01 A2957 RMK AO2 PNO $ PAIN 071216Z AUTO 00000KT 10SM CLR M09/M11 A2993 RMK AO1 OISF 071200Z 22012KT CAVOK 20/M23 Q1015 PAHX 071213Z AUTO 03010KT 10SM OVC002 M08/M09 A2989 RMK AO2 FZRANO YTTI 071230Z AUTO 21010KT //// // ////// 30/26 Q1009 PAHY 071216Z AUTO 10011G20KT 050V130 OVC017 04/00 A2999 RMK AO1 P0004 YTST 071230Z AUTO 23006KT 9999 // SCT105 29/25 Q1008 OISL 071200Z 00000KT CAVOK 24/M03 Q1015 PAJN 071153Z 09004KT 10SM BKN075 OVC095 02/M01 A3013 RMK AO2 SLP204 60000 70004 T00171006 10022 20011 58024 PAIW 071158Z AUTO 04014KT 1 3/4SM -SN BR OVC008 M14/M16 A2975 RMK AO2 CIG 006V010 SLP075 P0000 60000 T11441161 11144 21144 51012 FZRANO DIAD 071100Z 30002KT 4000 HZ NSC 33/02 Q1017 NOSIG PAKF 071201Z AUTO 30008KT 10SM FEW040 03/M02 A2958 RMK AO2 SLP113 60000 70015 T00281022 10033 20006 53001 $ CPRO 071200Z AUTO 26007KT M06/M10 RMK AO1 T10591098 PAKH 071156Z AUTO 06024G39KT 10SM BKN049 05/M04 A2952 RMK AO2 TSNO 58035 T00501044 10050 20033 PK WND 07039/1145 SLP998 $ PAKI 071156Z AUTO 09007KT 10SM M04/M05 A2973 RMK AO2 TSNO 50003 T10381050 11022 21038 SLP070 $ ZLLL 071200Z 01003MPS 8000 NSC M03/M18 Q1022 NOSIG OISS 071200Z 20008KT 9999 FEW045 20/M24 Q1016 A3001 OITK 071100Z 35002KT 9999 SCT035CB SCT040 BKN090 06/03 Q1010 PAKK 071216Z AUTO 00000KT 10SM OVC013 M05/M13 A2983 RMK AO1 OKBK 071200Z 15004KT 8000 NSC 24/M01 Q1010 NOSIG OITL 071200Z 07016G25KT 6000 2500E BR PRFG BKN003 BKN030 FEW050CB 01/00 Q1012 OITM 071200Z 09004KT 9999 -RA FEW035TCU FEW036CB OVC080 04/01 Q1012 RETS SYGO 071200Z 05012KT 9999 FEW017 28/22 Q1015 NOSIG PAKN 071154Z 02009KT 10SM CLR M03/M06 A2967 RMK AO2 SLP049 70001 T10281056 11011 21033 58011 OITP 071100Z 15016KT 9999 BKN025 OVC080 07/05 Q1016 OISY 071200Z 00000KT 9999 FEW035CB SCT040 OVC080 10/M12 Q1019 PALG 071156Z AUTO 09011G17KT 10SM CLR M01/M05 A2983 RMK AO2 TSNO 51005 T10111050 11005 21022 SLP106 $ PAJZ 071156Z AUTO 13011KT 10SM CLR M04/M05 A2984 RMK AO2 FZRANO TSNO 58007 T10381050 11027 21061 SLP096 $ PALH 071153Z 00000KT 10SM OVC100 M03/M07 A2996 RMK AO2 SLP146 T10281067 11017 21044 58001 YTWB 071230Z AUTO 09012KT 9999 // SCT014 BKN020 19/16 Q1019 CPRY 071100Z AUTO 27014KT M02/M10 RMK AO1 PK WND 27018/1004 T10231098 OITR 071150Z 00000KT 9999 FEW030CB SCT035 BKN080 06/01 Q1009 DIAP 071200Z 22010KT 7000 FEW012 31/25 Q1014 NOSIG PALJ 070156Z 00000KT 30SM BKN050 OVC080 03/00 A2977 RMK LAST 400330017 EST PASS OPEN NOSPECI OITT 071200Z 27016KT 9999 -SHRA FEW015 FEW035CB SCT090 OVC170 04/02 Q1012 A2991 NOSIG PAKT 071153Z AUTO 14014G21KT 10SM -RA SCT025 OVC030 04/01 A3009 RMK AO2 PK WND 13030/1122 SLP189 P0002 60014 70017 T00440011 10050 20039 58038 TSNO PAMB 071156Z AUTO 02013KT 10SM CLR M02/M03 A2970 RMK AO2 TSNO 58010 60001 70011 T10221033 11016 21033 SLP062 $ PAKU 070345Z 06015KT 1SM R06/P6000FT BR OVC013 M25/M28 A3011 RMK LAST OITU 071050Z 00000KT 8000 SCT030CB SCT035 OVC080 03/M01 Q1010 PAMC 071219Z 00000KT 2SM BR OVC005 M09/M11 A2998 RMK AO2 I1000 T10941106 DIBK 071100Z 06012KT 2500 HZ NSC 31/M00 Q1018 NOSIG CPST 071200Z AUTO 31009KT M04/M12 RMK AO1 T10421116 PAKV 071203Z AUTO 00000KT 10SM OVC014 M08/M11 A2998 RMK AO2 T10831106 TSNO PAMD 071216Z AUTO 08023G32KT 9SM FEW019 SCT041 BKN047 04/01 A2985 RMK AO1 PAKW 071213Z AUTO VRB03KT 10SM -RA OVC029 04/03 A2998 RMK AO2 P0001 T00440028 TSNO CPSV 071200Z AUTO 30013KT M03/M10 RMK AO1 T10281096 PALP 062352Z 07012KT 3/4SM -SN BR BKN018 M25/M28 A3009 OITZ 071200Z 12014KT 9999 FEW020 FEW030CB BKN035 BKN090 05/01 Q1011 PAMH 071216Z AUTO 00000KT 10SM CLR M16/M18 A2999 RMK AO1 PANA 071156Z AUTO 06005KT 10SM CLR M04/M06 A2978 RMK AO2 SLP083 T10391061 11006 21039 58001 FZRANO PAMK 071156Z AUTO 17014KT 10SM FEW035 SCT060 M01/M03 A2981 RMK AO2 TSNO 51010 60000 T10051033 10000 21038 SLP097 $ PANC 071153Z 09004KT 10SM FEW070 BKN090 OVC150 M03/M06 A2995 RMK AO2 SLP144 4/001 T10281061 11017 21039 50000 PALU 071155Z AUTO 10018KT 5SM -SN SCT011 OVC021 M17/M18 A2979 RMK AO2 SNB1055 SLP087 P0000 60000 T11671182 11139 21201 55009 PAMM 071216Z AUTO 08014G21KT 060V120 10SM OVC037 05/01 A3012 RMK AO1 DIBU 071100Z VRB02KT 4000 HZ NSC 33/02 Q1017 NOSIG PAMR 071153Z 00000KT 10SM SCT055 BKN110 M03/M07 A2994 RMK AO2 SLP142 T10331067 11017 21061 58002 $ PANI 071216Z AUTO 10005KT 10SM CLR M07/M08 A2987 RMK AO1 UHBB 071200Z 19002MPS 130V230 CAVOK M23/M29 Q1016 R36/410150 NOSIG RMK QFE744/0992 DIDK 071100Z ///// 8000 FEW015 SCT100 33/23 Q1015 NOSIG DIDL 071100Z ///// 5000 HZ NSC 32/13 Q1016 NOSIG PANN 071153Z AUTO 00000KT 10SM CLR M19/M23 A3001 RMK AO2 SLP178 70001 I6000 T11941228 11144 21194 51013 TSNO PAMY 071216Z AUTO 16014KT 6SM SCT120 M02/M04 A2967 RMK AO1 PAOH 071156Z AUTO 11007KT 10SM OVC031 03/03 A3008 RMK AO2 TSNO 58028 60000 70003 T00270027 10027 21005 OVC V BKN UPB10E44 P0000 SLP188 $ PANT 071153Z 12018G30KT 10SM -RA OVC022 03/01 A3007 RMK AO2 PK WND 12030/1144 SLP184 P0006 60023 70031 T00280011 10044 20028 58040 PAPB 071153Z AUTO 19010KT 10SM OVC020 01/M02 A2954 RMK AO2 SLP990 60000 70001 T00111022 10011 21006 51018 TSNO PAOM 071202Z 08013KT 2SM -SN BR OVC016 M04/M05 A2973 RMK AO2 P0000 T10391050 PANV 071216Z AUTO 05010KT 10SM M07/M09 A2986 RMK AO1 PANW 071156Z AUTO 01008KT 10SM CLR M06/M07 A2978 RMK AO2 SLP102 70002 T10561067 11039 21061 58008 FZRANO UGKO 071200Z 27009KT 9999 SCT022 OVC035 07/04 Q1021 R25/29//55 NOSIG PAOO 071156Z AUTO 10012KT 10SM CLR M03/M03 A2972 RMK AO2 TSNO 53008 T10271033 11011 21038 SLP065 $ PAPG 071216Z 10007KT 10SM OVC019 03/M01 A3008 RMK AO1 PAPH 071157Z AUTO 02011KT 10SM CLR M03/M03 A2962 RMK AO2 SLP033 T10281033 10000 21033 58012 FZRANO PAOR 071153Z 00000KT 10SM FEW100 SCT120 M26/M29 A3005 RMK AO2 SLP252 4/010 T12611294 11239 21272 50003 OIZB 071200Z 07006KT CAVOK 22/M08 Q1014 PAOT 071210Z 11027KT 3SM BLSN OVC017 M08/M11 A2984 RMK AO2 PK WND 11032/1159 T10781106 DIGA 071100Z 00000KT 5000 HZ FEW100 30/21 Q1016 NOSIG PAOU 071156Z AUTO 00000KT 10SM CLR 00/M01 A2959 RMK AO2 TSNO 55002 T00001011 10027 20000 SLP023 $ PAPM 071156Z AUTO 03009KT M01/M04 RMK AO2 PWINO TSNO 5//// 70001 T10111038 10011 21011 SLPNO $ CPXL 071200Z AUTO 33003KT M03/M11 RMK AO1 T10321108 PAPO 071216Z AUTO 14027G32KT 4SM BKN021 OVC026 M04/M08 A2974 RMK AO1 OIZH 071200Z 11020KT CAVOK 19/M16 Q1016 A3003 NOSIG OIZI 071200Z 24004KT CAVOK 27/M14 Q1015 OIZJ 071200Z 28016KT 8000 NSC 24/15 Q1013 PAPT 062351Z 07006KT 2SM -SN OVC010 M02/M02 A2971 RMK 410171044 70001 931005 4/031 NO SPEC PARC 062316Z AUTO 00000KT 8SM CLR M25/M32 A2981 RMK AO1 OIYY 071150Z 20006KT 9999 SCT100 24/M16 Q1012 PASA 071216Z AUTO 10005KT 10SM BKN013 OVC030 M13/M14 A2968 RMK AO1 PAQT 071223Z AUTO 06014KT 3SM HZ OVC003 M25/M28 A3021 RMK AO2 T12501278 TSNO PASC 071209Z 07016KT 10SM SCT010 M24/M27 A3020 RMK AO2 T12391267 PASD 071216Z AUTO 03005KT 10SM FEW041 BKN048 OVC050 02/01 A2954 RMK AO1 YWCA 071230Z AUTO 14009KT //// // ////// 32/09 Q1014 PASH 071136Z AUTO 00000KT 10SM OVC015 M08/M33 A2977 RMK AO1 PASI 071153Z 09017G24KT 10SM OVC050 06/M01 A2990 RMK AO2 SLP123 70030 T00561006 10056 20039 58062 OLBA 071200Z 10009KT 8000 BKN026 12/07 Q1016 PATA 071152Z AUTO 10012KT 10SM FEW033 OVC055 M13/M18 A3006 RMK AO2 SLP187 T11281178 11128 21144 53005 TSNO PARS 071156Z AUTO 00000KT 10SM CLR M08/M09 A2984 RMK AO2 TSNO 51006 60000 T10771088 11022 21077 SLP110 $ PASK 071216Z AUTO 08012KT 10SM CLR M12/M12 A2995 RMK AO1 PASL 071216Z AUTO 00000KT 3/4SM OVC004 M06/M06 A2994 RMK AO1 PATC 071155Z AUTO 03016KT 1SM -SN BR BKN006 M15/M17 A2969 RMK AO2 SNB1055 SLP065 P0000 60000 T11541166 11141 21155 52016 PASM 071216Z 12008G15KT 10SM SCT027 OVC046 M01/M03 A2978 RMK AO1 PASN 071153Z 19009KT 10SM OVC018 01/M01 A2952 RMK AO2 SLP999 I6000 T00111006 10011 21022 51013 PATE 071208Z AUTO 16017KT 10SM OVC028 M04/M05 A2970 RMK AO2 FZRANO PASO 071153Z AUTO 01003KT 10SM FEW050 FEW060 M01/M02 A2983 RMK AO2 SLP103 60000 70001 I6001 T10111022 10000 21011 58013 TSNO YWBR 071230Z AUTO 13007KT //// // ////// 30/03 Q1017 PARY 071219Z AUTO 09012KT 10SM FEW002 OVC014 M11/M13 A2997 RMK AO2 TSNO $ PATG 071216Z AUTO 01011KT 10SM CLR A2973 RMK AO1 PATK 071153Z AUTO VRB06KT 10SM BKN070 BKN095 BKN120 00/M09 A2996 RMK AO2 SLP153 T00001089 10000 21011 56003 TSNO PATL 071216Z AUTO 10001KT 4SM -SN BR OVC003 M10/M11 A2995 RMK AO2 SLP170 $ PASV 071155Z AUTO 02003KT 10SM CLR M04/M07 A2980 RMK AO2 SLP119 70001 T10451066 11011 21051 57003 MUI 071230Z AUTO 15016KT //// // NCD 17/14 Q1019 PASW 062355Z 29003KT 3SM -SN OVC015 M01/M02 A2984 RMK NOSPECI PATO 071153Z AUTO 13010G23KT 070V180 8SM -RA OVC025 02/M01 A2995 RMK AO2 RAE14B46SNB14E46 SLP143 P0003 60005 70050 T00221006 10028 20006 58014 TSNO PASX 071216Z AUTO 00000KT 10SM CLR M04/M06 A2989 RMK AO1 UHHH 071200Z METAR 20002MPS CAVOK M22/M26 Q1019 R23L/090060 NOSIG PASY 071156Z AUTO 10SM CLR M01/M08 A2955 RMK AO2 UPE12 SLP008 T10111078 10000 21017 58015 TSNO $ PATQ 071218Z AUTO 10023G30KT 2SM -SN BKN007 OVC035 M24/M27 A3008 RMK AO2 TSNO P0000 PK WND 09031/1205 $ PAVA 070950Z 13013KT 9SM CLR M04/M04 A2970 RMK FZRANO VIA PHONE PAVC 071156Z AUTO 00000KT 10SM SCT045 02/M06 A2957 RMK AO2 TSNO 58005 T00221055 10027 20016 SLP015 $ NSTU 071152Z VRB03KT 10SM SCT023 BKN100 29/26 A2981 RMK SLP095 8/170 T02860264 10300 20280 57003 PAVD 071216Z 00000KT 1/4SM OVC003 M02/M03 A3002 RMK AO1 PAUN 071216Z AUTO 07016KT 7SM SCT023 BKN028 OVC037 M06/M08 A2986 RMK AO1 DIKO 071100Z 06012KT 3000 HZ NSC 38L02 Q1017 NOSIG UIAA 071200Z 25004MPS 210V290 9999 NSC M09/M16 Q1005 R29/CLRD70 NOSIG RMK QFE695 UGSB 071200Z 23005KT 9999 SCT020CB BKN032 OVC039 07/04 Q1024 R13/29//55 NOSIG PAUT 071215Z AUTO 00000KT 10SM CLR 00/M01 A2958 RMK AO2 T00011010 PWINO PAVL 071153Z AUTO 12023G29KT 2 1/2SM UP BR OVC020 M05/M07 A2977 RMK AO2 PK WND 14036/1055 UPE1054B17SNB1054E17B23E28 SLP083 P0000 60000 70002 T10501072 11044 21050 53011 TSNO PAWD 071153Z AUTO 35004KT 10SM SCT065 M01/M01 A2990 RMK AO2 SLP126 60002 70003 I6000 T10061011 10011 21006 58020 TSNO PAWG 071216Z AUTO 10013G18KT 10SM OVC021 03/M01 A3010 RMK AO1 PAWI 071153Z AUTO 09029KT 1/4SM +SN VV003 M24/M27 A3000 RMK AO2 PK WND 09036/1143 UPE22SNB09E19B22 SLP161 P0000 60000 T12391267 11239 21278 55000 TSNO UIBB 071200Z 28007MPS 9999 -SHSN BKN041CB M05/M07 Q1009 R30/390130 NOSIG RMK QFE714/0953 UGTB 071200Z 33020KT 9999 OVC045 06/M00 Q1018 R31L/CLRD80 NOSIG PAWM 071220Z AUTO 13011KT 1 3/4SM -SN BR FEW004 OVC012 M03/M03 A2978 RMK AO2 P0000 FZRANO PAWN 071216Z AUTO 10013G21KT 10SM BKN027 OVC032 M07/M11 A2987 RMK AO1 DIMN 071100Z 04012KT 3000 HZ NSC 31/03 Q1017 NOSIG YWHA 071230Z AUTO 20012KT //// // NCD 20/18 Q1019 PAYA 071153Z 06006KT 10SM CLR 00/M03 A2997 RMK AO2 SLP150 70010 T00001033 10011 21006 58046 PAWS 071216Z AUTO 07009KT 10SM FEW065 BKN110 00/M09 A2992 RMK AO1 ZLXY 071200Z VRB01MPS CAVOK 01/M12 Q1021 NOSIG DIOD 071100Z 06014KT 3000 HZ NSC 31/M01 Q1018 NOSIG UHMA 070800Z VRB01MPS CAVOK M18/M21 Q1007 RMK QFE752/1002 YWGT 071200Z AUTO 18005KT 9999 // NCD 24/14 Q1016 PAZK 071216Z AUTO 00000KT 10SM BKN011 M13/M14 A2986 RMK AO1 UHMM 071200Z 10002MPS 9999 NSC M37/M41 Q1003 RMK QFE738 YWIS 071230Z AUTO 12005KT //// // ////// 25/24 Q1011 OMAA 071200Z 30007KT CAVOK 25/03 Q1015 A2998 NOSIG OMAD 071200Z 34008KT CAVOK 23/10 Q1015 A2999 NOSIG ZMUB 071230Z VRB01MPS 9999 SCT100 M19/M22 Q1010 NOSIG RMK QFE650.9 78 NT OMAL 071200Z 29005KT 240V360 CAVOK 27/M04 Q1016 A3001 NOSIG YWLG 071230Z AUTO 16007KT 9999 // NCD 25/13 Q1014 TQPF 071200Z 12012KT 9999 SCT020 27/22 Q//// YWLM 071230Z AUTO 00000KT 9999 // NCD 19/18 Q1018 DITB 071100Z 30006KT 8000 FEW015 SCT100 30/25 Q1014 NOSIG UHPP 071200Z 01004MPS 9999 NSC M16/M20 Q0996 R34R/CLRD70 NOSIG RMK QFE744/0992 EBBE 071155Z AUTO 22021KT 9999 FEW024/// SCT031/// BKN040/// 08/02 Q1001 BLU DISP 071100Z 28004KT 4000 DU BKN013 31/24 Q1014 NOSIG OMDB 071200Z 32010KT 290V360 CAVOK 24/02 Q1016 NOSIG DISS 071100Z ///// 6000 BKN015 31/24 Q1015 NOSIG EBBL 071155Z AUTO 22017G28KT 9999 FEW028/// SCT042/// 09/03 Q1001 BLU EBAW 071220Z 22016KT 9999 SCT024 BKN029 09/02 Q1000 TEMPO 22016G28KT UIII 071200Z 29005MPS 9999 FEW050CB M03/M07 Q1012 R30/820350 NOSIG RMK QFE714/0953 EBCI 071220Z 22016KT 9999 BKN024 08/02 Q1002 NOSIG EBBR 071220Z 23016KT 9999 SCT028 BKN040 08/02 Q1001 NOSIG CTCK 071200Z AUTO 03006KT M03/M05 RMK AO1 SOG 00 2025 SLP202 T10301050 VAAH 071130Z 36006KT 6000 NSC 29/03 Q1013 TEMPO 5000 FU YWOL 071230Z AUTO 26004KT 9999 // NCD 18/17 Q1018 VABB 071130Z 28008KT 9999 FEW020 26/16 Q1013 NOSIG KA08 071215Z AUTO 31003KT 10SM CLR M02/M04 A3025 RMK AO2 T10161043 OMDW 071200Z 33010KT CAVOK 25/01 Q1016 NOSIG EBCV 071155Z AUTO 22016KT 9999 BKN025/// 08/04 Q1001 BLU UHSS 071200Z 36002MPS 8000 SCT040 M19/M21 Q1011 R19/820354 NOSIG RMK QFE757/1010 OMFJ 071200Z 09006KT 060V140 CAVOK 24/12 Q1015 A2999 VAAU 070600Z 11002KT 4000 HZ NSC 27/11 Q1018 EBDT 071155Z AUTO 22009KT 9999 BKN030/// 09/03 Q1001 BLU VABP 070900Z 27011KT 6000 27/05 Q1015 NOSIG EBFN 071155Z 24022G34KT 9999 FEW020CB SCT024TCU 07/03 Q0999 WHT EBFS 071155Z 22015KT 9999 FEW020 BKN030 07/02 Q1002 BLU DIYO 071100Z 36010KT 4000 HZ NSC 33/13 Q1015 NOSIG YWUD 071230Z AUTO 13010KT //// // ////// 20/13 Q1021 YWTN 071230Z AUTO 13016KT //// // ////// 29/21 Q1009 UHWW 071200Z 29005MPS 9999 NSC M12/M18 Q1018 R25L/0///70 NOSIG RMK QFE762 TRPG 071200Z 13017KT 9999 HZ FEW024 25/21 Q1017 VAID 071000Z 30011KT 5000 HZ NSC 26/06 Q1015 NOSIG EBLB 071155Z AUTO 23010KT 9999 FEW012/// BKN017/// 05/03 Q1001 WHT EBLG 071220Z 21017KT 9999 SCT027 BKN030 08/02 Q1002 NOSIG YWWL 071230Z AUTO 00000KT //// // ////// 22/08 Q1017 VAJB 070900Z 32003KT 5000 HZ SCT030 28/14 Q1015 VAJJ 071200Z 34010KT 290V010 7000 NSC 26/16 Q1014 NOSIG UKBB 071200Z 20007MPS CAVOK 02/M04 Q1026 18190060 68CLRD95 NOSIG YWYM 071230Z AUTO 25005KT 210V290 //// // ////// 32/24 Q1008 CTNK 071200Z AUTO 00000KT M03/M04 RMK AO1 SOG 31 3001 SLP176 T10321042 50002 UKDD 071200Z 00000MPS 9999 BKN032 03/M04 Q1029 26715070 NOSIG UKDE 071200Z 35002MPS 300V030 9999 BKN033 02/M07 Q1030 02710370 NOSIG YWYY 071230Z AUTO 25004KT 9999 // NCD 15/14 Q1018 TTCP 071200Z 09016KT 9999 FEW016 SCT038 26/21 Q1016 NOSIG RMK DIST SHWRS TO SE S SW UIUU 071200Z 08001MPS 2300 -SHSN OVC005CB M11/M13 Q1010 R26/491595 NOSIG RMK QBB150 MT OBSC QFE713/0951 EBOS 071220Z 22019KT 9999 FEW022TCU SCT040 08/04 Q0999 RESHRA TEMPO 21018G30KT UKDR 071200Z 00000MPS CAVOK 02/M03 Q1030 3609//60 NOSIG OMRK 071200Z 33010KT CAVOK 25/06 Q1016 A3000 NVSC 062000Z METAR NVSG 062000Z METAR NVSS 062000Z AUTO 34003KT //// // NCD 27/27 Q1009 CTRA 071200Z AUTO 11002KT M02/M02 RMK AO1 SOG 38 6011 SLP955 T10161021 50024 VANP 071100Z 24004KT 4000 HZ NSC 33/13 Q1012 NOSIG OMSJ 071200Z 31008KT CAVOK 24/07 Q1016 EDAC 071220Z 23004KT CAVOK 10/05 Q1003 EDAH 071220Z 15008KT CAVOK 09/02 Q1001 EDBC 071220Z 19011KT CAVOK 10/03 Q1001 UKHH 071200Z 22003MPS CAVOK 01/M07 Q1029 25710560 NOSIG NVVA 071200Z 00000KT 9999 FEW020 FEW025CB 26/25 Q1010 RMK LIGHTING VIS PFCL 071156Z AUTO 03007KT 10SM CLR M03/M04 A2974 RMK AO2 SLP074 T10331039 11011 21039 56009 FZRANO YYNG 071230Z AUTO 19004KT //// // ////// 17/12 Q1018 ULAA 071200Z 17005MPS 120V210 3400 -SN OVC006 M08/M09 Q1008 R08/490133 TEMPO 0600 +SN BKN003 RMK QBB180 QFE755/1006 EDDB 071220Z 16008KT CAVOK 10/03 Q1003 NOSIG EDDC 071220Z 16019KT CAVOK 06/01 Q1004 TEMPO 15020G30KT EDDE 071220Z 24011KT CAVOK 12/01 Q1002 NOSIG EDDF 071220Z 24011KT 9999 -RA FEW014 SCT038 BKN050 09/07 Q1004 NOSIG EDDG 071220Z 23013KT 9999 SCT025 BKN250 10/05 Q0999 NOSIG EDDH 071220Z 20015KT 9999 -RA BKN036 BKN044 12/05 Q0996 TEMPO 21015G30KT KAAA 071215Z AUTO 20004KT 10SM CLR 03/00 A2996 RMK AO2 T00301003 KC09 071215Z AUTO 21012G16KT 10SM CLR 03/M01 A2987 RMK AO2 T00271010 PFEL 071221Z AUTO VRB03KT 1 3/4SM -SN BR BKN009 OVC016 M03/M04 A2985 RMK AO2 SNB01 CIG 006V012 P0000 FZRANO EDDK 071220Z 23009KT 9999 FEW022 SCT050 BKN120 09/05 Q1002 NOSIG NVVW 071200Z 00000KT 9999 FEW022 FEW025CB 28/26 Q1010 RMK LIGHTING VIS EDDL 071220Z 22015KT 9999 FEW024 BKN120 09/05 Q1001 NOSIG EDDM 071220Z 09006KT CAVOK 10/05 Q1003 NOSIG KAAF 071153Z AUTO 32006KT 10SM CLR 02/01 A3016 RMK AO2 SLP212 T00220006 10078 20022 53009 $ EDDN 071220Z 18005KT 090V230 CAVOK 11/01 Q1003 NOSIG VCBI 071210Z 35008KT 300V030 7000 SCT016 FEW018CB OVC080 28/24 Q1009 NOSIG EDDP 071220Z 17012KT 9999 FEW033 SCT100 BKN300 09/03 Q1002 NOSIG UKKK 071200Z 20004MPS 170V240 CAVOK 02/M06 Q1025 26190060 NOSIG EDDR 071220Z 24014KT 9999 SCT007 BKN010 07/05 Q1005 TEMPO RA VAUD 070300Z 00000KT 6000 NSC 12/04 Q1016 NOSIG EDDS 071220Z VRB02KT 9999 FEW040 BKN130 08/03 Q1005 NOSIG UKKM 071200Z AUTO 16006MPS 9000 SKC/// 02/M06 Q1025 EDDT 071220Z 17012KT 150V210 CAVOK 10/02 Q1002 NOSIG ZPPP 071200Z 13002MPS CAVOK 08/M04 Q1028 NOSIG EDDV 071220Z 23012KT 200V270 9999 BKN035 11/06 Q0999 BECMG 23015G25KT KABE 071151Z 31003KT 6SM BR CLR M07/M09 A3019 RMK AO2 SLP229 T10721089 11028 21072 55003 $ EDFE 071220Z 22007KT 9999 -RA FEW016 BKN043 09/06 Q1004 EDDW 071220Z 22013KT 9999 FEW025 SCT250 11/05 Q0997 TEMPO 23015G30KT KAAO 071154Z AUTO 26010KT 10SM CLR 01/M04 A3007 RMK AO2 SLP193 T00111044 10050 20006 53003 UKLI 071200Z 09004MPS CAVOK 05/00 Q1018 10090070 NOSIG EDFH 071220Z 24014KT 9999 BKN017 07/04 Q1003 KABI 071152Z 17011G17KT 10SM CLR 04/M08 A3015 RMK AO2 SLP208 T00391078 10056 20011 56019 UKLL 071200Z 14004MPS CAVOK 04/M01 Q1017 13CLRD80 NOSIG KAAT 071155Z AUTO 00000KT 10SM CLR M04/M04 A3051 RMK AO2 SLP343 T10391044 11006 21044 51012 $ KACB 071216Z AUTO 18007KT 10SM OVC080 03/M01 A2979 RMK AO2 T00251008 KC29 071215Z AUTO 22014G19KT 10SM BKN065 OVC085 04/M01 A2972 RMK AO1 T00351010 UKLN 071200Z 11006MPS CAVOK 05/M02 Q1021 1509//70 NOSIG EDFM 071220Z 25007KT 200V290 9999 FEW016 BKN047 09/05 Q1005 KC35 071215Z AUTO 22006KT 10SM SCT080 OVC110 02/M01 A2970 RMK AO2 T00191012 UKLR 071200Z 16006MPS 100V180 9999 FEW023 SCT100 04/M03 Q1019 NOSIG KABQ 071152Z 34006KT 10SM CLR 01/M10 A3033 RMK AO2 SLP261 T00061100 10039 21006 58011 KABR 071153Z AUTO 28017G25KT 10SM CLR 03/M04 A2979 RMK AO2 PK WND 28028/1056 SLP097 T00331044 10050 20033 51009 KACJ 071215Z AUTO 00000KT 10SM CLR 01/M04 A3016 RMK AO2 UKLU 071200Z 13005MPS 070V180 9999 BKN200 07/M03 Q1020 10090070 NOSIG KACK 071153Z 27006KT 10SM CLR 01/M03 A3021 RMK AO2 SLP229 T00111028 10028 20011 55002 KADC 071215Z AUTO 28015G22KT 3SM -RA BKN013 OVC018 00/M01 A2954 RMK AO2 KADF 071156Z AUTO 00000KT 10SM CLR M03/M03 A3028 RMK AO2 55002 T10331033 11005 21033 SLP269 KADG 071153Z AUTO 22005KT 10SM CLR M02/M04 A2999 RMK AO2 SLP168 T10171039 11011 21028 58023 KABY 071153Z AUTO 33005KT 10SM CLR 01/M04 A3016 RMK AO2 SLP214 T00111039 10039 20011 53003 $ KACP 071215Z AUTO 00000KT 1/4SM FZFG M02/M02 A3031 RMK AO2 T10201023 KACQ 071215Z AUTO 25012KT 10SM CLR M01/M03 A2972 RMK AO2 KADH 071215Z AUTO 20008KT 10SM CLR 03/00 A3017 RMK AO2 EDHI 061620Z 19006KT 140V220 9999 BKN034 10/08 Q1006 EDGS 071220Z 22011KT 190V250 9999 BKN012 06/05 Q1001 RERA KACT 071151Z 21009KT 6SM BR CLR 01/M01 A3026 RMK AO2 SLP247 I6000 T00061011 10006 21028 55015 EDHK 071220Z 19011KT 9999 FEW041 BKN049 10/05 Q0995 EDHL 071220Z 19007KT 150V220 CAVOK 11/04 Q0997 KACV 071153Z AUTO 00000KT 8SM CLR 07/07 A3036 RMK AO2 SLP288 T00720067 10100 20067 55008 KADM 071155Z AUTO 00000KT 10SM CLR M03/M03 A3020 RMK AO2 T10311032 10002 21032 UKOH 071200Z 16003MPS 110V200 9999 FEW033 04/M05 Q1030 03CLRD95 NOSIG KAEG 071215Z AUTO 00000KT 10SM CLR M04/M11 A3032 RMK AO2 T10391109 KACY 071154Z 00000KT 7SM CLR M05/M07 A3018 RMK AO2 SLP222 I1000 I6000 T10501067 11011 21061 58013 KAEJ 071215Z AUTO 30016G30KT 10SM CLR 00/M12 A3024 RMK AO2 T00021123 KADS 071147Z 17004KT 13SM SKC 03/01 A3023 DNAA 071200Z 11005KT 4000 HZ NSC 35/M01 Q1015 NOSIG EDJA 071220Z VRB01KT CAVOK 07/04 Q1003 KAEL 071213Z AUTO 27010G15KT 10SM CLR 01/M03 A2972 RMK AO2 KADU 071215Z AUTO 28008KT 10SM CLR 01/M03 A2989 RMK AO2 UKON 071200Z 18002MPS 160V240 CAVOK 03/M08 Q1030 NOSIG UKOO 071200Z 15005MPS 130V190 9999 SCT030 03/M04 Q1029 16090060 NOSIG KADW 071158Z AUTO 00000KT 10SM CLR M02/M05 A3018 RMK AO2 SLP230 T10221046 11005 21039 58007 CWAE 070100Z 18002KT 15SM SCT032 SCT200 01/01 A3039 RMK SF3CI1 LAST OBS/NEXT 071500UTC WND ESTD SLP313 KAFF 071158Z AUTO 35009KT 10SM CLR M02/M14 A3016 RMK AO2 SLP223 T10241144 10054 21024 53005 CWAF 070000Z AUTO 22023G29KT M02/M05 RMK AO1 PK WND 21029/2355 T10231046 KAFJ 071215Z AUTO 22003KT 10SM CLR M07/M09 A3014 RMK AO1 CWBA 071200Z AUTO 05002KT M13/M15 RMK AO1 SOG 51 T11311149 CWAJ 071200Z AUTO 17008KT 01/M02 RMK AO1 SLP172 T00051015 58023 KAFK 071215Z AUTO 30008KT 10SM CLR 02/M02 A2996 RMK AO2 T00171025 KAGC 071153Z AUTO 16008KT 10SM CLR M03/M08 A3012 RMK AO2 SLP216 T10331083 10006 21033 55008 TSNO TTPP 071200Z 08008KT 9999 FEW017 SCT038 25/23 Q1015 NOSIG KAFN 071152Z AUTO 18004KT 7SM CLR M12/M14 A3012 RMK AO2 SLP222 I1000 I6001 T11171139 11050 21122 55001 CWBE 071200Z AUTO 08013KT M03/M04 RMK AO1 PK WND 09017/1155 SLP154 T10331044 56015 KAEX 071223Z AUTO 00000KT 4SM BR SCT003 M01/M01 A3029 RMK AO2 I1000 T10111011 TSNO KAFO 071215Z AUTO 00000KT 10SM OVC030 00/M05 A3043 RMK AO2 KC75 071215Z AUTO 21010KT 10SM CLR 03/M02 A2989 RMK AO2 T00321021 KAFP 071215Z AUTO 35004KT 10SM OVC075 05/M06 A3008 RMK AO2 T00471060 CWAQ 071200Z AUTO 31032G41KT M02/M06 RMK AO1 PK WND 30042/1122 SLP161 T10211059 53030 CWAR 071200Z AUTO 12005KT M04/ RMK AO1 SLP210 T1038 58003 PFKT 071158Z AUTO 25008KT 10SM BKN017 OVC035 M05/M06 A2975 RMK AO2 SNE00 SLP074 P0000 60000 70002 T10501061 11033 21056 51018 FZRANO CWCA 071200Z 22009KT 15SM FEW080 M23/M26 A2995 RMK AC1 AC TR SLP146 CWBK 071200Z AUTO 20010G16KT M01/M03 RMK AO1 SLP176 T10141026 56009 PFKW 071156Z AUTO 08006KT 10SM CLR M06/M07 A2979 RMK AO2 SLP087 T10561067 10000 21056 58000 FZRANO CWAV 071200Z AUTO 23003KT M09/M16 RMK AO1 SOG 04 1026 SLP307 T10931162 KAFW 071153Z 18005KT 10SM CLR 01/M01 A3020 RMK AO2 SLP234 T00061006 10033 20006 56014 CWCF 072300Z AUTO 10013KT M07/M09 RMK AO1 SOG 31 PK WND 10018/2201 SLP018 T10701091 CWBO 071200Z AUTO 31008KT M04/M11 RMK AO1 SLP286 T10351108 51032 KAIA 071153Z AUTO 32013KT 10SM OVC070 00/M05 A3013 RMK AO2 SLP222 T00001050 10006 21072 52011 $ CWCI 071100Z AUTO 18024G30KT 01/01 RMK AO1 PK WND 18030/1058 SLP055 T00130009 56035 KAGS 071153Z 34010KT 10SM OVC050 05/M03 A3008 RMK AO2 SLP186 70001 T00501033 10061 20044 55002 EDMA 071220Z 32006KT CAVOK 07/03 Q1003 CWDA 071100Z AUTO 23003KT M14/M15 RMK AO1 SLP171 T11351148 50005 CWCJ 071200Z AUTO 04008G17KT M12/M14 RMK AO1 3PAST HR SOG 33 6030 PK WND 05023/1116 SLP065 P0001 T11161136 50031 CWBS 071200Z AUTO 32012KT M07/M14 RMK AO1 PK WND 30023/1115 T10691138 KAIB 071155Z AUTO 11005KT 10SM CLR M09/M11 A3049 RMK AO2 CWBT 071200Z AUTO 06009G16KT M11/M12 RMK AO1 PK WND 09017/1139 SLP078 T11081119 56043 KAID 062045Z 24008KT 10SM CLR 05/M05 A3023 RMK AO2 LAST CWDC 071200Z AUTO 28008KT M17/M19 RMK AO1 SOG 52 1019 SLP185 T11711194 CWBU 071200Z AUTO 33009KT M10/M12 RMK AO1 SOG 24 1055 PK WND 35017/1102 SLP155 T10981116 50004 CWBV 071200Z AUTO 22019KT 02/ RMK AO1 PK WND 21022/1125 SLP203 T0020 56008 KAHN 071151Z AUTO 31006KT 10SM CLR M02/M06 A3012 RMK AO2 SLP204 T10171056 10017 21022 55008 TSNO EDLN 071220Z VRB14KT 9999 SCT025 09/05 Q1001 CWCO 072200Z AUTO 24008G16KT 01/M06 RMK AO1 PK WND 24020/2124 SLP192 T00141059 56002 KAIG 071215Z AUTO 20009KT 7SM OVC009 M01/M02 A2962 RMK AO2 T10141020 CWBY 071200Z AUTO 16009KT M04/M05 RMK AO1 SOG 16 6038 PK WND 14017/1112 SLP066 T10421051 EDLP 071220Z 23012KT 9999 SCT035 SCT048 09/06 Q1000 KAHQ 071215Z AUTO 31013KT 10SM CLR 03/M03 A2996 RMK AO2 T00281032 CWBZ 071200Z AUTO 02006KT M02/M05 RMK AO1 SLP209 T10231054 53029 UMBB 071200Z 16006G09MPS 8000 NSC 08/M01 Q1015 NOSIG KD07 071156Z AUTO 29023G30KT 01/M08 A2996 RMK AO1 PK WND 30032/1143 SLP170 70001 T00061083 10022 21006 50004 OOMS 071150Z 05010KT CAVOK 25/10 Q1015 NOSIG CWDJ 071200Z AUTO 33027G38KT M04/M07 RMK AO1 PK WND 32040/1134 SLP149 T10391074 53051 KAIK 071215Z AUTO 34005KT 10SM OVC047 04/M05 A3008 RMK AO2 KBAB 071158Z AUTO 08004KT 10SM CLR 06/06 A3028 RMK AO2 SLP257 T00570056 10090 20046 55003 $ CWCT 071200Z AUTO 29014KT M04/M08 RMK AO1 SOG 02 1033 PK WND 30025/1111 SLP271 T10401084 CWDK 071200Z AUTO 29010G15KT M02/M14 RMK AO1 SOG 00 1020 SLP310 T10191135 CWEB 071200Z AUTO 11009G15KT 06/04 RMK AO1 4PAST HR SOG 00 5003 PK WND 10017/1120 SLP309 P0002 T00630044 50004 KBAC 071215Z AUTO 29029G37KT 10SM -SN CLR 01/M04 A2961 RMK AO2 P0001 KBAD 071158Z AUTO 00000KT 10SM CLR M02/M02 A3028 RMK AO2 SLP258 T10171020 10019 21018 57007 CWDM 071200Z AUTO 35005KT M19/M21 RMK AO1 SOG 10 6018 SLP154 T11891209 EDLV 071220Z 22014KT 9999 BKN039 09/04 Q1000 PFNO 071218Z AUTO 09016KT 10SM OVC028 M07/M09 A2992 RMK AO2 FZRANO CWEE 071100Z AUTO M26/M29 RMK AO1 SLP214 T12601291 53036 EDLW 071220Z 23016KT 9999 BKN023 09/03 Q1000 KBAF 071210Z 00000KT 8SM CLR M08/M10 A3017 RMK AO2 T10831100 KAIO 071215Z AUTO 28007KT 10SM CLR 01/M03 A2991 RMK AO2 EDMO 070820Z 14008KT CAVOK 09/M02 Q1004 CWEF 071100Z AUTO 17020G25KT M03/M04 RMK AO1 PK WND 17027/1025 SLP165 T10261040 57031 CWDO 071200Z AUTO M06/M09 RMK AO1 SOG 115 6002 SLP181 T10631086 KAJG 071215Z AUTO 20008KT 10SM CLR 02/M05 A3009 RMK AO2 CWEH 071200Z AUTO 30021G28KT M04/M10 RMK AO1 SOG 02 3035 PK WND 30036/1104 SLP261 T10441101 CWDQ 071200Z AUTO 32007KT M19/M25 RMK AO1 SOG 33 1050 SLP243 T11891253 EEEI 071215Z 17009KT 1800 BR OVC002 03/03 Q1005 R24/290095 TEMPO 3000 OVC003 KBAK 071150Z 20008KT 10SM SKC M01/M05 A3009 KAIT 071213Z AUTO 25007G15KT 10SM OVC017 03/M01 A2946 RMK AO2 KBBB 071214Z AUTO 30013KT 10SM CLR 01/M03 A2968 RMK AO2 CWDT 071100Z AUTO RMK AO1 17 1035 CWEK 071200Z AUTO 07022KT 05/04 RMK AO1 2PAST HR 6032 PK WND 09030/1117 SLP205 P0005 T00480039 50052 CWEL 071200Z AUTO 16009KT 06/04 RMK AO1 SLP334 T00640036 58001 NWWW 071200Z AUTO 00000KT 9999 BKN060/// BKN140/// 28/24 Q1010 CWDV 071200Z AUTO 10004KT M07/M07 RMK AO1 5PAST HR SOG 48 6017 SLP002 P0002 T10671070 50027 CWFD 071200Z AUTO ///// BKN060 M23/ A2920 RMK SLP986 KBAN 071152Z AUTO 00000KT 10SM CLR M07/M09 A3048 RMK AO2 SLP324 T10671094 11022 21067 51003 KAJO 071156Z AUTO 13011KT 10SM CLR 19/M08 A3015 RMK AO2 SLP217 T01891083 10194 20183 58010 $ KBBF 071215Z AUTO 09006G11KT 9SM CLR 14/03 A3028 RMK A01 CWFF 071200Z AUTO 33014G19KT M10/M12 RMK AO1 SOG 14 1059 PK WND 33023/1100 SLP164 T10981119 50004 ULLI 071200Z 20005MPS 9999 BKN004 BKN021 02/01 Q1008 R88/290050 NOSIG RMK QBB140 OBST OBSC KBBG 071215Z AUTO 24006KT 10SM CLR 04/M02 A3012 RMK AO2 KD25 071215Z AUTO 19005KT 7SM OVC008 M02/M02 A2955 RMK AO2 T10181021 CWEP 071200Z AUTO 20017G23KT M01/M02 RMK AO1 SOG 63 6011 PK WND 20024/1142 SLP170 T10061024 KAKH 071154Z AUTO 01007KT 10SM CLR 03/M08 A3009 RMK AO2 SLP192 T00281083 10056 20028 56014 TSNO KAIZ 071215Z AUTO 20009KT 10SM CLR 03/M04 A3005 RMK AO1 CWEQ 071200Z AUTO 36012G17KT M08/M12 RMK AO1 PRESRR SOG 10 2062 PK WND 34024/1124 SLP096 T10771115 CWDZ 071200Z AUTO 26002KT M08/M10 RMK AO1 T10821095 KAJR 071215Z AUTO 00000KT 10SM CLR M01/M06 A3012 RMK AO2 T10141063 CWER 071100Z AUTO 25014G20KT RMK AO1 PK WND 25020/1050 CWFJ 071200Z AUTO 26010KT M02/M12 RMK AO1 PK WND 26018/1103 T10151124 KALB 071151Z 18003KT 10SM CLR M03/M08 A3015 RMK AO2 SLP214 T10331078 10011 21044 58002 KBCB 071215Z AUTO 00000KT 10SM CLR M05/M06 A3014 RMK AO2 T10461056 CWGB 071200Z AUTO 13014KT 06/04 RMK AO1 PK WND 13017/1146 SLP329 T00630035 58003 CWEU 071200Z 13009KT 15SM SKC M39/M43 A2999 RMK SLP158 CWGD 071200Z AUTO 17007KT M01/M04 RMK AO1 SLP157 T10061038 56021 KBCE 071153Z AUTO 26005KT 10SM CLR M16/M18 A3044 RMK AO2 SLP343 T11561178 11094 21156 53000 CWEW 071200Z AUTO 36006KT M04/M09 RMK AO1 SLP225 T10411088 51038 KAKO 071153Z AUTO 32012KT 10SM CLR M06/M08 A3016 RMK AO2 SLP242 T10561083 10028 21056 53013 KBAX 071214Z AUTO 18009KT 10SM BKN110 00/M02 A2994 RMK AO2 T00031022 KBBP 071215Z AUTO 36007KT 10SM -RA OVC070 04/02 A3005 RMK AO2 EDOP 071220Z 18013KT 9999 FEW048 SCT130 11/04 Q0999 KBAZ 071151Z AUTO 30004KT 10SM CLR M01/M03 A3027 RMK AO2 SLP253 T10111033 10033 21017 56016 KAKQ 071154Z AUTO 01003KT 10SM OVC100 01/M02 A3015 RMK AO2 SLP211 T00061022 10006 21022 56018 TSNO KAJZ 071215Z AUTO 00000KT 10SM CLR M08/M10 A3049 RMK AO2 T10801097 EDNY 071220Z 25010KT CAVOK 07/01 Q1005 CWFQ 071200Z AUTO 31002KT 01/M04 RMK AO1 SLP196 T00051038 53021 CWEZ 071200Z AUTO 07008KT 06/03 RMK AO1 SLP340 T00600033 50007 KALI 071153Z AUTO 36003KT 10SM CLR 01/M03 A3030 RMK AO2 SLP260 T00061028 10044 20006 55012 TSNO $ KAKR 071154Z AUTO 00000KT 10SM CLR M03/M08 A3006 RMK AO2 SLP190 T10281078 11006 21033 57021 KAMA 071153Z 33006KT 10SM CLR 01/M11 A3010 RMK AO2 SLP189 T00061111 10017 21039 55004 ULMM 071200Z 17002MPS 2600 -SHSN BR BKN012CB M07/M08 Q0994 R13/490333 NOSIG RMK QFE739 KD39 071213Z AUTO 28017G25KT 10SM SCT027 SCT035 SCT042 01/M02 A2959 RMK AO2 T00121021 KALK 071156Z AUTO 08005KT 10SM CLR 05/M14 A3026 RMK AO2 SLP195 T00501144 10083 20039 56009 $ KBCK 071215Z AUTO 21004KT 10SM SCT075 01/M02 A2966 RMK AO2 T00051021 CWGL 071200Z AUTO 17008KT M02/M04 RMK AO1 SLP175 T10191039 58006 KALM 071215Z AUTO 13003KT 10SM CLR M03/M15 A3028 RMK AO2 CWGM 071200Z AUTO 23008KT M02/M12 RMK AO1 PK WND 24018/1105 T10211124 KBDE 071153Z AUTO 26010KT 10SM OVC027 02/M02 A2935 RMK AO2 SLP953 70002 T00171017 10028 20017 56005 TSNO KBBW 071153Z AUTO 31015KT 10SM BKN100 OVC120 02/M04 A3005 RMK AO2 SLP193 T00221039 10044 20017 53007 KALN 071215Z AUTO 18008KT 10SM CLR 02/M04 A3003 RMK AO2 T00181043 KALO 071154Z 25009KT 10SM CLR 01/M03 A2979 RMK AO2 SLP096 T00061028 10028 20006 55009 $ KAMG 071153Z AUTO 33006KT 10SM BKN042 04/01 A3006 RMK AO2 SLP180 60000 70006 T00440011 10050 20044 55007 KBDG 071215Z AUTO 35003KT 10SM CLR M08/M10 A3047 RMK AO1 T10841105 KBDH 071215Z AUTO 27019G24KT 10SM OVC039 02/M02 A2968 RMK AO2 NZAA 071200Z AUTO 07006KT 9999 NCD 20/18 Q1014 NOSIG OOSA 071150Z 16007KT 130V200 9999 FEW025 25/12 Q1015 NOSIG CWHI 071100Z AUTO 26009KT M08/M12 RMK AO1 T10771123 CWGR 071200Z AUTO 20018G27KT M01/M02 RMK AO1 PK WND 20027/1157 SLP146 T10101018 56022 ZSAM 071200Z 10004MPS CAVOK 10/04 Q1026 NOSIG KALS 071152Z AUTO 00000KT 10SM CLR M19/M22 A3031 RMK AO2 SLP331 T11891217 11150 21194 56005 $ KBEA 071215Z AUTO 00000KT 10SM CLR 03/02 A3030 RMK AO2 T00260018 KBCT 071147Z 31017G22KT 10SM BKN020 11/08 A2996 KANB 071153Z AUTO 25004KT 10SM CLR M04/M06 A3022 RMK AO2 SLP243 T10391061 11011 21039 53004 KD50 071215Z AUTO 32037G47KT 10SM OVC031 M02/M05 A2986 RMK AO2 CWGT 071200Z AUTO 12016KT 07/04 RMK AO1 PK WND 11018/1149 SLP330 T00650039 58003 KBDL 071151Z 00000KT 7SM FEW100 M08/M09 A3017 RMK AO2 SLP218 4/006 T10781094 11028 21089 55003 CWHL 071200Z AUTO 10017G24KT 05/02 RMK AO1 4PAST HR 6033 PK WND 10025/1123 SLP205 P0002 T00490022 50014 KAND 071156Z AUTO 31003KT 10SM CLR M01/M07 A3010 RMK AO2 SLP195 T10061072 10033 21006 56012 KBED 071156Z 24004KT 10SM CLR M08/M09 A3015 RMK AO2 SLP223 I1001 I6001 T10781089 $ EDQM 071220Z 13007KT 110V170 CAVOK 03/00 Q1003 CWID 071200Z AUTO 00000KT M25/M28 RMK AO1 SLP265 T12461276 51030 CWHM 071200Z AUTO 34008KT M03/M09 RMK AO1 T10251089 KALW 071153Z AUTO 00000KT 10SM CLR 03/M03 A3051 RMK AO2 SLP341 T00281033 10044 20006 53016 KANE 071154Z AUTO 23008KT 10SM SCT033 02/M01 A2960 RMK AO2 KAMN 071215Z AUTO 18007KT 10SM BKN100 BKN120 01/00 A2989 RMK AO2 T00101005 KBDN 071215Z AUTO 14003KT 10SM CLR 01/M00 A3048 RMK AO2 CWGW 071200Z AUTO 01005KT M06/M10 RMK AO1 SOG 11 2020 SLP351 T10631095 KALX 071215Z AUTO 00000KT 10SM CLR M03/M04 A3021 RMK AO2 T10291039 CWHN 071200Z AUTO 30010KT 280V340 9SM CLR M05/M08 A3004 RMK SLP210 CWHO 071200Z AUTO 00025KT M23/M27 RMK AO1 3008 SLP128 T12281273 50019 CWGX 071200Z AUTO 07006KT M28/M31 RMK AO1 SOG 23 3011 SLP164 T12761313 KD55 071215Z AUTO 29025G34KT 10SM FEW021 SCT029 SCT046 01/M02 A2949 RMK AO2 PFSH 071158Z AUTO 12011KT 10SM BKN041 OVC050 M05/M06 A2985 RMK AO2 SLP124 60000 T10501061 11033 21067 51008 FZRANO CWHP 071200Z AUTO 18024KT M02/M02 RMK AO1 6044 PK WND 18027/1138 SLP108 T10211015 50004 CWIG 071200Z AUTO 28011G16KT RMK AO1 PK WND 26022/1145 CWGY 071200Z AUTO 27015G20KT M04/M09 RMK AO1 PK WND 28020/1159 SLP259 T10371087 51030 KBEH 071153Z AUTO 17008KT 10SM BKN110 03/M02 A2991 RMK AO2 SLP134 T00281022 10033 20011 56033 CWGZ 062100Z 06003KT 040V130 15SM SCT070 M34/M38 A2991 RMK AC3 -30.8/-34.6/0/0 SNW CVR/HRD PCK LAST OB/NEXT 091300 SLP137 DENSITY ALT MISG CWHQ 071200Z AUTO 27011G16KT M11/M17 RMK AO1 PK WND 28019/1136 T11111167 ULPB 071200Z AUTO 22006MPS 9999 -SN ////// M00/M02 Q1006 KBDR 071152Z 01003KT 9SM CLR M03/M06 A3020 RMK AO2 SLP226 T10331056 10011 21044 55003 $ KD57 071215Z AUTO 30028G37KT 1 1/2SM -UP BKN004 BKN012 OVC031 M01/M04 A2983 RMK AO2 CWII 071200Z AUTO 35009KT M05/M05 RMK AO1 T10471054 KANJ 071155Z AUTO 13009G18KT 4SM -SN BR FEW018 OVC050 M01/M03 A2979 RMK AO2 SNB50 SLP094 P0000 60002 70004 T10061028 11006 21028 58023 OPKC 071225Z 19004KT 7000 NSC 27/M01 Q1015 NOSIG KD60 071215Z AUTO 32036G45KT 8SM -SN OVC020 M02/M03 A2985 RMK AO2 P0002 CWHT 070000Z AUTO 31001KT M10/M12 RMK AO1 SOG 22 1021 SLP182 T11031123 CWJB 071200Z AUTO 32005KT M09/M15 RMK AO1 SOG 21 T10871153 CWIK 071200Z AUTO 32026G35KT M04/M07 RMK AO1 SOG 00 3041 PK WND 32035/1135 SLP085 T10421072 EDSB 071220Z 20010KT 8000 RA BKN030 07/06 Q1007 KBDU 071217Z AUTO 28015G21KT 10SM CLR 06/M10 A3015 RMK AO2 UKWW 071200Z 17006MPS CAVOK 02/M04 Q1023 130///65 NOSIG ULOO 071200Z 21006MPS P5000 BKN017 05/02 Q1010 R19/290150 RMK QFE753 CWIL 071200Z AUTO 10008KT M32/ A3013 RMK SLP215 KBFD 071153Z AUTO 00000KT 10SM CLR M08/M10 A3005 RMK AO2 SLP201 T10781100 11022 21083 57013 CWHV 071200Z AUTO 30007G16KT M08/M11 RMK AO1 SLP185 T10751110 51050 CWJD 071200Z AUTO 36006KT M14/M15 RMK AO1 3PAST HR SOG 44 3043 SLP088 P0001 T11361154 50007 UMGG 071200Z 19007MPS CAVOK 04/M03 Q1024 R28/CLRD// NOSIG KAMW 071153Z AUTO 27012KT 10SM CLR 01/M03 A2984 RMK AO2 SLP110 T00111028 10022 20000 53002 $ NZAP 071100Z 09011KT 20KM BKN075 16/12 Q1015 RMK ALT VATSIM USE ONLY KBFF 071153Z AUTO 31012KT 10SM OVC070 M01/M06 A3019 RMK AO2 SLP240 T10061061 10006 21033 53013 CXAF 071200Z AUTO 29007KT M05/M10 RMK AO1 T10501103 TUPJ 071200Z 13011KT 9999 SCT017 26/22 Q1017 RMK A3006 KANQ 061735Z AUTO 25011KT 10SM FEW020 00/M04 A3025 RMK CXAG 071100Z AUTO 29017KT M03/M08 RMK AO1 PK WND 29022/1011 T10311083 CWIP 071200Z AUTO 25014G21KT M07/ RMK AO1 PK WND 25022/1140 T1068 KAOH 071153Z AUTO 21007KT 10SM CLR 01/M04 A3003 RMK AO2 SLP178 T00111044 10017 20000 56022 CWJH 071200Z AUTO 32005KT M16/M18 RMK AO1 SOG 38 1032 SLP163 T11601178 50011 KBFI 071153Z 00000KT 10SM OVC110 03/02 A3054 RMK AO2 RAB26E28SNB14E26 SLP340 P0000 60000 T00280022 10039 20017 50012 OPLA 071230Z 08004KT 5000 FU FEW040 19/11 Q1016 CWJI 071200Z AUTO 31033G41KT M02/M06 RMK AO1 SOG 00 3037 PK WND 32045/1131 SLP178 T10221063 KAPA 071153Z 34016G24KT 10SM FEW150 SCT220 03/M11 A3016 RMK AO2 SLP212 T00281111 10078 20000 51013 PHBK 071156Z AUTO 36020G28KT 10SM FEW037 SCT045 SCT050 22/14 A3002 RMK AO2 PK WND 35030/1108 SLP168 60000 T02170144 10222 20206 55001 $ CXBA 071100Z AUTO 28009KT M05/M08 RMK AO1 PK WND 29019/1001 T10461083 CXAJ 071100Z AUTO 28012KT M03/M08 RMK AO1 SOG 16 PK WND 29017/1045 T10301075 CWIS 071200Z AUTO 28005KT M16/M21 RMK AO1 PRESRR SOG 74 3036 SLP150 T11641207 50009 CXAK 071100Z AUTO 28013KT M05/M09 RMK AO1 PK WND 30017/1001 T10481094 KAPC 071154Z AUTO 00000KT 10SM CLR 04/03 A3028 RMK AO2 SLP245 T00440033 10094 20039 58013 KBFL 071154Z AUTO 09004KT 4SM BR CLR 07/04 A3031 RMK AO2 SLP261 T00670044 10106 20050 58007 KBFM 071153Z AUTO 31007KT 10SM CLR 02/M04 A3029 RMK AO2 SLP255 T00221044 10056 20006 53012 KBGD 071151Z AUTO 27007KT 10SM CLR M03/M09 A3013 RMK AO2 SLP206 T10281094 10067 21028 53005 CWKD 071100Z AUTO 26020KT M23/M26 RMK AO1 25 3018 SLP123 T12301255 KANW 071215Z AUTO 30014G21KT 10SM SCT120 03/M05 A3003 RMK AO2 T00261050 KBGE 071215Z AUTO 32007KT 10SM CLR 02/00 A3016 RMK AO2 CWIW 071200Z AUTO 33024G32KT M06/M08 RMK AO1 PRESRR SOG 07 3060 PK WND 33040/1113 SLP168 T10571083 KAPF 071153Z 34007KT 10SM OVC070 12/08 A3004 RMK AO2 SLP172 70017 T01220078 10139 20117 53013 KAOO 071153Z AUTO 20004KT 10SM CLR M05/M09 A3013 RMK AO2 SLP223 T10501094 10006 21050 55003 EEKE 071150Z 20010KT 3000 BR OVC005 03/03 Q1005 R17/290095 KBGF 071215Z AUTO 00000KT 10SM CLR M05/M05 A3023 RMK CWIX 071100Z AUTO 29016KT M20/M24 RMK AO1 24 1052 SLP212 T12041241 CWJO 071200Z AUTO 27015G22KT M20/M23 RMK AO1 PK WND 28024/1119 SLP230 T11991232 51054 NZCH 071200Z AUTO 08006KT 9999 OVC026/// 17/14 Q1017 NOSIG NZCI 071100Z 07007KT 30KM SCT021 19/14 Q1017 RMK ALT NZNR VATSIM USE ONLY CWIY 071200Z AUTO 27007KT M05/M06 RMK AO1 PK WND 29023/1101 SLP132 T10521056 53018 CWKG 071200Z AUTO 20006KT M02/M03 RMK AO1 SOG 02 6008 SLP187 T10191029 CWIZ 071200Z AUTO 01003KT M03/M04 RMK AO1 2PAST HR SOG 05 M P0001 T10271042 50002 CWKH 071200Z AUTO 03/02 RMK AO1 SLP324 T00340024 50005 CXBI 071200Z AUTO 18004KT M02/M05 RMK AO1 SOG 10 8008 SLP180 T10231052 CWJR 071200Z AUTO 05004KT M01/M06 RMK AO1 SOG 01 1022 SLP367 T10141057 CXCA 071200Z AUTO 08004KT M09/M10 RMK AO1 2PAST HR SOG 20 6019 SLP051 P0001 T10881103 50033 KBHB 071215Z 24005KT 10SM CLR M01/M03 A3009 RMK AO1 NZCM 071155Z 00000KT 9999 SCT090 BKN200 M05/M12 A2908 RMK SLP852 CXAT 071100Z AUTO 06007KT M31/M34 RMK AO1 T13101343 CWKK 071100Z AUTO 11016KT M13/M15 RMK AO1 2PAST HR SOG 21 6025 PK WND 12020/1044 SLP064 P0001 T11251146 50006 CXBK 071200Z AUTO 31030G39KT M03/M07 RMK AO1 3046 PK WND 31042/1107 SLP138 T10321066 50002 CWLB 071200Z AUTO 29014G19KT M02/M09 RMK AO1 SOG 22 1030 PK WND 28019/1157 SLP235 T10231089 CWJT 071200Z AUTO 32001KT M10/M13 RMK AO1 1028 SLP220 T11001130 50010 KBHC 071215Z AUTO 34005KT 10SM BKN036 BKN065 05/03 A3007 RMK AO2 PNO EDTL 071220Z 23003KT 7000 -RA FEW010 SCT017 BKN030 07/06 Q1008 CWJU 071200Z AUTO 12009G16KT 06/05 RMK AO1 5PAST HR 6024 PK WND 12018/1101 SLP140 P0002 T00630054 50032 CWLC 071200Z AUTO 12022KT 05/03 RMK AO1 PK WND 11030/1109 T00490030 KBGM 071153Z AUTO 00000KT 10SM CLR M03/M08 A3007 RMK AO2 SLP202 T10331083 11022 21039 58008 CXCD 071100Z AUTO 24006KT M03/M10 RMK AO1 T10311100 CWJV 071200Z AUTO 11006KT M02/M05 RMK AO1 SLP363 T10221047 53015 CWKM 071200Z AUTO 08018KT M28/ A3025 RMK SLP249 KAPN 071154Z AUTO 15006KT 7SM OVC080 M02/M03 A2988 RMK AO2 SLP126 T10171033 11017 21033 56025 KBFW 071215Z AUTO 20003KT 7SM OVC009 00/M01 A2945 RMK AO2 DNKN 071200Z 06015KT 0800 DU NSC 26/M02 Q1019 NOSIG CWJW 071200Z AUTO 18003KT M07/M09 RMK AO1 SOG 24 1011 SLP332 T10731091 CWLE 071200Z AUTO 31028G33KT M03/M07 RMK AO1 PK WND 30035/1146 SLP202 T10281068 53046 VCRI 071210Z 07005KT 9999 FEW018 SCT100 30/21 Q1010 NOSIG CXBO 071200Z AUTO 29013G20KT RMK AO1 PK WND 28022/1141 CWKO 071200Z AUTO 32029G42KT M03/M07 RMK AO1 SOG 06 3033 PK WND 32049/1121 SLP185 T10261071 CWJX 071200Z AUTO 30014KT M03/M09 RMK AO1 PK WND 29022/1112 SLP257 T10251092 51034 UMII 071200Z 19006G10MPS CAVOK 03/M02 Q1017 NOSIG UNAA 071200Z 22003MPS CAVOK 01/M02 Q1018 R20/320040 NOSIG RMK QFE741 CWKP 071200Z AUTO 28004KT M30/ A3013 RMK SLP265 CXCH 071200Z AUTO M00/M04 RMK AO1 SOG 15 T10011044 KBGR 071153Z 18004KT 10SM FEW050 SCT120 BKN200 M04/M07 A3005 RMK AO2 SLP180 4/009 T10441067 11017 21044 50009 CXBR 071200Z AUTO 28012KT M03/M11 RMK AO1 PK WND 28018/1102 T10311107 CWLI 071200Z AUTO 28002KT M30/ A3030 RMK SLP285 KARA 071221Z 00000KT 3SM BR CLR 01/00 A3032 RMK AO2 T00060000 KARB 071153Z AUTO 20005KT 8SM CLR M02/M04 A2998 RMK AO2 SLP163 T10221039 10000 21028 58023 TSNO KBHK 071151Z AUTO 30026G37KT 10SM CLR 00/M11 A3002 RMK AO2 PK WND 31040/1139 SLP183 60000 T00001106 10017 20000 51006 CXDB 071200Z AUTO 21010KT M07/M12 RMK AO1 T10691115 CXCK 071200Z AUTO 00000KT M24/M27 RMK AO1 SOG 30 0004 SLP258 T12411266 NZDN 071100Z 22003KT 30KM SKC 14/11 Q1017 RMK ALT VATSIM USE ONLY KBHM 071153Z 00000KT 10SM CLR M02/M04 A3025 RMK AO2 SLP247 T10171039 10000 21022 53007 KBID 071215Z AUTO 24007KT 10SM CLR M01/M03 A3018 RMK AO1 CWLM 071200Z AUTO 05004KT 05/04 RMK AO1 SLP337 T00470039 50005 KBIE 071215Z AUTO 29006KT 10SM CLR 02/M02 A3001 RMK AO2 T00151025 EDVE 071220Z 21013KT CAVOK 13/03 Q0999 CXDE 071200Z AUTO 31006KT M22/M24 RMK AO1 SOG 18 1017 SLP267 T12171244 CXBW 071100Z AUTO 30007KT M03/M09 RMK AO1 PK WND 26020/1005 T10321090 CWME 071200Z AUTO 04021G26KT 04/01 RMK AO1 PK WND 04030/1107 SLP272 T00410014 55012 CWKW 071200Z AUTO ///// A2952 KBIF 071158Z AUTO 15003KT 10SM CLR M02/M13 A3027 RMK AO2 SLP241 T10231135 11000 21050 57009 $ KAQO 071215Z AUTO 00000KT 10SM CLR M03/M06 A3028 RMK AO2 CWKX 071200Z AUTO 00000KT M09/M11 RMK AO1 SOG 30 6007 SLP279 T10941107 KARG 071215Z AUTO 19007KT 10SM CLR M01/M06 A3018 RMK AO1 KD95 071213Z AUTO 19006KT 10SM SCT120 00/M02 A2995 RMK AO2 T00001023 KAQP 071214Z AUTO 27014KT 10SM CLR 02/M03 A2970 RMK AO2 OPNH 071200Z 13503KT 4000M FU NSC 24/05 Q1015 KAPY 071215Z AUTO 00000KT 10SM CLR M01/M08 A3030 RMK AO2 T10171089 CXCP 071200Z AUTO 30010KT M08/M12 RMK AO1 T10771123 CWLP 071200Z AUTO 12039G48KT 07/05 RMK AO1 PK WND 11048/1156 SLP263 T00670047 56013 KBIH 071156Z AUTO 31008KT 10SM CLR 01/M04 A3042 RMK AO2 SLP288 T00111039 10022 21011 51001 UNBB 071200Z 15005MPS 9999 SCT040 M01/M05 Q1014 R06/720538 NOSIG RMK QFE738 KAQR 071215Z AUTO 00000KT 00/00 A3022 RMK AO2 CXDI 071200Z AUTO 17002KT M02/M03 RMK AO1 SLP178 T10191026 58017 OPMT 071155Z 00000KT 3500 HZ NSC 22/09 Q1016 TEMP0 3000 KBIJ 071215Z AUTO 32004KT 10SM CLR 02/00 A3017 RMK AO2 CXCS 071100Z AUTO 30019KT M03/M09 RMK AO1 PK WND 30025/1054 T10301086 CXEA 071200Z AUTO 08006KT M08/M08 RMK AO1 9PAST HR SOG 45 5005 SLP991 P0004 T10781083 50036 CWMJ 071200Z AUTO 02004KT M12/M16 RMK AO1 SOG 25 1018 SLP221 T11221155 CWLS 071200Z AUTO 18005KT M03/M04 RMK AO1 SOG 01 6017 SLP168 T10281043 CWNB 071100Z AUTO RMK AO1 EDVK 071220Z 19011KT 9999 -RA BKN038 BKN049 OVC057 10/05 Q1001 CXDK 071200Z AUTO 05001KT M22/M24 RMK AO1 SOG 24 1021 SLP238 T12191243 KBIL 071153Z 31009KT 10SM FEW090 M01/M09 A3030 RMK AO2 SLP282 T10061094 10033 21006 51021 KBJC 071156Z AUTO 28029G33KT 10SM CLR 05/M09 A3016 RMK AO2 KE11 071215Z AUTO 27008KT 10SM CLR 03/M13 A3016 RMK AO2 T00271127 CWNC 071200Z AUTO 34002KT M02/M05 RMK AO1 SLP185 T10221051 58001 CXEC 071200Z AUTO 29008KT M02/M08 RMK AO1 SOG 08 1032 SLP274 T10181075 KASD 071153Z AUTO 00000KT 10SM CLR M02/M02 A3029 RMK AO2 SLP257 T10171022 10017 21017 51006 KCAD 071215Z AUTO 19008KT 7SM SCT070 OVC100 00/M01 A2979 RMK AO2 T00051010 KAQV 071056Z AUTO 00000KT 4SM BR CLR M01/M02 A3027 RMK AO2 SLP254 T10061017 KARM 071215Z AUTO 00000KT 5SM BR CLR M01/M02 A3031 RMK AO2 T10061016 CWND 071434Z M01/M01 RMK 8017 T10081014 DNMM 071200Z VRB02KT 4000 HZ BKN015 33/23 Q1015 NOSIG CWMM 071200Z AUTO 00000KT 02/02 RMK AO1 SLP343 T00220015 50006 KASE 071153Z AUTO 00000KT 10SM CLR M15/M17 A3037 RMK AO2 SLP331 T11501167 11089 21150 53004 KAQW 071152Z AUTO 12006KT 10SM CLR M03/M07 A3014 RMK AO2 SLP213 T10281072 10011 21028 56001 KCAE 071156Z 33005KT 10SM BKN050 BKN075 06/M05 A3006 RMK AO2 SLP180 60000 T00611050 10078 20061 55008 CWNE 071200Z AUTO 22018G23KT M01/M04 RMK AO1 PK WND 22024/1138 SLP129 T10101036 56012 KAQX 071215Z AUTO VRB06G12KT 10SM FEW036 BKN043 OVC050 04/01 A3003 RMK AO2 KASG 071148Z 22010KT 10SM SKC 04/M01 A3015 CWLX 071200Z AUTO 34010KT M32/ A2968 RMK SLP081 KCAG 071153Z AUTO 25004KT 10SM CLR M18/M21 A3038 RMK AO2 SLP388 T11831206 11117 21200 50002 CXDP 071200Z AUTO 23011KT M03/M08 RMK AO1 T10341083 CXEG 071200Z AUTO M05/M09 RMK AO1 SOG 07 T10541093 CWLY 071200Z AUTO 00000KT 9SM OVC031 M01/M01 A3054 RMK PRESFR SLP353 KASH 071155Z 00000KT 10SM CLR M08/M09 A3016 RMK AO2 SLP302 11020 21080 52003 PWINO FZRANO RVRNO KE16 071215Z AUTO 00000KT 10SM CLR 05/05 A3030 RMK AO2 VEAT 070900Z 30005KT 4000 HZ SCT100 SCT200 29/10 Q1013 NOSIG CWNH 071200Z AUTO 33015G24KT M13/M18 RMK AO1 PRESRR SOG 17 3056 PK WND 33024/1154 SLP179 T11341175 50003 CWMQ 071200Z AUTO 28010KT M03/M11 RMK AO1 PK WND 28018/1124 SLP278 T10271107 52035 UMKK 071200Z 16007MPS 130V210 CAVOK 08/02 Q1007 R24/29//60 NOSIG RMK QFE755/1006 ZSHC 071200Z 02003MPS CAVOK 08/M04 Q1024 NOSIG KARR 071152Z AUTO 19011KT 10SM CLR 03/M02 A2987 RMK AO2 SLP122 T00281017 10028 20006 56033 KBJI 071213Z AUTO 28011G18KT 4SM RA OVC006 01/00 A2945 RMK AO2 T00050000 PFWS 071156Z AUTO 05014KT 10SM CLR M02/M03 A2971 RMK AO2 SLP068 T10171033 11017 21044 58014 FZRANO KBIS 071152Z 29017G30KT 10SM OVC049 04/M06 A2978 RMK AO2 PK WND 29030/1150 SLP093 T00391061 10050 20028 56005 KASJ 071215Z AUTO 00000KT 10SM -RA OVC060 02/M01 A3013 RMK AO2 T00181013 KBJJ 071156Z AUTO 00000KT 10SM FEW055 M02/M07 A3007 RMK AO2 SLP195 T10221067 11017 21044 56020 VECC 071230Z 01004KT 1800 FU SCT020 SCT100 24/12 Q1012 NOSIG KCAK 071151Z 17007KT 10SM CLR M04/M08 A3007 RMK AO2 SLP198 T10391078 11022 21044 56020 $ KART 071156Z AUTO 24004KT 6SM HZ SCT019 OVC055 01/M02 A3012 RMK AO2 SLP204 70001 T00111017 10017 20011 51006 $ KBKB 071154Z AUTO 00000KT 10SM CLR M01/M02 A3026 RMK AO2 SLP280 70005 T10061022 10033 21006 57011 VEBN 071130Z 00000KT 3500 HZ SCT025 24/16 Q1012 CWNK 071200Z AUTO 32013G18KT M02/M03 RMK AO1 2PAST HR M PK WND 31020/1145 P0001 T10151027 50004 CWMT 071200Z AUTO 29006KT M28/M31 RMK AO1 SLP251 T12831313 51028 CWOB 071200Z AUTO 11004KT M26/ A2951 RMK SLP059 KASL 071215Z AUTO 00000KT 10SM CLR M02/M03 A3030 RMK AO1 T10231033 CWNL 071100Z AUTO 17012KT 01/M01 RMK AO1 SLP127 T00101011 56030 CWOC 071200Z AUTO 21009KT M04/M05 RMK AO1 SLP093 T10391052 56024 KBIV 071153Z AUTO 19008KT 10SM BKN110 02/M02 A2989 RMK AO2 SLP129 T00171017 10022 21006 56031 KARV 071215Z AUTO 16005KT 5SM -SN OVC007 00/M01 A2955 RMK AO2 T10011015 KBKD 071215Z AUTO 18008KT 10SM CLR 04/M04 A3016 RMK AO2 T00411040 CWOD 071200Z AUTO 29011G16KT M24/M28 RMK AO1 SOG 37 3037 PK WND 29020/1128 SLP221 T12361279 50002 CWNM 071200Z AUTO 00021KT M02/M05 RMK AO1 SLP366 T10181047 51022 ZSFZ 071200Z 00000MPS 7000 NSC 06/01 Q1026 NOSIG KBKE 071153Z AUTO 00000KT 10SM BKN004 M07/M08 A3052 RMK AO2 SLP369 I1000 I6000 T10671078 11033 21072 53011 TSNO KCBE 071227Z AUTO 36006KT 10SM CLR M03/M04 A3022 RMK AO1 KARW 071215Z AUTO 36010KT 10SM -RA OVC012 05/04 A2998 RMK AO2 KASN 071215Z AUTO 00000KT 10SM CLR M03/M04 A3024 RMK AO2 T10301042 CWOE 071200Z AUTO 30013KT M04/M08 RMK AO1 SOG 00 1028 PK WND 31018/1131 SLP291 T10391075 CXDW 071200Z AUTO 33015G24KT M01/M01 RMK AO1 SOG 17 PK WND 30025/1121 T10071014 50002 KCAO 071155Z AUTO 34007KT 10SM CLR 06/M11 A3013 RMK AO2 SLP186 T00611106 10083 20006 53008 KBIX 071158Z AUTO 35004KT 10SM CLR 02/M03 A3028 RMK AO2 SLP257 T00241026 10065 20024 52011 KBKF 071158Z 29018G26KT 10SM FEW110 SCT220 05/M12 A3017 RMK AO2A PK WND 29028/43 SLP196 T00491120 10062 20012 52009 KCBF 071215Z AUTO 32009G16KT 10SM CLR 03/M03 A2992 RMK AO2 KCBG 071216Z AUTO 25008KT 10SM OVC025 04/M01 A2955 RMK AO2 VEBS 062100Z 13001KT 2000 HZ SCT020 23/22 Q1013 CWNP 071200Z AUTO 06002KT M03/M04 RMK AO1 SOG 17 1020 SLP365 T10281039 CWMZ 071100Z AUTO 21015KT 01/M03 RMK AO1 PK WND 23019/1034 SLP161 T00121026 56013 CWNQ 071200Z AUTO 32006KT M06/M12 RMK AO1 SLP212 T10621122 53044 KCAR 071154Z AUTO 29008G18KT 230V320 10SM OVC095 M02/M08 A2990 RMK AO2 UPB35E42SNB1056E35 SLP138 P0001 60001 70001 T10221078 11011 21028 53017 KCCA 071215Z AUTO 00000KT 7SM CLR M05/M06 A3021 RMK AO2 KAST 071155Z AUTO 09010KT 10SM FEW026 OVC095 07/05 A3044 RMK AO2 SLP307 T00670050 10067 20039 58001 KCBK 071215Z AUTO 26012KT 10SM CLR M01/M03 A3015 RMK AO2 CXET 071200Z AUTO 15005KT M02/M04 RMK AO1 SLP175 T10181041 56012 KBKL 071153Z 16007KT 10SM CLR 01/M06 A3005 RMK AO2 SLP182 T00061061 10011 20006 56025 KATL 071152Z 32009KT 10SM FEW250 M01/M07 A3014 RMK AO2 SLP213 T10111067 10017 21011 55000 CWPC 071200Z AUTO 23008KT 02/M02 RMK AO1 SLP196 T00161023 58013 KCBM 071158Z AUTO 00000KT 10SM CLR M04/M05 A3025 RMK AO2 SLP248 T10411053 11009 21041 50002 $ KCAV 071215Z AUTO 27014KT 10SM CLR M02/M04 A2980 RMK AO2 CXFM 071100Z AUTO 27016KT M01/M09 RMK AO1 PK WND 26025/1040 T10131090 CWPD 071200Z AUTO 02006G17KT M21/M24 RMK AO1 3029 SLP180 T12081244 50020 UMMG 071200Z 18007G10MPS CAVOK 05/01 Q1014 NOSIG KBKN 071215Z AUTO 19009KT 10SM CLR M00/M03 A3014 RMK AO2 KASW 071215Z AUTO 20005KT 10SM SCT110 01/M03 A2996 RMK AO2 KASX 071225Z AUTO 20007KT 10SM BKN019 BKN120 M01/M02 A2953 RMK AO2 T10061022 KBLF 071152Z AUTO 25004KT 10SM CLR M03/M09 A3011 RMK AO2 SLP215 T10331089 11006 21039 56009 TSNO KAUG 071153Z AUTO 23005KT 10SM FEW070 M04/M07 A3008 RMK AO2 SLP190 T10391067 11033 21050 51009 CWPF 071215Z AUTO 01006KT 05/04 RMK AO1 T00530036 KATP 071220Z AUTO 34018G25KT 10SM BKN055 15/03 A3026 RMK A01 KBLH 071152Z AUTO 22003KT 10SM CLR 08/M04 A3023 RMK AO2 SLP232 T00781044 10128 20072 58002 PHHI 071158Z AUTO 34009KT 10SM FEW021 18/17 A2998 RMK AO2 RAE00RAB04E06DZB06E19RAB19E34 SLP146 P0001 60024 70025 T01770171 10208 20176 55008 $ KAUH 071215Z AUTO 32020KT 10SM CLR 03/M04 A3002 RMK AO2 T00261040 NZGS 071100Z 06001KT 40KM SCT033 18/16 Q1017 RMK ALT VATSIM USE ONLY CWNZ 071200Z AUTO 12011G17KT M21/M24 RMK AO1 SOG 52 6021 PK WND 12019/1129 SLP167 T12101243 CXGH 071200Z AUTO 34007KT M05/M05 RMK AO1 T10451050 KBLI 071153Z AUTO 00000KT 10SM CLR 01/00 A3054 RMK AO2 SLP350 T00110000 10033 20006 50010 OPPS 071200Z 05004KT 3000 HZ FEW200 20/03 Q1016 NZHK 071100Z 24009KT 20KM SCT010 20/17 Q1015 RMK ALT VATSIM USE ONLY CXFR 071200Z AUTO 30003KT M06/M10 RMK AO1 T10601099 ULWC 071200Z 19002G07MPS 6000 -SN SCT010 OVC/// M04/M05 Q1013 R21/490135 TEMPO 1000 SN BKN004 RMK QFE749/0999 KATS 071215Z AUTO 28006KT 10SM CLR M01/M11 A3018 RMK AO2 KBKS 071215Z AUTO 31003KT 10SM CLR 02/M04 A3030 RMK AO1 T00161045 KCDA 071215Z AUTO 00000KT 10SM OVC032 M01/M06 A3008 RMK AO2 T10071057 KE38 071215Z AUTO 20009KT 10SM CLR 07/M16 A3028 RMK AO2 T00651162 CXHA 071200Z AUTO 22004KT 00/M03 RMK AO1 SOG 01 8023 SLP168 T00001028 UMMM 071200Z 17005G08MPS CAVOK 04/M02 Q1016 NOSIG RMK QFE742 PFYU 071216Z 02004KT 10SM OVC012 M19/M22 A3017 RMK AO1 KATT 071151Z AUTO 00000KT 8SM CLR 00/M01 A3029 RMK AO2 SLP260 T00001011 10044 20000 56017 KBKT 071215Z AUTO 35005KT 10SM CLR 00/M04 A3012 RMK AO1 T00021037 CWPK 071200Z AUTO 35001KT M27/M30 RMK AO1 SOG 43 2026 SLP239 T12711296 UNEE 071200Z 15003MPS 8000 OVC002 M02/M02 Q1015 R23/892030 NOSIG RMK QBB080 QFE738 KCDC 071153Z AUTO 08003KT 10SM CLR M14/M16 A3044 RMK AO2 SLP350 I1000 I6000 T11391161 11072 21144 55002 KAVC 071216Z AUTO 35006KT 10SM CLR 00/M02 A3017 RMK AO2 T00001021 KBMC 071215Z AUTO 00000KT 1SM VV007 M09/M11 A3053 RMK AO1 T10921109 NZHN 071100Z 10008KT 30KM SCT022 22/17 Q1014 RMK ALT NZTG VATSIM USE ONLY KCDD 071221Z AUTO 15001KT 5SM BKN011 OVC019 00/M01 A2942 RMK AO2 KBKV 071153Z 30009KT 10SM OVC009 08/06 A3006 RMK AO2 SLP178 70031 T00830061 10083 20078 53009 KBLM 071215Z AUTO 31006KT 10SM CLR M04/M09 A3018 RMK AO1 KAUM 071214Z AUTO 26009G16KT 10SM CLR 01/M03 A2971 RMK AO2 CXHD 071100Z AUTO 29014KT M03/M08 RMK AO1 PK WND 30021/1003 T10331078 KBKW 071151Z AUTO 00000KT 10SM CLR M04/M08 A3012 RMK AO2 SLP227 T10391083 10006 21044 58001 KATW 071145Z 19015KT 10SM OVC090 02/M02 A2970 KAUN 071215Z AUTO 09005KT 10SM CLR 06/01 A3029 RMK AO1 EDXW 071220Z 21016KT CAVOK 08/07 Q0993 KAUO 071156Z AUTO 34006KT 10SM CLR 00/M06 A3018 RMK AO2 SLP246 T00001061 10028 20000 53003 FZRANO KBKX 071156Z AUTO 29022G29KT 10SM CLR 01/M04 A2977 RMK AO2 PK WND 29031/1112 SLP112 T00111044 10033 20011 53003 FZRANO KCCO 071215Z AUTO 35007KT 10SM CLR 01/M05 A3015 RMK AO2 T00111052 DNPO 071100Z 00000KT 6000 SCT012 33/22 Q1016 NOSIG CXHF 071200Z AUTO M09/M12 RMK AO1 T10871124 CWPO 071200Z AUTO 30016G22KT M00/M01 RMK AO1 SOG 13 3008 PK WND 30025/1123 SLP013 T10021013 50019 KATY 071153Z AUTO 28018KT 10SM CLR 01/M05 A2975 RMK AO2 PK WND 28026/1111 SLP092 T00061050 10028 20000 50008 KBMG 071153Z 22006KT 10SM CLR 02/M05 A3009 RMK AO2 SLP193 T00221050 10050 20017 56016 CWOY 071200Z AUTO 32012G18KT M09/M11 RMK AO1 SOG 08 1061 PK WND 32026/1132 SLP148 T10881109 UMMS 071200Z 16005G08MPS CAVOK 04/M02 Q1017 R13/190065 NOSIG KCDH 071215Z AUTO 00000KT 10SM CLR M03/M05 A3027 RMK AO2 NZHS 071100Z 07007KT 30KM SCT021 19/14 Q1017 RMK ALT NZNR VATSIM USE ONLY CWQH 071200Z AUTO 31009KT M03/M03 RMK AO1 2PAST HR SOG 01 M PK WND 32020/1127 P0005 T10311034 50012 KCCR 071153Z 00000KT 10SM CLR 07/03 A3029 RMK AO2 SLP242 T00670033 10106 20061 56009 KBMI 071156Z 21015KT 10SM CLR 03/M01 A2995 RMK AO2 56030 T00271005 10027 21011 SLP155 NZHT 071100Z 00000KT 30KM SCT008 16/14 Q1016 RMK ALT VATSIM USE ONLY CWPR 071200Z AUTO 10001KT M07/M08 RMK AO1 SOG 25 1013 SLP369 T10671076 50002 KAUS 071153Z 25004KT 8SM CLR 00/M02 A3029 RMK AO2 SLP261 T00001017 10017 21022 56016 KBNA 071153Z 17003KT 10SM CLR M03/M06 A3021 RMK AO2 SLP234 T10281056 10011 21028 55003 $ KCDJ 071152Z AUTO 24004KT 03/M03 A2996 RMK AO1 SLP152 T00281028 10039 20022 56013 CWPS 071100Z AUTO 01/M03 RMK AO1 SLP189 T00121033 58014 CWRA 071200Z AUTO 29001KT M02/M06 RMK AO1 SLP220 T10181062 51001 KAVK 071215Z AUTO 29006KT 10SM CLR 00/M07 A3013 RMK AO2 CXIB 071200Z AUTO 00000KT M06/M07 RMK AO1 SOG 17 6018 SLP189 T10591072 CWQK 071200Z AUTO 05015KT 07/06 RMK AO1 PK WND 06018/1109 SLP332 T00710058 50006 EFHK 071220Z 19013KT 0700 R04R/1000N R15/1000N R22L/0900V1300N R04L/1400N -DZ FG VV002 03/03 Q1003 TEMPO BKN002 KBML 071152Z AUTO 25003KT 10SM OVC035 00/M08 A3003 RMK AO2 SLP184 T00001078 10011 21006 53010 KBLU 071152Z AUTO 06010G17KT 10SM CLR 09/M08 A3038 RMK AO2 SLP249 T00891083 10094 20072 58006 KAVL 071154Z 35009KT 10SM CLR M01/M09 A3009 RMK AO2 SLP197 T10111089 10000 21017 56010 KCCU 071216Z AUTO 30015G25KT 10SM OVC048 M08/M13 A3029 RMK AO2 KCEC 071156Z AUTO 03003KT 10SM CLR 11/08 A3039 RMK AO2 SLP290 T01110083 10122 20094 56007 EEPU 071150Z 18011G23KT 150V210 0700 FG VV002 02/02 Q1006 OPRN 071200Z 23006KT 7000 NSC 21/07 Q1017.7/30.05 KBLV 071158Z AUTO 19005KT 10SM FEW190 01/M05 A3006 RMK AO2 SLP185 T00131052 10033 20004 57027 $ CXHM 071200Z AUTO 00000KT M02/M04 RMK AO1 SLP181 T10211039 58015 PGRO 070950Z 12010KT 7SM SCT030 BKN080 25/23 A2995 RMK LAST KAUW 071219Z AUTO 18006KT 8SM BKN015 OVC075 00/M02 A2962 RMK AO2 T00001022 KCDN 071215Z AUTO 36006KT 10SM OVC049 04/04 A3005 RMK AO2 KCEF 071205Z 01001KT 7SM R23/3000FT MIFG CLR M10/M12 A3016 RMK AO2A PHJH 070345Z 23008KT 15SM BKN035 OVC050 24/21 A2993 RMK LAST CWQO 071200Z AUTO 27030G35KT M10/M16 RMK AO1 PK WND 26042/1111 T10981161 CWRF 071200Z AUTO ///// M34/ A2990 RMK SLP190 CWPX 071200Z AUTO 03010KT M36/ A3009 RMK SLP227 KAVP 071154Z AUTO 11003KT 10SM CLR M04/M08 A3013 RMK AO2 SLP213 T10391083 11006 21056 56009 KCCY 071215Z AUTO 26011KT 10SM CLR M00/M01 A2976 RMK AO2 KAWG 071215Z AUTO 24014KT 10SM SCT110 03/M01 A2987 RMK AO2 CWQP 071200Z AUTO 27008KT 01/M02 RMK AO1 SOG 00 0002 SLP200 T00131016 CXHP 071200Z AUTO 25007KT M04/M10 RMK AO1 T10421096 KBMQ 071153Z AUTO 00000KT 9SM CLR M01/M03 A3026 RMK AO2 SLP247 T10111028 10028 21011 56021 KAVQ 071215Z AUTO 00000KT 10SM CLR 03/M07 A3019 RMK AO2 T00321074 CWPZ 071200Z AUTO 13003KT M05/M05 RMK AO1 6PAST HR SOG 37 0000 SLP300 P0002 T10461053 50009 CWRH 071200Z AUTO ///// M24/ A2959 RMK SLP078 KCDR 071153Z AUTO 29013KT 10SM BKN080 OVC090 02/M06 A3015 RMK AO2 SLP236 T00171061 10017 20006 51008 CXHR 071200Z AUTO 29012KT M06/M12 RMK AO1 PK WND 30018/1101 T10621124 CWQR 071200Z AUTO 08025KT M09/ RMK AO1 PK WND 08032/1107 T1091 KCDS 071153Z AUTO 22003KT 10SM CLR M02/M08 A3008 RMK AO2 SLP190 T10171083 10033 21022 56019 OPSK 071100Z 31008KT 5000 HZ NSC 27/08 Q1014 RH30 PC KAXA 071215Z AUTO 28011KT 10SM CLR M00/M03 A2978 RMK AO2 CWQS 071200Z AUTO 15035G45KT 09/07 RMK AO1 6PAST HR 6020 PK WND 15046/1132 SLP138 P0002 T00880067 50074 CWRJ 071200Z AUTO 31016G21KT M03/M07 RMK AO1 SOG 04 3054 PK WND 31025/1101 SLP219 T10321069 CWSA 071200Z AUTO 20011KT 9SM FEW210 01/M05 A3022 RMK SLP233 EGAA 071220Z 22014KT 9999 SCT027 BKN033 06/03 Q0980 KBMT 071215Z AUTO 00000KT 3SM BR CLR 00/00 A3031 RMK AO2 T00041001 CWRK 071200Z AUTO 20002KT M02/M04 RMK AO1 SOG 11 3002 SLP182 T10171042 KBNL 071215Z AUTO 00000KT 10SM OVC050 05/00 A3005 RMK AO2 EGAC 071220Z 22020KT 9999 FEW018 SCT032 07/M01 Q0980 UMOO 071200Z 17006G10MPS CAVOK 04/M04 Q1020 NOSIG KAWM 071153Z AUTO 17003KT 10SM CLR M02/M03 A3024 RMK AO2 SLP241 T10171028 10011 21022 55004 PGSN 071154Z 10010KT 10SM FEW020 SCT030 26/23 A2998 RMK AO2 SLP175 60001 70026 T02600230 10278 20250 51017 $ KCFD 071215Z AUTO 00000KT 3SM BR CLR 01/01 A3028 RMK AO2 T00060006 CWSD 071200Z AUTO 19014KT M02/M04 RMK AO1 SOG 20 6010 PK WND 19020/1110 SLP147 T10201035 CWQV 071200Z AUTO 28024G33KT RMK AO1 PK WND 28036/1130 CWRM 071100Z AUTO 32002KT M11/M18 RMK AO1 SOG 19 1028 SLP295 T11111181 KCDW 071153Z 00000KT 9SM CLR M04/M07 A3020 RMK AO2 SLP234 T10441067 10000 21044 55004 KCFE 071214Z AUTO 24011G18KT 10SM SCT027 BKN042 OVC055 03/M01 A2963 RMK AO2 T00251013 EGAE 071220Z 23022G34KT 9999 VCSH FEW018 SCT025 07/04 Q0976 CWRN 071200Z AUTO 20010KT 01/M02 RMK AO1 SLP207 T00061021 55010 KBNO 071153Z AUTO 30004KT 5SM BR CLR M07/M08 A3049 RMK AO2 SLP356 I1001 I6001 T10721083 10000 21072 50012 KAVX 071151Z AUTO 06008KT 10SM CLR 18/M09 A3016 RMK AO2 SLP195 T01831094 10189 20150 58009 KAWO 071215Z AUTO 00000KT 10SM CLR M01/M04 A3056 RMK AO1 CWSF 071200Z AUTO 23004KT M04/M08 RMK AO1 PK WND 20025/1102 SLP072 T10361075 55009 CWRO 071200Z AUTO 14039G52KT 06/05 RMK AO1 0PAST HR 8030 PK WND 14052/1159 SLP171 P0012 T00610052 50139 NZKI 071100Z 06007KT 30KM SCT014 16/13 Q1017 RMK ALT VATSIM USE ONLY CWSG 071200Z AUTO 27028G35KT M06/M07 RMK AO1 3029 PK WND 26038/1103 SLP095 T10591073 50011 PHJR 071153Z AUTO 03008G18KT 10SM CLR 19/16 A2999 RMK AO2 SLP163 T01940161 10239 20194 56010 TSNO ORBI 071230Z 17005KT 9999 SCT030 16/07 Q1013 KAXH 071215Z AUTO 00000KT 5SM BR CLR 01/00 A3031 RMK AO2 T00050000 CYAH 071226Z AUTO 22004KT 9SM CLR M31/M35 A3005 RMK SLP224 KBOI 071153Z 00000KT 5SM BR FEW060 M03/M04 A3051 RMK AO2 SLP351 T10281039 11006 21033 50006 PGUA 071158Z AUTO 11009KT 10SM FEW015 25/22 A2998 RMK AO2 SLP143 T02450219 10254 20242 52017 $ NZKK 071102Z 05006KT 40KM FEW030 20/18 Q1014 RMK NZAA VATSIM USE ONLY OPST 071200Z 13004KT 5000 FU FEW100 19/09 Q1017 NOSIG RH50 CXKA 071200Z AUTO 12007KT M23/M25 RMK AO1 SOG 54 7016 SLP202 T12291250 KBOK 071156Z AUTO 00000KT 10SM CLR 09/09 A3040 RMK AO2 SLP309 70001 T00940089 10117 20089 55005 CYBB 070100Z 23010KT 15SM IC SKC M31/M35 A3011 RMK -31.2/-43.1/TR/2/SNW CVR/HARD PACK/LAST OBS/NXT 071800Z SLP202 DENSITY ALT MISG CWSK 071200Z AUTO 33001KT 01/01 RMK AO1 SLP352 T00090007 50006 CWRT 071200Z AUTO 29001KT M08/M10 RMK AO1 T10751095 EGBB 071220Z 24012G22KT 190V270 9999 BKN030 08/04 Q0991 KCEU 071154Z AUTO 33005KT 10SM CLR 02/M05 A3011 RMK AO2 SLP197 T00171050 10039 20011 56012 KCGC 071215Z AUTO 31007KT 10SM OVC014 06/03 A3009 RMK AO2 KBPC 071215Z AUTO 25005KT 10SM CLR M04/M08 A3012 RMK AO2 CWRU 071200Z AUTO 11054G63KT 07/05 RMK AO1 8PAST HR 8019 PK WND 12063/1146 SLP216 P0003 T00690047 50014 CWSL 071200Z AUTO 00000KT M06/M07 RMK AO1 SOG 11 1013 SLP368 T10581066 CYBC 071210Z AUTO 30011G23KT 8SM FEW032 OVC041 M12/M18 A2992 RMK PRESRR SLP134 CYBD 070100Z 13003KT 15SM FEW008 BKN090 BKN220 04/03 A3040 RMK SF1AC5CI1 SF TR LAST STFD OBS/NEXT 071500UTC SLP296 KCGE 071224Z AUTO 00000KT 10SM CLR M02/M02 A3018 RMK AO1 CYAM 071200Z 11006KT 15SM -SN SCT016 BKN048 OVC060 M01/M03 A2979 RMK SC3SC2SC3 SLP099 VDPP 071200Z 35004KT 320V030 9999 FEW020 25/13 Q1013 KCEW 071153Z AUTO 33007KT 10SM CLR 01/M04 A3023 RMK AO2 SLP236 T00061044 10044 20006 53008 KAXN 071153Z AUTO 29020G31KT 9SM -SN BKN043 OVC060 02/M03 A2959 RMK AO2 PK WND 28035/1118 SLP036 P0000 60002 70006 T00171028 10028 20017 53000 PHKO 071153Z AUTO 03006KT 10SM OVC060 23/20 A2993 RMK AO2 SLP135 T02280200 10250 20222 58018 PWINO TSNO KBNW 071215Z AUTO 28014G20KT 10SM CLR 02/M02 A2983 RMK AO2 KAXO 071050Z 01010KT 7SM SKC 09/05 A3030 KCGF 071145Z 17007KT 20SM FEW150 00/M05 A3006 EGBE 071220Z 22017KT 9999 SCT030 08/04 Q0991 CXKE 071200Z AUTO 36002KT M01/M04 RMK AO1 SOG 05 3015 SLP197 T10061037 CWRX 071200Z AUTO 31019KT M30/ A2978 KCEY 071215Z AUTO 24008KT 10SM FEW034 02/M07 A3019 RMK AO1 KBPG 071215Z AUTO 15006KT 10SM CLR 00/M09 A3018 RMK AO2 T10011088 CWRY 071200Z AUTO 27012KT M04/M10 RMK AO1 1021 PK WND 27018/1103 SLP301 T10421101 50002 CWTG 071200Z AUTO 28020G28KT M10/M11 RMK AO1 3037 PK WND 27030/1142 SLP103 T11011114 50040 CWSP 071200Z AUTO 08007KT 07/04 RMK AO1 SLP326 T00710041 58001 CYBG 071200Z 28017KT 25SM FEW040 M19/M27 A3014 RMK SC1 SLP222 ZSNB 071200Z 12002MPS CAVOK 05/M03 Q1024 NOSIG KCEZ 071153Z AUTO 08007KT 10SM CLR M11/M14 A3039 RMK AO2 SLP319 T11111139 11089 21117 56010 PHLI 071153Z 36016G22KT 10SM CLR 19/14 A3003 RMK AO2 SLP167 T01890139 10200 20183 58001 VEGT 071200Z 00000KT 2000 HZ FEW020 24/19 Q1013 NOSIG CWRZ 071200Z AUTO 22012KT M04/M04 RMK AO1 PK WND 21017/1150 SLP092 T10381044 56024 KBPI 071153Z AUTO 01015KT 10SM CLR M03/M08 A3034 RMK AO2 SLP277 T10281078 11028 21078 53006 KCGI 071153Z AUTO 22006KT 10SM CLR 01/M04 A3016 RMK AO2 SLP214 T00111044 10033 21028 58016 CXKI 071200Z AUTO M22/M24 RMK AO1 SOG 38 5000 SLP219 T12181244 CWSR 071200Z AUTO 31011KT M05/M08 RMK AO1 SOG 12 3039 PK WND 31020/1105 SLP185 T10541083 KCHA 071153Z 00000KT 10SM CLR M02/M04 A3022 RMK AO2 SLP235 T10221039 10011 21022 53005 EFKI 071150Z 17004KT 130V230 9999 OVC009 02/01 Q0998 KBOS 071154Z 24006KT 10SM CLR 00/M06 A3017 RMK AO2 SLP216 T00001056 10006 21011 55001 KCFS 071215Z AUTO 18004KT 10SM OVC090 01/M02 A2993 RMK AO2 T00081025 KAXS 071215Z AUTO 11007KT 10SM CLR M01/M04 A3014 RMK AO2 T10091045 NZMC 071100Z 00000KT 30KM SCT008 16/14 Q1016 RMK ALT NZHT VATSIM USE ONLY CYAS 062200Z 28005KT 15SM FEW024 BKN090 M29/M33 A2982 RMK SC2AC4 SN COV/HARD PACK LAST OBS/NEXT 071300UTC SLP119 DENSITY ALT MISG EGBJ 071220Z 24009KT 9999 VCSH SCT025TCU SCT035 08/05 Q0993 CWSS 071200Z AUTO 23004KT M02/M04 RMK AO1 SOG 21 7001 SLP167 T10201038 KBPK 071153Z AUTO 18007KT 6SM HZ CLR 02/M07 A3013 RMK AO2 SLP204 T00171072 10039 20000 58023 KE80 071215Z AUTO 00000KT 10SM CLR M07/M11 A3033 RMK AO2 T10711112 CXLB 071200Z AUTO 23012KT 02/M01 RMK AO1 PK WND 23018/1101 SLP195 T00171011 56008 CWST 071200Z AUTO 31014G20KT M08/M17 RMK AO1 SOG 00 1053 PK WND 28022/1104 SLP171 T10771173 50003 CYAT 071200Z AUTO 04003KT 9SM CLR M36/M40 A3027 RMK SLP252 DENSITY ALT MISG CYCB 071200Z 03010KT 15SM IC FEW085 M38/M42 A3017 RMK AC1 AC TR SLP225 DENSITY ALT MISG CYBK 071200Z 07004KT 15SM IC FEW006 M34/M38 A3017 RMK SC2 SLP223 DENSITY ALT MISG PGUM 071154Z 10006KT 10SM FEW018 26/23 A2998 RMK AO2 SLP144 60004 70020 T02610233 10261 20239 51018 $ KAZC 071215Z AUTO 00000KT 10SM CLR M06/M07 A3042 RMK AO2 T10561068 KCHD 070347Z 34007KT 15SM SKC 15/M07 A3019 RMK LAST CXLC 071200Z AUTO 33009KT M27/M30 RMK AO1 SOG 36 1032 SLP200 T12691298 CYBL 070500Z 31003KT 15SM FEW015 BKN170 M01/M01 A3049 RMK SC1AC6 LAST OBS/NEXT 071400 UTC SLP330 KCFV 071152Z AUTO 20006KT 10SM CLR 01/M03 A3011 RMK AO2 SLP199 T00061028 10033 20000 56011 EGCC 071220Z 24019KT 9999 FEW030 SCT037 08/03 Q0987 NOSIG KAXV 071213Z AUTO 20006KT 10SM CLR 00/M03 A3004 RMK AO2 NZMF 071100Z 16011KT 45KM SCT030 20/13 Q1014 RMK ALT NZQN VATSIM USE ONLY CXKM 071200Z AUTO 29016KT M04/M09 RMK AO1 PK WND 30023/1118 T10421090 VEGY 071200Z 00000KT 2000 HZ NSC 25/17 Q1012 NOSIG CYCD 070500Z CCA VRB02KT 20SM MIFG SKC 00/M00 A3050 RMK LAST OBS/NEXT 071400 UTC SLP330 KBOW 071222Z 30013G18KT 7SM OVC008 07/05 A3004 KAZE 071215Z AUTO 33005KT 10SM CLR 05/01 A3007 RMK AO2 T00450011 CWSW 070000Z CCA 26003KT 100V270 20SM SCT055TCU 01/M09 A3013 RMK TCU3 LAST STFD OBS/NEXT 071400Z SLP238 CWTN 071200Z AUTO 26006KT M09/M18 RMK AO1 PRESRR SLP191 T10911180 53064 CYBN 071200Z AUTO 16007KT 6SM SCT095 M02/M04 A3003 RMK SLP179 EETN 071220Z 20009KT 1400 R26/1900N BR OVC002 02/02 Q1005 R08/810295 TEMPO 0800 FG KAXX 071215Z AUTO 02005KT 10SM CLR M11/M15 A3028 RMK AO2 T11091155 ZSNJ 071200Z 29002MPS CAVOK 04/M06 Q1024 NOSIG CYCG 070100Z 16004KT 15SM FEW072 SCT230 04/M05 A3033 RMK AC2CI1 LAST OBS/NEXT 071400UTC SLP287 CYAY 071200Z AUTO 22004KT 9SM CLR M20/M22 A3003 RMK SLP174 CYAZ 070100Z 10004KT 12SM FEW018 FEW150 BKN230 07/05 A3044 RMK SC1AC1CC4 AC TR LAST OBS/NEXT 071500UTC SLP309 CYBQ 071200Z AUTO 11007KT 9SM -SN OVC080 M24/M27 A2991 RMK SLP170 CYBR 071200Z 31019G25KT 15SM FEW024 OVC056 01/M01 A2954 RMK SC2SC6 SLP023 KCGS 071225Z AUTO 00000KT 10SM CLR M03/M03 A3020 RMK AO1 PHMK 071202Z AUTO 34014G20KT 10SM FEW020 SCT028 OVC034 20/17 A2998 RMK AO2 RAE1156 P0000 TSNO KAYS 071215Z AUTO 33007KT 10SM OVC035 06/05 A3007 RMK AO2 T00600046 CYDA 070000Z 24004KT 20SM FEW015 FEW050 FEW150 BKN200 M12/M13 A2996 RMK ST1SC1AC1CI4 ST TR SC TR CLIMAT -9.3/-11.8/0.0 LAST STFD OBS/NXT 071500 UTC SLP179 KBPT 071209Z 00000KT 1/2SM FG SCT003 00/00 A3030 RMK AO2 T00000000 RVRNO $ KCHK 071215Z AUTO 17003KT 10SM CLR 01/M01 A3014 RMK AO2 KBQK 071215Z AUTO 33006KT 290V010 10SM -RA OVC008 03/03 A3002 RMK AO2 CXKT 071200Z AUTO 21008KT M00/M02 RMK AO1 SOG 05 6009 SLP180 T10021024 CWTT 071200Z AUTO 33009KT M03/M04 RMK AO1 PK WND 35018/1137 T10341044 CYCK 071200Z AUTO 20008KT 9SM CLR M00/M02 A3001 RMK SLP171 CYDB 071200Z AUTO 29002KT 9SM CLR M26/M29 A3001 RMK SLP240 ZSOF 071200Z 31002MPS CAVOK 04/M06 Q1024 NOSIG KCIC 071215Z AUTO 00000KT 10SM CLR 08/05 A3032 RMK AO1 CYDC 070100Z VRB02KT 15SM SCT040 BKN120 01/M03 A3037 RMK CU3AC2 LAST STFD OBS/NEXT 071500 UTC SLP310 CWTU 071200Z AUTO ///// M23/ A2958 RMK SLP088 CYBU 071216Z AUTO 29014G20KT 7SM -SN SCT016 OVC022 M10/M12 A2992 RMK SLP160 KBRD 071221Z AUTO 27016KT 10SM BKN013 BKN019 OVC028 01/M01 A2950 RMK AO2 RAB08E19UPB09E18 P0000 T00111006 EETU 071150Z 20008KT 4300 BR OVC005 03/01 Q1008 KCID 071152Z 21009KT 10SM OVC100 02/M01 A2981 RMK AO2 SLP101 T00221011 10028 20017 56009 $ EFKU 071150Z AUTO 16007KT 9999 OVC010 02/01 Q1000 CXMD 071200Z AUTO 32013G23KT 02/M01 RMK AO1 SOG 00 3013 PK WND 32026/1146 SLP993 T00151013 50002 CWVD 071200Z AUTO 33016KT M25/ A2940 RMK SLP039 CYBW 071200Z AUTO 33005KT 9SM CLR M07/M13 A3029 RMK SLP319 KCHO 071153Z 00000KT 10SM CLR M03/M07 A3015 RMK AO2 SLP212 T10281067 11006 21033 56013 KAZO 071153Z 18009KT 10SM SCT110 01/M03 A2993 RMK AO2 SLP142 T00111028 10011 21006 58028 EGCN 071220Z 23022KT 9999 SCT026 09/03 Q0988 PHNG 071157Z AUTO 35012KT BKN030 OVC040 21/17 A2997 RMK AO2 SLP143 60001 70001 T02110167 10228 20206 56012 $ CWVF 071200Z AUTO 17003KT 05/03 RMK AO1 T00540028 CYBX 071200Z 04005KT 15SM FEW120 M20/M24 A3001 RMK AC1 SLP168 CYCO 071200Z 26015KT 12SM DRSN FEW060 M32/M35 A3025 RMK SC1 SLP251 DENSITY ALT MISG CYDF 071225Z 00000KT 15SM FEW020 SCT110 M11/M12 A3004 RMK SC2AC2 SLP174 KF05 071215Z AUTO 14004KT 10SM CLR 00/M06 A3013 RMK AO1 T10041065 KBQP 071215Z AUTO 29003KT 10SM CLR M01/M02 A3029 RMK AO2 T10121023 CYCP 070000Z 23004KT 15SM VCSH SCT060TCU 03/M07 A3026 RMK TCU3 LAST OB/NEXT 071400 UTC SLP273 CXMG 071100Z AUTO 25006KT M08/M10 RMK AO1 T10751095 CWTY 071200Z AUTO 32007KT M07/M14 RMK AO1 PRESRR PK WND 29022/1102 SLP217 T10721135 53047 CWUP 071200Z AUTO 31018KT M24/ A2955 RMK SLP061 KCGZ 071215Z AUTO 00000KT 10SM CLR 04/M08 A3019 RMK AO1 CYCQ 070000Z 23020G31KT 35SM FEW060 FEW090 03/M09 A3005 RMK CU1AC1 AC TR DIST PCPN S+W LAST STFD OBS/NEXT 071400Z SLP204 CWVH 071200Z AUTO 10003KT M26/ A3021 RMK SLP274 CXMI 071200Z AUTO 22011KT 02/M00 RMK AO1 SLP198 T00181004 56008 CWVI 071200Z AUTO 29014KT M03/M08 RMK AO1 SOG 12 1029 PK WND 28020/1125 SLP253 T10321078 ZSPD 071200Z 22003MPS CAVOK 04/M05 Q1023 NOSIG KCHS 071156Z 01012G20KT 10SM -RA SCT008 BKN012 OVC030 04/03 A2995 RMK AO2 SLP140 P0005 60035 70080 T00440028 10044 20039 58010 KDAA 071158Z AUTO 00000KT 10SM CLR M04/M06 A3020 RMK AO2 SLP231 T10421056 11024 21043 58006 CYCS 062100Z 32004KT 15SM IC FEW025 M34/M38 A3017 RMK SC1 -33.8/-36.6/TR/36 ONE LOOSE LAST STFD OBS/NEXT 07 1500 SLP221 DENSITY ALT MISG CWWA 071200Z AUTO 00000KT 03/01 RMK AO1 SLP337 T00290005 50003 CWUS 071200Z AUTO 29005KT M01/M05 RMK AO1 SLP366 T10111050 51016 KDAB 071153Z 30011KT 10SM OVC008 07/06 A2997 RMK AO2 RAE44 CIG 007V012 SLP147 P0000 60001 70028 T00670056 10083 20067 53004 $ PHNL 071153Z 34009KT 10SM FEW028 21/16 A2997 RMK AO2 SLP149 T02110156 10239 20211 56011 CWWB 071200Z AUTO 26002KT M00/M03 RMK AO1 SLP185 T10041032 58015 KBRL 071153Z AUTO 21013KT 10SM CLR 02/M02 A2987 RMK AO2 SLP119 T00221017 10033 20017 56028 EGEC 061650Z 15025G36KT 7000 RA BKN008 SCT016 09/08 Q0971 CYDL 071211Z AUTO 07008KT 9SM SCT002 OVC100 M09/M09 A3018 RMK SLP260 CXMM 071200Z AUTO 26004KT M15/M17 RMK AO1 1035 SLP226 T11531168 50002 CYED 071200Z AUTO 28011G16KT 9SM CLR M03/M09 A3023 RMK SLP272 EGDM 071150Z 23020KT 9999 FEW025 08/02 Q0995 BLU KCIN 071215Z AUTO 28013KT 10SM CLR 02/M03 A2987 RMK AO2 NZNP 071100Z 15004KT 40KM SCT024 20/14 Q1013 RMK ALT VATSIM USE ONLY CWVN 071200Z AUTO 31024G30KT M01/M10 RMK AO1 PK WND 31036/1102 SLP234 T10131095 53033 CWWE 071200Z AUTO 22010KT 02/M00 RMK AO1 SLP203 T00171003 56006 CWUW 071200Z AUTO 23003KT 9SM FEW022 FEW046 M25/ A2949 RMK SLP062 KBRO 071153Z 00000KT 10SM CLR 05/02 A3031 RMK AO2 SLP262 T00500022 10072 20033 55008 CYDN 071229Z AUTO 36028G35KT 1SM -SN OVC023 M08/M10 A2967 RMK PRESRR SLP069 PHOG 071154Z AUTO 10SM FEW021 BKN036 OVC045 21/18 A2998 RMK AO2 RAB1057E18B39E46 SLP158 P0000 60021 70024 T02110178 10228 20200 56005 TSNO $ KBQX 071215Z AUTO VRB04KT 10SM CLR 13/06 A3031 RMK A01 NZOH 071100Z 11016KT 40KM SCT022 18/13 Q1014 RMK ALT NZPM VATSIM USE ONLY CXMO 071100Z AUTO 32010KT M07/M13 RMK AO1 T10741133 CWWF 071100Z AUTO 33033G41KT M02/M05 RMK AO1 SOG 02 3022 PK WND 34044/1025 SLP102 T10201053 50002 CWUX 071200Z AUTO 27012G17KT M20/M25 RMK AO1 PK WND 29023/1101 SLP221 T12011252 51058 CYCX 071200Z 21009KT 15SM OVC060 M02/M04 A2998 RMK SC8 DA-1857FT SLP156 VDSR 071200Z 02008KT 7000 NSC 23/08 Q1015 KDAG 071150Z AUTO 27007KT 10SM CLR 05/M06 A3032 RMK AO2 SLP261 T00501061 10083 20039 58004 NZNR 071100Z 07007KT 30KM SCT021 19/14 Q1017 RMK ALT VATSIM USE ONLY CYDP 071200Z 00000KT 15SM FEW220 M23/M32 A2984 RMK CI1 SLP107 CWVP 071200Z AUTO 31012G21KT M05/M13 RMK AO1 SOG 03 3030 PK WND 30023/1123 SLP262 T10541132 CYCY 071200Z AUTO 32014KT 9SM BKN065 M24/M26 A2975 RMK SLP080 CYEG 071200Z 27011KT 15SM FEW080 FEW210 M05/M10 A3026 RMK AC1CI1 AC TR CI TR SLP285 ORER 071200Z 17010KT 8000 SCT020 BKN050 12/07 Q1014 NOSIG NZNS 071100Z 13003KT 40KM BKN100 20/14 Q1015 RMK ALT VATSIM USE ONLY CWVQ 071200Z AUTO 34004KT M03/M06 RMK AO1 SLP209 T10271055 51035 CYDQ 071200Z AUTO 21004KT 9SM BKN190 BKN210 M03/M09 A3027 RMK SLP286 KCIR 071215Z AUTO 18004KT 10SM CLR 01/M03 A3018 RMK AO2 T00091032 KF17 071215Z AUTO 00000KT 7SM CLR M01/M02 A3027 RMK AO2 T10131019 UNKL 071200Z 24002MPS 9999 SCT033CB M04/M07 Q1016 R29/450150 NOSIG RMK QFE737 EGDR 071150Z 25012G26KT 9999 VCSH SCT012 SCT040 07/03 Q0998 GRN ZSQD 071200Z 17003MPS CAVOK 01/M09 Q1020 NOSIG PGWT 070950Z 11008KT 7SM FEW016 SCT100 26/23 A2994 RMK LAST KBTA 071215Z AUTO 32014G20KT 10SM CLR 03/M03 A2993 RMK AO2 T00301031 TVSV 071200Z 09016KT 9999 FEW018 SCT035 27/22 Q1017 CWXA 071200Z AUTO M03/M16 RMK AO1 SLP304 T10291164 51023 KCKB 071153Z 00000KT 10SM CLR M06/M08 A3017 RMK AO2 SLP223 T10611083 11028 21067 53004 NZNV 071100Z 15005KT 40KM SCT014 13/11 Q1018 RMK ALT VATSIM USE ONLY CWWK 071200Z AUTO 05002KT 04/02 RMK AO1 SLP345 T00410020 50007 CWVT 071200Z AUTO 32007KT M10/M12 RMK AO1 SOG 21 3022 SLP211 T10981116 CYEK 071200Z AUTO 10002KT 9SM CLR M32/M35 A3018 RMK SLP222 DENSITY ALT MISG CYFB 071200Z 32016KT 10SM IC DRSN BKN015 M28/M32 A2985 RMK SC6 IC SLP114 DENSITY ALT MISG KDAL 071153Z 00000KT 10SM CLR 01/M01 A3023 RMK AO2 SLP238 T00111011 10050 20006 56010 KCIU 071215Z AUTO 14013KT 9SM OVC065 M01/M01 A2978 RMK AO1 KCKC 071213Z AUTO 18005KT 1/4SM UP OVC002 M02/M03 A2946 RMK AO2 VEKO 070900Z 27010KT 5000 HZ FEW100 31/09 Q1012 CWWL 071200Z AUTO 15037G48KT 05/04 RMK AO1 6PAST HR M PK WND 14051/1114 SLP190 P0002 T00450038 CWXC 071200Z AUTO 18002KT M22/M25 RMK AO1 SLP190 T12171249 53046 CWVU 071200Z AUTO 20013G21KT 04/M00 RMK AO1 SOG 03 8003 PK WND 20021/1151 SLP200 T00381004 CYFC 071200Z AUTO 20009KT 9SM OVC080 M03/M04 A2998 RMK SLP154 CXNM 071200Z AUTO 25012G21KT M05/M05 RMK AO1 7PAST HR SOG 111 M PK WND 24021/1145 P0003 T10471049 50007 KDAN 071153Z AUTO 01003KT 10SM CLR 01/M04 A3013 RMK AO2 SLP202 T00111044 10011 21006 57012 CYEN 071200Z 32029G41KT 15SM -SN DRSN OVC020 M02/M06 A2979 RMK SC8 PRESRR SLP115 PHNY 071156Z AUTO 01016G23KT 10SM CLR 18/16 A3000 RMK AO2 SLP144 60006 70014 T01780156 10194 20172 56004 KCKF 071215Z AUTO 33003KT 10SM CLR 02/M02 A3015 RMK AO2 T00201019 EGEO 071220Z 26028KT 6000RADZ SCT016 BKN024 07/04 Q0969 EGDX 071150Z 25021KT 9999 SHRA FEW018 SCT026 09/04 Q0993 BLU EGFF 071220Z 25017KT 9999 4500N SHRA FEW015CB SCT022 BKN028 08/05 Q0994 CXNP 071200Z AUTO 19012G17KT M01/M01 RMK AO1 SOG 22 6008 PK WND 18017/1136 SLP167 T10061012 50002 CXMY 071200Z AUTO M02/M02 RMK AO1 T10161022 EGDY 071150Z AUTO 21012KT 9999 FEW032/// 09/03 Q0996 RERA KCKI 071215Z AUTO 35007G15KT 320V030 10SM -RA OVC060 03/01 A2999 RMK AO2 KCJR 071215Z AUTO 00000KT 10SM CLR M05/M06 A3019 RMK AO2 T10551063 CWXI 071200Z AUTO 36004KT M14/M17 RMK AO1 SOG 23 6004 SLP162 T11441169 CYER 071200Z AUTO 12005KT 9SM CLR M37/M41 A3022 RMK SLP239 DENSITY ALT MISG KDCA 071152Z 23003KT 10SM FEW150 BKN200 M01/M04 A3021 RMK AO2 SLP228 T10061039 10017 21011 55007 CWWS 071100Z AUTO 04014KT M11/M13 RMK AO1 3027 SLP027 T11111132 50007 CXPA 071200Z AUTO 28007KT M03/M09 RMK AO1 T10341094 NZPM 071100Z 11016KT 40KM SCT022 18/13 Q1014 RMK ALT VATSIM USE ONLY CYET 071200Z AUTO 24004KT 9SM CLR M06/M13 A3029 RMK SLP303 KBTL 071153Z 20009KT 10SM BKN110 01/M03 A2993 RMK AO2 SLP146 T00111028 10011 21006 56026 $ CXOL 071100Z AUTO 24009KT M07/M14 RMK AO1 T10661142 CWXL 071200Z AUTO 29011KT M03/M09 RMK AO1 T10271088 CXPC 071200Z AUTO 01/M02 RMK AO1 SOG 13 6010 SLP157 T00051024 KBTM 071153Z AUTO 00000KT 10SM CLR M11/M15 A3039 RMK AO2 SLP343 T11111150 11006 21122 51017 CYEV 071200Z 11002KT 15SM SCT070 M30/M33 A3031 RMK AC4 SLP279 DENSITY ALT MISG EGGD 071220Z AUTO 21013KT 9999 OVC017/// //////TCU 07/04 Q0994 KDAW 071151Z AUTO 00000KT 10SM CLR M06/M08 A3012 RMK AO2 SLP201 I6001 T10611083 11033 21078 51007 KCLE 071151Z 19008KT 10SM CLR 01/M06 A3008 RMK AO2 SLP193 T00061061 10006 21028 56024 KCKN 071214Z AUTO 30018G22KT 5SM -SN SCT012 BKN017 OVC034 01/00 A2951 RMK AO2 P0001 KDBN 071215Z AUTO 34005KT 10SM CLR 02/M04 A3012 RMK AO2 NZPP 071100Z 31001KT 30KM SCT012 18/15 Q1014 RMK ALT VATSIM USE ONLY CYGE 070000Z VRB02KT 20SM SCT055 BKN080 M00/M01 A3021 RMK CU4AC1 LAST OBS/NEXT 071400Z SLP263 KBUF 071154Z 21004KT 10SM FEW017 BKN032 BKN100 M01/M05 A3009 RMK AO2 SLP198 T10061050 11006 21022 58009 CYFO 071200Z 33014G19KT 10SM -SN DRSN BKN015 M16/M20 A2985 RMK SC6 /S11/ AFT 0000 UTC SNW COV/MUCH LOOSE SLP137 CWWX 071200Z AUTO 23005KT 01/M01 RMK AO1 SLP134 T00121012 56020 KBTP 071215Z AUTO 15005KT 10SM CLR M06/M10 A3014 RMK AO1 KDAY 071156Z 21010KT 10SM FEW250 00/M04 A3007 RMK AO2 SLP192 T00001044 10017 20000 56020 KCKP 071215Z AUTO 30014G19KT 10SM CLR 01/M02 A2986 RMK AO2 T00131025 KDBQ 071153Z 23016KT 10SM OVC100 01/M02 A2977 RMK AO2 SLP093 T00111017 10022 20006 56017 CYGH 070000Z 26006KT 3SM -SN OVC080 M23/M26 A3012 RMK SN6AC2 /S02/ -22.8/-24.7/0.9/53 SNW CVR/MUCH LOOSE LAST OBS/NXT 071400Z SLP212 CWWZ 071200Z AUTO 20007KT 01/M02 RMK AO1 SOG 00 8015 SLP189 T00121017 KBTR 071153Z 00000KT 10SM CLR 00/M02 A3030 RMK AO2 SLP261 T00001022 10033 20000 58002 KCLI 071215Z AUTO 18005KT 10SM BKN070 BKN095 BKN120 00/M01 A2968 RMK AO2 CWXR 071200Z AUTO 30013KT M30/ A3024 RMK SLP258 KCMA 071155Z 08014KT 10SM CLR 18/M05 A3014 RMK AO2 SLP213 T01831050 10206 20183 58012 $ NZRC 071100Z 15005KT 40KM SCT014 13/11 Q1018 RMK ALT NZNV VATSIM USE ONLY CYHA 062200Z 30011KT 15SM IC DRSN FEW009 FEW015 OVC250 M25/M28 A2982 RMK SF1SC2CS6 SF TR SNW CVR/TR LOOSE LAST OBS/NEXT 071300UTC SLP103 CWZA 071200Z AUTO 11002KT 04/01 RMK AO1 SLP353 T00350014 50009 CWYJ 071200Z AUTO 01003KT 05/04 RMK AO1 SLP336 T00510042 50005 CYFS 071200Z 31003KT 15SM SKC M25/M28 A3025 RMK AURBO SLP270 KCLK 071215Z AUTO 10SM CLR 00/M05 A3014 RMK AO2 CYGK 071200Z 24004KT 15SM OVC050 M00/M04 A3011 RMK SC8 SLP202 CYFT 071200Z 25017KT 15SM SKC M23/M28 A2987 RMK SLP126 CWYK 071200Z AUTO 17007KT M25/ A2942 RMK SLP059 KCLL 071153Z AUTO 00000KT 5SM BR CLR 01/00 A3027 RMK AO2 SLP252 T00110000 10050 20000 58019 KDDC 071152Z AUTO 01005KT 10SM CLR M03/M06 A3012 RMK AO2 SLP212 T10281061 10028 21028 53003 NZQN 071100Z 16011KT 45KM SCT030 20/13 Q1014 RMK ALT VATSIM USE ONLY CXPL 071100Z AUTO 29014KT M05/M09 RMK AO1 PK WND 29021/1031 T10521094 KDCM 071035Z AUTO 36007KT 10SM CLR 03/M05 A3008 RMK AO2 CWYL 071200Z AUTO 25010KT M09/M10 RMK AO1 2PAST HR SOG 96 1018 SLP333 P0001 T10891099 50015 CYGL 071200Z 28004KT 270V360 15SM IC FEW011 FEW025 M35/M39 A3016 RMK SF1SC1 SF TR SC TR SLP249 DENSITY ALT MISG KCLM 071153Z AUTO 14004KT 7SM FEW090 02/01 A3050 RMK AO2 SLP332 T00170006 10044 20017 50003 KCKV 071152Z AUTO 00000KT 9SM CLR M03/M04 A3020 RMK AO2 SLP229 I1001 I6001 T10281044 10006 21033 56006 EFOU 071220Z AUTO 17006KT 9999 -RA OVC008/// 01/00 Q0996 R12/29//95 KBTV 071154Z 20004KT 10SM OVC036 01/M07 A3012 RMK AO2 SLP203 T00061072 10017 20006 51015 KCMD 071215Z AUTO 00000KT 10SM CLR M02/M06 A3024 RMK AO2 T10251060 CWYM 071200Z AUTO 15004KT M19/ A2937 RMK SLP017 CYHD 071200Z AUTO 07010KT 9SM -SN OVC012 M05/M06 A2937 RMK SLP975 KBVE 071151Z AUTO 34005KT 10SM CLR 08/03 A3029 RMK AO2 SLP255 T00830028 10089 20050 53010 CYHE 071200Z AUTO 10006KT 9SM BKN120 BKN150 02/02 A3059 RMK SLP362 KF44 071215Z AUTO 00000KT 10SM CLR M02/M02 A3025 RMK AO2 CXOX 071200Z AUTO 31009KT M11/M14 RMK AO1 SOG 34 1037 PK WND 31017/1101 SLP176 T11121135 50007 CYGP 071200Z VRB04KT 15SM FEW025 BKN050 M12/M13 A2978 RMK SC2SC3 SLP087 CWZG 071200Z AUTO 22005KT M09/M12 RMK AO1 SOG 30 1021 SLP337 T10891122 50002 CXOY 071200Z AUTO 31019KT M05/M08 RMK AO1 PK WND 31026/1125 T10461083 EGGP 071220Z 23022KT 9999 FEW029 08/04 Q0987 KCMH 071151Z 00000KT 10SM CLR M03/M07 A3010 RMK AO2 SLP201 T10331072 11022 21044 56017 KCKZ 071215Z AUTO 00000KT 7SM CLR M06/M06 A3017 RMK AO2 KDDH 071154Z AUTO 15003KT 10SM CLR M03/M07 A3011 RMK AO2 SLP206 T10331072 10011 21050 58002 KF46 071215Z AUTO 20004KT 7SM CLR 01/01 A3023 RMK AO2 T00110006 KBVI 062047Z 28007KT 10SM CLR 06/M09 A3019 RMK LAST EGHH 071220Z 25019G32KT 9999 FEW032 09/02 Q0997 KCMI 071153Z 20010KT 10SM CLR 01/M02 A2999 RMK AO2 SLP160 T00111022 10022 21006 56031 KBUR 071153Z 00000KT 10SM CLR 09/M03 A3014 RMK AO2 SLP198 T00941033 10144 20089 58006 $ CYGQ 071200Z 09013KT 1 1/2SM -SN DRSN VV012 M18/M20 A2974 RMK SN8 /S01/ SLP108 CYHI 070100Z 03005KT 15SM IC FEW030 SCT080 SCT210 M33/M36 A3009 RMK SC1AC2CI1 0.0 VIS S 6 HARD PACK FROIN LAST OBS/NXT 071500Z SLP199 DENSITY ALT MISG CYGR 071200Z 21019G29KT 20SM BKN060 OVC100 M01/M03 A2995 RMK SC5AS3 SLP144 EGHI 071220Z 25014G24KT 210V280 9999 -SHRA SCT036 09/01 Q0996 KCLS 071215Z AUTO 00000KT 2SM BR OVC004 03/03 A3051 RMK AO2 VIS 1V5 KCLT 071152Z 36008KT 10SM OVC180 03/M08 A3009 RMK AO2 SLP192 T00281083 10044 20028 56014 KCNB 071215Z AUTO 31025G35KT 220V330 10SM CLR 04/M02 A2975 RMK AO2 T00381020 CYGT 062300Z 28008KT 15SM FEW035 M35/M38 A2990 RMK SC1 CALL-OUT SLP139 DENSITY ALT MISG CXRB 071200Z AUTO 33006KT M35/M39 RMK AO1 SOG 03 6004 SLP156 T13501386 KDCU 071153Z AUTO 00000KT 10SM CLR M02/M04 A3024 RMK AO2 SLP243 T10171044 10000 21028 55001 CYHK 071206Z AUTO 27004KT 4SM HZ OVC018 M35/M39 A3014 RMK ICG SLP216 DENSITY ALT MISG KDEC 071154Z 21015KT 10SM CLR 03/M03 A2999 RMK AO2 SLP161 T00331028 10033 20011 56030 KBUU 071215Z AUTO 21012KT 10SM SCT120 01/M02 A2980 RMK AO2 T00121022 KCNC 071215Z AUTO 26011KT 10SM BKN100 OVC120 02/M02 A2989 RMK AO2 CWZL 071200Z AUTO 16038G45KT 08/07 RMK AO1 2PAST HR 6013 PK WND 15046/1108 SLP169 P0009 T00810071 50098 KBWD 071215Z AUTO 10SM CLR M02/M04 A3021 RMK AO2 KDED 071215Z AUTO 29007KT 07/05 A3001 RMK AO1 NZRO 071100Z 10008KT 30KM SCT022 22/17 Q1014 RMK ALT NZTG VATSIM USE ONLY CYGV 071200Z AUTO 06017KT 3SM -SN OVC010 M14/M15 A2977 RMK SLP087 CYHM 071200Z 19006KT 8SM SCT030 BKN090 M01/M03 A3005 RMK SC4AC2 SLP188 PHSF 071156Z AUTO 24003KT 1/8SM -RA FG VV001 11/12 A3022 RMK AO2 SLP119 P0001 T01140115 10120 20102 57012 $ KBVN 071215Z AUTO 32013KT 10SM CLR 01/M05 A3001 RMK AO2 T00141049 KCLW 071215Z AUTO 34012G22KT 10SM BKN017 BKN023 OVC027 09/06 A3006 RMK AO2 CWZN 071100Z AUTO 27006KT M03/M06 RMK AO1 SLP209 T10321056 56001 CYGW 071200Z AUTO 15004KT 9SM CLR M31/M34 A3024 RMK SLP245 DENSITY ALT MISG KBVO 071153Z AUTO 22008KT 10SM CLR 03/M03 A3013 RMK AO2 SLP203 T00331028 10044 20006 55009 TSNO $ EGGW 071220Z AUTO 23018G31KT 9999 BKN022 07/04 Q0993 CYGX 070300Z 10007KT 060V140 15SM OVC055 M28/M32 A2992 RMK SC8 LAST STFD OBS/NEXT 071500Z SLP159 CWZO 071200Z AUTO 05007KT RMK AO1 ZSSS 071200Z 25002MPS CAVOK 07/M07 Q1023 NOSIG KBWG 071153Z AUTO 00000KT 9SM CLR M03/M05 A3020 RMK AO2 SLP230 I1001 I6001 T10331050 10000 21033 55005 KBUY 071154Z AUTO 35006KT 10SM CLR 02/M06 A3009 RMK AO2 SLP191 T00171061 10033 20017 58019 KDCY 071215Z AUTO 21008KT 10SM CLR 03/M05 A3010 RMK AO2 T00251054 CWYY 071200Z AUTO 00000KT M03/M03 RMK AO1 SOG 00 1020 SLP373 T10301034 KDEH 071215Z AUTO 25007G13KT 10SM CLR 01/M02 A2972 RMK AO2 EGHQ 071220Z 25019KT 9999 FEW012 06/03 Q0997 CXRH 071200Z AUTO 15003KT M06/M08 RMK AO1 SOG 43 T10621076 CWZQ 071220Z AUTO 13015G22KT M00/M03 RMK AO1 T10031028 UNNT 071200Z 16005MPS CAVOK M01/M03 Q1013 R25/690150 R16/690150 NOSIG RMK QFE750/1000 KBWI 071154Z 00000KT 9SM BKN180 M05/M07 A3018 RMK AO2 SLP221 T10501067 11017 21050 58010 KCMR 071215Z AUTO 16010KT 10SM CLR M02/M14 A3040 RMK AO2 KCNI 071215Z AUTO 33003KT 10SM CLR 01/M11 A3015 RMK AO2 KBXA 071215Z AUTO 00000KT 10SM M01/M03 A3031 RMK AO2 T10111027 KBVS 071215Z AUTO 04009KT 10SM SCT120 04/02 A3054 RMK A01 EGJA 071220Z 23023G41KT 9999 FEW015CB SCT028 08/04 Q1000 CWZS 071200Z AUTO 26012G21KT M09/M14 RMK AO1 3039 PK WND 27024/1146 SLP118 T10851140 50030 KCNK 071155Z AUTO 28007KT 10SM CLR 02/M02 A3005 RMK AO2 SLP183 T00221022 10039 20006 53010 $ CYIK 062200Z 01004KT 15SM FEW013 FEW020 FEW150 SCT250 M26/M29 A2998 RMK ST1SC1AS2CS1 ST TR SC TR SN CVR HARD PACK LAST OBS/NEXT 071300UTC SLP159 DENSITY ALT MISG EGJB 071220Z 25018G28KT 9999 VCSH FEW018CB 07/04 Q1000 KBVU 071215Z AUTO 00000KT 10SM CLR 08/M04 A3033 RMK AO2 CXSC 071200Z AUTO 27013KT M03/M09 RMK AO1 PK WND 29019/1102 T10331094 CXRL 071200Z AUTO 25010KT M04/M09 RMK AO1 PK WND 23017/1136 T10361092 UNOO 071200Z 06005MPS 3800 -SG BR OVC004 M02/M02 Q1005 R07/290140 TEMPO 1000 SG BR OVC002 RMK QBB120 OBST OBSC QFE745 CYHU 071200Z AUTO 36005KT 9SM -SN OVC031 M03/M06 A3015 RMK SLP211 KCNM 071153Z AUTO 02005KT 10SM CLR M01/M12 A3018 RMK AO2 SLP204 T10061122 10106 21017 55001 $ KCOD 071215Z AUTO 08005KT 10SM FEW075 M04/M09 A3026 RMK AO1 CWZV 071200Z AUTO 16032G44KT 07/ RMK AO1 1PAST HR 6013 PK WND 16047/1105 SLP180 P0004 T0074 50059 KDEN 071153Z 30009KT 10SM FEW180 FEW220 02/M11 A3016 RMK AO2 SLP202 ACSL SW-W T00221106 10061 20000 51016 KCOE 071215Z AUTO 11003KT 10SM FEW004 M03/M04 A3050 RMK AO1 NZTG 071100Z 10008KT 30KM SCT022 22/17 Q1014 RMK ALT VATSIM USE ONLY NZSP 071150Z 09008KT 9999 FEW080 M42/ A2865 RMK CLN AIR 08006KT ALL WNDS GRID SDG/HDG CXSE 071200Z AUTO 28006KT M33/M37 RMK AO1 SLP227 T13341370 50005 CWZW 071200Z AUTO 08003KT M18/M19 RMK AO1 SOG 48 8003 SLP268 T11791194 CYIN 071200Z AUTO VRB02KT 9SM BKN085 M12/M13 A3039 RMK SLP344 KCNO 071153Z AUTO 02004KT 10SM CLR 07/01 A3016 RMK AO2 SLP209 T00670011 10144 20050 58012 KCMX 071227Z AUTO 18005KT 2 1/2SM -SN BR BKN003 BKN010 OVC038 M02/M03 A2955 RMK AO2 P0000 T10171028 TSNO KBVX 071215Z AUTO 00000KT 10SM CLR 03/M06 A3019 RMK AO1 KCOF 071223Z AUTO 30021G28KT 10SM OVC010 08/07 A2996 RMK AO2 CYIO 071204Z AUTO 17004KT 9SM SCT022 M32/M36 A2980 RMK SLP104 DENSITY ALT MISG KBVY 071153Z 29005KT 10SM FEW150 M02/M07 A3016 RMK AO2 SLP210 T10221067 11017 21039 53002 KBWP 071215Z AUTO 29017KT 10SM CLR 01/M03 A2965 RMK AO1 KCMY 071215Z AUTO 23005KT 10SM CLR 01/M01 A2970 RMK AO2 T00121015 CYHY 071200Z 28006KT 15SM SCT040 M22/M25 A3023 RMK SC3 SLP259 ZUCK 071200Z 01003MPS CAVOK 09/M02 Q1025 NOSIG KDEQ 071153Z AUTO 00000KT 4SM BR CLR M04/M04 A3025 RMK AO2 SLP245 T10391044 11011 21039 55007 $ CYHZ 071200Z 20009KT 15SM FEW030 SCT200 BKN250 M01/M02 A3007 RMK SC2CI2CI2 SLP193 KDFI 071153Z AUTO 20005KT 10SM CLR 01/M04 A3001 RMK AO2 SLP170 T00061039 10006 21017 58022 CWZZ 071220Z AUTO 20003KT M24/ A2959 EGKA 071220Z 24018G28KT 9999 SCT024 10/05 Q0997 CYKA 071200Z 09004KT 40SM BKN110 M03/M05 A3055 RMK AC5 SLP365 KDET 071153Z 19004KT 8SM CLR M01/M04 A3000 RMK AO2 SLP167 T10111039 10011 21011 58022 EGJJ 071220Z 24021KT 9999 SCT017CB 09/05 Q1002 TEMPO 5000 SHRAGS BKN015CB KBXK 071215Z AUTO 00000KT 10SM CLR 05/M05 A3020 RMK AO1 KF70 071215Z AUTO 01004KT 10SM CLR 07/M02 A3018 RMK AO1 EGKB 071220Z 23016KT 200V260 9999 SCT030 08/02 Q0995 KCNU 071152Z AUTO 21008KT 10SM CLR 02/M03 A3007 RMK AO2 SLP184 T00171028 10033 20017 55011 EHAK 071225Z AUTO 21034KT 9999 FEW016/// SCT023/// BKN028/// 07/03 Q0986 KCPC 071215Z AUTO 02007KT 350V050 4SM RA OVC050 02/01 A3000 RMK AO2 P0002 T00200007 KCOM 071215Z AUTO 19004KT 10SM CLR 00/M07 A3020 RMK AO2 T00001075 KBWW 071200Z AUTO 31031G44KT 10SM FEW085 FEW110 M00/M09 A2985 RMK AO2 CXTD 071200Z AUTO 18007KT M01/M03 RMK AO1 SOG 01 5002 SLP209 T10131028 CYIV 071200Z 07009KT 12SM OVC030 M19/M23 A2971 RMK SC8 /S01/ SLP088 CYKD 070700Z 13003KT 130V200 15SM FEW050 M31/M34 A3027 RMK SC2 SLP252 DENSITY ALT MISG KDEW 071153Z AUTO 30004KT 10SM CLR M07/M08 A3053 RMK AO2 SLP365 I6001 T10721083 11039 21072 53018 TSNO KCON 071151Z AUTO 00000KT 7SM CLR M09/M12 A3013 RMK AO2 SLP209 I1000 I6000 T10891117 11039 21094 51005 PHTO 071153Z 35009KT 10SM SCT037 BKN044 OVC055 23/18 A2993 RMK AO2 PRESFR SLP133 T02280183 10233 20206 58010 KCNW 070455Z 00000KT 10SM SKC 02/00 A3037 EHAM 071225Z 21022KT 180V240 9999 FEW025 09/04 Q0997 NOSIG CZBF 071200Z 00000KT 15SM -SHSN FEW030 SCT220 M07/M09 A2982 RMK SC2CC1 VIA CYQB SLP104 CYKF 071200Z AUTO 18005KT 4SM BR OVC240 M03/M04 A3002 RMK SLP182 KBYG 071153Z AUTO 32025G46KT 10SM OVC070 00/M11 A3021 RMK AO2 PK WND 32046/1150 SLP247 60001 70001 T00001111 10011 21006 53010 $ KCNY 071153Z AUTO 00000KT 10SM CLR M12/M14 A3050 RMK AO2 SLP388 T11221139 11117 21167 56002 CYKG 062100Z 32005KT 15SM FEW110 SCT250 M25/M29 A2978 RMK AC1CI3 SLP109 CXSP 071100Z AUTO 26008KT M05/M09 RMK AO1 T10531087 KCOQ 071215Z AUTO 21005KT 4SM -SN BKN008 OVC016 01/M01 A2945 RMK AO2 CXTH 071200Z AUTO 28015KT M05/M09 RMK AO1 PK WND 27018/1121 T10541088 VEPT 071200Z 00000KT 2000 HZ NSC 25/15 Q1012 NOSIG KBYI 071153Z AUTO 29004KT 10SM CLR M01/M03 A3046 RMK AO2 SLP326 60000 T10061033 10033 21011 52010 CXSR 071200Z AUTO 26009KT M04/M10 RMK AO1 SOG 37 2012 SLP270 T10401096 KCOS 071154Z 01017KT 10SM FEW160 SCT250 M01/M13 A3016 RMK AO2 SLP233 T10111133 10050 21028 53004 NZTU 071100Z 10001KT 40KM SCT027 17/15 Q1017 RMK ALT VATSIM USE ONLY CYKJ 071200Z AUTO 30011G19KT 8SM -SN OVC010 M15/M16 A2988 RMK SLP170 KCOT 071153Z AUTO 12005KT 10SM CLR 02/M04 A3029 RMK AO2 SLP255 T00221044 10061 20022 56014 KCPK 071215Z AUTO 02003KT 10SM CLR 04/M03 A3012 RMK AO2 KCQB 071215Z AUTO 00000KT 10SM CLR 01/00 A3013 RMK AO2 CYJT 071200Z 18016KT 15SM BKN025 M04/M08 A3003 RMK SC7 SLP173 KCQC 071153Z AUTO 30020KT 10SM CLR M04/M10 A3020 RMK AO2 PK WND 31032/1115 SLP235 T10441100 11022 21044 55008 EGKK 071220Z 23015KT 9999 SCT030 BKN036 09/03 Q0996 KCOU 071154Z AUTO 21013KT 10SM CLR 03/M02 A3000 RMK AO2 SLP161 T00281022 10033 20022 58025 TSNO EHBK 071225Z AUTO 23019KT 200V260 9999 FEW028 09/04 Q1001 NOSIG KBYL 071215Z AUTO 00000KT 10SM CLR M05/M05 A3020 RMK AO1 EGLC 071220Z 25020G30KT 9999 SCT030 10/02 Q0995 CYKL 071200Z AUTO 00000KT 9SM CLR M37/M41 A2975 RMK SLP154 CYLD 071200Z 09009KT 060V140 1/2SM SN DRSN VV017 M15/M18 A2982 RMK SN8 SLP139 KDFW 071153Z 19004KT 8SM CLR 01/M02 A3022 RMK AO2 SLP233 T00111017 10044 20006 55010 KCQF 071215Z AUTO 32003KT 10SM CLR 02/M01 A3027 RMK AO2 EGLF 071220Z 25021KT 9999 SCT030 09/03 Q0995 CXTO 071200Z AUTO 01/M02 RMK AO1 SLP185 T00061024 58011 CXTP 071200Z AUTO 23005KT M09/M10 RMK AO1 SOG 20 1003 SLP200 T10851104 CYKP 071200Z AUTO 11008KT 9SM BKN190 BKN210 M27/M30 A3001 RMK SLP202 OSDI 071200Z 21015KT 9999 FEW030 SCT100 10/05 Q1012 CYLH 071200Z AUTO 10008KT 9SM SCT200 BKN220 M27/M30 A2991 RMK SLP169 KCPR 071153Z 25003KT 10SM FEW065 M13/M16 A3024 RMK AO2 SLP297 I1000 I6000 T11331161 11022 21139 52025 NZWB 071100Z 13003KT 40KM BKN100 20/14 Q1015 RMK ALT NZNS VATSIM USE ONLY KCPS 071153Z AUTO 21006KT 10SM CLR 06/M06 A3006 RMK AO2 SLP180 T00561056 10072 20050 56027 KBYS 071155Z AUTO 36005KT 10SM CLR 10/M07 A3029 RMK AO2 SLP261 T00981068 10114 20092 57003 PWINO $ CYLJ 071200Z 28013KT 15SM SKC M05/M09 A3005 RMK SLP203 CYMA 071200Z 00000KT 20SM SKC M26/M29 A3016 RMK CLIMAT -18.2/-25.7/0.0 SOG 46 SLP275 KCPT 071215Z AUTO 19005KT 9SM 01/01 A3023 RMK AO2 TSNO CYLK 062100Z 28006KT 6SM -SN OVC012 M16/M19 A2965 RMK SC8 -15.8/-16.8/0.4/36 SNW CVR/MUCH LOOSE LAST STFD OBS/NEXT 071500 UTC SLP063 CZDB 071200Z AUTO 20009KT M01/M03 RMK AO1 SOG 23 6007 SLP187 T10141031 NZWD 071155Z 00000KT 9999 FEW040 BKN095 BKN200 M09/M15 A2910 RMK SLP854 SDF/HDG ORMM 071200Z 13018KT 9999 SCT040 SCT100 22/07 Q1011 NOSIG CYLL 071200Z AUTO 28014KT 9SM CLR M05/M08 A3011 RMK SLP235 EGLL 071220Z AUTO 25022KT 9999 BKN030 09/02 Q0995 KCQM 071215Z AUTO 17004KT 1 3/4SM -SN BKN006 OVC018 00/00 A2940 RMK AO2 P0001 EGMC 071220Z 23022KT 9999 BKN035 09/02 Q0994 VERP 071130Z 29002KT 6000 NSC 31/15 Q1013 NOSIG EGMD 071220Z 23025KT 9999 8000S VCSH SCT022CB 09/05 Q0997 CXTV 071200Z AUTO M26/M28 RMK AO1 SOG 32 0013 SLP268 T12591275 KDHN 071153Z AUTO 33007KT 10SM CLR 01/M04 A3020 RMK AO2 SLP227 T00061039 10044 20000 53001 KDGW 071153Z AUTO 33013KT 10SM OVC042 M02/M06 RMK AO2 SLPNO T10221061 11011 21039 $ KCRE 071153Z AUTO 01011G18KT 6SM RA BR FEW008 SCT011 OVC050 03/02 A2996 RMK AO1 SLP147 P0012 60057 70074 T00330022 10044 20033 53003 KCPW 071219Z AUTO 05005KT 10SM CLR M06/M15 A3038 RMK AO2 KBZN 071156Z AUTO 16003KT 10SM CLR M09/M12 A3041 RMK AO2 SLP345 T10891122 10006 21111 51022 KCRG 071153Z AUTO 33012KT 10SM -RA OVC010 06/04 A3001 RMK AO2 CIG 007V013 SLP160 P0001 60012 7//// T00560044 10061 20056 53004 KBYY 071215Z AUTO 07003KT 5SM BR CLR 02/02 A3030 RMK AO2 T00270027 ORNI 071200Z 29009KT 9999 FEW040 16/06 Q1013 NOSIG CZCP 071200Z AUTO 22005KT 9SM M30/ A3030 RMK SLP276 CYKY 071200Z 29014G21KT 15SM FEW260 M05/M09 A3015 RMK CI1 SLP245 CYMH 071200Z AUTO 18003KT 160V240 9SM CLR M20/M24 A3000 RMK SLP163 CYKZ 071200Z CCA 19002KT 10SM FEW025 SCT260 M03/M05 A3006 RMK SC2CI1 DIST BR SLP189 NZWK 071100Z 10008KT 30KM SCT022 22/17 Q1014 RMK ALT NZTG VATSIM USE ONLY CZCR 071200Z AUTO 24006KT M06/M07 RMK AO1 7PAST HR SOG 24 3004 PK WND 31026/1116 SLP113 P0003 T10641073 50007 KDIJ 071156Z AUTO 18010KT 10SM OVC080 M04/M06 A3042 RMK AO2 SLP345 T10391061 11011 21056 53010 CYNA 071229Z AUTO 07014KT 2SM -SN OVC021 M14/M16 A2984 RMK PRESFR SLP108 KDHT 071153Z AUTO 36007KT 10SM CLR M01/M09 A3016 RMK AO2 SLP208 T10061094 11006 21039 53014 KCQT 071147Z AUTO 00000KT 10SM CLR 11/M02 A3013 RMK AO2 SLP201 T01111017 10161 20111 58008 KDIK 071227Z AUTO 30032G39KT 2 1/2SM -SN OVC024 M02/M06 A2986 RMK AO2 PK WND 30041/1217 P0000 T10221056 CXWB 071100Z AUTO 33001KT M32/M36 RMK AO1 SLP209 T13231356 52002 CYLU 062200Z 15008KT 15SM FEW015 SCT040 M26/M30 A2988 RMK SC1SC2 LAST OBS/NEXT 071300Z SLP128 NZWN 071200Z AUTO 20002KT 8000 NCD 17/15 Q1016 NOSIG EHDL 071225Z AUTO 21017KT 160V240 9999 FEW025 SCT030 BKN040 09/04 Q0998 BLU TXKF 071155Z 03009KT 9999 BKN004 OVC023 20/19 Q1017 CYND 071200Z 01007KT 15SM BKN025 OVC050 M04/M07 A3014 RMK SC6SC2 SLP210 CXVM 071100Z AUTO 29010KT M04/M08 RMK AO1 T10421084 CYMM 071200Z AUTO 25005KT 9SM FEW240 M15/M17 A3009 RMK SLP226 KCQW 071215Z AUTO 04008KT 10SM CLR 03/M04 A3006 RMK AO2 NZWP 071102Z 05006KT 40KM FEW030 20/18 Q1014 RMK NZAA VATSIM USE ONLY CXVN 071200Z AUTO 19005KT 01/M02 RMK AO1 SLP181 T00061020 58017 CYLW 071200Z AUTO 33004KT 9SM OVC120 M05/M06 A3056 RMK SLP371 CYNE 071223Z AUTO 02009KT 1 1/2SM -SN OVC030 M17/M19 A2972 RMK SLP089 KCQX 071152Z AUTO 22005KT 10SM CLR M01/M02 A3020 RMK AO2 SLP230 I1001 I6001 T10061017 10006 21011 55003 CYMO 071200Z AUTO 00000KT 9SM CLR M37/M41 A3027 RMK SLP255 DENSITY ALT MISG KCSG 071151Z AUTO 35007KT 10SM CLR 01/M07 A3017 RMK AO2 SLP215 T00111072 10039 20011 53003 KCRP 071151Z 04003KT 10SM CLR 07/04 A3030 RMK AO2 SLP260 T00670039 10100 20056 55016 NZWR 071102Z 05006KT 40KM FEW030 20/18 Q1014 RMK NZAA VATSIM USE ONLY KCRQ 071153Z AUTO 05003KT 10SM CLR 14/M06 A3011 RMK AO2 SLP195 T01441056 10161 20117 58009 TSNO NZWS 071100Z 21007KT 15KM VCSH BKN090 19/16 Q1014 RMK ALT VATSIM USE ONLY EGNH 071220Z 23027KT 9999 SCT022 08/04 Q0986 EHEH 071204Z AUTO 22016G27KT 190V250 9999 FEW031 10/04 Q1000 BLU 22015G26KT 9999 SCT025 SCT040 KCRS 071153Z AUTO 17006KT 7SM CLR 01/M01 A3026 RMK AO2 SLP247 I1001 I6001 T00111011 10039 20000 56019 KEBA 071215Z AUTO 00000KT 10SM CLR 03/M02 A3013 RMK AO2 T00281017 NZWU 071100Z 11016KT 40KM SCT022 18/13 Q1014 RMK ALT NZPM VATSIM USE ONLY CZFA 062300Z CCA 15003KT 30SM FEW100 SCT160 M13/M15 A2986 RMK AC2AC2 CLIMAT -12.2/-18.8/TRCM/TRMWE LAST STFD OBS/NEXT 061500UTC SLP183 CYOA 071200Z 34002KT 15SM SKC M27/M30 A2990 RMK -23.4/-27.6/0/77 MUCH LOOSE SLP195 EGNJ 071220Z 22022KT 9999 SCT019 SCT025 07/03 Q0987 KCTB 071156Z AUTO 29011KT 10SM CLR M06/M11 A3034 RMK AO2 SLP314 70001 T10561106 11017 21056 51023 TSNO KDKB 071215Z AUTO 20010KT 10SM CLR 01/M01 A2985 RMK AO2 T00081009 CYMT 071200Z 26003KT 15SM SKC M30/M33 A3011 RMK SLP242 CYOC 062100Z VRB02KT 35SM SCT037 BKN090 BKN220 M24/M27 A2994 RMK SC4AC2CI1 CLIMAT -21.3/-26.5/TR CM/TR MWE/LAST STFD OBS/NXT 071400 UTC PRESRR SLP175 CYMU 062200Z 35004KT 15SM IC FEW170 M24/M28 A2996 RMK CI2 LASTOBS/ NEXT 071300Z SLP158 CZEL 071200Z AUTO 16004KT M04/M05 RMK AO1 SOG 00 6012 SLP177 T10371047 KCSM 071153Z AUTO 19014KT 10SM CLR 01/M06 A3009 RMK AO2 SLP194 T00061061 10033 20006 56019 $ CXWM 071200Z AUTO 27013KT M03/M10 RMK AO1 PK WND 27017/1142 T10251096 CYNM 071200Z AUTO 17003KT 9SM CLR M37/M40 A3017 RMK ICG SLP261 DENSITY ALT MISG CYOD 071200Z 27008KT 15SM FEW030 M04/M08 A3011 RMK SC2 SLP224 EGNM 071220Z 24015G25KT 190V280 9999 FEW005 SCT015 06/02 Q0984 KCRW 071154Z 36003KT 10SM FEW300 M04/M06 A3018 RMK AO2 SLP225 I1001 I6001 T10391056 11006 21044 53003 EHDV 071225Z AUTO 23035G48KT 190V300 9999 SCT016/// BKN021/// BKN024/// 07/02 Q0987 EHFD 071225Z AUTO 21032KT 9999 FEW015/// SCT023/// 07/04 Q0988 EGMW 061720Z 18029KT 7000 OVC029 09/07 Q0993 CXVW 071100Z AUTO 27006KT M04/M09 RMK AO1 T10361089 CXWN 071200Z AUTO 30005KT M03/M04 RMK AO1 2PAST HR 3019 SLP984 P0001 T10291044 50002 KCRX 071215Z AUTO 00000KT 10SM CLR M03/M05 A3024 RMK AO2 CYMX 071200Z 36008KT 25SM BKN064 M04/M10 A3014 RMK SC7 INTMT -SN SLP214 KEBG 071215Z AUTO 26003KT 10SM CLR 02/M04 A3032 RMK AO2 T00221039 KCSQ 071215Z AUTO 28010KT 10SM CLR 00/M02 A2992 RMK AO2 UNTT 071200Z VRB01MPS 9999 SCT020 M04/M05 Q1014 R21/590232 NOSIG RMK QFE746 KEAR 071215Z AUTO 33016KT 10SM CLR 03/M24 A3006 RMK AO1 EGNR 071220Z 23017KT 9999 -SHRA FEW019 08/03 Q0988 KCTJ 071215Z AUTO 33003KT 10SM CLR 00/M06 A3020 RMK AO2 T00001058 CYPA 071200Z 32013G21KT 15SM -SN OVC022 M08/M11 A2996 RMK SC8 SLP173 CYOJ 071200Z AUTO VRB02KT 9SM CLR M19/M20 A3015 RMK SLP244 KDKK 071153Z AUTO 18005KT 10SM BKN032 M02/M07 A3009 RMK AO2 SLP199 T10171067 10000 21028 58016 KCUB 071153Z AUTO 00000KT 10SM BKN050 OVC070 06/M03 A3007 RMK AO2 SLP182 60002 70002 T00561028 10072 20044 55015 EGPA 071220Z 17017KT 9999 FEW014 BKN021 06/02 Q0966 KEAT 071155Z AUTO 03003KT 10SM BKN120 M01/M03 A3055 RMK AO2 SLP356 T10061028 10022 21011 51021 EGNS 071220Z 24031KT 9999 FEW025 08/04 Q0983 NOSIG EGPB 071220Z 18023KT 9999 SCT018 BKN030 06/02 Q0969 NOSIG EGNT 071220Z 24019G35KT 190V270 9999 FEW026 08/02 Q0979 KEAU 071156Z 21007KT 10SM CLR M03/M05 A2963 RMK AO2 SLP043 T10281050 10006 21028 56018 CYPC 070000Z 25004KT 15SM FEW150 M32/M35 A3013 RMK AS1 AS TR -30.4/-32.5/TR/31 MEDIUM PACK/LAST OBS/NXT 071400Z SLP207 DENSITY ALT MISG ZUGY 071200Z 16001MPS CAVOK 06/M04 Q1026 NOSIG KCSV 071153Z AUTO 00000KT 10SM CLR M03/M07 A3018 RMK AO2 SLP231 T10281067 10000 21028 53003 EGPC 071220Z AUTO 16017KT 9999 FEW029/// 05/02 Q0965 CZFM 062200Z 12002KT 35SM -SN FEW054 SCT270 M27/M30 A3011 RMK SC1CI3 -26.9/-27.2/TR/SNWCVR/MUCH LOOSE LAST OBS/NEXT 071500Z SLP203 DENSITY ALT MISG EGNV 071220Z 18018KT 9999 FEW023 BKN033 06/03 Q0983 CZEV 071200Z AUTO 00000KT M29/M32 RMK AO1 SOG 41 1015 SLP283 T12891322 CYPD 071200Z AUTO 21009G15KT 9SM SCT180 M01/M03 A3010 RMK SLP202 EGOM 071150Z AUTO 23028G39KT 9999 BKN018/// BKN025/// 05/02 Q0978 EGPD 071220Z 19019KT 9999 BKN013 05/03 Q0968 TEMPO BKN009 CYPE 071200Z 29012KT 15SM SKC M03/M11 A3023 RMK SLP271 EGPE 071220Z 23011KT 9999 VCSH FEW020CB SCT030 BKN049 06/03 Q0965 KDLF 071158Z AUTO 09006KT 10SM CLR 02/M07 A3025 RMK AO2 SLP243 T00181067 10026 21005 57008 FZRANO $ CYOO 071200Z AUTO 02004KT 4SM BR SCT110 M06/M07 A3007 RMK SLP191 EGNX 071220Z 23016G27KT 9999 SCT023 BKN026 08/03 Q0989 EGPF 071220Z AUTO 25024G35KT 220V290 7000 -RA BKN012/// OVC024/// //////TCU 07/04 Q0973 KECG 071154Z 02010KT 10SM OVC100 04/M01 A3009 RMK AO2 SLP190 T00441006 10044 20033 58028 EGOP 071150Z AUTO 25029KT 9999 // FEW030/// 08/04 Q0993 EHGG 071225Z AUTO 22023KT 9999 FEW027 SCT032 09/04 Q0996 NOSIG KDLH 071208Z 21010KT 9SM -SN BKN007 OVC015 00/M02 A2945 RMK AO2 P0000 T00001017 KCUH 071215Z AUTO 19003KT 10SM CLR 01/M02 A3012 RMK AO2 T00101020 EGPH 071220Z AUTO 22024KT 9999 -RA OVC018/// //////TCU 05/03 Q0973 CYPH 071220Z AUTO 26007KT 9SM -SN OVC037 M23/M25 A3015 RMK SLP214 KDKR 071215Z AUTO 00000KT 10SM CLR M02/M03 A3031 RMK AO2 EGPI 071150Z AUTO 25033G47KT 5000 -DZ FEW017/// BKN027/// 08/06 Q0974 KDMA 071158Z AUTO 13012KT 10SM CLR 10/M13 A3017 RMK AO2 SLP193 T01001132 10119 20088 56007 $ KEBS 071215Z AUTO 27015KT 10SM CLR M01/M04 A2980 RMK AO2 CZFS 071100Z AUTO 30003KT M25/M27 RMK AO1 SOG 35 3029 SLP264 T12461272 EGOS 071150Z AUTO 24014KT 9999 SCT027/// BKN050/// 08/04 Q0989 RERA CYQA 071200Z AUTO 17004KT 8SM OVC032 M02/M03 A3000 RMK SLP175 KCVB 071215Z AUTO 31007KT 10SM CLR M02/M06 A3031 RMK AO2 T10181057 EHFS 071155Z AUTO 22025KT 9999 FEW021/// BKN025/// 08/05 Q0998 CYQB 071200Z 30012G20KT 30SM FEW090 M09/M17 A3011 RMK AC2 PRESRR SLP202 EGPK 071220Z 22025KT 8000 -RA FEW006 BKN022 07/04 Q0976 KCUL 071215Z AUTO 21008KT 10SM CLR 03/M04 A3012 RMK AO2 T00291042 KEDC 071215Z AUTO 00000KT 3SM BR CLR 00/00 A3029 RMK AO2 KCVC 071215Z AUTO 33004KT 10SM CLR 00/M03 A3013 RMK AO2 KDLL 071215Z AUTO 23009G14KT 10SM OVC100 02/M02 A2971 RMK AO2 T00201017 CYPL 071200Z 09013G19KT 6SM -SN DRSN SCT012 OVC025 M19/M23 A2966 RMK SC3SC5 /S01 AFTER 0000 UTC/ SLP085 CXZC 071200Z AUTO 00000KT M36/M39 RMK AO1 SOG 47 3005 SLP255 T13571389 50003 EGPL 071220Z AUTO 26017KT 9999 SCT034/// 08/05 Q0966 VGEG 071200Z 00000KT 3200 HZ FEW120 24/16 Q1013 TEMPO P/VIS CYQD 071200Z CCA 33014G24KT 2SM -SN DRSN VV009 M14/M17 A2982 RMK SN8 /S03/ SLP122 EGOV 071150Z AUTO 22029KT 9999 NCD 08/02 Q0986 KDLN 071153Z AUTO 15006KT 10SM CLR M06/M12 A3037 RMK AO2 SLP317 T10611122 10006 21078 51017 EGPM 071220Z AUTO 17017KT 9999 SCT022/// 06/04 Q0969 KEDE 071215Z AUTO 03006KT 10SM OVC075 05/M01 A3009 RMK AO2 T00461011 EGPN 071220Z 22024KT 9999 -SHRA SCT015 SCT026 05/03 Q0971 EGOW 071150Z 24027G39KT 9999 FEW020 09/03 Q0986 BLU CYOW 071200Z 02009KT 15SM -SN BKN025 OVC036 M03/M07 A3012 RMK SC5SC3 SLP206 CYPO 071222Z AUTO 12003KT 6SM HZ CLR M39/M43 A3022 RMK SLP250 DENSITY ALT MISG CYQF 071200Z 29009KT 15SM SCT220 M06/M17 A3029 RMK CI3 SLP305 KECP 071153Z 33007KT 10SM CLR 02/M02 A3018 RMK AO2 SLP232 T00171017 10056 20011 53008 KCTY 071153Z AUTO 32007KT 06/02 A3009 RMK AO1 SLP187 70025 T00560022 10067 20056 53006 KCVG 071152Z AUTO 20006KT 10SM CLR M01/M06 A3011 RMK AO2 SLP200 T10061056 10011 21006 56014 TSNO $ EGPO 071220Z 19009KT 9999 VCSH FEW007 SCT011 BKN038 07/06 Q0964 KDLP 071215Z AUTO 01014KT 10SM CLR 10/02 A3027 RMK A01 CYOY 071200Z AUTO ///// 9SM FEW077 M11/M18 A3009 RMK PRESRR SLP203 CYQG 071200Z 19005KT 15SM FEW120 BKN260 M01/M02 A3000 RMK AC2CI5 SLP166 KCVH 071210Z AUTO 05006KT 10SM CLR 06/06 A3030 RMK AO1 KDMH 071154Z AUTO M01/M04 A3018 RMK AO1 SLP221 T10061044 10017 21011 58009 KCTZ 071215Z AUTO 02011G15KT 3SM RA BKN010 OVC013 02/01 A3007 RMK AO2 P0005 T00200013 CYPQ 071200Z AUTO 20002KT 4SM BR SCT110 BKN150 M05/M05 A3007 RMK SLP192 CYQH 071200Z VRB02KT 20SM SCT060 M21/M23 A3018 RMK SC3 CLIMAT -17.2/-22.9/0.0 SLP290 EHFZ 071225Z AUTO VRB34KT 9999 FEW021 07/03 Q0990 CYQI 071200Z 23013G20KT 15SM FEW035 FEW250 03/M00 A3010 RMK SC1CI2 TR SC SLP196 CYPR 071229Z AUTO 12010G15KT 5SM RA BR OVC033 04/03 A3013 RMK SLP206 KDLS 071153Z AUTO 10003KT 10SM OVC049 03/01 A3056 RMK AO2 SLP349 T00280006 10061 20017 53021 EHGR 071225Z AUTO 21013KT 160V260 9999 SCT028 BKN037 BKN042 09/03 Q0999 BLU KEDJ 071205Z AUTO 21009KT 10SM CLR 00/M05 A3005 RMK AO1 KECS 071215Z AUTO 33023G32KT 10SM CLR 00/M12 A3015 RMK AO2 KCWA 071145Z 21008KT 10SM SKC M01/M02 A2965 CYRA 062100Z 32013KT 15SM -SN SCT070 BKN210 M20/M22 A2978 RMK AC4CC2 VIS SE LWR -19.4/-20.9/TR/55.0 SNW CVR/MUCH LOOSE LAST STFD OBS/NEXT 071500 UTC SLP114 KCUT 071153Z AUTO 30017G29KT 10SM BKN055 OVC075 M03/M13 A3004 RMK AO2 PK WND 31034/1109 SLP197 60000 T10331133 11011 21039 53004 CYRB 071200Z 32013KT 15SM IC FEW200 M36/M39 A2997 RMK CI2 FROIN SLP163 DENSITY ALT MISG CYQK 071200Z 17004KT 1 1/2SM -SN BR OVC003 M01/M01 A2933 RMK SC8 /S01/ CIG RAG SLP954 EGQK 071150Z AUTO 21014KT 9999 SCT039/// BKN050/// 06/02 Q0965 RERA KCWC 071215Z AUTO 00000KT 10SM CLR 00/M02 A3017 RMK AO2 T00001023 KECU 071215Z AUTO 16008KT 10SM CLR 02/M06 A3024 RMK AO2 CYQL 071200Z AUTO 27014G20KT 9SM CLR M02/M10 A3033 RMK PRESRR SLP310 EGPU 071150Z AUTO 27030KT 4000 -SHRA SCT030/// 07/05 Q0969 EGQL 071150Z 23033G48KT 9999 -RA SCT022 BKN032 05/04 Q0970 WHT KEED 071156Z AUTO 36009KT 10SM CLR 13/M03 A3026 RMK AO2 SLP232 T01281033 10139 20100 58002 CYQM 071200Z 22007KT 15SM FEW030 OVC068 M01/M04 A2997 RMK SC1AS8 SC TR SLP153 KDMN 071153Z AUTO 30004KT 10SM CLR M06/M13 A3030 RMK AO2 SLP250 T10561133 11006 21061 58004 TSNO KCVN 071215Z AUTO 31011KT 10SM CLR 00/M09 A3011 RMK AO1 EGQM 071150Z AUTO 21020G32KT 9999 BKN027/// SCT036/// 07/02 Q0978 KEDN 071215Z AUTO 34004KT 10SM CLR 01/M04 A3018 RMK AO2 CYPW 070300Z 04002KT 20SM FEW035 FEW150 FEW220 03/02 A3046 RMK CU1AC1CI2 CU TR AC TR LAST STFD OBS/NEXT071500UTC SLP322 KDMO 071153Z AUTO 21015KT 10SM CLR 04/M03 A3000 RMK AO2 SLP163 T00441028 10050 20039 56024 KCVO 071215Z 00000KT 9SM OVC011 08/06 A3048 RMK AO1 KCWF 071200Z 00000KT 5SM BR SKC 01/01 A3031 CYPX 071200Z AUTO 33005KT 9SM CLR M32/M35 A3009 RMK SLP197 DENSITY ALT MISG CYPY 071200Z AUTO 28007KT 9SM OVC022 M14/M16 A3010 RMK SLP217 KDLZ 071215Z AUTO 17004KT 10SM CLR M03/M06 A3007 RMK AO2 CYQQ 071200Z 00000KT 20SM BKN017 OVC027 05/04 A3052 RMK SC6SC2 SLP335 KCWI 071156Z AUTO 22008KT 10SM SCT100 02/M02 A2983 RMK AO2 SLP130 T00171017 10033 20011 56020 FZRANO CYQR 071200Z 32026G37KT 10SM -SN BKN024 BKN052 M04/M07 A2990 RMK SC5SC2 PRESRR SLP155 KCVS 071158Z AUTO 29009KT 10SM CLR M01/M08 A3011 RMK AO2 SLP185 T10081085 10035 21008 56003 $ CYRJ 071200Z 29008KT 40SM FEW030 M22/M28 A3016 RMK SC1 SC TR SLP232 EGQS 071150Z 19015KT 9999 -SHRA BKN035 BKN050 04/02 Q0966 BLU EHJA 071225Z AUTO 21033KT 9999 FEW016/// SCT020/// BKN024/// 07/03 Q0990 CYQT 071200Z 07011KT 1 1/2SM -SN OVC005 M03/M03 A2954 RMK SN4SC4 VIS VRB 1-2 SLP019 CYSB 071200Z 07014KT 15SM BKN014 OVC019 M15/M17 A2997 RMK SC5SC3 SLP177 OTBD 071200Z 12012KT CAVOK 23/06 Q1014 NOSIG KDNL 071153Z AUTO 33006KT 10SM OVC050 05/M05 A3008 RMK AO2 SLP187 T00501050 10072 20050 55004 KEDU 071215Z AUTO 02006KT 10SM CLR 09/05 A3030 RMK AO1 CYRL 071200Z 08011G17KT 1SM -SN DRSN VV012 M10/M12 A2943 RMK SN8 /S02 AFT 10UTC/ SLP995 EGSC 071220Z 23020G31KT 200V260 9999 SCT025 08/06 Q0993 KEFD 071150Z 30003KT 7SM FEW250 04/01 A3032 CXZU 071200Z AUTO M04/M10 RMK AO1 SLP290 T10391102 51024 UOOO 071200Z 12002MPS 4000 BR FU NSC M17/M19 Q1009 R19/39//30 NOSIG RMK QFE742 CYQU 071200Z 24005KT 25SM SKC M06/M10 A3029 RMK SLP295 CYSC 071211Z AUTO 33008KT 3SM -SN FEW008 BKN013 BKN018 OVC024 M04/M05 A3008 RMK PRESRR SLP200 CXZV 071200Z AUTO 25011G17KT M08/M08 RMK AO1 SOG 49 6032 PK WND 14018/1139 SLP043 T10761075 50020 CYQV 071207Z AUTO 32025G32KT 9SM -SN OVC023 M06/M09 A2974 RMK SLP098 KDMW 071225Z AUTO 00000KT 10SM CLR M03/M05 A3016 RMK AO2 KEEN 071215Z AUTO 00000KT 5SM CLR M09/M13 A3014 RMK AO1 KCVW 071215Z AUTO 00000KT 9SM 05/05 A3033 RMK A01 KCXE 071215Z AUTO 35004KT 10SM CLR 00/M05 A3012 RMK AO1 T00031046 KCWN 071158Z AUTO 30011G16KT 10SM BKN190 04/M15 A3011 RMK AO2 SLP096 T00371154 10077 20036 53007 KEDW 071158Z AUTO 26004KT 10SM CLR 01/M06 A3031 RMK AO2 SLP265 T00051057 10070 21006 58005 KEEO 071153Z AUTO 14005KT 10SM CLR M13/M14 A3038 RMK AO2 SLP355 T11281144 11067 21150 51002 KCVX 071215Z AUTO 16006KT 10SM BKN065 01/M01 A2979 RMK AO2 T00071015 CYQW 071200Z AUTO 30017G24KT 9SM CLR M04/M08 A3008 RMK SLP216 CYQX 071200Z 22009KT 20SM FEW040 FEW260 M07/M10 A3006 RMK SC1CI1 SLP193 CYSF 071200Z AUTO 26013G18KT 9SM -SN OVC014 M14/M15 A2993 RMK SLP163 CZHY 071200Z AUTO 28005KT M22/M24 RMK AO1 SOG 28 1030 SLP252 T12161236 CYQY 071200Z 21006KT 15SM BKN063 OVC180 M04/M05 A3011 RMK SC7AS1 SLP203 CYRQ 071200Z AUTO 33005KT 290V360 9SM BKN080 M08/M15 A3016 RMK PRESRR SLP220 CYQZ 071200Z AUTO 00000KT 9SM BKN095 M05/M07 A3045 RMK SLP341 EGSH 071220Z 22020G30KT 180V250 9999 BKN023 07/04 Q0991 KDPA 071152Z 19012KT 10SM CLR 02/M02 A2986 RMK AO2 SLP119 T00221022 10028 21011 56033 KDNS 071215Z AUTO 29010KT 10SM CLR 01/M03 A2988 RMK AO2 OSKL 071200Z 14004KT 9999 SCT026 BKN100 10/03 Q1011 CYSJ 071200Z 23010KT 15SM FEW025 BKN077 00/M03 A3001 RMK SC1AS6 SLP171 KEET 071153Z AUTO 34004KT 10SM CLR 02/M06 A3023 RMK AO2 SLP238 T00171056 10028 20006 53005 ORSU 071200Z 12015KT 6000 FEW035TCU BKN040 OVC070 07/05 Q1016 KEFK 071215Z AUTO 26005KT 10SM OVC030 00/M05 A3008 RMK AO2 T10031052 CYRT 071200Z 09003KT 15SM IC SKC M33/M37 A3019 RMK SLP231 DENSITY ALT MISG EGTC 071220Z 23018G29KT 9999 FEW024 08/04 Q0992 KCWV 071215Z AUTO 32006KT 10SM SCT038 SCT043 OVC070 06/02 A3005 RMK AO2 T00550019 KDNV 071215Z AUTO 21009KT 10SM CLR 02/M03 A2996 RMK AO2 T00171030 CZKD 071200Z AUTO 08007KT M24/M28 RMK AO1 SOG 33 3019 SLP131 T12391276 CYSM 071200Z 30010KT 15SM IC DRSN SKC M20/M23 A3012 RMK AURBO SLP226 CYRV 071222Z AUTO 00000KT 1/2SM FZFG VV002 M04/ A3058 RMK TD MISG SLP380 EHKD 071227Z AUTO 21026KT 9999 FEW015 SCT018 BKN029 08/05 Q0994 WHT KEGE 071215Z AUTO 07003KT 10SM OVC090 M14/M15 A3044 RMK AO1 CYSN 071200Z 19008KT 10SM SCT037 M01/M02 A3008 RMK SC3 SLP191 EGTE 071220Z 23014KT 9999 FEW025CB 09/04 Q0996 KCXO 071153Z 33003KT 4SM BR CLR M02/M03 A3029 RMK AO2 SLP258 I6000 T10171028 10017 21017 58012 CYTE 071217Z AUTO 27010KT 6SM HZ CLR M28/M31 A2993 RMK SLP144 DENSITY ALT MISG KCXP 071215Z AUTO 00000KT 10SM CLR M03/M04 A3050 RMK AO2 CYSP 062200Z 05005KT 15SM SCT014 BKN020 BKN095 M10/M14 A2995 RMK SC3SC3AC1 LAST STFD OBS/NEXT 071300UTC SLP170 CYTH 071200Z 04007KT 2SM -SN OVC009 M23/M27 A2983 RMK SC8 /S02/ SLP132 KEGI 071158Z AUTO 31005KT 10SM CLR 00/M05 A3020 RMK AO2 SLP230 T00021051 10033 21009 53010 $ EHJR 071155Z AUTO 22038G44KT //// ///////// 08/03 Q0991 W///H27 OSLK 071200Z 27008KT 9999 FEW026 SCT030 15/04 Q1013 KEHA 071208Z AUTO 34008KT 02/M07 RMK AO1 PK WND 12 000 T00221066 CYUA 071200Z AUTO 00000KT 9SM CLR M30/ A3029 RMK SLP265 EGSS 071220Z AUTO 24019KT 9999 OVC026 08/03 Q0994 KEFT 071215Z AUTO 22020G25KT 10SM OVC100 02/00 A2975 RMK AO2 EGTK 071220Z 23017KT 9999 BKN020 08/05 Q0993 CYUB 070600Z 00000KT 15SM BKN070 M26/M28 A3024 RMK AC7 SNW CVR MUCH LOOSE SLP244 DENSITY ALT MISG EGUB 071150Z 22016KT 9999 FEW023 07/03 Q0994 BLU NOSIG KCXU 071215Z AUTO 00000KT 10SM CLR 00/00 A3014 RMK AO2 T00040000 KDPL 071215Z AUTO 02008G15KT 7SM -RA 01/01 A3005 RMK AO2 P0001 T00130012 KEHC 071215Z AUTO 31011KT 10SM SCT030 12/04 A3029 RMK A01 CYTL 071200Z AUTO 10005KT 9SM BKN220 M29/M32 A2991 RMK SLP165 KDOV 071158Z AUTO 19002KT 10SM CLR M03/M03 A3019 RMK AO2 SLP227 T10261026 11011 21035 56006 VISNO RWY19 CHINO RWY19 $ KCXY 071156Z 23004KT 10SM CLR M06/M09 A3020 RMK AO2 SLP232 T10611089 11028 21067 55001 VGHS 071200Z 00000KT 4000 HZ SCT100 25/10 Q1013 NOSIG KDQH 071215Z AUTO 35006KT 10SM CLR 05/00 A3010 RMK AO2 CYTQ 062200Z 30016KT 12SM DRSN BKN027 BKN240 M28/M33 A2989 RMK SC5CI1 LAST STFD OBS/NEXT 071300Z SLP130 DENSITY ALT MISG CYTR 071200Z 23003KT 12SM OVC043 M00/M04 A3010 RMK SC8 SLP198 KCYS 071153Z AUTO 30009KT 10SM CLR M01/M08 A3015 RMK AO2 SLP211 T10061083 10028 21006 51015 KDRA 071153Z AUTO 11009KT 10SM CLR 05/M04 A3035 RMK AO2 SLP263 T00501044 10083 20039 55004 CYTS 071200Z 10009KT 6SM -SN SCT035 OVC060 M21/M24 A3002 RMK SC3SC5 SLP199 EHMA 071225Z AUTO VRB27G37KT 9999 FEW018 SCT023 BKN028 09/04 Q0994 EGVA 071221Z AUTO 23017G21KT 9999 SCT023 BKN028 08/06 A2932 RMK AO2 RAE06 CIG 021V028 KCZL 071215Z AUTO 00000KT 10SM CLR M04/M06 A3020 RMK AO2 T10381057 EICK 071200Z 23017KT 9999 -RA SCT014 BKN020 BKN050 05/04 Q0989 TEMPO 5000 BKN008 CYUL 071200Z 35008KT 15SM -SN BKN028 OVC038 M03/M06 A3014 RMK SC6SC2 SLP210 CYVC 071200Z 30010G15KT 12SM -SN DRSN OVC012 M11/M14 A2996 RMK SC8 PRESRR SLP179 EGUL 071219Z AUTO 23024G29KT 9999 SCT029 BKN038 08/03 A2929 RMK AO2 KEGV 071210Z AUTO 21005KT 5SM BR OVC006 M02/M02 A2958 RMK AO2 T10171023 CZMD 071200Z AUTO 07009KT 9SM OVC026 M22/M26 A2976 RMK SLP113 EHKV 071225Z AUTO 21037KT 9999 FEW021 09/03 Q0992 KEHO 071215Z AUTO 35005KT 10SM CLR 01/M07 A3009 RMK AO2 T00121070 EGUN 071158Z AUTO 23020G26KT 9999 BKN025 08/04 A2929 RMK AO2 PK WND 23034/1058 BKN V OVC SLP922 70003 T00790035 10080 20046 52013 EGUO 070750Z 23014G26KT 7000 VCSH FEW006 BKN010 04/02 Q0992 GRN EHMG 071225Z AUTO 22034KT 9999 FEW013 SCT023 09/04 Q0992 CYTZ 071200Z AUTO 22008KT 9SM OVC033 01/M02 A3008 RMK SLP191 KEHR 071215Z AUTO 21009KT 10SM CLR 01/M05 A3014 RMK AO1 KDRI 071215Z AUTO 00000KT 7SM M01/M01 A3032 RMK AO2 T10071013 CZMJ 071200Z AUTO 32031G44KT M02/M05 RMK AO1 SOG 01 3044 PK WND 32044/1156 SLP171 T10161049 50005 CYUS 071200Z AUTO 23006KT OVC015 M33/ A3014 RMK SLP215 CYWA 071224Z AUTO 05005KT 5SM -SN OVC020 M09/M12 A3015 KEIK 071215Z AUTO 27011G21KT 10SM CLR 06/M12 A3015 RMK AO2 T00581123 KCZT 071215Z AUTO 00000KT 10SM CLR M02/M06 A3028 RMK AO2 CYUT 062100Z 33004KT 280V360 15SM SCT030 BKN070 BKN200 M31/M35 A3007 RMK SC3AC2CI1 CI TR -31.0/-33.4/0.0/0.0/SNW CVR TRACE LOOSE/ LST STFD OBS/ NXT OBS 071500 SLP190 DENSITY ALT MISG EIDL 071200Z 25025KT 9999 SCT033 SCT042 08/01 Q0978 EGWC 071150Z 24012G24KT 9999 SCT040 08/03 Q0990 BLU CYVL 071225Z AUTO 00000KT 9SM OVC080 M25/M27 A3020 RMK SLP270 KDRM 071214Z AUTO 15008KT 10SM SCT010 SCT017 OVC060 00/M01 A2983 RMK AO2 T00001012 CYVM 071200Z 21009KT 10SM IC OVC055 M25/M28 A2970 RMK SC8 SLP061 CYWE 071200Z AUTO 28004KT 180V340 9SM CLR M29/M32 A3001 RMK SLP217 EGUW 071150Z AUTO 23019G31KT 9999 BKN025/// SCT110/// 07/03 Q0993 KDRO 071153Z AUTO 08003KT 10SM CLR M13/M15 A3035 RMK AO2 SLP343 T11331150 11089 21167 56010 EHLW 071225Z AUTO 21017KT 170V230 9999 FEW022 SCT026 BKN038 08/05 Q0995 BLU EGVN 071150Z 23010KT 9999 FEW022 08/03 Q0993 BLU NOSIG KFAF 071158Z AUTO 02004KT 10SM SCT110 02/M03 A3013 RMK AO2 SLP206 T00151030 10015 21014 55021 $ CYVO 071200Z 10004KT 15SM SCT060 M26/M28 A3014 RMK SC4 SLP247 CYUX 071200Z 32019KT 1 1/4SM IC BR DRSN SKC M32/M35 A2989 RMK FG2 -31.8/-35.8/TR/0 SNW CVR/TRACE LOOSE SLP126 DENSITY ALT MISG EGVO 071150Z 22020KT 9999 SCT027 08/01 Q0995 BLU KEHY 071215Z AUTO 10SM CLR M04/M08 A3018 RMK AO2 CYUY 071200Z 11005KT 15SM BKN040 M24/M28 A3014 RMK SC6 SLP240 CYVP 071200Z 24003KT 180V270 15SM IC SCT032 M30/M34 A2997 RMK SC3 IC SLP157 DENSITY ALT MISG CYWG 071200Z 31018KT 2 1/2SM -SN DRSN SCT008 OVC040 M03/M05 A2946 RMK SF3SC5 SLP989 EGVP 071150Z AUTO 25015KT 9999 // SCT027/// 08/03 Q0995 KCZZ 071152Z AUTO VRB04KT 12/M09 A3015 RMK AO1 SLP190 T01221089 10144 20111 58008 CYVQ 071200Z 08002KT 6SM -SN FEW020 BKN035 OVC080 M21/M23 A3031 RMK SC1SC6AC1 /S01/ SLP277 CYWH 070500Z 02003KT 350V050 15SM FEW240 04/03 A3049 RMK CI2 LAST STFD OBS/NEXT 071400 UTC SLP325 KEIR 071215Z AUTO 04014KT 10SM CLR 11/04 A3032 RMK A01 CYVR 071200Z 14002KT 20SM BKN097 03/02 A3054 RMK AC7 SLP342 KDTA 071215Z AUTO 00000KT M1/4SM OVC001 M16/M17 A3052 RMK AO1 T11591175 CYWJ 070000Z 29009KT 40SM FEW080 FEW120 SCT250 M22/M26 A2997 RMK AC1AC1CI2 -22.0/-24.4/0/40 MUCH LOOSE LAST STFD OB/NXT071800UTC SLP179 KDRT 071153Z AUTO 07004KT 10SM CLR 03/M07 A3025 RMK AO2 SLP239 T00281072 10067 20028 56009 CZMT 070200Z 14004KT 15SM FEW006 FEW015 SCT040 OVC200 05/02 A3023 RMK CF1SC1SC2CS5 CF TR LAST OBS/NEXT 071500 UTC SLP239 CYVT 071200Z 33007KT 15SM OVC010 M10/M12 A3003 RMK ST8 SNW CVR/MUCH LOOSE SLP201 CYWK 071200Z 01005KT 3SM -SN OVC030 M22/M24 A2964 RMK SC8 /S01/ SLP107 CZMU 071100Z AUTO 30015KT M04/M08 RMK AO1 SOG 06 PK WND 30020/1057 T10381081 CYXC 071200Z 00000KT 25SM FEW085 M07/M11 A3045 RMK AC1 SLP352 CYWL 071200Z 13005KT 15SM SKC M06/M10 A3040 RMK SLP340 KDSM 071154Z 27009KT 10SM BKN120 OVC240 02/M03 A2987 RMK AO2 SLP124 4/001 T00221028 10044 20017 55003 EGXC 071150Z 24020KT 9999 FEW022 BKN030 07/04 Q0989 BLU KFAM 071201Z AUTO 22003KT 10SM CLR 01/M07 A3010 RMK AO2 SLP220 T00111072 10039 20006 58023 FZRANO CYVV 071200Z 17010KT 12SM FEW024 OVC070 M01/M04 A2996 RMK SC1AS8 SC TR SLP156 EGXD 071150Z AUTO 19013KT 9999 // BKN019/// SCT050/// 05/03 Q0985 CYXE 071200Z 33015G23KT 15SM BKN150 M03/M07 A3003 RMK AC5 SLP197 EGXE 071150Z AUTO 19015KT 9999 FEW024/// BKN029/// BKN045/// 06/03 Q0984 RERA EIDW 071200Z 21022G32KT 9999 FEW017 BKN180 06/01 Q0984 NOSIG KFBG 071209Z AUTO 01004KT 10SM SCT060 03/00 A3006 RMK AO2 UPE09 CYXH 071200Z AUTO 29018KT 9SM CLR M02/M11 A3030 RMK SLP290 KFAR 071153Z 29022G29KT 10SM CLR 03/M03 A2958 RMK AO2 PK WND 29031/1126 SLP025 60002 70002 T00281028 10039 20017 53005 KDUA 071215Z AUTO 00000KT 10SM CLR 01/00 A3021 RMK AO2 KELA 071215Z AUTO 00000KT 2 1/2SM BR CLR 01/00 A3029 RMK AO2 T00050003 CYXJ 071200Z 21003KT 15SM SCT180 M04/M10 A3026 RMK AC3 SLP286 KFAT 071153Z 00000KT 7SM CLR 07/04 A3032 RMK AO2 SLP265 T00670044 10100 20056 58006 KDUB 071215Z AUTO 31021KT 10SM CLR M02/M10 A3024 RMK AO2 CYYB 071200Z 08014KT 3SM -SN OVC015 M13/M15 A2998 RMK SC8 SLP180 KFBL 071214Z AUTO 25010G17KT 10SM SCT065 02/M02 A2968 RMK AO2 KDTL 071214Z AUTO 30016G23KT 5SM -SN BKN008 OVC012 01/00 A2955 RMK AO2 KDUC 071215Z AUTO 00000KT 10SM CLR M02/M03 A3016 RMK AO2 TSNO KEKM 062250Z 23005KTS 10SM SCT 030 03/M03 A3018 RMK AO2 LAST CZOL 071100Z AUTO 30008KT M02/M09 RMK AO1 T10211088 CYXL 071200Z 10007KT 050V160 5SM -SN DRSN OVC025 M09/M11 A2944 RMK SC8 SLP001 CZPC 071200Z AUTO 28006KT 9SM CLR M04/M10 A3036 RMK SLP330 CYYC 071200Z 27015G20KT 15SM FEW210 M01/M15 A3029 RMK CI1 CI TR SNOW COVER / HARD PACK SLP306 EGWU 071150Z 25019KT 9999 SCT030 09/02 Q0994 NOSIG KELD 071153Z AUTO 00000KT 5SM BR CLR M03/M04 A3027 RMK AO2 SLP253 T10281044 10000 21028 56005 KDSV 071154Z AUTO 15005KT 10SM SCT037 M04/M07 A3011 RMK AO2 SLP214 T10441072 11006 21050 58007 CYYD 071200Z AUTO 15006KT 1SM -SN VV014 M03/M03 A3032 RMK SLP290 EGYD 071150Z 22022KT 4000 SCT023 BKN035 07/03 Q0989 GRN KDTN 071218Z AUTO 00000KT 2SM BR CLR 00/M01 A3028 RMK AO2 T00001011 $ KEKN 071151Z AUTO 00000KT 10SM CLR M08/M11 A3016 RMK AO2 SLP245 I1000 I6000 T10831106 11056 21089 51005 TSNO CYYE 071200Z 19005KT 15SM SKC M12/M13 A3020 RMK SLP259 KDTO 071153Z AUTO 16005KT 9SM CLR 01/M01 A3022 RMK AO2 SLP234 T00061011 10028 20000 55008 KEKO 071156Z AUTO 09003KT 10SM CLR M13/M15 A3056 RMK AO2 SLP408 I1000 I6000 T11281150 11094 21144 51018 CYYF 071200Z 00000KT 15SM SCT170 M02/M04 A3058 RMK AC3 SLP372 OTHH 071200Z 14014KT CAVOK 20/11 Q1014 NOSIG KFAY 071153Z AUTO 04008KT 10SM -RA OVC070 03/00 A3006 RMK AO2 RAE00B44UPB00E44 SLP176 P0002 60006 70009 T00280000 10039 20028 58015 KDUG 071156Z AUTO 07004KT 10SM CLR M04/M14 A3026 RMK AO2 SLP230 T10391139 10017 21050 56006 $ CYXP 062000Z 23004KT 15SM SCT210 M27/M30 A2974 RMK CI4 -26.1/-27.4/0/15 SNW CVR/HARD PACK LAST STFD OBS/NEXT 071700 SLP076 DENSITY ALT MISG CYYG 071200Z 19010G18KT 15SM VCSH FEW025 BKN070 OVC100 M02/M04 A3001 RMK SC2AC3AC3 SLP166 EGXP 071150Z AUTO 23021KT 9999 // SCT023/// SCT028/// 07/04 Q0988 KDUH 071215Z AUTO 20004KT 10SM SCT060 00/M04 A3000 RMK AO2 T10011036 KEKQ 071156Z AUTO 29003KT 10SM CLR M07/M08 A3022 RMK AO2 SLP258 T10721083 11044 21078 53001 EHPG 071225Z AUTO 21039KT 9999 FEW025 09/04 Q0993 CYXQ 062300Z 01003KT 310V060 25SM FEW120 BKN160 M14/M16 A2984 RMK AC1AC5 CLIMAT -14.0/-27.0/0.0/LASTSTFDOBS/NXT071700UTC SLP170 CYYH 071200Z 29010KT 1SM -SN BLSN BKN011 BKN015 M30/M34 A3010 RMK BLSN4ST2ST1 SLP200 DENSITY ALT MISG KFCI 071155Z AUTO 00000KT 10SM CLR M01/M08 A3016 RMK AO1 11010 21020 57017 KFBR 071215Z AUTO 26013KT 10SM CLR M03/M08 A3043 RMK AO2 T10331076 KDUJ 071153Z AUTO 19003KT 10SM CLR M04/M11 A3007 RMK AO2 SLP203 T10441106 11028 21050 56014 KDTS 071153Z AUTO 35008KT 10SM CLR 05/M03 A3021 RMK AO2 SLP228 T00501028 10083 20050 53006 TSNO CYXR 071200Z AUTO 08009KT 9SM -SN BKN030 OVC042 M19/M22 A3012 RMK SLP223 KEKS 071215Z AUTO 18003KT 10SM CLR M05/M11 A3044 RMK A01 CYXS 071200Z AUTO 17006KT 9SM SCT110 M03/M07 A3038 RMK SLP325 CYYJ 071200Z 32003KT 20SM FEW030 FEW110 SCT220 04/03 A3053 RMK SC1AC1CI2 SNSHN/013/ PRESFR SLP340 EGXS 071150Z AUTO 21024KT 9999 // BKN021/// 07/03 Q0988 KELK 071215Z AUTO 21005KT 10SM CLR M01/M06 A3008 RMK AO2 T10061063 CYXT 071200Z 16002KT 1 1/2SM -SN BR OVC007 M00/M01 A3030 RMK SN4SF4 /S02/ SLP271 EGXT 071150Z AUTO 23018KT 9999 FEW022/// BKN031/// 07/03 Q0990 CYXU 071200Z 18006KT 15SM SCT220 M02/M03 A3002 RMK CI3 SLP178 EGXU 071150Z AUTO 22014KT 9999 // SCT027/// SCT050/// 06/03 Q0985 KFCM 071153Z 25010KT 10SM FEW035 BKN075 02/M02 A2963 RMK AO2 SLP042 T00221022 10022 21011 56007 KELM 071153Z 00000KT 10SM CLR M08/M09 A3012 RMK AO2 SLP215 T10831094 11056 21089 58006 $ CYYL 071221Z AUTO 33005KT 9SM BKN060 BKN150 OVC170 M22/M25 A2986 RMK SLP156 EGYM 071150Z AUTO 22023KT 9999 BKN021/// 08/03 Q0991 KDTW 071153Z 18005KT 10SM BKN170 OVC230 M02/M04 A3001 RMK AO2 SLP168 T10221044 10006 21022 58022 $ KELN 071153Z AUTO 10SM CLR M04/M07 A3054 RMK AO2 SLP360 T10391072 10000 21044 51024 EGXV 071150Z AUTO 22016KT 9999 FEW020/// BKN030/// 07/03 Q0986 CYYN 071200Z AUTO 30028G37KT 9SM CLR M03/M07 A3008 RMK SLP220 CYZE 071200Z AUTO 14005KT 9SM OVC090 M01/M03 A2989 RMK SLP133 KELO 071213Z AUTO 17003KT 7SM -SN OVC008 00/M01 A2942 RMK AO2 EGXW 071150Z 23019KT 9999 FEW023 BKN035 06/02 Q0988 BLU NOSIG EHQE 071225Z AUTO ///38KT 9999 FEW020 SCT023 09/03 Q0993 CYZF 071200Z 31009KT 15SM SKC M25/M28 A3011 RMK SLP228 CYXX 071200Z 05004KT 10SM FEW060 SCT160 03/02 A3054 RMK SC1AC3 SLP347 KELP 071151Z 18006KT 10SM SCT200 BKN300 M02/M13 A3027 RMK AO2 SLP236 T10171133 10044 21033 56008 CYZG 062200Z 34005KT 4SM -SN BR BKN015 M25/M27 A2984 RMK ST7 SNW CVR/TRACELOOSE/LAST OBS/NEXT071300 UTC SLP142 CYXY 071200Z 00000KT 15SM SKC M16/M18 A3010 RMK SLP250 EGYP 071150Z 34006KT 9999 FEW005 16/07 Q1014 BLU NOSIG CYXZ 071200Z 05008KT 010V070 3SM -SN OVC010 M11/M13 A2975 RMK ST8 SLP098 CYYQ 071200Z 09007KT 15SM OVC140 M27/M30 A3014 RMK AC8 SLP213 DENSITY ALT MISG CYZH 071200Z AUTO 27019G25KT 9SM CLR M02/M08 A3021 RMK SLP262 EGXZ 071150Z AUTO 19017KT 9999 SCT024/// BKN037/// 05/03 Q0984 RERA CYYR 071200Z 24005KT 15SM SCT100 SCT230 M24/M30 A2998 RMK AC2CI0 FROIN SLP160 KFCS 071158Z AUTO 23007KT 10SM CLR 04/M13 A3015 RMK AO2 SLP236 T00391132 10075 21014 53010 $ CZPS 071100Z AUTO 28007KT M06/M14 RMK AO1 T10581138 KFDK 071020Z AUTO 00000KT 10SM CLR M05/M05 A3024 RMK AO2 KDVK 071215Z AUTO 23003KT 10SM CLR M02/M06 A3018 RMK AO2 KEMK 071215Z AUTO 04008KT 10SM FEW030 15/06 A3029 RMK A01 CYYT 071200Z CCA 30007KT 15SM BKN020 BKN160 BKN200 M06/M10 A3013 RMK SC5AC1CI1 SLP213 KDVL 071223Z AUTO 28022G31KT 10SM FEW025 BKN031 OVC065 01/M02 A2956 RMK AO2 PK WND 28031/1215 FZRANO KEMM 062235Z AUTO 26013G19KT 10SM CLR M01/M07 A3032 RMK AO2 CYYU 071200Z 14011KT 15SM OVC100 M23/M26 A3004 RMK AC8 SLP201 KEND 071158Z AUTO 22006KT 10SM CLR M02/M05 A3010 RMK AO2 SLP204 T10181046 10019 21020 55004 $ KDVN 071152Z AUTO 21013KT 10SM CLR 03/M02 A2983 RMK AO2 SLP107 T00281022 10039 20028 56024 EHRD 071225Z AUTO 21021KT 170V250 9999 SCT024 BKN028 BKN047 09/04 Q0997 NOSIG CYYW 071200Z AUTO 08007KT 050V110 1 1/4SM -SN OVC027 M15/M17 A2966 RMK SLP089 KDUX 071215Z AUTO 36013KT 10SM CLR 01/M07 A3014 RMK AO2 T00091074 KDVO 071215Z AUTO 00000KT 8SM CLR 05/05 A3029 RMK AO2 KEMP 071153Z AUTO 27011KT 10SM CLR 03/M04 A3004 RMK AO2 SLP182 T00281039 10050 20028 53007 KELY 071153Z AUTO 18010KT 10SM CLR M14/M18 A3050 RMK AO2 SLP374 T11391178 11111 21150 53011 $ KDVP 071216Z AUTO 27017G22KT 10SM CLR 00/M03 A2977 RMK AO2 T10021035 CYYY 071222Z 27025G37KT 4SM BLSN FEW015 SCT030 M11/M17 A2995 RMK SC1SC2 PRESRR SLP149 CYZP 071200Z AUTO 15027G36KT 7SM -RA FEW013 BKN049 OVC090 08/07 A3001 RMK SLP163 KDWH 071220Z AUTO 00000KT 2SM BR CLR 01/01 A3029 RMK AO2 T00110006 KELZ 071156Z AUTO 26003KT 10SM CLR M03/M09 A3005 RMK AO2 SLP201 T10331089 11011 21044 58011 $ CYYZ 071200Z 18003KT 15SM FEW030 SCT110 BKN260 M02/M05 A3006 RMK SC2AC2CI2 FROIN SLP188 KFDR 071153Z AUTO 08007KT 10SM CLR M02/M04 A3012 RMK AO2 SLP201 T10171039 10022 21028 56013 CYZR 071200Z AUTO 18008KT 8SM CLR M01/M02 A3000 RMK SLP166 KFFA 071215Z AUTO 03010G17KT 10SM OVC033 07/02 A3004 RMK AO2 T00670019 KEMT 070345Z 00000KT 10SM CLR 17/02 A3018 EHSA 071155Z AUTO 21030G36KT 9999 ///////// 08/05 Q0996 W08/H28 CYZS 071200Z 36015KT 15SM IC SKC M30/M34 A3002 RMK SLP178 DENSITY ALT MISG KDVT 071153Z AUTO VRB03KT 10SM CLR 11/M07 A3018 RMK AO2 SLP207 T01061072 10133 20089 58005 CYZT 071210Z 11022G31KT 15SM -RA BKN046 OVC060 06/04 A3035 RMK SC6SC2 PRESFR SLP279 KFFC 071153Z AUTO 30004KT 10SM CLR M02/M06 A3016 RMK AO2 SLP220 I6000 T10221056 11011 21039 53002 PWINO FZRANO $ KENL 071215Z AUTO 21009KT 10SM CLR 04/M04 A3006 RMK AO2 T00351039 EHSC 071155Z AUTO 22032G38KT 9999 ///////// 08/04 Q0996 W07/H23 CYZU 070500Z 29013G20KT 15SM SKC M01/M12 A3007 RMK LAST OBS/NEXT 071300Z SLP215 KEMV 071215Z AUTO 34004KT 10SM CLR 00/M02 A3013 RMK AO2 CYZV 071221Z 25014G21KT 30SM DRSN VCSH FEW015 SCT030 BKN050 M09/M11 A2967 RMK SC2SC2SC1 VIS NE 5 PRESRR SLP052 KFDW 071215Z AUTO 35005KT 10SM SCT050 03/M04 A3006 RMK AO1 KEOE 071215Z AUTO 36005KT 10SM CLR 03/M05 A3011 RMK AO2 CYZW 070100Z VRB02KT 30SM SCT120 M09/M10 A2997 RMK AC3 CLIMAT -6.8/-19.6/0.0/44052/LAST OBS/NEXT 071700 UTC SLP212 CYZX 071200Z 26008KT 10SM -SHSN SCT030 BKN050 BKN250 M01/M03 A3007 RMK SC3SC2CI1 WNDY HILL 21010KT VIS LWR W SLP185 KFDY 071153Z AUTO 20007KT 10SM FEW065 M01/M04 A3003 RMK AO2 SLP172 T10061044 10011 21022 56021 TSNO KFEP 071215Z AUTO 21018G22KT 10SM OVC100 02/M01 A2981 RMK AO2 T00171012 CZRP 071200Z AUTO 29011KT M32/M35 RMK AO1 PK WND 27019/1143 SLP209 T13161349 55004 CYZY 071200Z AUTO 16004KT 9SM SCT110 M08/M08 A3037 RMK PRESRR SLP326 KDYA 071215Z AUTO 00000KT 10SM A3028 RMK AO2 CZSJ 071200Z AUTO 09010G16KT 7SM -SN BKN034 OVC110 M19/M22 A2965 RMK SLP073 KDYB 071215Z AUTO 34006KT 10SM RA SCT011 SCT040 OVC065 04/04 A3000 RMK AO1 KFET 071215Z AUTO 29013G19KT 10SM CLR 01/M05 A2996 RMK AO2 T00141047 KEOK 071215Z AUTO 21012G17KT 10SM CLR 03/M02 A2988 RMK AO2 CZTB 071200Z AUTO 08008KT M03/M03 RMK AO1 8PAST HR SOG 26 6017 SLP017 P0003 T10311033 50030 KFFL 071215Z AUTO 24013G19KT 10SM FEW120 FEW170 03/M03 A2986 RMK AO2 KFFM 071214Z AUTO 29021G25KT 10SM OVC040 02/M01 A2964 RMK AO2 KENV 071215Z AUTO 08005KT 10SM CLR M06/M07 A3052 RMK AO1 CZSM 071200Z AUTO 26006KT M20/ RMK AO1 SOG 57 3026 SLP218 T1198 KENW 071153Z AUTO 21011KT 10SM CLR 03/M02 A2982 RMK AO2 SLP106 T00281022 10033 20000 56033 KFEW 071158Z AUTO 30015G23KT 10SM CLR M01/M08 A3016 RMK AO2 SLP224 T10091079 10029 21010 51013 $ KDWX 071215Z AUTO 00000KT 10SM CLR M13/M15 A3038 RMK AO2 T11341155 KFFO 071158Z AUTO 21005KT 10SM CLR M03/M06 A3007 RMK AO2 SLP194 T10271058 11016 21036 57020 VHHH 071200Z 13003KT 090V180 CAVOK 16/M05 Q1025 NOSIG PLCH 071200Z VRB02KT 9999 -SHRA SCT014 BKN040 OVC300 27/26 Q1006 -RESZ CZSP 071200Z AUTO 19013G18KT M01/M03 RMK AO1 SOG 17 6013 PK WND 19018/1156 SLP172 T10051031 KEPH 071153Z AUTO 36005KT 10SM CLR M01/M03 A3054 RMK AO2 SLP355 T10111033 10017 21022 51021 ZUUU 071200Z VRB01MPS CAVOK 09/03 Q1025 NOSIG KDXR 071153Z 00000KT 9SM CLR M07/M10 A3019 RMK AO2 SLP227 T10721100 11006 21083 55005 KH78 071140Z 34018KT 12SM SCT010 13/02 A3022 RMK SEAS 2-4 KEQA 071215Z AUTO 22003KT 10SM CLR 00/M02 A3008 RMK AO2 KFFT 071153Z AUTO 00000KT 10SM CLR M04/M07 A3014 RMK AO2 SLP214 T10441072 11022 21044 55011 KDZB 071215Z AUTO 00000KT 10SM CLR M02/M02 A3026 RMK AO2 T10201021 KFHB 071215Z AUTO 32015G20KT 10SM OVC010 07/05 A2999 RMK AO1 CZST 070100Z 01002KT 12SM SCT005 BKN012 OVC057 01/01 A3030 RMK SC4SC3SC1 LAST STFD OBS/071500Z SLP264 KDYL 071154Z AUTO 00000KT 10SM CLR M06/M07 A3017 RMK AO2 SLP227 I6000 T10611072 11022 21061 56007 FABL 071200Z 18010G21KT CAVOK 34/M05 Q1018 NOSIG KFGN 071211Z AUTO 29015KT 10SM OVC007 M01/M02 A2935 RMK AO2 EIKN 071200Z 22012KT 180V250 9999 -RA SCT018 BKN030 OVC080 05/01 Q0981 TEMPO 4000 BKN010 KDXX 071213Z AUTO 29023G26KT 10SM CLR 03/M03 A2972 RMK AO2 KFFX 071215Z AUTO 18005KT 7SM SCT090 BKN120 01/00 A2983 RMK AO2 T00070000 KFFZ 070248Z 31005KT 50SM SKC A3019 PKMJ 062354Z 05019KT 15SM FEW015 SCT050 BKN300 29/24 A2984 KDYR 071215Z AUTO 23003KT 10SM CLR 00/M04 A3024 RMK AO1 KDYS 071158Z AUTO 20012KT 10SM CLR 05/M07 A3013 RMK AO2 SLP201 T00501067 10054 21021 56020 $ KDZJ 071215Z AUTO 00000KT 10SM M06/M11 A3015 RMK AO2 T10611111 KDYT 071214Z AUTO 22009KT 10SM OVC026 02/M01 A2949 RMK AO2 CZUM 071200Z AUTO 05003KT 9SM FEW055 SCT110 BKN130 M31/M34 A2976 RMK SLP146 KFGX 062315Z AUTO 24005KT 10SM CLR 05/M05 A3027 RMK AO2 T00451048 EIME 071200Z 22027KT 9999 SCT030 BKN200 05/02 Q0984 KFIG 071154Z AUTO 00000KT 10SM CLR M07/M09 A3010 RMK AO2 SLP212 I1000 I6000 T10671094 11022 21078 56014 EIKY 071200Z 24017KT 9999 RA SCT023 BKN034 06/04 Q0986 PKMR 071153Z 06015KT 15SM FEW015 SCT050 OVC300 28/22 A2987 RMK SLP115 60007 70012 8/808 T02760223 10278 20256 50000 KFHR 071213Z AUTO 00000KT 10SM FEW004 03/02 A3054 RMK AO2 T00330022 KERI 071151Z 19006KT 10SM CLR M01/M08 A3008 RMK AO2 SLP195 T10111078 10006 21017 58020 FACT 071200Z 16027KT 9999 FEW025 25/16 Q1018 NOSIG EHVK 071225Z AUTO 23019G29KT 190V260 9999 FEW028 10/04 Q0999 BLU KESC 071215Z AUTO 19005KT 2 1/2SM BKN019 OVC046 00/M02 A2969 RMK AO1 KFHU 071158Z AUTO 00000KT 10SM CLR 06/M14 A3026 RMK AO2 SLP215 T00561141 10086 20002 56007 CZVL 071200Z AUTO 29011G18KT 9SM CLR M02/M09 A3025 RMK SLP276 EHVL 071225Z AUTO 21030G40KT 9999 SCT016 BKN020 BKN029 09/05 Q0993 WHT KGAD 071156Z AUTO 00000KT 10SM CLR M03/M05 A3023 RMK AO2 SLP261 T10331050 11022 21044 53008 FZRANO FACV 070840Z 36002KT CAVOK 28/10 Q1019 KFIN 071150Z 35010G25KT 5SM DZ SCT008 BKN038 OVC049 6/6 A2995 KESF 071153Z AUTO 00000KT 6SM BR CLR M01/M03 A3029 RMK AO2 SLP258 T10111033 10011 21011 55007 KGAF 071235Z AUTO 30016G25KT 10SM BKN033 BKN060 02/M01 A2951 RMK AO2 VIAR 071200Z VRB01KT 5000 HZ FEW040 SCT200 19/12 Q1016 NOSIG KGAG 071153Z AUTO 00000KT 10SM CLR M05/M08 A3011 RMK AO2 SLP204 T10501083 10039 21050 52002 TSNO KEQY 071153Z AUTO 02010KT 10SM BKN090 03/M06 A3005 RMK AO2 SLP194 T00331061 10050 20033 58017 KI16 071215Z AUTO 10SM M05/M06 A3020 RMK AO2 T10471065 KGAI 071215Z AUTO 00000KT 10SM CLR M04/M07 A3021 RMK AO1 KFKA 071214Z AUTO 25010KT 10SM CLR 00/M03 A2969 RMK AO2 T10051035 KFIT 071152Z AUTO 36008KT 10SM CLR M03/M08 A3015 RMK AO2 SLP216 T10331078 10006 21078 55004 KI19 071211Z AUTO 20008KT 10SM CLR 00/M03 A3009 RMK AO2 KETB 071210Z AUTO 20010G15KT 10SM OVC100 02/M01 A2974 RMK AO2 KETC 071215Z AUTO 02004KT 7SM -RA OVC070 02/00 A3012 RMK AO2 T00210002 FAEL 071200Z 21017KT 9999 FEW049 24/17 Q1018 KGBD 071215Z AUTO 31004KT 10SM CLR 02/M04 A3012 RMK AO1 KERV 071215Z AUTO 31003KT 10SM CLR M06/M07 A3026 RMK AO2 T10591072 VICG 070300Z 29005KT 1200 BR SCT030 FEW030CU BKN090 15/13 Q1018 NOSIG KESN 071145Z 00000KT 10SM SCT250 M02/M02 A3022 KGAO 071215Z AUTO 00000KT 10SM CLR 03/01 A3029 RMK AO2 T00340009 EINN 071200Z 19014KT 8000 -RA SCT015 BKN030 06/04 Q0986 NOSIG FAEO 070654Z 31007KT CAVOK 20/15 Q1022 EHWO 071225Z AUTO 21013G23KT 160V260 9999 FEW027 BKN030 BKN035 08/03 Q0999 BLU KERY 071215Z AUTO 16010KT 5SM BR OVC005 00/00 A2971 RMK AO2 T00001005 KGBG 071215Z AUTO 20014G18KT 10SM CLR 02/M01 A2988 RMK AO2 T00231013 FADY 070552Z 12013KT CAVOK 23/02 Q1019 KETH 071216Z AUTO 28017G27KT 10SM CLR 03/M02 A2969 RMK AO2 KEST 071152Z AUTO 29019KT 10SM CLR 00/M03 A2977 RMK AO2 PK WND 28029/1139 SLP095 T00001033 10017 21006 53001 $ KGBK 071215Z AUTO VRB03G10KT 10SM BKN040 14/05 A3028 RMK A01 KGCC 071153Z AUTO 32018G26KT 10SM OVC090 M01/M09 A3018 RMK AO2 PK WND 31026/1153 SLP242 T10111089 10011 21011 53009 KFKL 071215Z 18003KT 10SM CLR M05/M11 A3009 RMK AO1 KFLD 071153Z AUTO 20017G24KT 10SM OVC080 03/M02 A2971 RMK AO2 SLP071 T00281017 10033 20000 56036 KGCD 071215Z AUTO 00000KT 10SM OVC039 02/00 A3049 RMK AO2 T00240000 KFKN 071215Z AUTO 02004KT 10SM OVC080 01/M01 A3012 RMK AO2 T00101015 KEUF 071158Z AUTO 00000KT 10SM CLR M01/M04 A3017 RMK AO2 SLP217 I1003 I6/// T10061044 10033 21022 53004 $ KEUG 071211Z AUTO 02003KT 1/2SM R16R/1800V2600FT FG VV002 08/07 A3048 RMK AO2 T00830072 TSNO $ KFLG 071157Z AUTO 00000KT 10SM CLR M10/M13 A3037 RMK AO2 SLP295 T11001133 11061 21111 58007 TSNO KI35 071215Z AUTO 00000KT 10SM CLR M03/M04 A3018 RMK AO1 FAGG 071200Z 21010KT 9999 SCT004 BKN007 OVC045 21/19 Q1019 KFKR 071215Z AUTO 19007KT 10SM CLR 01/M06 A3001 RMK AO2 T00101062 KFKS 071213Z AUTO 18009KT 10SM SCT080 BKN120 02/00 A2976 RMK AO2 T00241005 KEVB 071147Z 30009KT 7SM BKN008 07/06 A2993 RMK FIRST KGDB 071214Z AUTO 26019G24KT 10SM CLR 03/M02 A2974 RMK AO2 T00251017 KGCK 071154Z AUTO 33009KT 10SM CLR 00/M04 A3014 RMK AO2 SLP215 T00001039 10028 21017 53009 KI39 071215Z AUTO 19005KT 10SM CLR M01/M06 A3017 RMK AO2 KFLL 071153Z 30014G23KT 10SM OVC095 12/08 A2996 RMK AO2 SLP145 60005 70026 T01170078 10156 20117 53002 KEUL 071222Z AUTO 02003KT 2SM BR CLR M03/M03 A3055 RMK AO2 FZRANO KGCM 071215Z AUTO 00000KT 10SM CLR 00/M01 A3016 RMK AO2 VIDP 071200Z 02005KT 2100 HZ NSC 19/11 Q1014 NOSIG KFME 071227Z AUTO 00000KT 10SM CLR M05/M06 A3021 RMK AO1 KGCN 071154Z 05006KT 10SM CLR M07/M12 A3038 RMK AO2 SLP288 T10721117 11044 21078 58005 KFLO 071153Z 03013G20KT 10SM -RA OVC065 03/01 A3001 RMK AO2 SLP162 P0004 60011 70015 T00280011 10039 20028 56031 KFLP 071215Z 05003KT 10SM CLR 01/M08 A3012 RMK AO1 KFMH 071215Z AUTO 21007KT 9SM CLR M04/M05 A3020 RMK AO2 KGDJ 071215Z AUTO 15005KT 10SM CLR 02/00 A3022 RMK AO2 T00180000 CZZJ 071200Z AUTO 25003KT M06/M13 RMK AO1 SOG 26 1022 SLP305 T10621134 KEWB 071153Z 00000KT 7SM CLR M04/M04 A3018 RMK AO2 SLP220 I1000 I6001 T10441044 10000 21067 55003 $ KFNB 071153Z AUTO 27012KT 10SM CLR 02/M03 A2998 RMK AO2 SLP158 T00171028 10039 20017 53009 URFF 071200Z 05005MPS CAVOK 01/M05 Q1028 R01/150095 NOSIG KEVM 071214Z AUTO 19005KT 1 1/2SM -SN OVC007 00/00 A2943 RMK AO2 KGED 071154Z AUTO 00000KT 9SM CLR M03/M05 A3020 RMK AO2 SLP227 I6000 T10331050 11022 21039 55006 KFMM 071215Z AUTO 36016KT 10SM CLR M02/M08 A3019 RMK AO2 T10191080 KFMN 071153Z AUTO 00000KT 10SM CLR M09/M12 A3038 RMK AO2 SLP321 T10891117 11056 21089 56009 TSNO KGEG 071206Z 07003KT 1/16SM R21/1200V1400FT FZFG BKN001 M02/M03 A3051 RMK AO2 TWR VIS 4 T10221028 KGDP 071151Z AUTO 23020KT 10SM CLR M01/M17 A3021 RMK AO2 PK WND 23029/1100 SLP220 T10061167 10044 21011 56014 KFLY 071221Z AUTO 33007KT 10SM CLR M01/M16 A3019 RMK AO2 T10071160 KGFA 071159Z AUTO 25009KT 10SM BKN180 M03/M09 A3036 RMK AO2 SLP316 70002 T10271089 10002 21035 52021 TSNO $ KFOA 071215Z AUTO 21006KT 10SM CLR 03/M04 A3007 RMK AO2 T00251036 FAHS 071200Z AUTO 35003KT //// // ////// 33/15 Q1012 KEWK 071215Z AUTO 28007KT 10SM CLR 01/M07 A3009 RMK AO1 KFNL 071215Z AUTO 31015G22KT 10SM CLR 05/M09 A3016 RMK AO1 KEVV 071154Z 23004KT 10SM CLR 01/M05 A3015 RMK AO2 SLP211 T00111050 10033 20011 56014 KGDV 071215Z AUTO 29030G45KT 10SM BKN120 00/M08 A3003 RMK AO1 KFOD 071215Z AUTO 27008KT 10SM CLR 01/M04 A2983 RMK AO1 DRRM 071200Z 08014KT 2000 BLSA NSC 28/M03 Q1019 KFOE 071153Z 29009KT 10SM CLR 05/M03 A3000 RMK AO2 SLP164 T00501033 10050 20028 53004 KEVW 071153Z AUTO 25021KT 10SM CLR M04/M11 A3040 RMK AO2 SLP325 T10441106 11022 21056 51010 KEWN 071154Z 02013G20KT 8SM RA OVC055 02/M02 A3006 RMK AO2 SLP177 P0007 60019 70019 T00221017 10056 20022 55019 KI63 071215Z AUTO 23010G16KT 10SM CLR 04/M02 A2994 RMK AO2 T00381025 DRRN 071200Z 07017KT 040V100 2600 BLDU NSC 30/M03 Q1018 BECMG 3500 KFMY 071153Z 34013KT 10SM OVC080 11/07 A3003 RMK AO2 SLP170 70067 T01060072 10122 20106 53012 EISG 071200Z 23016G26KT 6000 FEW026 SCT034 BKN049 06/02 Q0980 EKAH 071220Z 16007KT 130V210 9999 FEW015 BKN045 07/04 Q0993 KEWR 071151Z 26004KT 10SM FEW250 M02/M05 A3020 RMK AO2 SLP226 T10171050 10000 21022 55006 KI67 071215Z AUTO 19004KT 10SM CLR M02/M04 A3011 RMK AO1 FAIR 071130Z 28007KT 9999 TS SCT030 FEW035CB 30/16 Q1019 KGFK 071153Z 29021G27KT 10SM FEW037 OVC065 03/M02 A2950 RMK AO2 PK WND 29027/1128 SLP000 4/001 60011 70011 T00281017 10039 20011 51008 $ KFOK 071153Z 35003KT 10SM CLR M11/M12 A3022 RMK AO2 SLP235 I6000 T11111122 11061 21111 55002 $ KFNT 071153Z 18006KT 10SM OVC110 02/M03 A2995 RMK AO2 SLP149 T00221033 10022 20011 58025 KI69 071215Z AUTO 22003KT 10SM CLR 01/M05 A3011 RMK AO2 T00071051 KGEU 070147Z 00000KT 20SM FEW250 19/M08 A3019 RMK LAST DRRT 071200Z 10014KT CAVOK 30/M03 Q1019 KGFL 071153Z AUTO 00000KT 10SM CLR M06/M09 A3014 RMK AO2 SLP216 T10611089 10011 21061 50005 KGEV 071220Z AUTO 00000KT 10SM CLR M01/M08 A3006 RMK AO2 T10101085 KEYE 071153Z AUTO 20005KT 10SM CLR 01/M05 A3004 RMK AO2 SLP179 T00111050 10022 20000 58021 KGGE 071215Z AUTO 01011G20KT 10SM -RA OVC007 03/02 A2994 RMK AO2 P0001 KEYF 071215Z AUTO 02006KT 4SM RA SCT008 SCT038 OVC048 02/01 A3005 RMK AO2 P0006 T00190014 VIGR 070900Z 00000KT 2500 HZ NSC 25/12 Q1013 KGGG 071153Z 18003KT 10SM CLR 00/M01 A3026 RMK AO2 SLP250 70017 I1000 I6000 T00001011 10033 21017 56013 KGEY 071153Z AUTO 32012KT 10SM OVC075 02/M11 A3026 RMK AO2 PK WND 33027/1055 SLP266 T00171106 10028 21033 53019 KI75 071215Z AUTO 25007KT 10SM SCT120 02/M01 A2989 RMK AO2 T00201010 KGEZ 071153Z AUTO 19008KT 10SM CLR 01/M05 A3007 RMK AO2 SLP190 T00111050 10028 20000 56016 KGGI 071215Z AUTO 24012KT 10SM BKN110 01/M01 A2984 RMK AO2 T00121013 EKBI 071220Z AUTO 20013KT 9999NDV BKN014/// BKN027/// 08/06 Q0992 FALA 071200Z 26010KT 9999 SCT040 29/17 Q1018 NOSIG KFPK 071215Z AUTO 19009KT 10SM BKN090 OVC120 01/M02 A2990 RMK AO2 T00101019 KGHB 071215Z AUTO 01014G21KT 10SM FEW018 FEW036 13/04 A3029 RMK A01 KFOT 071215Z AUTO 14006KT 10SM CLR 08/08 A3037 RMK AO1 KFQD 071215Z AUTO 00000KT 10SM CLR 01/M07 A3011 RMK AO2 T00061072 FAKM 071200Z 18005KT CAVOK 36/04 Q1016 FALE 071200Z 16014KT 130V200 9999 FEW035 26/19 Q1015 NOSIG FAKN 071200Z 08008KT 9999 SCT020 26/15 Q1016 NOSIG KEXX 071215Z AUTO 00000KT 10SM CLR 02/M06 A3010 RMK AO2 T00161065 KEZF 071215Z AUTO 00000KT 10SM CLR M02/M03 A3018 RMK AO2 T10251033 KGGP 071215Z AUTO 20008KT 10SM SCT120 00/M04 A2998 RMK AO2 KGHG 071215Z AUTO 25004KT 10SM CLR M01/M02 A3019 RMK AO2 WAAA 071200Z 09004KT 6000 -RA FEW018CB SCT019TCU 27/27 Q1010 NO SIG KFPR 071153Z AUTO 30009KT 10SM BKN015 09/08 A2995 RMK AO2 SLP141 60001 70079 T00890078 10128 20089 53006 TSNO EKCH 071220Z 17014KT CAVOK 06/03 Q0997 NOSIG PKWA 071220Z AUTO 07018G22KT 10SM SCT019 SCT029 SCT038 27/21 A2991 RMK AO2 T02700212 TSNO KGIC 071215Z AUTO 00000KT 7SM CLR M02/M03 A3048 RMK AO1 KEZM 071215Z AUTO 00000KT 10SM CLR 02/M01 A3013 RMK AO2 T00221015 KGGW 071153Z AUTO 30029G38KT 10SM CLR M01/M07 A3011 RMK AO2 PK WND 30038/1151 SLP220 70002 T10061072 10011 21006 53020 KEYW 071220Z 35024G32KT 10SM FEW013 BKN021 BKN027 17/14 A3001 RMK AO2 PK WND 36032/1220 T01670139 KGIF 071216Z AUTO 31013G20KT 10SM OVC008 07/06 A3004 RMK AO2 CIG 007V011 T00720061 KFRG 071153Z 00000KT 9SM CLR M04/M07 A3020 RMK AO2 SLP226 T10441072 10006 21061 55005 $ URKA 071200Z 06008MPS CAVOK 02/M02 Q1027 R04/010070 RMK QFE766/1021 KFRI 071158Z AUTO 23004KT 10SM CLR 03/M03 A3004 RMK AO2 SLP176 T00251027 10047 20019 53011 KEZS 071215Z AUTO 20003KT 10SM BKN070 BKN090 OVC110 01/M01 A2968 RMK AO2 T00121011 EKEB 071220Z AUTO 21015KT 9999NDV BKN010/// BKN058/// 08/06 Q0992 KFRM 071215Z AUTO 28018G23KT 10SM CLR 02/M04 A2974 RMK AO1 KFSD 071156Z 29015G24KT 10SM BKN140 02/M04 A2984 RMK AO2 SLP118 T00221044 10044 20017 53004 VIJP 070130Z 29003KT 2500 HZ NSC 14/08 Q1014 NOSIG FAMM 071200Z 24004KT 9999 SCT040 34/10 Q1016 NOSIG KGHW 071213Z AUTO 27019G26KT 10SM SCT040 02/M03 A2962 RMK AO2 KFSE 071215Z AUTO 28015KT 1 1/2SM -SN BKN008 OVC013 M01/M01 A2949 RMK AO2 P0001 KHAE 071215Z AUTO 22013G18KT 10SM CLR 05/M03 A2994 RMK AO2 FALW 071200Z AUTO 20020KT //// // ////// 28/14 Q1015 KHAF 071215Z AUTO 36005KT 8SM CLR 13/06 A3027 RMK AO2 PMDY 071201Z AUTO 00000KT 10SM CLR 12/08 A3037 RMK AO2 SLP285 T01220078 10150 20111 51004 TSNO EIWF 071200Z 26013G23KT 210V300 CAVOK 06/03 Q0989 R21/2///// URKK 071200Z 04006MPS CAVOK 01/M02 Q1027 R23C/290160 NOSIG RMK QFE767 KHAI 071214Z AUTO 19006KT 10SM BKN100 OVC120 01/M02 A2993 RMK AO2 T00091016 KFRR 071215Z AUTO 00000KT 10SM CLR M04/M06 A3016 RMK AO1 KFSI 071158Z AUTO 20004KT 10SM CLR M02/M04 A3014 RMK AO2 SLP212 T10191039 10031 21033 57011 VIJU 070130Z VRB01KT FEW030 SCT100 SCT200 14/05 Q1015 NOSIG USCC 071200Z 00000MPS CAVOK M07/M11 Q1012 R27/250050 NOSIG RMK QFE739 FAOB 071200Z AUTO 21015KT //// // ////// 23/17 Q1020 KFSM 071153Z 02005KT 10SM CLR M02/M04 A3019 RMK AO2 SLP227 T10171044 10033 21017 58017 KHAO 071153Z AUTO 10003KT 10SM CLR M06/M07 A3012 RMK AO2 SLP206 I1000 I6000 T10561067 11028 21056 56016 KFSO 071215Z AUTO 35010G14KT 10SM SCT020 BKN030 OVC035 00/M04 A3014 RMK AO2 T00001039 KFTG 071204Z AUTO 27010KT 10SM 00/M09 A3017 RMK AO2 KHBG 071153Z AUTO 00000KT 10SM CLR M02/M04 A3029 RMK AO2 SLP258 T10221044 10000 21028 53003 $ VILK 071200Z 05005KT 2000 HZ FEW020 SCT025 BKN200 21/13 Q1012 NOSIG KHBI 071215Z AUTO 36006KT 10SM CLR 03/M06 A3010 RMK AO2 T00251059 KGKJ 071153Z AUTO 18003KT 10SM CLR M02/M08 A3005 RMK AO2 SLP191 T10171083 11011 21022 58020 TSNO $ WADD 071200Z 26004KT 9999 FEW017 28/25 Q1009 NOSIG USDD 071200Z 18002MPS 8000 NSC M18/M20 Q1008 R22/450237 NOSIG RMK QFE751/1002 USCM 071200Z 34003MPS 9999 NSC M08/M12 Q1012 R01/090060 NOSIG RMK QFE720 KGJT 071153Z AUTO 07004KT 6SM BR CLR M13/M13 A3048 RMK AO2 SLP380 T11281133 11094 21128 58004 $ KFST 071153Z AUTO 22010KT 10SM CLR 05/M12 A3018 RMK AO2 SLP198 T00501117 10094 20039 56012 KFTK 071159Z AUTO 25006KT 10SM CLR 01/M06 A3013 RMK AO2 SLP211 T00101062 10010 21018 57011 KGLD 071153Z AUTO 30011KT 10SM CLR M01/M07 A3015 RMK AO2 SLP224 T10111072 10006 21028 53006 KHCD 071214Z AUTO 26019G27KT 10SM BKN034 BKN055 03/M01 A2966 RMK AO2 T00271014 URMG 071200Z 35006MPS 9999 FEW010 BKN025CB OVC036 01/00 Q1026 NOSIG RMK QFE755/1006 KFTN 071215Z AUTO 13006KT 10SM CLR 01/M08 A3027 RMK A01 KFSW 071215Z AUTO 21012G18KT 10SM CLR 03/M02 A2987 RMK AO2 KGLE 071215Z AUTO 15005KT 4SM BR CLR M02/M02 A3021 RMK AO2 T10161024 FAPE 071200Z 22016KT 9999 FEW011 24/18 Q1018 NOSIG KGLH 071153Z AUTO 18003KT 9SM CLR 00/M02 A3027 RMK AO2 SLP258 T00001022 10028 21006 55007 KHBR 071153Z AUTO 20011KT 10SM CLR 00/M03 A3012 RMK AO2 SLP206 T00001033 10022 21017 58016 URML 071200Z 33009MPS 9999 SCT014 OVC027 03/M00 Q1025 R32/150065 TEMPO 33012G20MPS 1200 SHRASN BR SCT003 BKN020CB RMK QFE768/1024 FAOR 071230Z 25014G24KT 230V290 9999 FEW045TCU BKN049 27/11 Q1020 NOSIG WADL 071230Z 00000KT 6000 SCT016 26/25 Q1011 NOSIG DRZA 071200Z 08014KT CAVOK 28/M02 Q1021 URMM 071200Z 06003MPS 9999 OVC016 M00/M03 Q1026 R12/290150 NOSIG RMK MT OBSC QFE741/0988 KGKT 071215Z AUTO 00000KT 10SM M07/M08 A3018 RMK URMN 071200Z 36003MPS 9999 OVC015CB M00/M02 Q1025 R24/210250 NOSIG RMK MT OBSC QFE731 KFUL 071153Z 00000KT 10SM CLR 10/M01 A3011 RMK AO2 SLP196 T01001006 10211 20100 58010 KHDC 071215Z AUTO 00000KT 10SM CLR M01/M02 A3030 RMK AO2 FBFT 071100Z 31003KT 9999 TS BKN030 FEW035CB 32/20 Q1016 URMO 071200Z 34005MPS 9999 -SHSN BKN038CB OVC100 00/M02 Q1024 R10/210250 NOSIG RMK QFE724/0966 ZWSH 071200Z 15002MPS 120V210 CAVOK 03/M09 Q1023 NOSIG KFVE 071153Z AUTO 34010KT 10SM FEW035 FEW080 M08/M12 A2988 RMK AO2 SNE21 SLP133 P0000 60002 70002 T10831117 11028 21083 53036 KFTW 071153Z 15006KT 10SM CLR 02/00 A3021 RMK AO2 SLP231 T00220000 10056 20017 56016 KHDE 071215Z AUTO 28011KT 10SM CLR 01/M04 A3008 RMK AO2 T00141041 FAPN 071200Z AUTO 26005KT //// // ////// 32/08 Q1014 KHCO 071214Z AUTO 33008KT 7SM UP BKN005 OVC011 01/M01 A2947 RMK AO2 KGKY 071153Z AUTO 17004KT 6SM BR CLR 00/M02 A3022 RMK AO2 SLP235 T00001017 10039 21006 56014 KFTY 071153Z 32003KT 10SM CLR 00/M07 A3016 RMK AO2 SLP216 T00001072 10017 21028 53001 FAPP 071200Z 25003KT 9999 TS FEW050CB 31/15 Q1016 URMT 071200Z 07005MPS 9999 BKN026 M00/M04 Q1025 R07/110060 NOSIG RMK QFE728 KGLR 071153Z AUTO 17010KT 5SM BR SCT085 M01/M02 A2979 RMK AO2 SLP104 T10111022 11011 21022 56027 FAPR 061631Z 20015G32KT 9999 TSRA SCT030CB BKN045 19/11 Q1019 KGLS 071152Z 05003KT 10SM CLR 07/05 A3031 RMK AO2 SLP264 70002 T00670050 10089 20061 56014 KFWA 071154Z 22009KT 10SM SCT140 BKN170 01/M03 A3001 RMK AO2 SLP170 T00061033 10006 21011 58022 KGNA 071156Z AUTO 20009KT 02/00 A2951 RMK AO1 SLP004 60007 70024 T00170000 10017 20006 56018 KGMJ 071215Z AUTO 18004KT 10SM CLR 02/00 A3014 RMK AO2 KFWB 071215Z AUTO 23007KT 10SM CLR 02/M02 A3011 RMK AO2 KFWC 071215Z AUTO 17004KT 10SM CLR 01/M03 A3008 RMK AO1 T00131033 KGNC 071215Z AUTO 26006KT 10SM CLR M01/M12 A3016 RMK AO2 T10081118 KHDN 071215Z AUTO 14003KT 10SM SCT050 M12/M16 A3036 RMK AO1 KGLW 071210Z AUTO 00000KT 10SM CLR M04/M04 A3019 RMK AO2 T10411041 KHDO 071151Z AUTO 36007KT 10SM CLR M03/M08 A3031 RMK AO2 SLP262 T10331078 10006 21039 56011 $ KHEF 071145Z 00000KT 10SM CLR M06/M06 A3020 KGLY 071215Z AUTO 22014G19KT 10SM 05/M01 A3004 RMK AO2 ZYCC 071200Z 19003MPS 7000 NSC M06/M13 Q1013 NOSIG KHEI 071153Z AUTO 29036G53KT 10SM CLR 00/M09 A2992 RMK AO2 PK WND 29053/1150 SLP152 60000 T00001094 10017 20000 58005 DRZR 071200Z 06012KT 1400 DU NSC 27/M04 Q1020 FASB 071044Z 14006KT CAVOK 28/07 Q1020 KGMU 071153Z 01008KT 10SM CLR 03/M08 A3009 RMK AO2 SLP193 T00331078 10039 20011 56018 KHFD 071153Z 00000KT 7SM CLR M05/M06 A3019 RMK AO2 SLP224 I6002 T10501061 11017 21067 55002 KFXE 071153Z 30014G22KT 10SM FEW020 OVC095 11/07 A2997 RMK AO2 SLP150 60009 70036 T01110072 10150 20111 53003 KFWN 071153Z AUTO 00000KT 7SM CLR M07/M08 A3017 RMK AO2 SLP221 I1000 I6000 T10671083 11044 21072 55006 KHFF 071156Z AUTO 03006KT 10SM SCT060 BKN095 04/M02 A3005 RMK AO2 RAE20 SLP193 60002 70002 T00351019 10058 20031 $ KFVX 071215Z AUTO 36003KT 10SM CLR M01/M04 A3013 RMK AO2 T10071040 KHEQ 071215Z AUTO 31010G15KT 10SM CLR 00/M07 A3017 RMK AO2 KGNR 071156Z AUTO 00000KT M02/M07 A2993 RMK AO1 SLP154 T10171067 11017 21028 53009 FASI 071200Z AUTO /////KT //// // ////// 23/14 Q1019 KFWS 071215Z AUTO 17005KT 10SM CLR 02/00 A3022 RMK AO2 T00200000 KHFJ 071215Z AUTO 21008KT 10SM CLR 01/M01 A3009 RMK AO2 KGOK 071153Z AUTO 21011KT 10SM CLR 04/M03 A3011 RMK AO2 SLP202 T00441033 10050 20028 56015 EKKA 071220Z AUTO 20010KT 150V230 9999NDV OVC010/// 08/07 Q0991 KGNT 071215Z AUTO 31006KT 10SM CLR M10/M12 A3038 RMK AO2 T10961117 DTKA 071200Z 17006KT 140V200 CAVOK 22/06 Q1015 NOSIG FCBB 071200Z 21006KT 170V270 9999 SCT018 30/23 Q1014 NOSIG KGNV 071153Z 30009G18KT 10SM OVC010 05/03 A3005 RMK AO2 SLP178 60007 70038 T00500033 10056 20050 53009 KGON 071156Z AUTO 02003KT 7SM CLR M05/M05 A3020 RMK AO2 SLP227 I6001 T10501050 10028 21056 55000 $ KGOO 062340Z AUTO 29005KT 10SM CLR 15/01 A3037 RMK AO1 USHH 071200Z 15002MPS CAVOK M13/M16 Q1009 R24/320055 NOSIG RMK QFE753 FBKE 071200Z VRB04KT 9999 SCT030 FEW035CB 31/17 Q1015 KHEY 071153Z AUTO 33005KT 10SM CLR 02/M04 A3017 RMK AO2 SLP209 T00221044 10044 20022 53001 $ KFYG 071215Z AUTO 20003KT 10SM CLR 04/M03 A3005 RMK AO2 KGOP 071215Z AUTO 00000KT 6SM BR CLR M01/M01 A3026 RMK AO2 KGPH 071215Z AUTO 24006KT 10SM 04/M02 A2999 RMK AO2 KHEZ 071215Z AUTO 00000KT 10SM CLR M02/M04 A3028 RMK AO1 KFWZ 071215Z AUTO 27008KT 10SM CLR M04/M11 RMK AO2 KGPI 071155Z AUTO 00000KT 10SM CLR M11/M12 A3047 RMK AO2 SLP355 I1000 I6000 T11061122 11039 21117 53013 KFYJ 071215Z AUTO 00000KT 10SM CLR 00/M03 A3019 RMK AO2 T00001027 KGOV 071215Z AUTO 17007KT 5SM BR OVC060 00/M01 A2982 RMK AO2 T00001015 KGPM 071135Z AUTO 18005KT 10SM CLR 02/00 A3024 RMK AO2 T00170000 KFYM 071215Z AUTO 00000KT 10SM SCT038 M02/M05 A3021 RMK A01 KHHF 071215Z AUTO 34004KT 10SM CLR M02/M07 A3011 RMK AO2 T10211070 KFZG 071215Z AUTO 33011KT 10SM CLR 04/M02 A3012 RMK AO2 T00411020 KFXY 071215Z AUTO 26009G14KT 10SM CLR 00/M03 A2976 RMK AO2 KHHG 071215Z AUTO 22007KT 10SM CLR 01/M05 A2998 RMK AO2 T00091055 WAHS 071200Z 19003KT 7000 TS FEW017CB SCT018 29/24 Q1009 NOSIG UTAA 071200Z 10004KT 9999 FEW050CB SCT050 BKN155 21/M01 Q1010 R12R/CLRD70 NOSIG KHGR 071153Z 33003KT 10SM CLR M04/M08 A3017 RMK AO2 SLP234 T10441083 10000 21050 50001 KGRB 071153Z 20009KT 10SM OVC095 02/M01 A2971 RMK AO2 SLP068 60000 T00221011 10022 21017 56029 KGPT 071153Z 00000KT 10SM CLR M01/M03 A3028 RMK AO2 SLP254 T10061033 10039 21006 51010 $ KHIB 071207Z AUTO VRB04KT 1 1/2SM -SN BR BKN005 OVC011 M01/M02 A2941 RMK AO2 P0000 T10111017 $ DTMB 071200Z 18017KT CAVOK 20/02 Q1019 NOSIG KFYV 071153Z 20008KT 10SM CLR 01/M02 A3015 RMK AO2 SLP212 T00111017 10017 21028 56020 KGRD 071156Z AUTO 36004KT 10SM CLR 02/M06 A3010 RMK AO2 SLP196 T00221061 10050 20022 56009 KHIE 071152Z AUTO 25006KT 10SM OVC041 00/M08 A3006 RMK AO2 SLP193 T00001078 10006 21011 53012 KGRF 071158Z AUTO M 10SM SCT090 BKN140 00/00 A3053 RMK AO2 SLP345 70002 T10021002 10020 21009 52015 $ KHIF 071158Z AUTO 15003KT 10SM CLR M05/M10 A3049 RMK AO2 SLP349 T10541101 11017 21054 53005 URRR 071200Z 05003MPS 9999 FEW033 02/M04 Q1029 R04/220060 NOSIG RMK QFE765/1020 FAUP 071200Z 22005KT CAVOK 36/08 Q1014 NOSIG KGPZ 071215Z AUTO 25007KT 3SM BKN008 OVC014 01/M01 A2943 RMK AO1 WAJJ 071200Z 23006KT 9999 FEW014 27/23 Q1009 UTAK 071200Z 35014KT 9999 OVC012 05/03 Q1015 R34/CLRD70 BECMG BKN007 KGRI 071153Z AUTO 32019KT 10SM CLR 03/M05 A3002 RMK AO2 PK WND 32030/1125 SLP185 T00281050 10033 20000 53005 KHHR 071153Z AUTO 00000KT 10SM CLR 12/M02 A3013 RMK AO2 SLP202 T01221022 10161 20117 58012 $ KHII 071215Z AUTO 32004KT 10SM CLR 12/M04 A3024 RMK AO2 UTAM 071200Z 29008KT CAVOK 22/M05 Q1012 NOSIG RMK SC07 ZWWW 071200Z VRB01MPS 1000 R25/1900N BR NSC M13/M15 Q1022 NOSIG KGRK 071158Z AUTO 17006KT 9SM CLR 02/00 A3023 RMK AO2 SLP241 T00161002 10040 21008 57018 KGSB 071219Z AUTO 02009KT 10SM CLR 02/02 A3005 RMK AO2 KIAB 071158Z AUTO 25005KT 10SM CLR 01/M04 A3008 RMK AO2 SLP197 T00081040 10037 20005 50002 FAWB 071200Z AUTO 27006KT //// // ////// 31/14 Q1015 FAUT 071200Z 10004KT 9999 SCT030 25/14 Q1019 KIAD 071152Z 00000KT 10SM SCT180 M04/M07 A3019 RMK AO2 SLP225 T10441067 11017 21056 56007 KHHV 071215Z AUTO 05011KT 10SM SCT033 15/06 A3030 RMK A01 KHHW 061735Z AUTO 02005KT 10SM CLR 12/M05 A3037 RMK AO2 T01221048 KHIO 071203Z AUTO 00000KT 6SM BR OVC013 06/05 A3049 RMK AO2 T00560050 FBMN 071200Z 31009KT 9999 SCT030 FEW035CB 35/19 Q1014 KIAG 071203Z 21004KT 8SM BKN033 OVC050 01/M02 A3008 RMK AO2 T00111022 KFZY 071201Z AUTO 00000KT 10SM FEW021 M02/M06 A3013 RMK AO2 T10221056 URSS 071200Z 05002MPS 360V120 9999 OVC015CB 08/05 Q1020 WS ALL RWY R02/190060 R06/190060 NOSIG RMK R06/14003G06MPS MT OBSC QFE764 ZYHB 071200Z 08002MPS 1400 R23/0800V2000U FU NSC M12/M15 Q1013 NOSIG KGSH 071153Z AUTO 19009KT 10SM SCT110 02/M03 A2996 RMK AO2 SLP151 T00171033 10017 20000 58026 KIAH 071153Z 00000KT 10SM FEW250 02/01 A3030 RMK AO2 SLP261 T00220011 10061 20017 56014 $ KHJH 071215Z AUTO 29005KT 10SM CLR 02/M02 A3005 RMK AO2 T00181025 UTAT 071200Z 28008KT CAVOK 08/03 Q1012 99CLRD70 NOSIG KGRR 071153Z 17010KT 9SM BKN110 01/M02 A2989 RMK AO2 SLP129 T00111022 10011 21006 58032 DTNH 071200Z AUTO 19014KT CAVOK 20/03 Q1018 KHKA 071153Z AUTO 22008KT 10SM CLR 02/M04 A3023 RMK AO2 SLP238 T00171039 10022 20011 55004 UTAV 071200Z 25006KT CAVOK 18/M03 Q1011 NOSIG KGTB 071158Z AUTO 24005KT 10SM SCT016 OVC050 00/M02 A3009 RMK AO2 SLP198 T00021022 10007 20000 51006 FAWK 071200Z AUTO 27006KT //// // ////// 30/14 Q1019 EKOD 071220Z 18013KT 9999 FEW034 BKN043 BKN060 09/06 Q0994 FAVV 071200Z AUTO /////KT //// // ////// 29/13 Q1017 KHJO 071153Z AUTO 00000KT 1/4SM FG VV001 03/03 A3032 RMK AO2 SLP268 T00330028 10083 20033 58009 KGTF 071153Z 24010KT 10SM CLR M06/M09 A3035 RMK AO2 SLP324 70002 T10561094 11006 21061 51020 KGSO 071154Z 02004KT 10SM OVC170 01/M08 A3008 RMK AO2 SLP191 T00111083 10028 20011 56021 KGSP 071153Z 01004KT 10SM CLR 02/M07 A3008 RMK AO2 SLP189 T00171072 10028 20006 56016 KGRY 071215Z AUTO 34016G22KT 10SM CLR 13/01 A3027 RMK A01 WALL 071200Z 07012KT 9000 FEW018CB SCT018 29/26 Q1008 RMK CB TO W UTDD 071200Z 08004MPS 9999 NSC 17/M03 Q1016 R09/CLRD// NOSIG RMK QFE693/0925 KHLC 071153Z AUTO 31007KT 10SM CLR 02/M02 A3012 RMK AO2 SLP212 T00221022 10044 20017 53011 KGUC 071215Z AUTO 00000KT 10SM CLR M23/M26 A3048 RMK AO1 KIBM 071215Z AUTO 33014KT 10SM CLR M03/M08 A3018 RMK AO2 T10301081 KHLG 071153Z AUTO 14004KT 10SM CLR M02/M10 A3011 RMK AO2 SLP211 T10221100 10006 21039 55012 URWA 071200Z 36006MPS 9999 SCT025 04/M06 Q1024 R27/010060 TEMPO 2000 SN RMK QFE770/1027 UTDK 071200Z 26002MPS 9999 SCT120 16/M01 Q1015 0109//70 RMK QFE704/0939 KGTR 071150Z 00000KT 10SM SKC M02/M06 A3025 UTDL 071200Z 07008MPS 9999 FEW140 BKN200 12/M06 Q1014 NOSIG RMK QFE721/0962 88CLRD70 KHKS 071153Z AUTO 00000KT 10SM CLR M01/M04 A3027 RMK AO2 SLP248 T10061039 10044 21006 58002 KIDA 071223Z 36005KT 1/4SM R20/1800V2400FT FZFG BKN003 OVC013 M12/M13 A3049 RMK AO2 I1001 T11171128 WAMM 071230Z 00000KT 9000 FEW022 25/23 Q1011 NOSIG KGTU 071215Z 00000KT 5SM CLR M02/M04 A3027 RMK AO1 KGUL 071215Z AUTO 02008G15KT 10SM FEW037 14/05 A3030 RMK A01 KICL 071215Z AUTO 29006KT 10SM CLR 01/M02 A2996 RMK AO2 KHME 071050Z 31004KT 9999 FEW035 SCT200 18/M09 Q1013 KHLN 071153Z AUTO 28006KT 10SM CLR M02/M09 A3040 RMK AO2 SLP341 T10171089 10022 21022 53016 KGVE 071215Z AUTO 00000KT 10SM CLR M03/M05 A3016 RMK AO1 T10351046 URWI 071200Z 35007MPS 9999 SCT020 02/M04 Q1026 R27/010060 KGUP 071153Z AUTO 00000KT 10SM CLR M09/M11 A3038 RMK AO2 SLP311 I1000 I6000 T10891111 11056 21100 58008 KHKY 071153Z 33004KT 10SM CLR 00/M06 A3010 RMK AO2 SLP188 T00001056 10000 21017 56011 UTDT 071200Z VRB01MPS 9999 BKN180 20/M02 Q1014 35CLRD70 RMK QFE721/0962 KICR 071153Z AUTO 29014KT 10SM FEW050 FEW100 02/M04 A3000 RMK AO2 PK WND 30027/1059 SLP171 T00221039 10044 20022 53005 KHLR 071158Z AUTO 18004KT 9SM CLR 00/M01 A3023 RMK AO2 SLP239 T00011007 10039 21001 57016 KIDI 071215Z AUTO 00000KT 10SM CLR M06/M08 A3015 RMK A01 KGUR 071215Z AUTO 31008KT 10SM UP OVC060 01/M03 A3023 RMK AO2 T00131029 KGUS 071158Z AUTO 21010KT 10SM BKN120 01/M03 A2997 RMK AO2 SLP160 T00081031 10017 21006 57025 KICT 071153Z 27004KT 10SM BKN200 M01/M04 A3008 RMK AO2 SLP195 T10061044 10039 21011 53004 KHNB 071215Z AUTO 18006KT 10SM CLR 01/M06 A3013 RMK AO1 KGWB 071215Z AUTO 20005KT 10SM SCT120 01/M03 A2998 RMK AO2 USNN 071200Z VRB01MPS CAVOK M13/M13 Q1013 R21/39//35 NOSIG RMK QFE754 KGVL 071153Z AUTO 30006KT 10SM CLR M01/M07 A3013 RMK AO2 SLP207 T10111067 10017 21017 58002 UTFF 071200Z 34003KT 6000 NSC 12/M02 Q1014 R18/CLRD70 KHND 071156Z AUTO 14004KT 10SM CLR 04/M04 A3036 RMK AO2 SLP285 T00391039 10072 20033 58002 KHMN 071158Z AUTO 32003KT 10SM CLR M05/M16 A3028 RMK AO2 SLP245 T10491162 10001 21055 56003 $ KHLX 071215Z AUTO 36005KT 10SM CLR M02/M07 A3007 RMK AO2 T10211075 KGUY 071153Z AUTO 34009KT 10SM CLR 01/M06 A3014 RMK AO2 SLP202 T00061061 10017 21022 51019 KIDP 071215Z AUTO 22009KT 10SM CLR 02/M02 A3010 RMK AO2 WBGB 071200Z 04009KT 350V090 9999 FEW005 SCT014 BKN150 27/24 Q1010 KGXA 071155Z AUTO VRB05KT 10SM CLR 03/M09 A3031 RMK AO2 SLP280 WND DATA ESTMD T00261090 10063 20021 57007 TSNO $ KIFA 071215Z AUTO 26014KT 10SM CLR 00/M03 A2980 RMK AO2 T10051028 KHOB 071215Z AUTO 29007KT 10SM CLR 04/M12 A3016 RMK AO2 TSNO KGVT 071210Z AUTO 00000KT 5SM BR 00/M01 A3025 RMK AO2 UTFN 071200Z 18002KT 7000 NSC 12/M01 Q1015 R28/CLRD70 NOSIG URWW 071200Z 34005MPS 9999 BKN022 M00/M05 Q1027 R29/010070 NOSIG EKSB 071220Z 20014KT 170V230 8000 BKN021 10/06 Q0994 EKRK 071220Z AUTO 17010KT 9999NDV FEW050/// SCT065/// BKN080/// BKN190/// 09/05 Q0996 WAOO 071200Z 07004KT 9999 SCT018 26/25 Q1009 WBGG 071200Z 02005KT 9999 -RA SCT020 BKN150 27/24 Q1010 NOSIG KIEN 071152Z AUTO 28007KT 10SM OVC110 01/M06 A3011 RMK AO2 SLP212 T00111061 10022 20000 51007 KHOE 071215Z AUTO 32006KT 10SM CLR 05/03 A3007 RMK AO2 EKRN 071220Z AUTO 17009KT 9999NDV NCD 06/03 Q1001 KGWO 071153Z AUTO 00000KT 10SM CLR M03/M05 A3027 RMK AO2 SLP252 T10281050 11006 21033 55006 KGVX 071220Z AUTO 07007KT 10SM CLR A3029 RMK A01 KGXF 071158Z AUTO 14004KT 10SM CLR 04/M05 A3017 RMK AO2 SLP213 T00421051 10094 20039 55005 KHMZ 071215Z AUTO 00000KT 10SM CLR M07/M09 A3017 RMK AO2 T10741091 KGWR 071215Z AUTO 27020G24KT CLR 02/M02 A2970 RMK AO1 KIER 071215Z AUTO 00000KT 7SM CLR M01/M01 A3030 RMK AO2 T10101010 KHNR 071215Z AUTO 29012KT 10SM CLR 00/M03 A2994 RMK AO2 KGYB 071215Z AUTO 00000KT 5SM BR CLR M01/M01 A3033 RMK AO2 T10101013 DTTA 071200Z 18011KT 140V210 9999 FEW023 21/03 Q1017 NOSIG FBSK 071200Z VRB03KT 9999 FEW030 FEW035CB 36/12 Q1013 NOSIG DTTB 071200Z 14008KT 9999 FEW020 19/09 Q1016 USPP 071200Z 32003MPS 9999 -SHSN BKN034CB BKN070 M04/M07 Q1015 R21/810350 NOSIG RMK QFE751 KHON 071155Z AUTO 29020KT 10SM SCT110 02/M02 A2987 RMK AO2 PK WND 29026/1142 SLP124 T00221022 10033 20017 53001 KGWW 071215Z AUTO 01009KT 4SM -RA OVC050 02/01 A3007 RMK AO2 T00150006 DTTD 071200Z 25014KT 190V300 CAVOK 19/M01 Q1024 WBGR 071200Z 03011KT 9999 SCT014 SCT150 BKN300 27/24 Q1010 KHOP 071158Z AUTO 22001KT 10SM CLR M02/M06 A3019 RMK AO2 SLP229 T10161060 10024 21017 56006 FZRANO KIFP 071215Z AUTO 03020G26KT 10SM CLR 13/M03 A3026 RMK AO2 DTTF 071200Z 20016KT CAVOK 15/M03 Q1021 NOSIG WBGS 071200Z 01004KT 9999 SCT007 SCT016 BKN150 26/25 Q1010 EKSP 071221Z 22015KT 9999 BKN038 09/05 Q0993 KGYH 071147Z 02006KT 10 SM CLR 04/M08 A3008 KHNZ 071215Z AUTO 36003KT 10SM CLR 01/M03 A3011 RMK AO2 T00101026 FBSP 071200Z 29007KT 9999 TS SCT030 FEW035CB 34/20 Q1014 DTTG 071200Z 24018KT 9999 FEW030 18/M02 Q1022 NOSIG KGYI 071215Z AUTO 19006KT 10SM CLR 03/01 A3022 RMK AO2 T00290006 KHOT 071153Z AUTO 29003KT 8SM CLR M01/M03 A3025 RMK AO2 SLP244 T10111033 10006 21022 55005 DTTJ 071200Z 23010KT 8000 FEW033 18/01 Q1022 NOSIG KHOU 071153Z 00000KT 10SM FEW250 03/01 A3031 RMK AO2 SLP268 70006 T00330011 10072 20028 55009 KGYL 071214Z AUTO 26014G23KT 10SM BKN032 BKN044 03/00 A2965 RMK AO2 T00301005 DTTK 071200Z 20004KT 9999 FEW023 21/03 Q1018 KIGM 071151Z AUTO 11008KT CLR 02/M05 A3032 RMK AO2 SLP239 T00221050 10056 20000 56002 $ DTTL 071000Z AUTO /////KT NCD 16/07 Q1021 WBGY 071200Z 34004KT 9999 SCT020 BKN150 26/25 Q1009 KHPN 071156Z 00000KT 10SM CLR M04/M06 A3017 RMK AO2 SLP225 T10391061 10006 21044 55004 DTTN 071200Z 27002KT 9999 SCT020 19/10 Q1017 KGXY 071215Z 27005KT 10SM CLR 02/M10 A3017 RMK AO1 KHQG 071215Z AUTO 33010KT 10SM CLR 01/M05 A3017 RMK AO2 T00101049 KGZH 071153Z AUTO 33004KT 10SM CLR M01/M05 A3023 RMK AO2 SLP238 T10061050 10006 21011 53004 KIGQ 071215Z AUTO 20014G20KT 10SM CLR 02/M01 A2991 RMK AO2 T00221012 KGYR 070347Z 02005KT 10SM SKC 12/M06 A3019 RMK LAST KHQI 071220Z AUTO 36010G15KT 10SM CLR 13/05 A3030 RMK A01 DTTR 071200Z 18014KT CAVOK 18/01 Q1025 KK88 071215Z AUTO 22011KT 10SM CLR 02/M03 A3006 RMK AO1 T00181030 KIIB 071215Z AUTO 25011KT 10SM CLR 00/M01 A2978 RMK AO2 KGZL 071215Z AUTO 00000KT 10SM 01/M02 A3018 RMK AO2 PWINO TSNO KHQM 071153Z AUTO 07010KT 8SM OVC100 06/05 A3047 RMK AO2 SLP320 T00610050 10067 20056 50001 EKVD 071220Z 22015KT 9999 FEW015 BKN045 09/05 Q0993 KIGX 071156Z AUTO VRB03KT 10SM CLR 03/M06 A3011 RMK AO2 SLP197 T00331061 10039 20033 56015 TSNO WARR 071200Z 26009KT 230V290 7000 TS SCT018CB 26/23 Q1010 USRR 071200Z 15002MPS 7000 SCT029 M09/M10 Q1010 R25/390036 NOSIG RMK QFE752 KGYY 071145Z 18007G17KT 10SM FEW120 05/M03 A2992 DTTX 071200Z 20015KT CAVOK 18/03 Q1021 NOSIG EKVG 071220Z AUTO 05009KT 9999NDV -DZ FEW140/// 04/01 Q0970 KHRI 071153Z AUTO 00000KT 10SM CLR M01/M02 A3053 RMK AO2 SLP342 T10111022 10050 21011 53016 DTTZ 071200Z 27005KT 180V350 CAVOK 18/M03 Q1023 NOSIG KHSA 070252Z 00000KT 10SM CLR 03/00 A3030 UUBC 071200Z 21004MPS 180V240 9999 SCT040 00/M05 Q1022 NOSIG RMK QFE749/0999 R31/CLRD60 KHRJ 071215Z AUTO 01004KT 10SM -RA OVC080 04/M02 A3008 RMK AO2 T00381018 EKVJ 071050Z 19020KT 7000 -RA BKN005 08/06 Q0992 KHSB 071215Z AUTO 19004KT 10SM CLR 02/M04 A3014 RMK AO2 T00181044 KHRL 071152Z 26009KT 10SM CLR 04/M02 A3030 RMK AO2 SLP261 T00391022 10094 20028 55006 KJAC 071215Z 18012KT 10SM FEW040 BKN046 OVC070 M01/M05 A3036 RMK AO1 KHQU 071215Z AUTO 33004KT 10SM CLR 02/M01 A3014 RMK AO1 T00221009 KIJD 071152Z AUTO 03003KT 8SM CLR M09/M12 A3019 RMK AO2 SLP228 I1000 I6000 T10941122 11061 21100 55003 KHSD 071215Z AUTO 21014G20KT 10SM CLR 04/M03 A3009 RMK A01 KHSE 071151Z AUTO 03014G25KT 10SM -RA SCT060 OVC090 07/05 A2999 RMK AO2 PK WND 03028/1135 SLP154 P0002 60005 70005 T00720050 10072 20061 56040 TSNO KHRO 071153Z AUTO 18006KT 10SM CLR 04/M02 A3012 RMK AO2 SLP201 T00391022 10056 20028 58027 ELLX 071220Z AUTO 23012KT 200V270 9999 FEW029/// 07/03 Q1004 NOSIG USSS 071200Z 25003MPS 9999 BKN020 BKN067 M06/M08 Q1012 R26R/190050 NOSIG RMK QFE738 KHQZ 071115Z AUTO 16006KT 3SM CLR 00/00 A3025 RMK AO1 T10011002 WBKK 071200Z 03006KT 9999 -RA FEW014 SCT035 BKN260 26/25 Q1010 NOSIG KHSI 071153Z AUTO 31010KT 10SM CLR 01/M04 A3002 RMK AO2 SLP182 T00061044 10028 20006 53004 WBKL 071200Z 01010KT 340V050 9999 SCT008 SCT140 BKN300 27/24 Q1011 KL18 071215Z AUTO 06004KT 10SM CLR 14/M06 A3013 RMK AO2 KHRT 071158Z AUTO 35007KT 10SM CLR 01/M06 A3021 RMK AO2 SLP232 T00071056 10035 20007 53010 $ UUBP 071200Z 21007MPS CAVOK 02/M05 Q1024 R16/CLRD70 NOSIG RMK QFE749/0999 KJAN 071154Z 00000KT 10SM CLR M02/M04 A3027 RMK AO2 SLP252 FIRST AUGMENTED OBSERVATION T10171039 10022 21022 58002 USTR 071200Z 28001MPS CAVOK M10/M11 Q1011 R21/450163 NOSIG RMK QFE749/0999 KIIY 071215Z AUTO 32005KT 10SM CLR 02/M01 A3011 RMK AO2 KHSP 071215Z AUTO 00000KT 10SM CLR M02/M08 A3004 RMK AO2 T10221076 WBKS 071200Z 06010KT 020V080 9999 SCT015 BKN290 28/26 Q1010 WATT 071200Z 00000KT 8000 SCT017 27/25 Q1010 NOSIG WBKT 071200Z 01005KT 330V050 9999 -SHRA SCT014 SCT140 BKN270 26/25 Q1011 KHUA 071158Z AUTO 18002KT 10SM CLR M03/M03 A3022 RMK AO2 SLP240 T10301035 10005 21033 53002 KJAS 071215Z AUTO 00000KT 1/2SM FZFG OVC001 M01/M01 A3034 RMK AO2 T10101010 UUDD 071200Z 20005MPS 9999 SCT049 M00/M05 Q1020 R88/190095 NOSIG KHST 071158Z AUTO 29010KT 10SM BKN085 13/09 A2999 RMK AO2 SLP159 60005 70082 T01270089 10160 20127 53011 KIKK 071215Z AUTO 19012G17KT 10SM CLR 02/M01 A2993 RMK AO2 T00211012 UUBW 071200Z 19004MPS 9999 BKN041 M00/M05 Q1021 R30/////40 NOSIG WBKW 071200Z 35004KT 9999 FEW017 BKN300 27/23 Q1010 KHTL 071153Z AUTO 16008KT 6SM BR OVC065 M01/M03 A2984 RMK AO2 SLP121 T10111028 10000 21017 56025 KJAU 071215Z AUTO 00000KT 10SM CLR M05/M05 A3019 RMK KHSV 071153Z 00000KT 10SM CLR M02/M04 A3023 RMK AO2 SLP239 FIRST T10171039 10017 21022 53001 KILE 071156Z AUTO 19004KT 10SM CLR 00/M01 A3026 RMK AO2 SLP267 T00001006 10028 21017 56016 FZRANO KHUF 071153Z AUTO 21007KT 10SM CLR 02/M05 A3006 RMK AO2 SLP181 T00221050 10044 20022 58024 KJAX 071156Z 34011G17KT 9SM -RA OVC011 05/04 A3001 RMK AO2 RAB19 SLP162 P0003 60017 70070 T00500039 10056 20050 53001 $ KHTO 071215Z AUTO 00000KT 10SM CLR M08/M09 A3020 RMK AO2 T10791090 KIJX 071215Z AUTO 20012KT 10SM SCT120 05/M01 A2996 RMK AO2 T00471006 KILG 071151Z 32003KT 8SM CLR M04/M06 A3020 RMK AO2 SLP226 T10441061 10000 21050 58008 KL35 071215Z AUTO 00000KT 10SM CLR M06/M10 A3039 RMK AO2 KJBR 071153Z AUTO 24005KT 10SM CLR 02/M04 A3022 RMK AO2 SLP234 T00171039 10028 21017 56008 UUDL 071200Z 17005MPS 3000 -SN OVC023 M02/M07 Q1018 R23/420355 TEMPO 1500 SHSN BKN004 BKN010CB RMK QFE755 KHTS 071151Z 00000KT 10SM CLR M03/M06 A3018 RMK AO2 SLP225 T10281056 10011 21039 53003 KL38 071215Z AUTO 00000KT 10SM CLR 01/M01 A3030 RMK AO2 T00071007 KIKT 071215Z AUTO VRB06KT 10SM CLR 13/01 A3022 RMK A01 UUEE 071200Z 20004MPS 9999 BKN042 00/M05 Q1019 R24R/290140 R24L/290145 NOSIG KHUL 071153Z AUTO 21008KT 7SM SCT046 OVC060 M02/M06 A2993 RMK AO2 SNB1059E11B41E52 SLP145 P0000 60000 T10221056 11022 21033 53001 KILM 071153Z AUTO 01011G19KT 7SM RA OVC055 03/01 A2998 RMK AO2 SLP152 P0008 60038 70051 T00280011 10044 20028 55022 KHUM 071147Z 00000KT 7SM SKC 02/M02 A3029 RMK ATIS F...RY36...MJ KJDD 071215Z AUTO 00000KT 6SM BR CLR M01/M02 A3026 RMK AO2 KIKV 071215Z AUTO 27012KT 10SM FEW100 02/M01 A2986 RMK AO2 KIKW 071214Z AUTO 16005KT 10SM BKN080 OVC100 01/M02 A2989 RMK AO2 T00061025 KILN 071154Z AUTO 20005KT 10SM CLR M01/M06 A3010 RMK AO2 SLP216 T10111056 10000 21011 56016 KHVE 071215Z AUTO 00000KT 1/2SM OVC003 M08/M09 A3055 RMK AO2 FCPP 071200Z 22008KT 9999 FEW020 30/25 Q1013 NOSIG KHUT 071152Z AUTO 31008KT 10SM CLR 01/M04 A3009 RMK AO2 SLP190 T00111044 10028 20000 53004 KJCT 071151Z AUTO 27004KT 10SM CLR M06/M09 A3023 RMK AO2 SLP227 T10561089 11022 21056 56017 UTNN 071200Z 29005KT 9999 SCT016 BKN200 06/02 Q1012 R33/CLRD60 NOSIG EKYT 071220Z 18011KT 9999 -RA BKN022 09/06 Q0990 KIML 071153Z AUTO 32017G22KT 10SM CLR 00/M08 A3014 RMK AO2 SLP228 T00001083 10011 21017 53008 $ KHWD 071154Z AUTO 00000KT 10SM CLR 09/04 A3028 RMK AO2 SLP262 T00890044 10128 20083 58012 $ KIND 071154Z 21008KT 10SM CLR 01/M06 A3004 RMK AO2 SLP178 T00061056 10022 20000 58021 KJDN 071148Z AUTO 31024G33KT 00/M08 A3019 RMK AO1 PK WND 31033/1112 SLP251 T00001083 10022 20000 51028 KHVN 071153Z 00000KT 6SM BR CLR M07/M08 A3020 RMK AO2 SLP225 I6001 T10671078 10011 21072 55002 $ KJEF 071153Z 15005KT 10SM CLR 03/M03 A3004 RMK AO2 SLP164 T00331028 10056 20028 58018 KINF 071215Z AUTO 32007KT 10SM OVC009 06/05 A3008 RMK AO2 ZYTL 071200Z 26003MPS 230V300 4000 FU HZ NSC 00/M08 Q1017 NOSIG KHVR 071153Z AUTO 28008KT 10SM CLR M03/M09 A3032 RMK AO2 SLP293 T10281089 10017 21028 51029 UTNU 071200Z 31011KT 7000 NSC 07/03 Q1011 R31/CLRD70 NOSIG KIMS 071212Z AUTO 00000KT 10SM CLR M02/M03 A3014 RMK AO1 KHVS 071215Z AUTO 03014G19KT 10SM OVC060 03/M01 A3002 RMK AO2 KINJ 071215Z AUTO 15006KT 5SM BR CLR M01/M02 A3024 RMK AO2 T10061018 KIMT 071154Z AUTO 15005KT 4SM BR OVC013 M02/M04 A2962 RMK AO2 SLP046 60000 T10171039 11017 21022 58013 TSNO KINK 071153Z AUTO 01007KT 10SM CLR M03/M10 A3017 RMK AO2 SLP208 T10281100 10039 21028 55010 TSNO KIOB 071215Z AUTO 22005KT 10SM CLR M03/M05 A3018 RMK AO2 KINL 071215Z AUTO VRB04KT 10SM BKN010 OVC017 01/00 A2936 RMK AO2 T00110000 KHXD 071150Z 35012G18KT 7SM -RA OVC013 04/04 A2999 KHWO 071153Z 31013KT 10SM OVC095 12/08 A2999 RMK AO2 RAB01E29 SLP155 P0000 60002 70019 T01170078 10156 20117 53003 KJER 071153Z AUTO 22007KT 10SM CLR M02/M03 A3048 RMK AO2 SLP345 T10171033 10011 21017 51010 KHYA 071156Z 22003KT 10SM CLR M02/M04 A3018 RMK AO2 SLP222 I6001 T10221044 11017 21050 55003 KINS 071158Z AUTO 00000KT 10SM CLR M01/M05 A3036 RMK AO2 SLP274 T10101048 10039 21010 55003 KJES 071215Z AUTO 33005KT 10SM -DZ BKN033 BKN045 OVC070 06/05 A3005 RMK AO2 KJFK 071151Z 24004KT 10SM FEW250 00/M04 A3021 RMK AO2 SLP229 4/002 T00001039 10017 21017 55007 $ KINT 071154Z 01007KT 10SM CLR 01/M08 A3010 RMK AO2 SLP199 T00061083 10011 20000 56020 ZYTX 071200Z 19001MPS 7000 NSC M05/M14 Q1015 NOSIG ENAL 071220Z 07008KT 9999 BKN057 06/04 Q0977 KHWV 071156Z AUTO 00000KT 6SM BR CLR M06/M07 A3021 RMK AO2 SLP230 70011 I6003 T10611072 11017 21072 55005 TSNO KINW 071156Z AUTO 11005KT 10SM CLR M07/M09 A3040 RMK AO2 SLP308 T10671094 11028 21072 58006 ENAN 071220Z 20010KT CAVOK 00/M02 Q0985 KJGG 071215Z AUTO 00000KT 10SM OVC110 02/01 A3016 RMK AO1 KHWY 071215Z AUTO 00000KT 10SM CLR M05/M05 A3017 RMK AO2 T10471051 KHYI 071215Z 31006KT 10SM CLR M02/M04 A3030 RMK AO1 KIPJ 071215Z AUTO 00000KT 10SM CLR 02/M07 A3009 RMK AO2 T00181074 FDLB 071200Z AUTO 02003KT //// // ////// 31/16 Q1015 ENAT 071150Z 14008KT 9999 FEW025 BKN041 M05/M10 Q0989 RMK WIND 700FT 14012KT KIPL 071153Z AUTO 25004KT 10SM CLR 05/M04 A3019 RMK AO2 SLP222 T00501044 10111 20050 58005 ENBL 071220Z 22005KT 9999 -RA FEW015 SCT020 BKN032 05/03 Q0977 KIOW 071152Z AUTO 25007KT 10SM SCT110 03/M02 A2986 RMK AO2 SLP118 T00281017 10033 20017 55012 KHZE 071215Z AUTO 29020G31KT 3SM -SN FEW016 BKN032 BKN039 00/M02 A2980 RMK AO2 P0007 TSNO KIPN 071215Z AUTO 34011G16KT 10SM FEW044 BKN050 13/01 A3023 RMK A01 ENBN 071220Z 10010KT 080V140 CAVOK 04/M01 Q0982 KJFX 071215Z AUTO 00000KT 9SM CLR M04/M04 A3024 RMK AO2 ENBO 071220Z 09022KT 9999 FEW050 02/M04 Q0984 NOSIG UTSA 071200Z 19016KT 8000 FEW046 19/M04 Q1010 R25/CLRD70 NOSIG KJFZ 071215Z AUTO 00000KT 10SM CLR M02/M09 A3011 RMK AO2 T10241087 UTSB 071200Z 23010KT 200V260 CAVOK 18/M01 Q1010 R19/CLRD70 NOSIG WBSB 071200Z 03015KT 9000 SCT015 SCT140 BKN280 27/24 Q1011 RESHRA TEMPO 02018G25KT 7000 -SHRA KHYR 071153Z AUTO 19011KT 9SM OVC010 M01/M03 A2955 RMK AO2 SLP020 60000 70001 T10061028 11006 21011 55025 ENBR 071220Z 18018KT 9999 FEW012 SCT016 BKN020 06/04 Q0980 TEMPO BKN014 RMK WIND 1200FT 18023G35KT KHYS 071215Z AUTO 28005KT 10SM SCT120 02/M06 A3011 RMK AO1 ENBS 071150Z 17015KT 9999 FEW020 BKN055 M08/M10 Q0990 KIPT 071154Z 32003KT 10SM CLR M06/M08 A3017 RMK AO2 SLP221 T10561078 11033 21056 55009 $ KHZL 071215Z AUTO 00000KT 10SM CLR M06/M08 A3014 RMK AO2 ENBV 071150Z 17016KT 9999 FEW040 BKN048 M07/M10 Q0992 KHYW 071215Z AUTO 01013G17KT 4SM RA OVC007 02/01 A2997 RMK AO2 P0004 KJHN 071215Z AUTO 30008KT 10SM CLR M02/M05 A3018 RMK AO2 T10161050 ENCN 071220Z 20015KT 7000 BKN008 06/05 Q0987 REUP KHYX 071215Z AUTO 17007KT 10SM OVC110 01/M01 A2992 RMK AO2 UTSK 071200Z 19016KT CAVOK 20/M04 Q1012 R16/CLRD70 KHZR 071215Z AUTO 00000KT 10SM CLR 00/00 A3030 RMK AO2 T10011005 KIRK 071155Z AUTO 23011KT 10SM CLR 03/M03 A2992 RMK AO2 SLP141 T00331033 10039 20033 56018 KJHW 071215Z AUTO 18005KT 10SM CLR M04/M10 A3004 RMK AO1 KHZX 071216Z AUTO 24008G14KT 10SM BKN013 OVC020 02/00 A2947 RMK AO2 KHZY 071153Z AUTO 16004KT 10SM CLR M03/M07 A3008 RMK AO2 SLP195 T10281072 11011 21028 58023 TSNO UTSS 071200Z VRB01KT 9999 NSC 20/M06 Q1012 R88/CLRD70 NOSIG UTST 071200Z 05003KT CAVOK 20/01 Q1014 R88/CLRD70 NOSIG VLLB 071200Z 00000KT CAVOK 18/11 Q1022 NOSIG ENDR 071210Z 13008KT CAVOK 05/M00 Q0979 KIRS 071215Z AUTO 19007KT 10SM SCT120 01/M03 A2994 RMK AO2 T00051026 KJKA 071215Z AUTO 30003KT 10SM CLR 02/M03 A3026 RMK AO2 T00151035 FDMS 071200Z 09004KT 9999 SCT035 26/20 Q1014 NOSIG KM19 071156Z AUTO 17004KT 10SM CLR M01/M03 A3023 RMK AO2 56009 T10051027 10016 21005 SLP236 ENEK 071220Z 19034KT 9999 FEW015 SCT020TCU 06/03 Q0982 W06/S6 ENFB 071220Z AUTO 19038KT 9999NDV FEW023/// BKN036/// BKN120/// 07/03 Q0973 W///S5 KISM 071145Z 30012G17KT 7SM OVC007 07/07 A3002 RMK FIRST ENDU 071220Z VRB01KT 9999 FEW040 M08/M10 Q0987 NOSIG FDMV 071200Z AUTO 21002KT //// // ////// 30/19 Q//// KISN 071210Z AUTO 30027G40KT 9SM -SN BKN028 OVC034 00/M04 A2989 RMK AO2 PK WND 30040/1201 P0000 T00001039 KISO 071156Z 01009KT 5SM RA OVC009 02/00 A3008 RMK AO2 FEFF 071200Z VRB04KT 2000 HZ NSC 33/07 Q1011 NOSIG KM25 071235Z AUTO 20007KT 10SM CLR A3019 RMK AO2 KISP 071156Z 00000KT 6SM MIFG BR FEW030 FEW260 M06/M07 A3018 RMK AO2 SLP222 4/006 T10611072 11028 21078 55005 $ LBBG 071200Z 23007KT CAVOK 06/M05 Q1029 NOSIG ENFG 071220Z 15013KT 110V190 9999 2500SW -RA VCFG FEW/// SCT004 BKN007 01/M00 Q0982 KISQ 071215Z AUTO 20009G14KT 10SM OVC016 02/00 A2971 RMK AO2 T00200003 KITH 071156Z 13003KT 10SM CLR M08/M09 A3011 RMK AO2 SLP212 T10781094 10000 21078 58005 UTTT 071200Z 07005KT 4000 FU NSC 16/05 Q1011 R26R/CLRD70 NOSIG KJKJ 071211Z AUTO 29019G26KT 10SM BKN041 02/M03 A2959 RMK AO2 KM30 071215Z AUTO 00000KT 10SM CLR M03/M04 A3018 RMK AO2 T10351042 VLLN 071200Z 09002KT 6000 NSC 15/13 Q1022 NOSIG KJKL 071153Z AUTO 18003KT 10SM CLR M01/M07 A3017 RMK AO2 SLP224 T10111067 10028 21011 53002 ENGC 071220Z 20036KT 9999 5000N -RA BKN018CB BKN040 05/02 Q0973 W07/S6 ENFL 071220Z 16018KT 9999 -RA FEW012 BKN025 06/03 Q0977 ENEV 071150Z 21005KT 160V260 CAVOK M00/M03 Q0987 RMK WIND 1400FT 14014KT KISW 071154Z AUTO 22007KT 10SM SCT090 01/M03 A2968 RMK AO2 SLP062 60000 T00061028 10006 21011 58018 KITR 071153Z AUTO 32010KT 10SM CLR M02/M07 A3016 RMK AO2 SLP229 T10171072 10044 21028 53006 KM40 071235Z AUTO 00000KT 9SM CLR M02/M10 A3027 RMK AO2 FEFT 071000Z 04008KT 2000 HZ NSC 29/10 Q1014 UUMO 071200Z 22004MPS 9999 BKN033 00/M05 Q1020 R26/290050 NOSIG RMK QFE750/1000 ENHD 071220Z 18020KT 9999 VCSH FEW011 SCT015 BKN051 07/05 Q0981 ENGM 071220Z 17010KT 6000 -RA OVC005 04/02 Q0987 NOSIG KJLN 071153Z 21014G21KT 10SM CLR 04/M02 A3010 RMK AO2 SLP194 T00441017 10050 20017 55017 ENHE 071220Z 09012KT 9999 SCT023 05/01 Q0979 W///S5 ENHF 071150Z 20007KT 130V220 9999 SCT025 BKN049 M03/M07 Q0986 RMK WIND 1254FT 19012KT FDPP 071200Z AUTO 17002KT //// // ////// 21/18 Q1006 UUOB 071200Z 25004MPS CAVOK M01/M07 Q1028 R29/090060 NOSIG KIWA 071148Z 07004KT 20SM SKC 03/M03 A3019 RMK FIRST KIWD 071215Z AUTO 18004KT 10SM SCT080 00/M02 A2949 RMK AO1